Warning: file_exists(): File name is longer than the maximum allowed path length on this platform (4096): /var/www/customers/vh-7192/web/home/phpvms//lib/skins/crystal-II/ <table> <tr> <td>ICAO:</td> <td></td> <td>Name / Country:</td> <td> / </td> </tr> <tr> <td>Latitude:</td> <td></td> <td>Longitude:</td> <td></td> </tr> <tr> <td>Total Arrivals:</td> <td><br /> <b>Strict Standards</b>: Non-static method AirportData::getarrflights() should not be called statically, assuming $this from incompatible context in <b>/var/www/customers/vh-7192/web/home/phpvms/core/templates/airport_info.tpl</b> on line <b>18</b><br /> 0</td> <td>Total Departures:</td> <td><br /> <b&g in /var/www/customers/vh-7192/web/home/phpvms/core/classes/TemplateSet.class.php on line 96
Airports - MATRA Airlines
Sign-in with your pilot id or email, or register

ICAO: Name / Country: /
Latitude: Longitude:
Total Arrivals:
Strict Standards: Non-static method AirportData::getarrflights() should not be called statically, assuming $this from incompatible context in /var/www/customers/vh-7192/web/home/phpvms/core/templates/airport_info.tpl on line 18
0
Total Departures:
Strict Standards: Non-static method AirportData::getdeptflights() should not be called statically, assuming $this from incompatible context in /var/www/customers/vh-7192/web/home/phpvms/core/templates/airport_info.tpl on line 21
0
Latest Arrival: (-) Latest Departure: (-)
Metar: 00300Z 27003KT CAVOK 17/08 Q1019 NOSIG 01200Z 36010KT CAVOK 22/17 Q1012 01300Z 13004KT 080V180 9999 FEW030 SCT200 21/11 Q1016 NOSIG 01400Z 21012KT 8000 -RA FEW015 SCT025 FEW045TCU BKN090 15/11 Q1016 RERA TEMPO 18010KT 6000 TSRA BKN030 FEW045CB 11000Z 23007KT 9999 NSC 12/01 Q1016 12030Z 18021G31KT 2000 TSRA BKN040 SCT045CB 27/12 Q1008 20400Z 21005KT 5000 -DZ BR SCT002 SCT017 OVC022 12/12 Q1020 NOSIG 21600Z VRB02KT 9999 FEW040 BKN090 22/08 Q1019 NOSIG 21800Z 11023KT 3000 -TSRA BKN040 FEW045CB 25/21 Q1001 22000Z 32011KT 310V030 8000 -TSRA BKN015 FEW038CB OVC060 23/19 Q1006 RMK CB OBS TO SW 30700Z 27007KT 9000 -TSRA SCT040CB OVC080 19/17 Q1013 NOSIG 30800Z 30006KT 8000 TSRA FEW040CB OVC080 19/17 Q1014 NOSIG 31900Z 05012KT 360V090 9999 FEW035 29/13 Q1017 32000Z 09013KT 7000 -TSRA BKN018 BKN045 FEW050CB 31/21 Q1006 RMK CB OBS ON MET 32100Z 14013KT 7000 -TSRA FEW020 BKN045 FEW050CB 28/22 Q1008 RMK CB OBS ON MET 41700Z 14005KT CAVOK 32/17 Q1008 NOSIG TEMPO 7000 SHRA 42300Z 07007KT 9999 SCT034 20/18 Q1011 42335Z 27021G35KT 8000 TS RA BKN010 SCT040CB BKN060 37/17 Q1003 50001Z 34007KT 310V020 9999 FEW040 FEW045CB 25/18 Q1008 RMK CB OBS TO SW 50600Z 06007KT CAVOK 28/15 Q1002 51300Z 18015KT 9999 BKN100 25/16 Q1011 51447Z 02003KT CAVOK 22/17 Q1011 RERA 51900Z 18024G36KT 9999 VCSH BKN023 16/09 Q1012 NOSIG 60000Z 09010KT 060V130 9999 FEW040 22/13 Q1014 60200Z 23015KT 9999 SCT045 07/M02 Q1011 60400Z 20001KT CAVOK 23/21 Q1010 61100Z 18008KT 160V220 CAVOK 16/10 Q1014 70100Z 29013KT 5000 RA SCT015 OVC050 20/20 Q1017 RETS 70900Z 25007KT 9999 OVC011 19/17 Q1008 71100Z 00000KT 9000 NSC 20/09 Q1020 NOSIG 71300Z 04015KT CAVOK 22/09 Q1017 NOSIG 81946Z 34017KT 9999 FEW047TCU FEW050CB 35/14 Q0999 92200Z 18021G31KT 9000 BKN035 20/04 Q1013 NOSIG :e; principal:: AGGG 110000Z 05008KT 9999 FEW020 FEW021CB BKN300 31/24 Q1008 RMK CB ASSW SH TO SE CB TO NNW AGGH 152000Z 18003KT 9999 FEW015 SCT026 BKN100 24/24 Q1007 RMKS ANYN 151000Z 07009KT 9999 FEW020 26/22 Q1008 AYMH 152000Z VRB02KT 9999 SCT020 BKN050 /// Q1016 RMK AYMO 130000Z 09004KT 9999 BKN018 32/25 Q1008 AYNZ 152000Z 24003KT 9999 HZ FEW008 BKN070 24/22 Q1005 AYPY 152000Z 30005KT 9999 SCT030 BKN080 25/24 Q1006 BGBW 151950Z 07012KT 9999 FEW060 SCT075 BKN150 M05/M15 Q1007 BGGH 151950Z 07013KT 9999 BKN090 M05/M11 Q1004 BGGN 052350Z AUTO 23006KT //// ///////// M00/M01 Q1003 BGJH 081205Z 25002KT 0700 FG VV001 00/00 Q1014 BGJN 151950Z 10012KT 9999 FEW055 M11/M16 Q1009 BGKK 151950Z 09014KT 9999 -SN OVC015 M00/M02 Q1004 BGSF 151950Z AUTO 05005KT 9999NDV NCD M24/M27 Q1011 BGTL 152030Z AUTO 28004KT 9999 FEW010 BKN029 OVC044 M11/M11 A2971 RMK AO2 SNE30 SLP050 TSNO $ BIAR 152000Z VRB04KT 9999 FEW034 BKN063 02/M01 Q1007 R01/390295 RMK RWY SANDED BIBD 151300Z 35004KT CAVOK 04/00 Q1010 BIEG 152000Z 12008KT 9999 BKN030 OVC043 05/00 Q1009 R04/390195 RMK SAND ON RWY BIGR 081018Z 34004KT 4000 VV006 00/00 Q0994 RMK HREINSUN I GANGI BIHN 151900Z 08015KT 5000 DZRA FEW008 OVC015 04/02 Q1007 BIHU 081227Z 02014KT 9999 RA OVC024 01/01 Q0991 BIIS 151700Z VRB03KT 9999 FEW035 BKN070 02/M01 Q1008 BIKF 152030Z 01025KT 9999 RASN OVC010 01/01 Q0998 BIRK 152000Z 01008KT 330V070 9999 -DZRA BKN028 OVC039 04/01 Q0998 R88/D BITN 130932Z 23006KT 150V250 9999 VCFG FEW004 SCT025 02/02 Q0975 BIVM 151800Z 08030G42KT 6000 RA BKN008 OVC025 06/04 Q0995 BIVO 290822Z 10023G44KT 9999 RA BKN010 BKN030 06/03 Q0995 BKPR 152030Z VRB03KT 9999 BKN060 M02/M07 Q1015 NOSIG RMK 17290095 CAHR 152000Z AUTO 34006KT M01/M03 RMK AO1 SOG 11 3019 SLP190 T10091029 CBBC 152039Z AUTO /////KT 7SM SCT019 BKN029 OVC036 09/07 A3029 RMK WND MISG SLP258 CERM 161100Z AUTO 33006KT M20/M24 RMK AO1 SOG 22 1023 SLP302 T12011238 CMFM 152000Z AUTO 17001KT M04/M08 RMK AO1 SOG 22 6003 SLP178 T10361075 CMGB 152000Z AUTO 11006KT 05/M02 RMK AO1 SOG 11 5004 SLP158 T00471015 CPBT 152000Z AUTO 26025KT 07/M03 RMK AO1 PK WND 27033/1925 T00691031 CPEH 152000Z AUTO 27005KT 07/M03 RMK AO1 PK WND 25017/1902 T00701030 CPFI 152000Z AUTO 28016KT 08/M04 RMK AO1 PK WND 28022/1920 T00781037 CPIR 152000Z AUTO 26019KT 08/M04 RMK AO1 PK WND 26024/1955 T00751043 CPRO 152000Z AUTO 26006KT M05/M06 RMK AO1 T10461055 CPRY 152000Z AUTO 01021KT 06/M02 RMK AO1 PK WND 25031/1922 T00621019 CPST 152000Z AUTO 36008KT 03/M02 RMK AO1 PK WND 35023/1927 T00341024 CPSV 152000Z AUTO 21014KT 02/M05 RMK AO1 PK WND 21018/1953 T00181052 CPXL 152000Z AUTO 20003KT 03/M04 RMK AO1 T00321035 CTCK 152000Z AUTO 07008KT 01/M02 RMK AO1 SOG 07 5011 SLP140 T00081021 CTNK 152000Z AUTO 11003KT M00/M02 RMK AO1 SOG 32 7013 SLP090 T10021015 CTRA 152000Z AUTO 02004KT M01/M01 RMK AO1 2PAST HR SOG 28 3003 SLP118 P0001 T10081011 50002 CWAE 152000Z 00000KT 15SM BKN015 03/03 A3030 RMK SC7 WND ESTD SLP280 CWAF 152000Z AUTO 10004KT 01/M02 RMK AO1 T00051019 CWAJ 152000Z AUTO 20014KT 01/M00 RMK AO1 PK WND 18019/1921 SLP007 T00131003 53007 CWAQ 152000Z AUTO 18005KT M01/ RMK AO1 SLP222 T1005 56027 CWAV 152000Z AUTO 27007KT 07/M07 RMK AO1 SOG 12 1005 SLP186 T00661074 CWBA 152000Z AUTO 14007KT 02/M02 RMK AO1 SOG 30 T00171020 CWBE 152000Z AUTO 07016KT 03/M02 RMK AO1 PK WND 09021/1924 SLP053 T00261015 56018 CWBK 152000Z AUTO 35011KT 01/M02 RMK AO1 SLP183 T00061015 53018 CWBO 122200Z AUTO 23018G26KT 08/01 RMK AO1 SOG 07 6017 PK WND 22026/2154 T00790005 CWBS 152000Z AUTO 06012KT 02/M01 RMK AO1 T00241012 CWBT 152000Z AUTO 09001KT M02/M05 RMK AO1 SLP194 T10191050 53016 CWBU 152000Z AUTO 22008KT M10/M11 RMK AO1 SOG 23 6029 SLP221 T10991112 CWBV 152000Z AUTO 35021KT 01/M03 RMK AO1 PK WND 35025/1956 T00121033 CWBY 152000Z AUTO 01004KT M01/M06 RMK AO1 SOG 02 3017 SLP193 T10111062 CWBZ 152000Z AUTO 07008KT M00/M02 RMK AO1 SLP138 T10011023 55012 CWCF 152000Z AUTO 30007KT M12/M15 RMK AO1 SOG 32 6015 SLP206 T11161150 CWCI 152000Z AUTO 05011KT 03/M01 RMK AO1 PK WND 06017/1917 SLP056 T00311006 55003 CWCJ 152000Z AUTO 04003KT 01/M03 RMK AO1 SOG 20 7011 SLP077 T00061034 CWCO 152000Z AUTO 13005KT 04/M00 RMK AO1 SLP037 T00401003 56024 CWCT 152000Z AUTO 30012KT M03/M06 RMK AO1 SLP192 T10301064 51001 CWDA 072300Z AUTO 34008KT 01/01 RMK AO1 6PAST HR SOG 10 8027 SLP990 P0006 T00140011 50101 CWDC 152000Z AUTO M09/M10 RMK AO1 SOG 57 8049 SLP102 T10881102 CWDJ 152000Z AUTO 20004KT M08/M10 RMK AO1 SOG 01 8032 SLP230 T10761095 CWDK 152000Z AUTO 26013KT 10/M06 RMK AO1 PK WND 27020/1930 SLP189 T00981058 58005 CWDM 152000Z AUTO 16002KT M02/M04 RMK AO1 SLP175 T10241042 53015 CWDO 152000Z AUTO 02012G18KT M02/M04 RMK AO1 PK WND 01018/1958 SLP146 T10171041 53013 CWDQ 152000Z AUTO 10003KT M00/M05 RMK AO1 SOG 11 6013 SLP178 T10041046 CWDT 301900Z AUTO 09006KT RMK AO1 4PAST HR 6011 P0002 50004 CWDV 152000Z AUTO 03004KT M01/M03 RMK AO1 SOG 33 5001 SLP090 T10091028 CWDZ 152000Z AUTO 06001KT M04/M09 RMK AO1 SLP207 T10381089 50013 CWEB 152000Z AUTO 16004KT 09/09 RMK AO1 SLP299 T00920092 51024 CWEE 301900Z AUTO 01/M01 RMK AO1 SLP122 T00051012 56010 CWEF 152000Z AUTO M00/ RMK AO1 SLP157 T1003 53012 CWEH 152000Z AUTO 24001KT M03/M10 RMK AO1 SOG 18 7028 SLP194 T10321098 CWEK 140500Z AUTO 14014KT 06/02 RMK AO1 1010 PK WND 15018/0409 T00580021 50004 CWEL 152000Z AUTO 03003KT 07/07 RMK AO1 SLP288 T00650068 51007 CWEP 140400Z AUTO 18009KT 07/06 RMK AO1 2PAST HR 6011 PK WND 15018/0305 SLP072 P0001 T00680064 50002 CWEQ 152000Z AUTO 21006KT M09/M11 RMK AO1 SOG 04 8026 SLP231 T10921111 CWER 152000Z AUTO 05013KT RMK AO1 PK WND 05017/1927 CWEU 152000Z 28005KT 3SM -SN BR OVC003 M30/M34 A2992 RMK ST8 SLP151 CWEW 152000Z AUTO 05006KT 03/M03 RMK AO1 SOG 08 6008 SLP168 T00261028 CWEZ 152000Z AUTO 18003KT 10/06 RMK AO1 SLP281 T01040063 58002 CWFD 152000Z AUTO 21012KT ////SM BKN050 BKN130 OVC170 M18/M20 A2950 CWFF 152000Z AUTO 20007KT M10/M11 RMK AO1 SOG 31 7029 SLP215 T10971111 CWFJ 152000Z AUTO 31009G16KT 08/M03 RMK AO1 T00771034 CWFQ 152000Z AUTO 14005KT 02/M03 RMK AO1 SOG 16 5001 SLP157 T00211031 CWGB 152000Z AUTO 11005KT 08/ RMK AO1 SLP287 T0075 53010 CWGD 152000Z AUTO 11016G23KT 03/M00 RMK AO1 PK WND 11024/1901 SLP019 T00251004 55010 CWGH 152000Z AUTO 07005KT 04/M01 RMK AO1 SLP117 T00411014 56017 CWGL 152000Z AUTO 11016G22KT 03/M01 RMK AO1 PK WND 11022/1954 SLP038 T00301009 56022 CWGM 152000Z AUTO 22012G19KT 06/M05 RMK AO1 PK WND 23026/1909 T00641054 CWGR 152000Z AUTO 34011KT M00/M03 RMK AO1 SLP183 T10011034 53017 CWGT 152000Z AUTO 14008KT 07/06 RMK AO1 SLP291 T00690055 53013 CWGW 152000Z AUTO 17010G19KT 02/M09 RMK AO1 SOG 23 8017 PK WND 19020/1924 SLP258 T00221089 CWGX 152000Z AUTO 25008KT M16/M20 RMK AO1 SOG 42 6017 SLP204 T11591196 CWGY 152000Z AUTO 24004KT M03/M08 RMK AO1 SLP186 T10281081 58009 CWGZ 152000Z 00000KT 15SM BKN077 M24/M27 A2983 RMK AC7 SLP110 CWHI 152000Z AUTO 34007KT 01/M04 RMK AO1 T00121044 CWHL 150900Z AUTO 18029G41KT 09/04 RMK AO1 2PAST HR 3023 PK WND 16041/0854 SLP067 P0001 T00940039 50006 CWHN 152000Z AUTO 22007KT 170V290 9SM SCT085 M08/M09 A2985 RMK SLP157 CWHO 152000Z AUTO M12/M16 RMK AO1 SLP175 T11191160 53011 CWHP 152000Z AUTO 29006KT RMK AO1 CWHQ 151700Z AUTO 07003KT 02/M02 RMK AO1 T00201016 50011 CWHT 152000Z AUTO 00000KT M05/M07 RMK AO1 SOG 67 3034 SLP976 T10521066 CWHV 152000Z AUTO 13007KT 01/M06 RMK AO1 SLP181 T00121060 56004 CWID 152000Z AUTO 10001KT M09/M10 RMK AO1 SLP043 T10881104 55008 CWIG 152000Z AUTO 02004KT RMK AO1 CWII 152000Z AUTO 34017KT M10/M13 RMK AO1 PK WND 34025/1929 SLP189 T10991130 56008 CWIJ 152000Z AUTO 00007KT M34/M37 RMK AO1 SOG 31 8011 SLP189 T13361371 50002 CWIK 152000Z AUTO 31005KT M09/M10 RMK AO1 SOG 04 8026 SLP228 T10861098 CWIL 152000Z AUTO 34015KT ////SM ////// M20/M22 A2995 CWIP 152000Z AUTO 17004KT M01/M05 RMK AO1 T10061053 CWIS 152000Z AUTO 12002KT M04/M06 RMK AO1 SOG 18 7001 SLP185 T10411058 CWIT 152000Z AUTO 09004KT M01/M02 RMK AO1 SOG 11 6010 SLP152 T10051022 CWIW 152000Z AUTO 18010KT M08/M09 RMK AO1 SOG 03 6029 SLP223 T10831094 CWIX 100600Z AUTO 32007KT M08/M11 RMK AO1 SLP214 T10811109 53007 CWIZ 152000Z AUTO 17002KT M04/M05 RMK AO1 SOG 14 T10381046 CWJB 152000Z AUTO 06007KT 01/ RMK AO1 SOG 20 T0006 CWJC 152000Z AUTO 36005KT M16/M18 RMK AO1 SOG 08 8010 SLP175 T11641184 CWJD 152000Z AUTO 31003KT M12/M15 RMK AO1 SOG 31 6018 SLP230 T11171149 CWJH 152000Z AUTO 23002KT M12/M15 RMK AO1 SOG 51 6032 SLP204 T11171150 CWJI 152000Z AUTO 14006KT M06/M10 RMK AO1 SLP216 T10561099 58036 CWJO 151800Z AUTO 11003KT M00/M04 RMK AO1 SLP205 T10021043 58002 CWJR 152000Z AUTO 24002KT 01/M04 RMK AO1 SLP307 T00061036 58013 CWJT 152000Z AUTO 11003KT 02/M01 RMK AO1 SLP155 T00161012 56010 CWJU 151900Z AUTO 23020G37KT 06/05 RMK AO1 1PAST HR PRESRR 3049 PK WND 25044/1827 SLP146 P0000 T00600050 50001 CWJV 152000Z AUTO 14003KT 02/M04 RMK AO1 SLP289 T00221035 58001 CWJW 152000Z AUTO 15004KT 01/M02 RMK AO1 SOG 15 8007 SLP225 T00071023 CWJX 152000Z AUTO 21004KT M03/M08 RMK AO1 SOG 11 8026 SLP172 T10341075 CWKD 301900Z AUTO 10011KT M05/M06 RMK AO1 SLP184 T10531061 58012 CWKG 152000Z AUTO 04003KT 02/M04 RMK AO1 SOG 02 2023 SLP188 T00241038 CWKH 152000Z AUTO 10/ RMK AO1 SLP272 T0098 58001 CWKK 152000Z AUTO 35008KT M02/M04 RMK AO1 SOG 18 5005 SLP085 T10211035 CWKO 152000Z AUTO 18009KT M03/M09 RMK AO1 SLP221 T10341091 58029 CWKX 152000Z AUTO 23008G15KT 03/M04 RMK AO1 SOG 41 3023 SLP057 T00261041 CWLB 152000Z AUTO 18007KT M03/M11 RMK AO1 SOG 08 8027 SLP145 T10291111 CWLC 152000Z AUTO 18013G22KT 08/04 RMK AO1 PK WND 20028/1930 T00830038 CWLE 152000Z AUTO 18007KT M06/ RMK AO1 SLP201 T1062 58036 CWLI 152000Z AUTO 07021KT ////SM //// OVC080 ///// A//// CWLM 152000Z AUTO 18005KT 11/06 RMK AO1 SLP284 T01130064 58004 CWLP 152000Z AUTO 13011KT 08/ RMK AO1 2PAST HR 1025 PK WND 14019/1907 SLP275 P0001 T0075 50002 CWLS 152000Z AUTO 11009G18KT 03/M01 RMK AO1 SOG 12 5019 PK WND 11018/1913 SLP029 T00271009 CWLY 152000Z AUTO 01004KT 320V030 9SM CLR 04/M02 A3028 RMK SLP262 CWME 152000Z AUTO 22016G21KT 09/04 RMK AO1 PK WND 17026/1927 SLP253 T00850040 50004 CWMJ 152000Z AUTO 13006KT 02/M04 RMK AO1 SOG 15 5014 SLP136 T00181035 CWMM 152000Z AUTO 22001KT 09/07 RMK AO1 2PAST HR 8001 SLP293 P0001 T00860069 50002 CWMQ 152000Z AUTO 21013KT 05/M08 RMK AO1 PK WND 20022/1900 SLP173 T00481079 57024 CWMT 152000Z AUTO 08009G16KT M13/M15 RMK AO1 SOG 30 6018 SLP074 T11331150 CWMZ 152000Z AUTO RMK AO1 CWNC 152000Z AUTO 09012G23KT 04/00 RMK AO1 SOG 01 6021 PK WND 11023/1902 SLP061 T00380000 CWND 152000Z AUTO 08016KT M25/M27 RMK AO1 PK WND 08020/1926 SLP131 T12491274 CWNE 152000Z AUTO 34008KT M00/M02 RMK AO1 SLP193 T10021023 53016 CWNH 152000Z AUTO 10002KT M00/M03 RMK AO1 SOG 04 3004 SLP205 T10031027 CWNK 152000Z AUTO 00033KT M08/M10 RMK AO1 T10761097 CWNL 152000Z AUTO 10010G20KT 03/M00 RMK AO1 PK WND 11021/1946 SLP034 T00301001 56011 CWNM 152000Z AUTO 24003KT 02/M02 RMK AO1 SLP302 T00211021 58009 CWNP 152000Z AUTO 14003KT 02/M03 RMK AO1 SOG 09 8009 SLP299 T00191029 CWNQ 152000Z AUTO 04004KT 03/M02 RMK AO1 SLP175 T00251021 55008 CWNZ 152000Z AUTO 14002KT M01/M05 RMK AO1 SOG 42 6010 SLP105 T10141051 CWOB 152000Z AUTO 21019KT ////SM OVC003 M16/M17 A2966 CWOC 152000Z AUTO 28004KT M00/M05 RMK AO1 SLP197 T10011047 53015 CWOD 152000Z AUTO 10003KT M01/M03 RMK AO1 SOG 12 6009 SLP174 T10051028 CWOE 152000Z AUTO 06005KT M04/M09 RMK AO1 SOG 03 8016 SLP194 T10441088 CWOY 152000Z AUTO 24004KT M09/M11 RMK AO1 SOG 05 7031 SLP227 T10941110 CWPC 152000Z AUTO 13015KT 06/M01 RMK AO1 PK WND 13019/1952 SLP039 T00551012 55014 CWPD 152000Z AUTO 18002KT M05/M08 RMK AO1 SLP179 T10501078 56006 CWPE 152000Z AUTO 04003KT 04/M05 RMK AO1 SOG 04 2016 SLP198 T00421049 CWPF 152030Z AUTO 25009G18KT 13/02 RMK AO1 PK WND 27018/2028 SLP278 T01280018 58007 CWPK 151800Z AUTO 15005KT M02/M05 RMK AO1 SOG 42 8014 SLP172 T10231051 CWPO 152000Z AUTO 34011G18KT M08/M09 RMK AO1 SOG 07 6006 PK WND 34019/1937 SLP207 T10771093 CWPR 152000Z AUTO 12001KT M01/M10 RMK AO1 SOG 26 8003 SLP300 T10131096 CWPS 152000Z AUTO RMK AO1 55013 CWPX 152000Z AUTO 35018KT ////SM //// OVC032 ///// A//// CWPZ 152000Z AUTO 21007KT 04/M03 RMK AO1 SOG 41 3022 SLP188 T00421026 CWQH 152000Z AUTO 12005KT 04/M05 RMK AO1 SOG 12 5008 SLP166 T00381050 CWQK 152000Z AUTO 28020KT 11/ RMK AO1 PK WND 29022/1954 SLP279 T0107 58009 CWQO 152000Z AUTO 07003KT M01/M04 RMK AO1 T10071038 CWQP 152000Z AUTO 09015G20KT 04/01 RMK AO1 PK WND 10024/1914 SLP087 T00350007 56018 CWQR 152000Z AUTO 07003KT M00/ RMK AO1 T1002 CWQS 152000Z AUTO 19018G23KT 08/05 RMK AO1 PK WND 19027/1910 SLP191 T00800047 CWQV 152000Z AUTO 27001KT RMK AO1 CWRA 152000Z AUTO 03033G42KT 00/ RMK AO1 PK WND 03043/1942 SLP060 T0000 56022 CWRJ 152000Z AUTO 11008KT M09/M11 RMK AO1 SOG 15 6040 SLP193 T10911111 CWRK 152000Z AUTO 10006KT 02/M03 RMK AO1 SOG 19 8011 SLP091 T00151026 CWRM 152000Z AUTO 34005KT 05/M07 RMK AO1 SOG 10 0003 SLP182 T00541067 CWRN 152000Z AUTO 33014KT 02/01 RMK AO1 PK WND 32018/1933 SLP158 T00200005 53015 CWRO 152000Z AUTO 20009KT 07/07 RMK AO1 PK WND 21018/1935 SLP176 T00720068 52042 CWRT 152000Z AUTO 32017G25KT 04/M07 RMK AO1 PK WND 32027/1946 T00351066 CWRU 152000Z AUTO 19015KT 09/08 RMK AO1 PK WND 19019/1908 SLP284 T00930080 CWRX 152000Z AUTO 04015KT ////SM //// SCT004 SCT070 M21/M23 A//// CWRY 152000Z AUTO 28017G23KT 06/M01 RMK AO1 PK WND 28028/1903 SLP188 T00571013 55010 CWRZ 152000Z AUTO 24003KT M00/M04 RMK AO1 SLP193 T10011042 53015 CWSA 152000Z AUTO 01019G28KT 9SM OVC023 03/M00 A2991 RMK SLP129 CWSD 152000Z AUTO 36007KT M01/M03 RMK AO1 SOG 05 3019 SLP199 T10141029 CWSF 152000Z AUTO 28009KT M01/M03 RMK AO1 SOG 01 3014 SLP198 T10111033 CWSG 152000Z AUTO 25009KT M01/M04 RMK AO1 SLP203 T10081042 53013 CWSK 152000Z AUTO 32001KT 05/05 RMK AO1 SLP288 T00450048 58005 CWSL 152000Z AUTO 00000KT 04/M02 RMK AO1 SOG 03 8004 SLP291 T00381018 CWSP 152000Z AUTO 29015KT 10/07 RMK AO1 PK WND 29017/1959 SLP289 T00980067 58009 CWSR 152000Z AUTO 18011KT M06/M09 RMK AO1 SOG 12 8022 SLP181 T10611094 CWSS 152000Z AUTO 03004KT 03/M04 RMK AO1 SOG 09 1012 SLP200 T00331038 CWST 152000Z AUTO 04003KT M00/M02 RMK AO1 SOG 02 1001 SLP195 T10031023 CWSW 152000Z 17010G22KT 140V200 20SM FEW070 FEW140 BKN210 02/M09 A3022 RMK AC1AS1CI6 AC TR AS TR SLP283 CWTA 152000Z AUTO 04004KT 03/M03 RMK AO1 SOG 17 5009 SLP157 T00281027 CWTG 152000Z AUTO 25010KT 01/M03 RMK AO1 SLP197 T00051028 53009 CWTN 152000Z AUTO 07009KT 01/M05 RMK AO1 SLP198 T00141050 55003 CWTT 152000Z AUTO 10003KT 04/M04 RMK AO1 T00411039 CWTY 152000Z AUTO 05005KT 02/M01 RMK AO1 SLP175 T00191012 55007 CWUS 152000Z AUTO 11002KT 04/M04 RMK AO1 SLP306 T00391038 58005 CWUW 152000Z AUTO 09024KT ////SM OVC002 M21/M24 A2942 CWUX 152000Z AUTO 10002KT M01/M04 RMK AO1 SLP194 T10121038 58003 CWVF 152000Z AUTO 07003KT 08/07 RMK AO1 T00750067 CWVI 152000Z AUTO 21005KT M03/M09 RMK AO1 SOG 19 8008 SLP177 T10341086 CWVN 152000Z AUTO 19010KT M02/M10 RMK AO1 SLP207 T10211095 58036 CWVP 152000Z AUTO 22005KT M04/M12 RMK AO1 SOG 13 8027 SLP183 T10391119 CWVQ 152000Z AUTO 10007KT 02/M02 RMK AO1 SOG 11 6012 SLP154 T00231023 CWVT 152000Z AUTO 18008KT M06/M08 RMK AO1 SOG 24 8049 PK WND 16017/1906 SLP154 T10631084 CWVU 152000Z AUTO 02015KT 03/M01 RMK AO1 PK WND 01017/1951 SLP193 T00251013 53018 CWWA 152000Z AUTO 12001KT 08/06 RMK AO1 SLP286 T00830055 51001 CWWB 152000Z AUTO 05016KT 04/03 RMK AO1 PK WND 04021/1905 SLP033 T00410026 55016 CWWE 152000Z AUTO 35005KT 05/M03 RMK AO1 SLP183 T00491026 51024 CWWF 152000Z AUTO 29004KT M08/M10 RMK AO1 SOG 04 6020 SLP238 T10751098 CWWK 152000Z AUTO 17001KT RMK AO1 SOG 03 8004 CWWL 152000Z AUTO 19020KT 09/05 RMK AO1 PK WND 19024/1907 SLP199 T00870051 CWWS 152000Z AUTO M13/M15 RMK AO1 SOG 01 5015 SLP221 T11311152 50001 CWWU 151833Z 03010G17KT 3SM -SN OVC005 M01/M02 A2986 RMK SN1ST7 SLP112 CWWX 152000Z AUTO 14016KT 02/01 RMK AO1 PK WND 17023/1914 SLP028 T00150013 56016 CWWZ 152000Z AUTO 08012KT 04/02 RMK AO1 SLP037 T00390023 55015 CWXA 152000Z AUTO 26009G19KT 06/M10 RMK AO1 PK WND 26019/1952 SLP218 T00611103 51013 CWXC 152000Z AUTO 18003KT M02/M05 RMK AO1 T10161050 CWXI 152000Z AUTO M03/M06 RMK AO1 SLP157 T10251062 53012 CWXL 152000Z AUTO 29008KT 06/M03 RMK AO1 SLP176 T00591029 58007 CWYJ 152000Z AUTO 26003KT 13/04 RMK AO1 SLP286 T01330037 58004 CWYL 152000Z AUTO 26017KT M05/M07 RMK AO1 SOG 85 8005 PK WND 27023/1927 SLP252 T10461070 CWYY 152000Z AUTO 17002KT 01/M03 RMK AO1 SLP310 T00131030 58001 CWZA 152000Z AUTO 00000KT 07/06 RMK AO1 SLP282 T00740063 58006 CWZG 152000Z AUTO 22008G15KT M00/M07 RMK AO1 SOG 17 0001 PK WND 24019/1930 SLP230 T10031074 CWZL 152000Z AUTO 19017G22KT 09/ RMK AO1 PK WND 18024/1939 SLP204 T0088 CWZN 152000Z AUTO RMK AO1 CWZO 152000Z AUTO 18007KT RMK AO1 CWZQ 152040Z AUTO 35015KT RMK AO1 CWZW 152000Z AUTO 14001KT M04/M06 RMK AO1 SOG 63 3021 SLP016 T10401063 CWZZ 152000Z AUTO 23009KT ////SM NCD M14/M18 A2975 CXAF 152000Z AUTO 21006KT M05/M09 RMK AO1 T10481088 CXAG 152000Z AUTO 20005KT M05/M08 RMK AO1 T10501082 CXAJ 152000Z AUTO 21009KT M03/M09 RMK AO1 SOG 24 T10291094 CXAK 152000Z AUTO 26008KT M01/M01 RMK AO1 T10111012 CXAT 152000Z AUTO 19002KT M26/M28 RMK AO1 SLP091 T12561284 56006 CXBA 152000Z AUTO 24003KT M03/M07 RMK AO1 T10301073 CXBI 152000Z AUTO 10013G18KT 02/M01 RMK AO1 SOG 22 6025 PK WND 11020/1932 SLP051 T00191010 CXBK 152000Z AUTO 23004KT M08/M09 RMK AO1 SLP218 T10781086 58029 CXBO 152000Z AUTO 08008KT 01/M02 RMK AO1 T00061024 CXBR 152000Z AUTO 23015KT 07/M07 RMK AO1 PK WND 23029/1920 T00681069 CXBW 152000Z AUTO 26018KT 08/M04 RMK AO1 PK WND 27026/1924 T00791035 CXCA 152000Z AUTO 36009KT M01/ RMK AO1 SOG 13 5004 SLP090 T1011 CXCD 152000Z AUTO 26016KT 05/M04 RMK AO1 PK WND 25024/1945 T00461036 CXCK 152000Z AUTO 00000KT M13/M15 RMK AO1 SOG 39 1033 SLP980 T11301148 CXCP 152000Z AUTO 29014KT 07/M02 RMK AO1 PK WND 30019/1948 T00671019 CXCS 152000Z AUTO 27010KT M05/M09 RMK AO1 T10461092 CXDB 152000Z AUTO 29016KT 05/M02 RMK AO1 PK WND 28021/1922 T00521016 CXDE 152000Z AUTO 10010G15KT M16/M19 RMK AO1 SOG 27 6012 PK WND 10018/1913 SLP093 T11601188 CXDI 152000Z AUTO 13005KT 05/M01 RMK AO1 SLP020 T00511007 56009 CXDK 152000Z AUTO 00000KT M13/M15 RMK AO1 SOG 39 8004 SLP044 T11301153 CXDP 152000Z AUTO 18004KT M05/M10 RMK AO1 T10531099 CXDW 152000Z AUTO 33019KT M07/M10 RMK AO1 SOG 01 5011 PK WND 35026/1911 SLP198 T10741096 CXEA 152000Z AUTO 35008KT M02/M03 RMK AO1 SOG 24 3009 SLP119 T10211034 CXEC 152000Z AUTO 22006KT 01/M08 RMK AO1 SOG 17 8007 SLP166 T00051081 CXEG 152000Z AUTO 21009KT M01/M07 RMK AO1 SOG 17 8005 SLP176 T10121074 CXET 152000Z AUTO 10007KT 03/M00 RMK AO1 SOG 09 6024 PK WND 11018/1926 SLP038 T00321003 CXFM 152000Z AUTO 26018KT 08/M03 RMK AO1 PK WND 27027/1945 T00761032 CXFR 152000Z AUTO 24009KT 03/M03 RMK AO1 T00331032 CXGH 152000Z AUTO 33010G15KT M08/M13 RMK AO1 PK WND 35019/1921 SLP175 T10841130 56014 CXHA 152000Z AUTO 22005KT 01/01 RMK AO1 7PAST HR 3010 SLP012 P0003 T00100005 50015 CXHD 152000Z AUTO 23009KT M03/M07 RMK AO1 T10301070 CXHF 152000Z AUTO 02/M02 RMK AO1 T00161022 CXHM 152000Z AUTO 08007KT 05/02 RMK AO1 SLP035 T00450016 55015 CXHP 152000Z AUTO 24018KT 05/M04 RMK AO1 PK WND 25029/1953 T00491040 CXHR 152000Z AUTO 33015KT 02/M04 RMK AO1 PK WND 32025/1905 T00201035 CXIB 152000Z AUTO 01002KT 01/M04 RMK AO1 SOG 04 3016 SLP159 T00101035 CXKA 152000Z AUTO 16005KT M00/M04 RMK AO1 SOG 51 5008 SLP098 T10031038 CXKE 152000Z AUTO 07003KT 02/M02 RMK AO1 SOG 09 6010 SLP128 T00161022 CXKI 152000Z AUTO M00/M04 RMK AO1 SOG 27 6013 SLP108 T10031042 CXKM 152000Z AUTO 27007KT M02/M07 RMK AO1 T10191068 CXKT 152000Z AUTO 36004KT 01/M05 RMK AO1 SOG 10 3022 SLP194 T00111046 CXLB 152000Z AUTO 35006KT 04/M05 RMK AO1 SLP178 T00361046 53026 CXLL 152000Z AUTO 22003KT M14/M16 RMK AO1 SOG 50 SLP061 T11361160 CXMD 152000Z AUTO 33015G24KT M07/M10 RMK AO1 PK WND 32024/1944 SLP193 T10691098 56010 CXMG 152000Z AUTO 25022KT 03/M02 RMK AO1 PK WND 25031/1908 T00251015 CXMI 152000Z AUTO 35009G15KT 01/M04 RMK AO1 SLP182 T00051037 53031 CXMM 152000Z AUTO 00024KT 01/M08 RMK AO1 SOG 19 7041 SLP077 T00131080 CXMO 152000Z AUTO 23005KT M06/M07 RMK AO1 T10581067 CXMY 152000Z AUTO M00/M04 RMK AO1 T10041038 CXNM 152000Z AUTO M04/M03 RMK AO1 SOG 88 T10351025 CXNP 152000Z AUTO 35006KT M01/M02 RMK AO1 SOG 19 3019 SLP197 T10061023 CXOL 152000Z AUTO 32004KT 01/M04 RMK AO1 T00101044 CXOX 152000Z AUTO 15003KT M10/M12 RMK AO1 SOG 42 6032 SLP194 T11011118 CXOY 152000Z AUTO 25006KT M06/M07 RMK AO1 T10611072 CXPA 152000Z AUTO 24015KT 06/M04 RMK AO1 PK WND 24030/1934 T00561036 CXPC 152000Z AUTO 03/M02 RMK AO1 SOG 17 SLP045 T00331018 CXPL 152000Z AUTO 20001KT M05/M07 RMK AO1 T10501071 CXRB 152000Z AUTO 32006KT M32/M35 RMK AO1 SOG 10 5002 SLP126 T13171350 CXRH 152000Z AUTO 33002KT M02/M05 RMK AO1 T10231046 CXRL 152000Z AUTO 16006KT M03/M10 RMK AO1 T10251097 CXSC 152000Z AUTO 24016KT 01/M03 RMK AO1 PK WND 24020/1945 T00051030 CXSE 152000Z AUTO 33005KT M26/M28 RMK AO1 SOG 31 1001 SLP175 T12551281 CXSH 152000Z AUTO 08007KT 02/M04 RMK AO1 SLP174 T00191036 55007 CXSL 152000Z AUTO 22007KT M04/M10 RMK AO1 T10381103 CXSP 152000Z AUTO 21009KT M04/M09 RMK AO1 T10421092 CXTD 152000Z AUTO 34011KT M00/M03 RMK AO1 SOG 02 3018 PK WND 34018/1943 SLP181 T10031029 CXTH 152000Z AUTO 22007KT M04/M07 RMK AO1 T10401073 CXTN 152000Z AUTO 00000KT M31/M34 RMK AO1 SOG 113 8002 SLP195 T13071337 CXTO 152000Z AUTO 05/01 RMK AO1 SLP041 T00460012 56021 CXTP 152000Z AUTO 04001KT M02/M03 RMK AO1 SLP130 T10181032 53003 CXTV 152000Z AUTO 04004KT M28/M31 RMK AO1 SOG 18 SLP137 T12821310 CXVM 152000Z AUTO 22005KT M04/M08 RMK AO1 T10381079 CXVN 152000Z AUTO 09004KT 04/01 RMK AO1 SLP037 T00400013 55012 CXVW 152000Z AUTO 23014KT 04/M05 RMK AO1 PK WND 24020/1932 T00431048 CXWB 152000Z AUTO 27010G17KT M18/M22 RMK AO1 PK WND 00031/1913 SLP054 T11801218 53008 CXWM 152000Z AUTO 27021KT 07/M03 RMK AO1 PK WND 27035/1910 T00661027 CXWN 152000Z AUTO 34007KT M08/M12 RMK AO1 SLP185 T10821118 56011 CXYH 152000Z AUTO 05001KT M14/M16 RMK AO1 SLP044 T11371160 56003 CXZC 152000Z AUTO 16002KT M00/M02 RMK AO1 SOG 36 6016 SLP112 T10011015 CXZV 152000Z AUTO 25002KT 01/M05 RMK AO1 SOG 27 3011 SLP197 T00051052 CYAB 152000Z 00000KT 30SM FEW210 M23/M26 A2978 RMK CI2 SLP088 CYAH 152012Z AUTO 24013KT 210V300 9SM OVC013 M05/M06 A2990 RMK SLP148 CYAM 152000Z 08010KT 12SM OVC023 02/M02 A2964 RMK SC8 SLP046 CYAS 152024Z 22005KT 4SM -SN OVC015 M10/M12 A2972 RMK ST8 SLP080 CYAT 151200Z AUTO 14004KT 9SM OVC014 M05/M05 A2990 RMK SLP126 CYAW 152028Z 35007KT 15SM BKN035 00/M03 A3009 RMK SC6 DA-1752FT LAST OBS/NEXT 181000 UTC SLP190 CYAY 152030Z AUTO 01005KT 9SM OVC025 M05/M07 A3002 RMK SLP171 CYAZ 152028Z 15006KT 15SM FEW006 SCT013TCU BKN024 10/08 A3041 RMK SF1TCU3SC2 SLP299 CYBB 152000Z 01004KT 3SM -SN BKN020 OVC070 M19/M21 A2974 RMK SC5AC3 VIS E-SW 10 SLP074 CYBC 152000Z AUTO 23006KT 9SM CLR M02/M04 A3011 RMK SLP201 CYBD 152000Z CCA VRB03KT 9SM FEW005 SCT018 BKN058 OVC070 06/05 A3028 RMK SC1SC3SC2AC2 VIS S 3 OCNL -SHRA SLP255 CYBG 152000Z 08004KT 25SM OVC035 M01/M04 A3009 RMK SC8 SLP199 CYBK 152000Z 29017KT 6SM -SN BLSN BKN068 M27/M31 A2993 RMK AC7 SLP139 CYBL 152000Z 29003KT 260V320 10SM BKN012 06/06 A3039 RMK SC7 SLP295 CYBN 152030Z AUTO 12007KT 9SM BKN021 04/00 A2964 CYBQ 152024Z AUTO 31006KT 260V330 9SM BKN018 M15/M17 A2996 RMK SLP184 CYBR 152000Z 33008KT 15SM OVC015 M05/M08 A3008 RMK SC8 SLP216 CYBU 152031Z AUTO 18007KT 6SM -SN OVC004 M10/M11 A3008 RMK PRESFR SLP220 CYBV 152000Z 32007KT 15SM FEW013 BKN220 M12/M14 A3009 RMK SC1CS4 SLP208 CYBW 152000Z AUTO 27014G20KT 9SM CLR 06/M05 A2999 RMK SLP203 CYBX 152000Z 00000KT 15SM BKN023 M02/M06 A3003 RMK SC7 SLP173 CYCA 152026Z AUTO VRB02KT 9SM FEW022 BKN038 M06/M10 A3006 RMK SLP182 CYCB 152000Z 33009KT 12SM -SN FEW012 BKN035 M22/M26 A3006 RMK SC2SC5 SLP185 CYCD 152000Z 06003KT 040V100 25SM FEW040 10/04 A3037 RMK CF1 SLP288 CYCG 152000Z 00000KT 15SM FEW090 BKN230 01/M02 A3037 RMK AC1CI6 SLP307 CYCK 152036Z AUTO 23010KT 3SM -SN BKN004 OVC010 00/00 A2955 RMK SLP013 CYCO 152000Z 21009KT 12SM IC FEW016 BKN100 M31/M34 A3015 RMK SC2AC4 SLP214 CYCP 152000Z 00000KT 15SM FEW049 BKN070TCU M01/M03 A3025 RMK CU3TCU2 SLP284 CYCQ 152000Z 21014G21KT 180V240 35SM FEW050 FEW055 FEW090 FEW230 06/M04 A2984 RMK SC1CU1AC1CI1 CU TR AC TR CI TR DIST PCPN S+W-NW VIRGA NE+S ACSL NE-E SLP137 CYCS 140709Z 30013KT 8SM IC OVC005 M18/M20 A2951 RMK SC8 CALL OUT SLP996 CYCX 152000Z AUTO 01004KT 9SM OVC037 02/M04 A3012 RMK SLP202 CYCY 152000Z AUTO 01004KT 9SM FEW012 OVC037 M19/M21 A2978 RMK SLP088 CYDA 152034Z 00000KT 10SM -SN BKN039 OVC046 M12/M14 A2937 RMK SC5SC3 SLP982 CYDB 152000Z AUTO 35005KT 9SM BKN110 M09/M12 A2925 RMK SLP963 CYDC 152000Z 00000KT 25SM FEW039 FEW043 SCT061 SCT092 M01/M06 A3032 RMK CF1CF1CU1AC1 AC TR SLP303 CYDF 152000Z 32005KT 15SM BKN042 M00/M05 A3000 RMK SC6 SLP162 CYDL 152000Z AUTO 21009G16KT 180V280 9SM CLR 03/M03 A2957 RMK SLP039 CYDN 152000Z AUTO 35005KT 9SM SCT010 M06/ A3014 RMK TD MISG SLP228 CYDP 152000Z 23003KT 15SM FEW025 SCT200 M10/M16 A2999 RMK SC2CI2 SLP158 CYDQ 152000Z AUTO 25022G31KT 9SM CLR 06/M05 A2978 RMK SLP117 CYED 152000Z AUTO 23007KT 9SM CLR 01/M07 A2990 RMK SLP160 CYEG 152000Z 21009KT 20SM FEW120 FEW160 M01/M07 A2993 RMK AC1AC1 SLP177 CYEK 152000Z 34012KT 15SM BKN044 M20/M22 A2999 RMK SC7 SLP158 CYEN 152000Z AUTO 33007KT 310V010 9SM OVC009 M07/M09 A3011 RMK SLP239 CYER 152022Z AUTO 32009G15KT 9SM CLR M14/M16 A3001 RMK SLP163 CYET 152039Z AUTO 25014G26KT 9SM CLR 07/M07 A2991 RMK SLP172 CYEV 152000Z 06011G16KT 15SM DRSN BKN065 BKN250 M24/M27 A2987 RMK SC5CI1 SLP128 CYFB 152000Z 14016KT 10SM -SN DRSN OVC030 M12/M15 A2968 RMK SC8 SLP056 CYFC 152000Z AUTO 35005KT 9SM SCT050 02/M03 A3011 RMK SLP202 CYFO 152000Z 17003KT 15SM BKN120 OVC250 M16/M19 A3010 RMK AC6CI2 SLP227 CYFR 152000Z 10008KT 15SM DRSN FEW068 OVC080 M08/M10 A2962 RMK AC1AS7 SLP045 CYFS 152027Z 33004KT 2 1/2SM -SN OVC036 M14/M16 A2965 RMK SC8 SLP061 CYFT 152000Z 27008KT 15SM SKC M12/M16 A3003 RMK SLP176 CYGE 152000Z 29005KT 20SM FEW030 FEW070 FEW120 M01/M06 A3029 RMK SC1AC1AC1 SC TR SLP299 CYGH 152000Z 08007KT 6SM -SN BKN070 M20/M22 A2976 RMK AS7 SLP089 CYGK 152000Z 07011KT 10SM FEW100 OVC160 03/M01 A2982 RMK AC2AC6 SLP104 CYGL 152000Z 18005KT 5SM -SN BKN006 OVC019 M05/M06 A2985 RMK SF7SC1 SLP127 CYGP 152000Z 24004KT 15SM SCT040 SCT075 01/M06 A3009 RMK CU3AC1 AC TR SLP193 CYGQ 152000Z 06005KT 15SM BKN009 OVC023 M03/M05 A2977 RMK SF5SC3 SLP103 CYGR 152000Z 35010G15KT 20SM FEW015 SCT033 M00/M04 A3007 RMK SC2SC1 SLP183 CYGT 152000Z 05010KT 15SM -SN FEW038 FEW072 BKN110 M22/M24 A2961 RMK SC2AC1AC4 SLP036 CYGV 152000Z AUTO 18002KT 9SM BKN025 M02/M04 A3008 RMK SLP191 CYGW 152003Z AUTO 17012G17KT 9SM FEW009 SCT021 OVC028 M06/M07 A2985 RMK SLP109 CYGX 152000Z 25009KT 15SM BKN034 M16/M19 A3008 RMK SC7 SLP206 CYHA 152000Z 19016KT 15SM -SN DRSN OVC047 M11/M13 A2971 RMK SC8 SLP066 CYHD 152000Z AUTO 01005KT 9SM OVC017 M01/M04 A2980 RMK SLP117 CYHE 152008Z AUTO 24007KT 9SM FEW008 SCT019 BKN030 OVC048 07/06 A3036 RMK SLP282 CYHI 152036Z 06011KT 15SM DRSN FEW015 FEW030 FEW130 FEW190 FEW240 M28/M31 A3015 RMK SC1SC1AC1AC1CI1 SC TR SC TR AC TR AC TR CI TR SLP218 CYHK 152000Z 35016KT 15SM SCT055 BKN075 M20/M22 A2984 RMK SC3AC2 SLP112 CYHM 152000Z 06013KT 10SM FEW048 OVC088 03/02 A2960 RMK SC2AC6 SLP033 CYHU 152000Z AUTO 04007KT 9SM CLR 00/M04 A2999 RMK SLP159 CYHY 152031Z 08006KT 15SM BKN014 BKN017 OVC021 M07/M09 A2956 RMK SC5SC2SC1 SLP029 CYHZ 152021Z 34007KT 15SM BKN023 M01/M02 A3006 RMK SC7 SLP188 CYIK 152000Z 18015KT 9SM IC DRSN FEW003 OVC011 M22/M24 A2967 RMK ST1ST8 ST TR SN CVR HARD PACK LAST STFD OBS/NEXT 161300UTC SLP053 CYIN 152000Z AUTO 13005KT 060V150 9SM CLR M01/M05 A3015 RMK SLP253 CYIO 152000Z 21003KT 9SM IC OVC075 M24/M26 A2976 RMK AC8 SLP088 CYIV 152000Z 32006KT 15SM FEW010 FEW120 M13/M17 A3008 RMK SC1AC2 SC TR SLP207 CYJF 151800Z 10003KT 10SM FEW015 BKN030 BKN084 M14/M17 A2966 RMK SC2SC4AC2 LAST STFD OBS/NXT 181500Z SLP065 CYJT 152000Z 01005KT 15SM FEW024 BKN030 M00/M04 A3000 RMK SC1SC6 SLP163 CYKA 152000Z 00000KT 40SM SKC 05/M04 A3029 RMK SLP275 CYKD 102000Z 34004KT 15SM SCT130 BKN150 BKN180 M19/M21 A2937 RMK AC3AC3AC1 LAST STFD OBS/NXT 111400Z SLP947 CYKF 152000Z AUTO 08011G20KT 8SM BKN110 BKN130 02/00 A2957 RMK SLP026 CYKG 152000Z 24008KT 15SM BKN021 OVC036 M10/M14 A2961 RMK SC5SC3 SNW CVR/TRACE LOOSE LAST OBS/NEXT 161300UTC SLP045 CYKJ 152000Z AUTO 19011KT 9SM FEW110 M10/M11 A2985 RMK PRESFR SLP161 CYKL 152031Z AUTO 23006KT 210V290 9SM -SN OVC015 M08/M10 A2990 RMK SLP168 CYKO 152000Z 32011KT 4SM -SN OVC020 M18/M20 A2972 RMK SC8 SLP069 CYKP 152000Z AUTO 27003KT 250V360 6SM BR OVC013 M03/M05 A2981 RMK SLP112 CYKQ 152000Z 14005KT 15SM OVC034 00/M02 A2988 RMK SC8 SLP123 CYKY 152000Z 20006KT 15SM FEW140 BKN160 BKN210 M07/M11 A2993 RMK AC1AC5CI2 AC TR SLP183 CYLA 152000Z 19013KT 8SM -SN OVC045 M10/M13 A2979 RMK SC8 SLP095 CYLC 152000Z 15010G16KT 15SM -SN SCT013 OVC027 M10/M13 A2967 RMK ST3SC5 LASTSTFD OBS/NXT 181200Z SLP054 CYLD 152000Z 08006KT 060V120 15SM OVC018 M00/M04 A2970 RMK SC8 SLP085 CYLH 152034Z AUTO 35003KT 3SM -SN BKN006 BKN010 OVC019 M02/M02 A2981 RMK SLP115 CYLJ 152000Z 00000KT 15SM OVC077 M11/M12 A2996 RMK AC8 PRESFR SLP190 CYLK 152027Z 07017KT 3SM -SN BLSN OVC032 M13/M15 A2979 RMK SC8 SLP111 CYLL 152000Z 22011KT 15SM OVC080 M05/M10 A2993 RMK AC8 SLP183 CYLT 152000Z 32003KT 10SM OVC009 M26/M29 A3003 RMK SC8 LAST OBS/NEXT 161200 UTC SLP173 CYLU 152000Z 16020KT 15SM DRSN BKN079 OVC081 M10/M14 A2990 RMK AC7AC1 SLP134 CYLW 152000Z AUTO 17006KT 9SM CLR 05/M02 A3033 RMK SLP295 CYMA 152000Z CCA 01007KT 350V080 10SM -SN FEW014 OVC035 M04/M06 A2930 RMK SF1SC8 SF TR VIS E 20 SLP960 CYMH 152000Z AUTO 03006KT 9SM OVC018 M04/M07 A3003 RMK SLP174 CYMJ 152000Z 14010KT 12SM SCT200 OVC260 M06/M09 A3006 RMK CI3CI5 SLP219 CYMM 152000Z AUTO 23008KT 9SM CLR 02/M08 A2970 RMK SLP084 CYMO 152000Z AUTO 16005KT 9SM OVC032 M00/M02 A2985 RMK SLP111 CYMT 152000Z AUTO 13007KT 9SM OVC022 M03/M05 A2995 RMK SLP171 CYMU 152000Z 20019KT 10SM -FZDZ OVC009 M07/M07 A2980 RMK ST8 CIG VRB 7-11 SLP099 CYMX 152000Z 05003KT 310V090 10SM BKN250 00/M01 A2998 RMK CI7 SLP159 CYNA 152000Z AUTO 30004KT 9SM CLR M03/M05 A3007 RMK SLP183 CYNC 152000Z 16006KT 130V200 15SM FEW009 OVC032 M02/M03 A2988 RMK SF2SC6 SLP120 CYND 152000Z 08008KT 15SM BKN240 01/M02 A2993 RMK CI7 SLP139 CYNE 152000Z AUTO 30005KT 270V340 9SM CLR M12/M15 A3014 RMK SLP228 CYNM 152000Z AUTO 15014KT 9SM OVC022 M01/M04 A2986 RMK SLP134 CYOC 152000Z 07008KT 30SM FEW030 BKN043 M19/M24 A2968 RMK SC1SC6 SLP084 CYOD 152000Z 20006KT 15SM FEW110 M04/M10 A2991 RMK AC2 SLP165 CYOJ 152000Z 13002KT 15SM BKN055 OVC069 M06/M07 A2959 RMK SC5AC3 SLP047 CYOO 152000Z AUTO 10016G26KT 9SM CLR 04/01 A2968 RMK SLP055 CYOW 152000Z 08012KT 8SM OVC230 01/M02 A2991 RMK CI8 SLP136 CYOY 152000Z 07006KT 15SM FEW035 FEW220 01/M06 A3006 RMK SC2CI1 DA-1197FT SLP190 CYPA 152000Z 22007KT 15SM OVC006 M10/M12 A3010 RMK ST8 SLP230 CYPC 152000Z 23002KT 15SM FEW100 M32/M35 A3011 RMK AC1 AC TR SLP200 CYPD 152042Z AUTO 02003KT 310V100 9SM BKN017 BKN045 M01/M03 A3001 RMK SLP170 CYPE 152000Z 26013KT 15SM FEW210 01/M04 A2975 RMK CI2 SLP110 CYPG 152000Z 34014G25KT 4SM -SN DRSN BKN009 OVC013 M08/M10 A3009 RMK SF6SC2 VIS HIER E SLP206 CYPH 152000Z AUTO /////KT RMK WND MISG CLD MISG WX MISG VIS MISG PCPN MISG PRES MISG T MISG TD MISG ICG MISG DENSITY ALT MISG CYPL 152034Z AUTO 01010G21KT 330V050 3SM -FZRA BR OVC004 M03/M03 A2981 RMK ICG SLP123 CYPO 152040Z AUTO 33006KT 310V010 2 1/4SM -SN OVC032 M12/M14 A2992 RMK SLP136 CYPQ 152000Z AUTO 09010G15KT 060V120 9SM CLR 03/M00 A2972 RMK SLP071 CYPR 152000Z AUTO 18008G17KT 130V220 9SM OVC060 08/04 A3009 RMK SLP194 CYPW 152000Z 09004KT 060V130 20SM SCT010 SCT250 08/06 A3040 RMK SF4CI1 CI TR SLP300 CYPX 152000Z AUTO 31014KT 9SM FEW250 M16/M17 A2971 RMK SLP066 CYPY 152018Z AUTO 19007KT 140V230 9SM SCT019 SCT035 OVC065 M03/M06 A2959 RMK SLP038 CYQA 152000Z AUTO 12007KT 040V140 9SM SCT160 BKN180 03/M02 A2966 RMK SLP060 CYQB 152000Z 07011KT 20SM FEW015 SCT042 SCT120 01/M04 A3008 RMK SC1NS3AC1 SC TR AC TR SLP192 CYQD 152000Z AUTO 13004KT 9SM SCT150 SCT180 M15/M18 A3013 RMK SLP227 CYQF 152000Z AUTO VRB02KT 9SM BKN080 BKN100 BKN120 M01/M05 A2996 RMK SLP199 CYQG 152029Z AUTO 23008KT 9SM BKN004 BKN020 OVC065 01/01 A2952 RMK SLP010 CYQH 152000Z VRB02KT 30SM OVC170 M11/M12 A2951 RMK AC8 SLP040 CYQI 152000Z 03007KT 15SM FEW018 FEW063 FEW250 04/00 A3007 RMK CF1SC1CI1 CF TR SLP186 CYQK 152020Z CCA 36008KT 2 1/2SM -FZDZ BR OVC004 M02/M03 A2984 RMK FG2SF6 ICE ON INDICATOR CIG RAG SLP128 CYQL 152000Z 26022G28KT 60SM FEW050 SCT170 BKN260 08/M04 A2998 RMK CU1AC4CI3 CU TR SLP188 CYQM 152000Z 35005KT 15SM FEW016 BKN044 M00/M03 A3010 RMK CU1SC6 SLP198 CYQQ 152000Z 00000KT 20SM FEW008 FEW040 08/06 A3040 RMK SF2SC1 SLP295 CYQR 152000Z 23004KT 160V250 3/8SM R13/1800V2600FT/N FZFG VV002 M08/M09 A3009 RMK FG8 SLP230 CYQT 152000Z 01005KT 340V050 10SM OVC019 01/M01 A2974 RMK SC8 SLP083 CYQU 152000Z 24012G18KT 180V250 25SM FEW040 FEW250 04/M04 A2985 RMK CF1CI1 CF TR WSHFT 1951 SLP143 CYQV 152040Z AUTO 23005KT 200V270 5SM BR OVC006 M09/M10 A3008 RMK SLP222 CYQW 152000Z AUTO 09012KT 9SM OVC085 M09/M11 A2999 RMK PRESFR SLP201 CYQX 152000Z 03013G19KT 20SM BKN018 OVC025 M02/M04 A2994 RMK CF7SC1 PRESRR SLP150 CYQY 152000Z 01015G22KT 15SM SCT018 SCT067 BKN210 00/M01 A2997 RMK SC3AC1CI1 SLP154 CYQZ 152000Z AUTO 16007KT 9SM CLR 03/M04 A3016 RMK SLP241 CYRA 142100Z 12002KT 15SM BKN080 M15/M18 A3017 RMK AC7 SLP245 CYRB 152000Z 32008KT 20SM IC FEW060 M31/M35 A2986 RMK SC1 SLP125 CYRJ 152000Z VRB02KT 12SM FEW015 OVC031 M02/M03 A3006 RMK SC1SC8 SC TR SLP191 CYRL 152028Z 36012KT 15SM -SN SCT009 BKN016 M06/M08 A2989 RMK ST3SC3 SLP148 CYRQ 152000Z AUTO 04007KT 9SM CLR 02/M03 A3003 RMK SLP176 CYRT 152000Z 31016KT 10SM IC DRSN FEW053 M28/M32 A2986 RMK SC2 SLP118 CYRV 152016Z AUTO 00000KT 9SM SCT022 OVC075 02/M01 A3036 RMK SLP300 CYSB 152027Z 08012G20KT 2 1/2SM -SN VV010 01/M03 A2971 RMK SN8 SLP077 CYSC 152000Z AUTO 12007KT 9SM FEW240 02/M05 A3000 RMK SLP172 CYSF 152000Z AUTO 08007KT 9SM BKN090 OVC110 M12/M13 A2987 RMK PRESFR SLP144 CYSJ 152000Z 02005KT 15SM FEW025 BKN041 02/M05 A3010 RMK SC1SC6 SLP201 CYSK 152033Z 20020KT 1SM -SN OVC003 M05/M06 A2971 RMK SF8 SLP066 CYSM 152033Z 14008KT 100V180 15SM -SN OVC055 M07/M10 A2958 RMK SC8 SLP038 CYSN 152000Z 12009KT 10SM OVC150 07/M00 A2963 RMK AC8 SLP037 CYSP 152000Z 04008KT 15SM OVC019 M01/M04 A2971 RMK SC8 SLP080 CYSY 152000Z 06005KT 15SM -SN BKN026 M18/M19 A3013 RMK SC7 SLP217 CYTE 152042Z AUTO 24013G22KT 5SM -SN BKN016 M19/M21 A2950 RMK SLP999 CYTH 152000Z 24004KT 15SM SCT070 BKN160 M15/M18 A3010 RMK AC4AC3 SLP218 CYTL 152000Z AUTO 36007KT 9SM -SN SCT021 SCT035 OVC120 M11/M13 A2996 RMK SLP168 CYTQ 152000Z 19012KT 6SM -SN DRSN OVC033 M09/M11 A2982 RMK SC8 SLP103 CYTR 152000Z 07008KT 10SM BKN100 BKN180 03/M01 A2977 RMK AC6AC2 SLP085 CYTS 152000Z 12005KT 15SM OVC021 M00/M05 A2978 RMK SC8 SLP103 CYTZ 152000Z AUTO 07021G27KT 9SM CLR 04/02 A2964 RMK SLP043 CYUA 152000Z AUTO 05007KT ////SM OVC003 M24/M27 A2993 CYUB 152000Z 09013G18KT 15SM DRSN FEW090 M27/M29 A3000 RMK AS4 SLP161 CYUL 152000Z 09004KT 12SM OVC250 02/M03 A2999 RMK CI8 SLP157 CYUS 152000Z AUTO 36011KT ////SM //// FEW031 OVC044 M20/M23 A2980 CYUT 152000Z 35014KT 15SM SCT110 M20/M25 A2957 RMK AC4 SLP018 CYUX 152000Z 03013KT 10SM DRSN SCT025 BKN080 M20/M22 A2958 RMK SC3AC3 INTMT -SN SLP021 CYUY 152000Z 14009G15KT 15SM OVC022 00/M04 A2983 RMK SC8 SLP120 CYVC 152000Z 15004KT 15SM OVC100 M10/M12 A3002 RMK AC8 SLP200 CYVL 152000Z AUTO 08008KT 060V120 9SM M23/M25 A2978 RMK CLD MISG SLP123 CYVM 152000Z 00000KT 15SM IC FEW060 FEW090 BKN160 M29/M32 A2978 RMK SC1AC2AC5 SC TR SLP088 CYVO 152000Z 14012KT 15SM OVC023 00/M03 A2986 RMK SC8 SLP132 CYVP 152000Z 21006KT 15SM BKN038 BKN085 OVC240 M08/M12 A2987 RMK SC6AS2CS1 INTMT -SN SLP122 CYVQ 152034Z 10004KT 060V130 1 1/2SM -SN VV020 M15/M18 A2974 RMK SN8 SLP080 CYVR 152040Z 03004KT 010V080 20SM FEW005 SCT013 10/07 A3038 RMK SF1SC3 SF TR SLP289 CYVT 152029Z AUTO 19013G20KT 9SM FEW038 SCT044 OVC060 M06/M08 A2980 RMK SLP131 CYVV 152000Z 09016G27KT 8SM BKN025 OVC070 02/00 A2956 RMK SC6AS2 SLP018 CYWA 152000Z AUTO 14008KT 9SM CLR 02/M03 A2987 RMK SLP122 CYWE 152000Z AUTO 07011KT 9SM OVC120 M21/M23 A2979 RMK ICG SLP137 CYWG 152000Z 34017KT 15SM -SN OVC017 M08/M11 A3003 RMK SC8 SLP186 CYWH 152000Z 25009KT 15SM FEW020 12/04 A3036 RMK CU1 CU TR SLP283 CYWJ 152024Z 09011KT 1 1/2SM -SN OVC026 M16/M18 A2971 RMK SC8 SLP089 CYWK 152000Z 26009KT 15SM OVC011 M07/M10 A2995 RMK SC8 SLP181 CYWL 152000Z 11011KT 15SM FEW060 M01/M05 A3015 RMK SC1 SC TR SLP253 CYWY 222300Z 14009KT 15SM FEW035 FEW140 M28/M32 A3004 RMK SC1AC2 SC TR LAST STFD OBS / NXT 2101291500Z SLP197 CYXC 152000Z 00000KT 25SM FEW060 SCT150 BKN200 M01/M07 A3025 RMK SC1AC3CI2 SC TR PRESFR SLP284 CYXE 152000Z 14005KT 15SM SCT090 OVC180 M10/ A3003 RMK AC3AC5 WND ESTD PRESFR SLP211 CYXH 152000Z 22012KT 30SM OVC270 04/M06 A2995 RMK CI8 SLP173 CYXJ 152000Z 23021G30KT 60SM FEW050 SCT230 04/M04 A2976 RMK SC1CI3 SC TR SLP110 CYXL 152000Z 03005KT 330V070 15SM -SN OVC016 M01/M04 A2980 RMK SC8 SLP114 CYXN 152000Z 30016KT 15SM SCT050 M27/M30 A2991 RMK SC4 SLP133 CYXP 152000Z 05005KT 040V110 15SM -SN BKN050 OVC077 M18/M22 A2974 RMK SC5AS3 SLP074 CYXQ 152000Z 00000KT 25SM FEW025 OVC120 M16/M19 A2928 RMK SC1AC7 SLP972 CYXR 152000Z AUTO 12012KT 9SM OVC021 M01/M04 A2981 RMK SLP112 CYXS 152000Z AUTO 18011G22KT 9SM CLR 04/M04 A3008 RMK SLP215 CYXT 152000Z 19012G20KT 12SM -SHRA FEW003 SCT010 BKN040 BKN060 BKN130 04/03 A3006 RMK CF1CF2CU2SC1AC1 SLP189 CYXU 152000Z 10012KT 8SM -RA BKN030 BKN090 03/00 A2954 RMK SC6AS1 SLP011 CYXX 152000Z 21003KT 25SM FEW010 FEW025 FEW040TCU FEW230 10/07 A3037 RMK CF1SC1TCU1CI1 CF TR SC TR CI TR TCU W QUAD SLP287 CYXY 152000Z 17014KT 40SM DRSN FEW033 FEW120 SCT170 BKN210 M02/M05 A2934 RMK SC1AC2AC2CI2 SLP978 CYXZ 152000Z 06006KT 020V110 15SM BKN020 OVC025 01/M03 A2969 RMK SC6SC2 SLP071 CYYB 152030Z 09014G22KT 1 1/2SM -SN SCT017 OVC040 00/M02 A2973 RMK SC3SC5 SLP086 CYYC 152000Z 29015G21KT 40SM FEW060 FEW180 FEW200 SCT220 07/M06 A2996 RMK CU1AC1CC1CI1 CU TR SLP193 CYYD 152000Z 17011G17KT 20SM FEW040 BKN060 04/00 A2995 RMK SF1SC5 SLP163 CYYE 152000Z VRB04KT 30SM BKN150 M08/M10 A2960 RMK AC7 PRESFR SLP052 CYYF 152000Z 15011KT 15SM SCT075 SCT160 BKN230 05/M03 A3035 RMK AC3AC1CI1 SLP292 CYYG 152000Z 33006KT 310V010 15SM BKN013 BKN040 M00/M02 A3008 RMK SC5SC1 SC TR SLP192 CYYH 152000Z 34012KT 10SM -SN SCT030 BKN050 M21/M25 A2979 RMK SC4SC2 SLP095 CYYJ 152000Z 30006KT 30SM SKC 11/04 A3036 RMK SLP283 CYYL 112014Z AUTO 32003KT 290V050 9SM -SN OVC014 M16/M18 A3024 RMK SLP284 CYYN 152000Z AUTO 19018G23KT 9SM CLR M03/M10 A2994 RMK ICG SLP184 CYYQ 152000Z 26007KT 15SM OVC031 M16/M19 A3002 RMK SC8 SLP172 CYYR 152000Z 24006KT 15SM FEW012 BKN027 BKN080 BKN200 M04/M08 A3006 RMK SF1SC6AC1CC1 VIRGA SLP183 CYYT 152000Z 05019KT 3/4SM R11/P6000FT/U R16/P6000FT/U -SN OVC002 M01/M02 A2982 RMK SN5ST3 /SO2/ SLP107 CYYU 152000Z 14007KT 15SM OVC018 M00/M04 A2980 RMK SC8 SLP106 CYYW 152039Z AUTO 00000KT 9SM -SN OVC015 M02/M03 A2979 RMK SLP110 CYYY 152000Z VRB02KT 30SM FEW042 M01/M06 A3013 RMK SC1 SLP206 CYYZ 152000Z 08015G24KT 10SM FEW015 BKN090 BKN130 04/01 A2963 RMK CU2AC3AC2 SLP039 CYZE 152034Z AUTO 09014G23KT 8SM -RA SCT021 BKN028 OVC035 02/M02 A2964 RMK SLP044 CYZF 152040Z 07015G21KT 15SM DRSN BKN088 BKN200 M12/M13 A2968 RMK AC6CI1 SLP076 CYZG 152000Z 19013G19KT 15SM DRSN FEW020 SCT140 BKN190 M19/M23 A2958 RMK SC2AC3AC1 SLP044 CYZH 152000Z AUTO 26022G31KT 9SM CLR 07/M05 A2978 RMK SLP113 CYZP 152013Z AUTO 18009KT 9SM FEW036 BKN048 BKN060 BKN083 07/04 A3010 RMK SLP196 CYZR 152000Z AUTO 17011G19KT 9SM -RA OVC016 03/02 A2950 RMK SLP000 CYZS 152000Z 04004KT 280V090 8SM -SN FEW006 OVC065 M22/M25 A2952 RMK SC2SC6 SLP007 CYZT 152031Z 08005KT 15SM VCSH FEW008 FEW025 BKN040 BKN080 08/07 A3035 RMK SF1CU2SC5AC1 SF TR AC TR SLP281 CYZU 152000Z 28005KT 15SM SKC M01/M09 A2990 RMK SLP168 CYZV 152000Z 25002KT 30SM BKN043 M01/M05 A3010 RMK SC7 SLP198 CYZW 152000Z VRB02KT 30SM FEW011 FEW035 SCT120 BKN200 M04/M05 A2943 RMK SF1SC1AC2CI3 SLP009 CYZX 152000Z 04006KT 15SM FEW070 01/M05 A3012 RMK AC2 SLP202 CYZY 152000Z AUTO 17016G22KT 9SM OVC046 02/M03 A2998 RMK SLP189 CZBF 152000Z AUTO VRB02KT 9SM OVC038 00/M07 A3010 RMK SLP208 CZCP 152000Z AUTO 07014KT ////SM //// OVC006 M22/M24 A3006 CZCR 152000Z AUTO 26004KT 01/M07 RMK AO1 SOG 07 3015 SLP201 T00071069 CZDB 152000Z AUTO 36008KT M00/M03 RMK AO1 SOG 15 3020 SLP191 T10011033 CZEL 152000Z AUTO 10015G20KT 02/M01 RMK AO1 SOG 09 5016 PK WND 09022/1936 SLP036 T00201006 50001 CZEM 312100Z 23008KT 12SM -SHSN OVC017 M15/M19 A3015 RMK SC8 LAST STFD OBS/NEXT 011400 UTC SLP213 CZEV 152000Z AUTO 07012KT M24/M27 RMK AO1 SOG 23 5002 SLP128 T12411269 CZFA 152000Z 00000KT 30SM FEW025 BKN110 M04/M06 A2932 RMK SC1AC7 SC TR SLP978 CZFM 152009Z 35006KT 2SM -SN OVC027 M19/M22 A2984 RMK NS8 SLP112 CZFN 151930Z 03012KT 8SM -SN BKN042 BKN067 OVC075 M18/M20 A2973 RMK SC5AC1AC2 LAST STFD OBS NEXT 181600 SLP081 CZFS 152000Z AUTO 31005KT M14/M17 RMK AO1 SOG 28 1004 SLP062 T11441166 50003 CZHY 152000Z AUTO 09004KT M07/M09 RMK AO1 SOG 14 6018 SLP024 T10661086 50002 CZKD 080500Z AUTO 23005KT M00/M00 RMK AO1 6PAST HR SOG 47 6028 SLP984 P0002 T10011002 50006 CZMD 152000Z AUTO 35007KT 320V030 9SM -SN BKN013 M11/M13 A2998 RMK PRESRR SLP174 CZMJ 152000Z AUTO 15009KT M07/M09 RMK AO1 SLP225 T10651094 58040 CZMT 152021Z 18009G16KT 15SM -SHRA FEW006 SCT015 BKN100 OVC180 07/05 A3006 RMK SF1CU3AC2CI2 PRESRR SLP182 CZMU 152000Z AUTO 19007KT M03/M07 RMK AO1 SOG 06 T10321070 CZOL 152000Z AUTO 23003KT 01/M08 RMK AO1 T00071084 CZPC 152000Z AUTO 25019G25KT 9SM 05/M07 A3003 RMK CLD MISG SLP208 CZPS 152000Z AUTO 24006KT 02/M04 RMK AO1 T00171035 CZRP 090500Z AUTO RMK AO1 CZSJ 152000Z AUTO 34006KT 310V020 9SM -SN BKN012 M12/M13 A3000 RMK SLP182 CZSM 152000Z AUTO 11004KT M07/M10 RMK AO1 SOG 45 8043 SLP038 T10701098 CZSP 152000Z AUTO 34006KT M00/M03 RMK AO1 SOG 13 SLP195 T10011032 CZST 152000Z VRB02KT 3SM -RA BR SCT035 OVC060 01/01 A2994 RMK SC3SC5 SLP140 CZTB 152000Z AUTO 03007KT 01/M01 RMK AO1 SOG 14 5002 SLP082 T00091011 CZUM 152013Z AUTO 25003KT 200V290 9SM OVC020 M06/M09 A2995 RMK SLP179 CZVL 152030Z AUTO 28017KT 9SM CLR 07/M05 A2988 RMK SLP151 CZZJ 152000Z AUTO 22003KT 05/M07 RMK AO1 SOG 11 8008 SLP176 T00451068 DAAD 151800Z 33012KT 9999 BKN033 10/M01 Q1021 DAAE 152000Z 25004KT 9999 FEW023 SCT090 06/04 Q1022 DAAG 152030Z VRB02KT 9999 FEW020TCU 09/08 Q1023 DAAJ 152000Z 13004KT CAVOK 14/M08 Q1017 DAAP 152000Z 36008KT CAVOK 11/M09 Q1019 DAAS 152000Z 33004KT 9999 SCT030 04/M01 Q1021 DAAT 152030Z 31005KT CAVOK 12/// Q1019 DAAV 152000Z 28010KT 9999 SCT020TCU 13/08 Q1021 DAAY 152000Z 00000KT CAVOK 03/M05 Q1026 DABB 152000Z 22006KT 8000 FEW020 SCT030 10/08 Q1020 DABC 152000Z 26002KT 9999 FEW020 BKN026 06/04 Q1021 DABS 152000Z 30007KT 9999 FEW020 BKN030 05/02 Q1020 DABT 152000Z 25003KT 9999 BKN020 05/01 Q1020 DAFH 151800Z 36008KT CAVOK 10/00 Q1022 DAOB 152000Z 22005KT 9999 SCT020 04/04 Q1023 DAOF 152000Z 24004KT CAVOK 13/M12 Q1023 DAOI 152000Z 24006KT 9999 FEW026 10/08 Q1023 DAOL 152000Z 21006KT 9999 FEW026 08/07 Q1025 DAON 152030Z 12003KT CAVOK 08/04 Q1025 DAOO 152030Z 20006KT 9999 FEW026 08/06 Q1024 DAOR 152000Z 06005KT CAVOK 10/M11 Q1023 DAOV 152000Z 13003KT 9999 FEW026 06/05 Q1024 DAOY 152000Z 03009KT CAVOK 00/M02 Q1023 DATM 151800Z 35010KT CAVOK 20/// Q1016 DAUA 152000Z 01006KT CAVOK 11/M08 Q1021 DAUB 152000Z 31012KT CAVOK 14/M00 Q1020 DAUE 152000Z 04003KT CAVOK 08/M07 Q1022 DAUG 152000Z 35005KT CAVOK 12/M02 Q1022 DAUH 152030Z 32003KT CAVOK 08/M03 Q1020 DAUI 152000Z 03006KT CAVOK 11/M11 Q1019 DAUK 152000Z 00000KT CAVOK 10/M01 Q1020 DAUL 152000Z 02012KT CAVOK 08/M03 Q1022 DAUO 152000Z 23004KT CAVOK 10/01 Q1019 DAUT 152000Z 05003KT CAVOK 11/M08 Q1021 DAUU 152000Z 00000KT CAVOK 10/M03 Q1020 DAUZ 152000Z 35005KT CAVOK 09/M14 Q1019 DBBB 152000Z 21011KT 9999 FEW013 28/25 Q1009 NOSIG DFFD 152000Z 06004KT CAVOK 26/M01 Q1011 NOSIG DFOO 152000Z 02004KT 8000 NSC 28/M05 Q1012 DGAA 152000Z 22009KT CAVOK 27/24 Q1009 NOSIG DGLE 170000Z 05003KT CAVOK 31/22 Q1010 NOSIG DGSI 170600Z 14002KT 8000 NSC 23/21 Q1012 NOSIG DGTK 170600Z 00000KT 8000 SCT011 FEW028CB 25/24 Q1011 NOSIG DIAP 152030Z 18003KT 9999 FEW012 27/26 Q1009 NOSIG DIBK 152000Z 02006KT 7000 FEW013 29/10 Q1011 NOSIG DISP 251400Z 18008KT 9999 FEW015TCU 31/25 Q1007 NOSIG DIYO 152000Z 00000KT 8000 NSC 25/22 Q1010 NOSIG DNAA 152000Z 11003KT CAVOK 30/14 Q1011 NOSIG DNAK 132200Z NI7 NOSIG DNCA 141000Z 27007KT 5000 HZ BKN010 29/24 Q1014 DNEN 151900Z 00000KT 8000 NSC 30/22 Q1008 NOSIG DNGO 151600Z 34010KT 6000 NSC 31/09 Q1011 DNIB 151400Z 06005KT CAVOK 34/18 Q1008 DNIL 151400Z 36010KT CAVOK 35/10 Q1009 DNIM 301100Z 24005KT 8000 BKN013 30/24 Q1011 DNJO 152000Z 11007KT 8000 NSC 19/01 Q1018 DNKA 152000Z 06007KT CAVOK 22/06 Q1015 DNKN 152000Z 04004KT 5000 HZ NSC 19/08 Q1016 NOSIG DNKT 151600Z 10009KT 3000 HZ NSC 30/03 Q1011 DNMA 151600Z 06004KT CAVOK 33/06 Q1009 DNMK 160700Z 16002KT CAVOK 25/21 Q1010 DNMM 152000Z 22003KT 9999 NSC FEW012 28/25 Q1010 NOSIG DNMN 151400Z 17002KT CAVOK 36/16 Q1009 DNPO 152000Z 15003KT 8000 SCT008 24/22 Q1009 NOSIG DNSO 151600Z 00000KT CAVOK 34/10 Q1011 DNYO 151600Z 06004KT CAVOK 33/06 Q1009 DNZA 120700Z 03003KT 5000 FU NSC 18/04 Q1016 DRRB 251100Z 08008KT CAVOK 35/05 Q//// DRRM 151800Z 08004KT CAVOK 26/00 Q1012 DRRN 152000Z 01004KT 340V050 9000 NSC 29/M02 Q1011 NOSIG DRRT 152000Z 06004KT CAVOK 26/M03 Q1013 DRZA 151800Z 15004KT CAVOK 26/05 Q1013 DRZR 151800Z 10004KT 2500 DU NSC 27/03 Q1013 DTKA 152000Z 31020G32KT 9999 SCT020 SCT030 13/04 Q1019 NOSIG DTMB 152030Z 28014KT CAVOK 13/05 Q1017 DTNH 152030Z 30018KT 9999 FEW026 12/04 Q1017 DTTA 152030Z 28012KT 9999 SCT020 SCT040 12/05 Q1016 DTTB 152000Z 29016KT 9999 SCT020 SCT030 13/06 Q1016 DTTD 152000Z AUTO 26004KT NCD 11/M02 Q1019 DTTF 152000Z 33004KT 250V020 9999 SCT026 13/02 Q1019 NOSIG DTTG 152000Z 24008KT CAVOK 10/01 Q1019 NOSIG DTTJ 152030Z 27010KT CAVOK 14/06 Q1018 NOSIG DTTK 152000Z 30006KT 240V020 9999 SCT023 13/02 Q1018 DTTL 152000Z AUTO 27008G18KT 220V320 NCD 13/08 Q1014 DTTN 152000Z 30003KT 240V350 8000 SCT020 SCT030 11/04 Q1019 DTTR 152000Z AUTO 00000KT NCD 09/M03 Q1020 DTTX 152000Z AUTO 26003KT CAVOK 12/04 Q1018 DTTZ 152000Z 25010KT 9999 FEW030 11/00 Q1019 DXNG 151800Z 04003KT CAVOK 31/M03 Q1011 DXSK 151800Z 00000KT CAVOK 30/06 Q//// DXXX 152000Z 21009KT 9999 FEW012 28/25 Q1009 NOSIG EBAW 152020Z 26003KT 9999 BKN048 02/M02 Q1031 NOSIG EBBE 152025Z AUTO 23003KT 9999 BKN044/// M00/M02 Q1030 BLU EBBL 152025Z AUTO VRB01KT 9999 OVC047/// M00/M02 Q1030 BLU EBBR 152020Z 28001KT 9999 BKN046 01/M02 Q1030 NOSIG EBCI 152020Z VRB02KT 9000 BKN041 M01/M03 Q1030 R24/290195 NOSIG EBCV 152025Z AUTO VRB02KT 9000 OVC044/// 00/M01 Q1030 BLU EBDT 152025Z AUTO VRB01KT 9999 OVC046/// 00/M02 Q1030 BLU EBFN 152025Z AUTO VRB02KT 9999 OVC044/// 01/M01 Q1031 BLU EBFS 152025Z AUTO 27003KT 4200 BR BKN038/// M02/M03 Q1029 GRN EBLB 152025Z AUTO 35007KT 9000 -SN FEW013/// OVC031/// M03/M05 Q1027 BLU EBLG 152020Z 31003KT 230V040 9000 FEW022 BKN043 M01/M02 Q1030 NOSIG EBOS 152020Z 23004KT 9999 FEW035 SCT040 BKN045 01/M02 Q1031 NOSIG EDAC 152020Z AUTO 32007KT 9999 R/////// // FEW016/// BKN031/// OVC037/// M02/M05 Q1025 EDAH 151350Z 33007KT 290V010 9999 BKN027 M02/M07 Q1023 EDDB 152020Z 35011KT 9999 BKN030 M02/M07 Q1025 R25R/19//95 NOSIG EDDC 152020Z 32009KT 290V350 9999 -SN BKN006 M03/M04 Q1023 R04/590492 TEMPO 4500 -SN BKN004 EDDE 152020Z 36003KT 9999 -SN FEW020 OVC026 M03/M04 Q1025 R88/490594 NOSIG EDDF 152020Z 31004KT 9999 FEW028 BKN046 01/M03 Q1028 NOSIG EDDG 152020Z VRB02KT 9999 BKN038 M00/M03 Q1029 NOSIG EDDH 152020Z 31006KT 9999 OVC027 M01/M05 Q1028 NOSIG EDDK 152020Z 36005KT 320V020 9999 BKN037 00/M04 Q1029 NOSIG EDDL 152020Z 35004KT 330V040 9999 BKN046 01/M04 Q1030 NOSIG EDDM 152020Z 27004KT 9999 -SN SCT013 BKN025 M02/M03 Q1024 R26L/690295 TEMPO 2500 EDDN 152020Z 31006KT 9999 -SN FEW016 BKN035 M01/M04 Q1025 R10/190095 NOSIG EDDP 152020Z 32010KT 9999 BKN042 M02/M05 Q1025 R88/19//95 NOSIG EDDR 152020Z VRB02KT CAVOK M06/M07 Q1027 NOSIG EDDS 152020Z 34005KT 9999 -SN FEW010 BKN025 M01/M03 Q1026 TEMPO BKN013 EDDT 090650Z 09006KT 050V120 3000 BR OVC003 06/05 Q1027 EDDV 152020Z 32005KT 300V360 9999 OVC025 M01/M06 Q1028 NOSIG EDDW 152020Z 36005KT 9999 BKN034 M01/M06 Q1029 R88/D NOSIG EDFH 152020Z 30004KT 8000 -SN BKN010 M02/M04 Q1026 EDFM 151920Z 01003KT 9999 FEW024 SCT033 OVC053 01/M02 Q1028 EDGS 151650Z 32005KT 9999 BKN009 OVC036 M03/M05 Q1024 EDHI 151920Z 34005KT 300V010 9999 BKN032 M01/M07 Q1028 EDHK 152020Z AUTO 29003KT 9999 // OVC031/// M02/M06 Q1028 EDHL 152020Z 26003KT 9999 BKN029 M01/M05 Q1027 EDJA 152020Z 25003KT 220V280 8000 BKN017 OVC055 M05/M06 Q1024 EDLN 152020Z AUTO 33004KT 9999 // OVC048/// 01/M02 Q1030 EDLP 152020Z 36004KT 290V050 9999 OVC027 M02/M08 Q1028 EDLV 152020Z 00000KT 9999 BKN040 00/M02 Q1030 EDLW 152020Z 33004KT 290V020 9999 FEW017 SCT020 OVC036 M00/M04 Q1029 EDMA 152020Z AUTO 31006KT 9999 // BKN038/// OVC059/// M02/M03 Q1024 EDMO 152020Z AUTO 24007KT 6000 // OVC013/// M03/M05 Q1024 EDNY 152020Z AUTO 04002KT 6000 1800 // BKN060/// M09/M10 Q1026 EDQM 151850Z 34006KT 300V020 5000 -SN BR SCT009 BKN014 M04/M06 Q1022 EDSB 152020Z 02003KT 9999 FEW030 OVC055 M00/M02 Q1028 EDTL 151850Z VRB01KT CAVOK M07/M08 Q1027 R/SNOCLO EDTY 152020Z AUTO 32004KT 9999 // FEW026/// OVC054/// M02/M03 Q1026 EDVE 152020Z 01005KT 330V070 9999 -SN OVC028 M02/M08 Q1027 EDVK 151650Z 31008KT 9999 SCT012 BKN029 M01/M03 Q1025 EDXW 152020Z AUTO 20004KT 9999 // OVC038/// M02/M05 Q1029 EEEI 151550Z 02009KT 9000 -SN SCT012 BKN19 M10/M12 Q1019 R06/190095 NOSIG EEKA 151620Z 36015KT 9999 SCT017 M08/M11 Q1020 EEKE 152020Z AUTO 36008KT 9999NDV NSC M08/M10 Q1019 EEPU 301420Z VRB02KT 3600 -SN BR BKN009 OVC014 M00/M00 Q1015 EETN 152020Z 36007KT 7000 -SN OVC011 M08/M10 Q1017 R08/490395 TEMPO 3000 SN EETU 152020Z AUTO VRB02KT 2200 -SN BKN002/// BKN008/// OVC019/// M15/M17 Q1015 EFET 152020Z AUTO 22006KT CAVOK M06/M07 Q1017 EFHA 152020Z AUTO 34005KT 9999 -SN OVC017 M13/M15 Q1016 EFHK 152020Z 33003KT 4000 -SN BKN013 BKN037 M15/M17 Q1018 TEMPO 5000 EFIV 152020Z AUTO 31005KT 9999 BKN026 01/M01 Q1014 EFJO 152020Z AUTO 13003KT 9999 OVC003 M20/M22 Q1017 EFJY 152020Z AUTO VRB01KT 9000 -SN OVC008 M12/M13 Q1016 EFKE 152020Z AUTO VRB02KT 9999 4300 -SHSN FEW019 SCT045 M15/M17 Q1018 EFKI 152020Z AUTO VRB02KT 8000 -SN OVC025 M14/M17 Q1016 EFKK 152020Z AUTO 33005KT 300V360 9999 BKN044 M05/M06 Q1018 EFKS 152020Z 31003KT 9999 -SN BKN011 OVC042 M13/M15 Q1014 EFKT 152020Z AUTO 32007KT 9999 OVC044 M02/M04 Q1016 EFKU 152020Z AUTO 09002KT 9999 SCT011 BKN036 M17/M19 Q1017 EFLP 301350Z AUTO 13006KT 100V170 9999 -SHSN BKN003 OVC028 00/M00 Q1018 EFMA 152020Z AUTO 32003KT 290V350 4900 -SN FEW010 OVC021 M03/M03 Q1020 EFMI 150950Z AUTO 12003KT 6000 OVC005 M03/M04 Q1018 EFOU 152020Z AUTO VRB02KT 9999 OVC023 M12/M13 Q1018 EFPO 152020Z AUTO 07002KT 8000 -SN FEW017 OVC024 M11/M13 Q1019 EFRO 152020Z AUTO 33010KT 2500 -SN FEW026 BKN042 M05/M06 Q1016 EFSA 152020Z AUTO 04003KT 010V070 9999 -SHSN FEW012 OVC037 M18/M20 Q1017 EFSI 152020Z AUTO 29005KT 9999 -SN BKN005 OVC007 M06/M07 Q1018 EFTP 152020Z AUTO 28003KT 250V310 6000 -SN OVC024 M12/M14 Q1017 EFTU 152020Z AUTO 27002KT 9000 -SN OVC015 M14/M16 Q1019 EFUT 152020Z AUTO 34003KT 310V010 3800 -SN SCT009 OVC021 M16/M18 Q1016 EFVA 152020Z AUTO VRB02KT CAVOK M06/M07 Q1019 EGAA 152020Z 15015KT 9999 RA SCT012 BKN017 OVC023 07/05 Q1016 EGAC 152020Z AUTO 17017KT 9999 OVC012/// 08/05 Q1017 EGAE 151720Z 19014G27KT 9999 SHRA FEW012 BKN017 08/05 Q1016 EGBB 152020Z 16005KT 5000 BR SCT004 M01/M01 Q1029 EGBJ 151550Z 15004KT 9999 FEW018 02/M00 Q1031 EGCC 152020Z AUTO VRB03KT 9000 NCD M00/M01 Q1027 EGCK 152020Z AUTO 17019G29KT 9999 BKN030/// 05/02 Q1023 EGCN 152020Z 15007KT 6000 FEW003 OVC005 M01/M01 Q1029 EGDM 151950Z AUTO 14004KT 7000 BR SCT013/// M01/M02 Q1029 EGDR 151950Z AUTO 17010KT 9999 // SCT018/// SCT080/// BKN190/// 08/06 Q1026 EGDY 151950Z AUTO 13003KT 9000 BR FEW100/// SCT120/// BKN190/// 01/00 Q1029 EGEC 150920Z 13008KT 9999 BKN020 05/02 Q1027 EGEO 151220Z 12009KT 9999 SCT019 BKN030 04/02 Q1026 EGFF 152020Z AUTO 14008KT 9999 SCT030 03/02 Q1028 EGGD 152020Z AUTO 15007KT 9999 FEW017 01/00 Q1028 EGGP 152020Z 16011KT 9999 SCT010 01/M00 Q1026 EGGW 152020Z AUTO 17004KT 0250 R07/0400 FZFG VV/// M00/M00 Q1029 EGHC 151620Z 18012KT 9999 FEW010 08/05 Q1027 EGHE 151620Z 19018KT 9999 FEW018 SCT025 10/06 Q1027 EGHH 151820Z 08002KT 7000 FEW015 M01/M01 Q1030 EGHI 151720Z 00000KT 9999 SCT018 01/00 Q1030 EGHQ 152020Z AUTO 16015KT 9999 FEW010/// 08/06 Q1026 EGJA 151750Z 15005KT 110V170 9999 FEW025 04/M00 Q1030 EGJB 152020Z 16007KT 9999 FEW022 05/01 Q1029 EGJJ 152020Z 13005KT 9999 FEW025 04/00 Q1030 EGKA 151750Z 01004KT 9999 FEW046 01/00 Q1030 EGKB 152020Z 16006KT CAVOK M00/M01 Q1030 EGKK 152020Z 07002KT 5000 BR SCT037 M01/M02 Q1030 EGLC 152020Z AUTO VRB02KT 4900 HZ NCD 02/00 Q1031 EGLF 152020Z 07002KT 6000 FEW030 M02/M02 Q1030 EGLL 152020Z AUTO 14003KT 6000 NCD 00/M00 Q1030 EGMC 151650Z VRB02KT 9999 BKN041 03/01 Q1030 EGMD 152020Z AUTO 04003KT 9999 OVC044/// 02/01 Q1031 EGNH 152020Z 16015KT 8000 FEW030 00/M01 Q1026 EGNJ 152020Z AUTO 20009KT 5000 BR OVC002/// 00/00 Q1029 EGNM 152020Z 15010KT 2500 BR SCT001 BKN004 M03/M03 Q1026 R14/610395 EGNO 151350Z 15007KT 2500 BR VV/// M00/M00 Q1029 EGNR 151920Z 15009KT 9000 BKN018 00/M01 Q1028 EGNS 152020Z 16017KT 9999 FEW010 OVC019 06/03 Q1022 NOSIG EGNT 152020Z 14004KT 110V190 CAVOK M02/M03 Q1025 EGNV 151750Z 19007KT 0400 R23/P1000 FZFG OVC001 M02/M03 Q1028 EGNX 152020Z 15007KT 7000 NSC M01/M02 Q1028 EGOM 151950Z AUTO 17006KT 9999 NCD M02/M04 Q1023 EGOP 152000Z AUTO 13011KT 9999 // SCT023/// BKN030/// 05/03 Q1026 EGOS 151950Z AUTO 17010KT 9999 SCT011/// BKN190/// 00/M01 Q1027 EGOV 151950Z AUTO 17023KT 9999 BKN032/// BKN120/// 06/03 Q1023 EGOW 121420Z 33005KT CAVOK 05/M00 Q1016 RMK BLU EGPA 152020Z AUTO 16024KT 9999 BKN010/// 04/02 Q1018 EGPB 152020Z 18018KT 9999 SCT019 06/03 Q1021 NOSIG EGPC 152020Z AUTO 15014KT 9999 NCD 04/01 Q1018 EGPD 152020Z AUTO 17014KT 9999 SCT018 02/00 Q1022 EGPE 152020Z VRB03KT 9999 FEW014 03/M00 Q1018 EGPF 152020Z AUTO 10010KT 9999 FEW019/// SCT026/// OVC032/// //////TCU 03/01 Q1021 EGPH 152020Z VRB02KT CAVOK M01/M02 Q1022 EGPI 152020Z AUTO 15029G41KT 350V050 9999 -DZ BKN010/// BKN017/// 08/07 Q1014 EGPK 152020Z 14011KT 9999 -RA BKN011 OVC017 03/02 Q1020 EGPL 152020Z AUTO 16037G50KT 6000 -RA BKN011/// OVC024/// 07/05 Q1009 EGPN 151550Z 18003KT 9999 FEW008 BKN020 03/02 Q1025 EGPO 152020Z AUTO 16026G36KT 8000 -RA FEW020/// SCT028/// BKN032/// 06/03 Q1012 EGPU 152020Z AUTO 16036G49KT 1900 -RA BKN012/// 07/06 Q1011 EGQA 171150Z 19013KT 9999 FEW030 06/// Q0999 RMK BLU EGQK 151950Z AUTO 11004KT 9999 SCT170/// M00/M02 Q1019 EGQL 151950Z 16003KT CAVOK 01/M01 Q1023 RMK BLU EGQM 151950Z AUTO /////KT 9999 NCD M00/M02 Q1025 EGQS 151950Z 12006KT CAVOK 01/M01 Q1019 RMK BLU EGSC 151750Z VRB02KT 8000 FEW007 BKN040 01/01 Q1030 EGSH 152020Z AUTO 22002KT 9999 OVC043/// 02/M00 Q1030 EGSS 152020Z 15004KT 3500 BR NSC M01/M01 Q1030 EGSY 151620Z 08007KT 7000 FEW007 02/00 Q1029 EGTC 151750Z 15004KT 3300 BR FEW007 00/00 Q1030 EGTE 151450Z 12006KT 100V160 9999 FEW018 05/00 Q1030 EGTK 152020Z 16004KT 4000 BR NSC M01/M01 Q1029 EGUB 151950Z AUTO 17004KT 7000 // NCD M00/M01 Q1029 EGUL 152039Z AUTO 00000KT 8000 BR CLR M02/M02 A3041 RMK AO2 UPB02E27 SLP302 $ EGUN 152041Z AUTO 00000KT 9999 SCT042 00/00 A3041 RMK AO2 SLP302 FZRANO $ EGUW 151950Z AUTO 21004KT 9999 OVC042/// 01/M02 Q1030 EGVA 151956Z AUTO 00000KT 9999 CLR M01/M01 A3039 RMK AO2 SLP300 T10081009 FZRANO $ EGVN 152020Z 00000KT 3000 BR SCT220 M02/M02 Q1029 NOSIG RMK YLO1 YLO1 EGVO 151950Z AUTO 14005KT 4600 BR NCD M02/M02 Q1029 EGVP 151950Z AUTO 00000KT 5000 BR FEW015/// M01/M02 Q1029 EGWC 121250Z 00000KT 9999 FEW010 SCT250 06/02 Q1015 RMK BLU EGWU 152020Z 14002KT 4000 MIFG BR BKN240 M02/M02 Q1030 BECMG 7000 HZ RMK GRN BECMG WHT EGXC 151950Z 15002KT 3000 BR BKN003 01/01 Q1029 RMK YLO2 EGXE 151950Z AUTO 17012KT 0800 FZFG OVC002/// M03/M03 Q1027 EGXP 151950Z AUTO 18003KT 3200 // OVC003/// 00/00 Q1028 EGXS 151950Z AUTO 18006KT 6000 // OVC041/// 01/M00 Q1029 EGXT 151950Z AUTO 17004KT 2200 FG FEW001/// M01/M01 Q1029 EGXU 151950Z AUTO 17012KT 2900 BR OVC002/// M02/M02 Q1028 EGXV 151950Z AUTO 14006KT 2600 BR OVC002/// M01/M01 Q1028 EGXW 151950Z AUTO 17008KT 0150 FG VV/// M00/M01 Q1029 EGXZ 151950Z AUTO 00000KT 2000 OVC001/// M02/M02 Q1028 EGYD 151950Z AUTO 18005KT 0300 // OVC002/// M00/M00 Q1029 EGYE 140750Z 10020KT 3000 RA OVC001 ///// Q1014 RMK RED EGYH 141750Z 09008KT 9999 -DZ FEW010 BKN025 02/01 Q1022 RMK BLU EGYM 151950Z AUTO 15003KT 1400 BR FEW002/// SCT042/// 01/01 Q1030 EGYP 151950Z 13013KT 9999 BKN025 09/01 Q1014 EHAK 152025Z AUTO 22003KT 170V250 9999 NSC 04/M03 Q1029 EHAM 152025Z 19004KT 9999 FEW035 BKN048 02/M01 Q1030 NOSIG EHBK 152025Z AUTO 33002KT 9999 OVC043 00/M02 Q1030 NOSIG EHDL 152025Z AUTO 11002KT 5000 BR BKN031 OVC037 M00/M00 Q1030 WHT EHDV 152025Z AUTO VRB08KT 9999 FEW031/// OVC037/// 05/M04 Q1029 EHEH 152025Z AUTO 20001KT 9999 OVC044 M00/M01 Q1030 BLU NOSIG EHFD 152025Z AUTO /////KT 9999 // OVC039/// 04/M04 Q1028 RE// EHFS 152025Z AUTO 24008KT 9999 OVC042/// 03/M01 Q1030 EHGG 152025Z AUTO 24003KT 9999 OVC041 M00/M02 Q1029 NOSIG EHGR 152025Z AUTO VRB02KT 9999 OVC046 01/M01 Q1030 BLU EHHW 152025Z AUTO 30004KT 270V330 9999 FEW029/// OVC039/// 03/M01 Q1028 EHJA 152025Z AUTO 21007KT 9999 FEW019/// OVC038/// 04/01 Q1029 EHJR 152025Z AUTO 04003KT 360V090 //// // ///////// 05/M01 Q1030 RE// W08/H8 EHKD 152025Z AUTO 10003KT 070V130 9999 OVC049 02/01 Q1029 BLU EHKV 152025Z AUTO 36005KT 300V030 9999 FEW035 OVC040 05/M04 Q1029 EHLE 152025Z AUTO 20003KT 9999 OVC048 01/M01 Q1030 EHLW 152025Z AUTO 21002KT 9999 OVC041 00/M01 Q1030 BLU EHMA 152025Z AUTO 24006KT 9999 OVC041 02/01 Q1029 EHMG 152025Z AUTO 01006KT 330V040 9999 OVC036 04/M05 Q1030 EHPG 152025Z AUTO 24004KT 200V290 9999 OVC038 05/M02 Q1030 EHQE 152025Z AUTO VRB07KT 7000 -SNRA FEW005 SCT014 BKN016 03/00 Q1029 EHRD 152025Z AUTO VRB02KT 9999 OVC044 02/M00 Q1030 NOSIG EHSA 152025Z AUTO 09007KT 9999 ///////// 05/M05 Q1030 W06/H7 EHSC 152025Z AUTO VRB02KT 9999 ///////// 05/M01 Q1030 W07/H5 EHVK 152025Z AUTO 23003KT 9999 OVC046 00/M01 Q1030 BLU EHVL 152025Z AUTO 18003KT 9999 OVC038 01/01 Q1029 BLU EHWO 152025Z AUTO 24001KT 9999 OVC047 00/M01 Q1030 BLU EICK 152030Z 19017KT 2000 RA BKN002 BKN003 09/09 Q1016 TEMPO 1200 BKN001 EIDL 151930Z 17031KT 9000 RA FEW016 SCT023 08/06 Q1010 EIDW 152030Z 15014KT 9999 -RA FEW012 BKN017 BKN050 08/06 Q1017 NOSIG EIKN 151100Z 15008KT 9999 FEW003 SCT027 BKN080 02/02 Q1023 NOSIG EIKY 151930Z 18015KT 9999 RA OVC034 11/09 Q1014 EIME 152000Z 19025G38KT 9999 FEW012 BKN060 BKN100 09/05 Q1017 EINN 152030Z 16015KT 9999 -RA FEW014 BKN032 10/08 Q1013 TEMPO BKN012 EISG 151700Z 14018G33KT 110V170 9999 OVC017 08/06 Q1014 EIWF 152030Z 17015KT 4000 -RA BKN003 08/08 Q1019 R21/1///// EKAH 152020Z AUTO 32006KT 9999 BKN022/// M02/M05 Q1027 R99/720294 EKBI 152020Z AUTO 33002KT 9999 BKN027/// M02/M05 Q1028 R09/71//95 EKCH 152020Z 03006KT 9999 BKN026 M04/M06 Q1026 NOSIG EKEB 152020Z AUTO 22002KT 9999 BKN035/// M02/M04 Q1028 EKKA 152020Z AUTO 36002KT 9999 NCD M06/M07 Q1028 R27L/0///95 EKOD 151550Z 32006KT 9999 BKN030 M01/M04 Q1028 EKRK 152020Z AUTO 36008KT 9999 BKN028/// M02/M07 Q1026 R99/790591 R99/720594 EKRN 152020Z AUTO 36005KT 320V050 9999 OVC025/// M03/M08 Q1024 R99/710195 EKRS 152020Z AUTO VRB02KT 9999 OVC030/// M01/M04 Q1026 EKSB 152020Z AUTO 28004KT 230V330 9999NDV OVC031/// M00/M05 Q1028 EKSN 151350Z 34006KT 9999 BKN022 M01/M05 Q1028 R08/420293 EKSP 152020Z 26003KT 9999 OVC033 M02/M05 Q1028 EKVD 152020Z AUTO 28003KT //// ///////// M02/M04 Q1028 EKVG 152020Z AUTO 12017KT 9999 SCT019/// 05/04 Q1012 EKVJ 151450Z 27002KT 9999 BKN035 M01/M04 Q1028 EKYT 152020Z AUTO 00000KT 9999 NCD M04/M07 Q1028 R26L/290195 ELLX 152020Z 36006KT CAVOK M03/M05 Q1027 NOSIG ENAL 152020Z 15007KT CAVOK M03/M06 Q1027 ENAN 152020Z 26009KT 9999 VCSH FEW035 BKN047 03/M01 Q1022 ENAT 152020Z 31012KT 9999 -RA FEW008 SCT021 BKN026 02/M00 Q1017 RMK WIND 700FT 32016KT ENBL 152020Z 28004KT CAVOK M11/M14 Q1026 ENBN 152020Z 10004KT 060V150 9999 VCSH FEW006 SCT015 BKN040 00/M01 Q1027 ENBO 152020Z 18006KT 9999 SCT020 BKN040 02/00 Q1025 TEMPO 4000 -SHRASN VV012 ENBR 152020Z 14004KT CAVOK M07/M08 Q1027 NOSIG RMK WIND 1200FT 14009KT ENBS 152020Z 34011KT 7000 -SHSN SCT020 BKN024 00/M01 Q1011 ENBV 152020Z 32014KT 9999 VCSH FEW010 SCT018 BKN32 03/00 Q1011 ENCN 152020Z AUTO 05006KT 9999 NCD M11/M12 Q1029 ENDR 240620Z AUTO 08/05 Q0997 ENDU 152020Z 25004KT 9999 FEW025 SCT045 M00/M01 Q1021 RMK WIND 1100FT 26011KT WIND 2200FT 28018KT ENEV 152020Z VRB02KT 9999 SCT010 BKN036 M01/M02 Q1023 RMK WIND 1400FT 24010KT ENFB 152020Z AUTO 15026KT 9999NDV OVC023/// ///// Q//// W///S4 ENFL 152020Z 10011KT 9999 FEW025 BKN030 M01/M06 Q1027 ENGC 152020Z 17019KT 9999 OVC020 04/01 Q1024 W07/S4 ENGK 151450Z 34003KT CAVOK M07/M10 Q1028 ENGM 152020Z VRB02KT 9999 FEW003 M15/M16 Q1027 TEMPO BKN002 ENHD 152020Z AUTO 11011KT 9999 NCD M04/M05 Q1028 ENHE 152020Z 21010KT 9999 FEW021 04/M02 Q1026 W///S4 ENHF 152020Z VRB11G24KT 9999 VCSH FEW009 SCT016 BKN021 02/M00 Q1015 RMK WIND 1254FT 31033KT ENHK 151950Z 33014KT 9999 VCSH SCT014 BKN025 03/00 Q1017 ENHM 152020Z AUTO 17027KT 9999NDV FEW017/// SCT030/// BKN035/// 05/02 Q1024 W08/S4 ENHV 152020Z 31018KT 9999 FEW008 SCT014 BKN024 03/00 Q1014 ENKB 152020Z 10005KT 050V130 CAVOK M05/M09 Q1027 RMK WIND 745FT 14015KT ENKR 152020Z VRB02KT 9999 FEW014 BKN059 M01/M03 Q1012 RMK WIND 731FT 30009KT ENLA 152020Z AUTO 16012KT 9999NDV SCT044/// 04/M02 Q1027 W///S3 ENLE 152020Z 17007KT 9999 FEW040 03/M05 Q1028 W07/S3 ENLK 152020Z 36004KT 9999 FEW015 BKN035 01/00 Q1024 ENMH 151820Z 30012KT 9999 -SHRA BKN016 02/M00 Q1012 ENML 152020Z 03009KT 9999 FEW020 M07/M09 Q1027 ENMS 152020Z 16002KT 9999 FEW018 BKN027 M07/M08 Q1026 RMK WIND 412FT VRB02KT ENNA 152020Z 34011KT 9999 FEW028 SCT044 BKN055 02/M02 Q1016 RMK WIND 1800FT 29028KT ENNE 152020Z AUTO 28008KT 9999NDV BKN033/// 04/00 Q1026 W///S4 ENNM 152020Z 06008KT 4500 -SN FEW014 BKN020 M07/M08 Q1028 ENNO 151750Z 29002KT CAVOK M18/M20 Q1030 ENOA 152020Z 16019KT 9999 SCT025 BKN040 04/M01 Q1025 W///S4 ENOL 152020Z 12010KT 9999 FEW012 BKN050 M03/M06 Q1028 NOSIG ENOV 151920Z 00000KT CAVOK M15/M17 Q1027 RMK WIND 2175FT 16006KT ENQA 152020Z AUTO 16017KT 9999NDV FEW018/// BKN048/// 03/M01 Q1026 W03/S4 ENQC 152020Z AUTO 15016KT 9999NDV OVC046/// 04/M02 Q1026 W///S4 ENQR 152020Z AUTO 14024KT 9999NDV -DZ OVC023/// 05/00 Q1024 W///S4 ENRA 152020Z 33002KT 9999 SCT006 BKN010 M07/M09 Q1026 ENRM 152020Z 15007KT 9999 VCSH BKN004 M00/M00 Q1027 ENRO 152020Z 29003KT 250V340 9999 FEW005 BKN019 M17/M19 Q1024 ENRS 151920Z 21006KT 9999 SCT045 01/M01 Q1025 ENRY 152020Z AUTO 36002KT 9999NDV NCD M11/M13 Q1028 ENSB 152020Z 12005KT 9999 BKN009 BKN014 M06/M08 Q1010 RMK WIND 1400FT /////KT ENSD 152020Z 15004KT 080V190 9999 FEW010 M07/M08 Q1028 RMK WIND 1138FT 04003KT ENSE 152020Z AUTO 15023KT 9999NDV -RA OVC016/// 05/01 Q1024 W///S4 ENSF 152020Z AUTO 15026KT 9999NDV OVC024/// 07/00 Q1024 W///S4 ENSG 152020Z 00000KT 0900 FZFG FEW000 M14/M15 Q1025 RMK WIND 3806FT 07004KT ENSH 152020Z 34006KT 9999 VCSH FEW018 SCT046 01/00 Q1024 RMK WIND 150FT 31005KT ENSK 151920Z VRBKT 9999 -SHSN FEW008 SCT015 BKN035 01/01 Q1024 ENSL 152020Z AUTO 18025KT 9999NDV SCT021/// 06/01 Q1025 W05/S3 ENSO 151550Z 10007KT CAVOK M03/M06 Q1028 ENSR 151857Z 28008KT 9000 -SHRASN FEW020 SCT030 BKN040 03/M00 Q1019 RMK WIND 1119FT 30022KT ENSS 152020Z 27008KT 9999 5000NW VCSH SCT021 BKN045 00/M01 Q1011 RMK WIND 500FT 27010KT ENST 151950Z 13004KT 9999 VCSH FEW014 SCT030 BKN040 01/M00 Q1026 RMK WIND 300FT 17008KT ENTC 152020Z 21004KT 9999 VCSH FEW006 SCT014 BKN043 01/M00 Q1021 RMK WIND 2600FT 30021KT ENTO 151950Z 35005KT CAVOK M11/M13 Q1028 NOSIG ENUG 152020Z AUTO 31017G29KT 280V030 9999NDV FEW021/// SCT053/// 03/M02 Q1014 W///S5 ENUN 152020Z AUTO 23010KT 9999NDV FEW021/// BKN040/// 04/M01 Q1024 W07/S/ ENVA 152020Z 11005KT 9999 SCT038 BKN048 M07/M09 Q1028 NOSIG RMK WIND 670FT VRB03KT ENVD 151950Z 30008KT 9999 FEW012 SCT040 SCT060 M01/M03 Q1012 ENVR 151350Z 27007KT 200V330 9999 VCSH FEW008 SCT025 OVC040 03/M01 Q1026 ENWV 152020Z AUTO 17009KT 9999NDV -SHRA SCT041/// 04/M04 Q1028 W///S3 ENZV 152020Z VRB06KT CAVOK M07/M09 Q1028 NOSIG EPBY 152030Z 31009KT 9999 FEW014 BKN034 M03/M06 Q1020 EPGD 152030Z 32007KT 9999 FEW012CB SCT026 M04/M05 Q1018 R11/590395 EPKK 152030Z 27007KT 4000 -SHSN BKN025CB BKN040 M05/M07 Q1018 RESHSN R25/52//94 EPKT 152030Z 33008KT 290V350 7000 -SHSN FEW004 SCT007CB BKN009 M04/M06 Q1018 RESHSN R09/550393 EPLB 152030Z 34009KT 9999 FEW011 M12/M12 Q1017 EPLL 152030Z 32005KT 9999 BKN040 M06/M10 Q1019 R25/59//92 EPMO 152030Z 28005KT 6000 NSC M12/M13 Q1018 R08/520194 EPPO 152030Z 32008KT CAVOK M03/M05 Q1021 EPRA 151300Z 28010KT CAVOK M05/M07 Q1016 EPRZ 152030Z 28011KT 8000 -SHSN SCT015CB BKN023 M05/M08 Q1015 EPSC 152030Z 30010KT 9999 FEW008 BKN036 M03/M04 Q1024 R13/71//95 EPSY 152030Z VRB02KT CAVOK M16/M17 Q1018 EPWA 152030Z 30005KT 270V330 9999 SCT020 M10/M13 Q1018 R33/25//95 NOSIG EPWR 152030Z 33008KT 9999 -SN FEW007 BKN011 M02/M04 Q1021 R11/690293 EPZG 152030Z 30006KT 260V350 9999 -SN FEW024 M03/M06 Q1023 EQBK 151956Z AUTO 00000KT 9999 OVC040 M03/M06 A3002 RMK AO2 SLP188 WND DATA ESTMD T10261058 EQPH 211000Z AUTO 12004KT 030V180 9999 NCD 16/06 Q1023 EQYA 151956Z AUTO 34005KT 9999 -SN OVC019 M04/ A3025 RMK AO2 SLP273 $ EQYB 151956Z AUTO 33004KT 9999 -SN OVC026 M04/M05 A3025 RMK AO2 SLP264 T10371055 $ EQYC 151956Z AUTO 00000KT 6000 -SN BKN012 M03/M04 A3024 RMK AO2 SHSNE39SNB39 SLP269 T10271040 $ EQYD 151956Z AUTO 00000KT 9999 -SHSN FEW012 BKN049 M04/M05 A3024 RMK AO2 SHSNE1857SHSNB1859 SLP281 T10391051 $ EQYE 151956Z AUTO 33005KT 9999 -SN OVC026 M02/M05 A3026 RMK AO2 SHSNE07SNB07 SLP295 T10241052 $ EQYF 151956Z AUTO 00000KT 8000 -SHSN SCT014 BKN038 BKN055 M02/M04 A3022 RMK AO2 SHSNE04SHSNB22E27SHSNB40 SLP246 T10251040 $ EQYK 151956Z AUTO 07005KT 9999 -RA BKN048 OVC060 11/11 A2990 RMK AO2 RAE03RAB08 SLP129 P0001 T01100110 $ EQYL 151956Z AUTO 20018G31KT 9999 -DZ SCT012 OVC027 M A3018 RMK AO2 PK WND 18031/47 DZB00E07DZB13E24FZDZB24E26DZB52 CIG 014 RWY15 SLPNO ALSTG ESTMD P0005 $ EQYQ 171555Z 00000KT 7SM OVC014 05/02 A3033 RMK AO2A SLP281 WND DATA ESTMD T00470022 EQYT 151956Z AUTO 00000KT 9999 -SHSN M M06/ A3024 RMK AO2 SHSNE05SHSNB07E22SHSNB52 SLP297 $ EQYV 151956Z AUTO 36003KT 9999 CLR 01/M12 A3011 RMK AO2 SLP205 T00051119 $ ESCF 152020Z AUTO 25003KT 180V270 9999 BKN022/// M12/M13 Q1025 ESCM 152020Z AUTO 31004KT 9999 OVC170/// M09/M11 Q1023 ESDF 152020Z AUTO 34006KT 9999 NCD M09/M10 Q1024 ESGG 152020Z 36005KT 9999 OVC007 M08/M09 Q1026 R03/19//95 ESGJ 152020Z AUTO 32009KT 9999 BKN010/// M10/M11 Q1024 ESGR 152020Z AUTO 19002KT 9999 NCD M15/M17 Q1026 ESGT 152020Z AUTO 35004KT 9999 NCD M10/M12 Q1027 ESIA 152020Z AUTO 27005KT 9999 NCD M10/M12 Q1025 ESIB 152020Z AUTO VRB01KT 9999 SCT016/// M06/M06 Q1027 ESKM 152020Z AUTO 00000KT 9999 NCD M17/M17 Q1025 ESKN 152020Z 30007KT 9999 SCT020 M09/M11 Q1024 R26/910195 ESKS 152020Z AUTO 33003KT 270V360 9999 NCD M15/M16 Q1023 ESMK 152020Z AUTO 29004KT 9999 NCD M10/M11 Q1025 ESMQ 152020Z AUTO 34008KT 9999 NCD M09/M11 Q1024 ESMS 152020Z 01004KT CAVOK M09/M11 Q1025 R17/710195 ESMT 152020Z AUTO 34002KT 9999 NCD M09/M11 Q1026 ESMX 152020Z AUTO 33006KT 9999 OVC013/// M10/M11 Q1024 RESG ESND 152020Z AUTO 28005KT 9999 NCD M20/M22 Q1024 ESNG 152020Z 31005KT CAVOK M13/M14 Q1019 ESNK 152020Z AUTO 35004KT 9999 NCD M18/M20 Q1024 ESNL 152020Z AUTO 30002KT 9999 NCD M19/M21 Q1022 ESNN 152020Z AUTO 33011KT 9999 NCD M08/M10 Q1023 ESNO 152020Z AUTO 32012KT 9999 NCD M04/M06 Q1021 ESNQ 152020Z AUTO 33006KT 9999 FEW160/// M02/M05 Q1018 ESNS 152020Z AUTO 28008KT 9999 FEW059/// M07/M08 Q1020 ESNU 152020Z 32006KT CAVOK M05/M06 Q1020 R14/72//39 ESNV 152020Z AUTO VRB01KT 9999 VV001 M23/M26 Q1022 ESNX 152020Z AUTO 31006KT 9999 NCD M11/M12 Q1020 ESNZ 152020Z AUTO 27005KT 9999 NCD M10/M10 Q1023 ESOE 152020Z 25005KT CAVOK M10/M11 Q1025 ESOH 152020Z AUTO VRB02KT 9999 NCD M17/M19 Q1026 ESOK 152020Z AUTO 31005KT 9999 NCD M12/M12 Q1026 ESOW 152020Z AUTO 29003KT 9999 OVC160/// M09/M12 Q1024 ESPA 152020Z AUTO 32011KT 9999 OVC056/// M05/M06 Q1019 ESPE 152020Z AUTO 27002KT 9999 NCD M15/M17 Q1021 ESSA 152020Z 30006KT CAVOK M08/M10 Q1022 R01R/520163 R08/420167 NOSIG ESSB 152020Z 29007KT 9999 BKN009 M06/M08 Q1023 R12/690161 ESSD 152020Z AUTO 30007KT 9999 SCT160/// M09/M11 Q1024 ESSL 152020Z AUTO 30005KT 280V340 9999 BKN021/// M10/M11 Q1025 ESSP 152020Z AUTO 30004KT 9999 BKN020/// OVC160/// M08/M10 Q1025 R27/41//95 ESST 152020Z AUTO 34003KT 9999 NCD M17/M18 Q1027 ESSV 152020Z AUTO 35014KT 9999 OVC016/// M02/M05 Q1021 ESTA 152020Z AUTO 01004KT 9999 NCD M10/M12 Q1026 ESTL 152020Z AUTO 00000KT 9999 BCFG NCD M11/M12 Q1026 ESUP 152020Z AUTO VRB03KT 9999 SCT050/// M07/M08 Q1019 ESUT 152020Z AUTO 32013KT 9999 NCD M02/M06 Q1022 ETAD 151956Z AUTO 00000KT 9999 OVC038 M01/M05 A3034 RMK AO2 SLP289 T10121052 ETAR 151956Z AUTO 00000KT 9999 OVC048 M01/M01 A3034 RMK AO2 SLP294 T10091009 FZRANO ETEB 152024Z COR 28004KT 9999 -SN BKN020 OVC047 M02/M02 A3026 RMK AO2 SNE00SNB24 CIG 020V047 SLP297 FZRANO $ COR 2026 ETEK 062056Z AUTO 00000KT 9999 OVC029 M01/M02 A2993 RMK AO2 SLP042 T10131020 50001 $ ETGG 152020Z AUTO 30008KT 9999 // ////// M00/M06 Q1028 /// ETHA 152020Z AUTO 25004KT //// // ////// M06/M07 Q1023 /// ETHB 152020Z AUTO 03004KT 8000 // ////// M01/M06 Q1028 /// ETHC 152020Z AUTO 01005KT 9999 // ////// M02/M06 Q1028 /// ETHF 152020Z AUTO 35006KT 9999 // ////// M01/M04 Q1027 /// ETHL 152020Z 22003KT 6000 -SN BKN011 M05/M07 Q1025 GRN ETHN 152020Z 31004KT 9000 -SN SCT032 BKN048 M03/M03 Q1025 BLU ETHS 152020Z 31004KT 9999 OVC029 M03/M07 Q1028 BLU ETIC 151956Z AUTO 30003KT 9999 -SN OVC041 M A3022 RMK AO2 SLPNO ALSTG ESTMD P0000 $ ETIH 151956Z AUTO 29003KT 9999 FEW020 OVC055 M02/M05 A3024 RMK AO2 SLP280 T10191051 ETIK 152021Z AUTO 28006KT 9999 FEW028 SCT034 OVC048 M01/M01 A3030 RMK AO2 UPB04E21 SLP286 $ ETML 152020Z AUTO 31013KT //// // ////// 00/M05 Q1027 /// ETMN 152020Z 01003KT 9999 BKN033 M01/M06 Q1029 BLU ETND 151020Z 33003KT 6000 -SN SCT010 BKN040 00/M00 Q1027 WHT ETNG 151550Z 30002KT 9999 BKN046 01/M01 Q1028 NOSIG ETNH 152020Z 28006KT 9999 BKN030 M02/M07 Q1028 BLU ETNL 152020Z 32006KT 9999 BKN035 M02/M07 Q1026 BLU ETNN 152020Z 27005KT 9999 FEW020 BKN040 00/M02 Q1029 BLU ETNS 152020Z AUTO 31005KT 9999 // ////// M02/M06 Q1028 /// ETNT 152020Z AUTO 25002KT 8000 // ////// M01/M04 Q1029 /// ETNW 152020Z AUTO 02005KT 9999 // ////// M01/M06 Q1028 /// ETOU 151956Z AUTO 31004KT 9999 OVC050 01/M04 A3035 RMK AO2 SLP288 T00091038 ETSB 152020Z AUTO 33004KT 5000 // ////// M02/M06 Q1026 /// ETSH 152020Z 35007KT 9999 -SN FEW015 BKN033 M02/M06 Q1025 BLACKBLU ETSI 152020Z AUTO 32004KT 6000 // ////// M01/M04 Q1025 /// ETSL 152020Z AUTO 22005KT 4700 // ////// M04/M06 Q1024 /// ETSN 152020Z 28004KT 9999 SCT025 BKN050 M01/M04 Q1025 BLU ETWM 152020Z AUTO 00000KT //// // ////// M01/M03 Q1029 /// EVLA 152020Z AUTO 05003KT 9999 OVC058 M08/M11 Q1019 EVRA 152020Z 05005KT 6000 -SN OVC018 M11/M13 Q1017 R36/490393 NOSIG EVVA 152020Z AUTO 05009KT 9999 SCT026 BKN060 M06/M09 Q1019 EYKA 152020Z 31004KT 280V340 9000 NSC M16/M19 Q1016 R08/490395 EYPA 152020Z 04004KT CAVOK M09/M12 Q1019 R01/1///95 EYSA 152020Z 33003KT 9999 -SN FEW024 OVC030 M14/M15 Q1017 R14L/690195 R14R/690195 BLU TEMPO BKN024 WHT EYVI 152020Z 33006KT 9999 SCT002 BKN010 M17/M19 Q1013 R01/0///95 NOSIG FABL 152000Z AUTO 14002KT 9999 -RA ///////// 18/18 Q1015 FABM 151126Z 20003KT 9999 SCT020 BKN090 19/17 Q1017 RETS FACT 152000Z 32011KT 9999 FEW020 BKN035 18/16 Q1010 NOSIG FACV 150654Z 24014KT 9999 FEW020 18/12 Q1012 FADY 131728Z 12018KT 5000 TSRA FEW020TCU FEW030CB SCT100 19/17 Q1020 RETS FAEL 151700Z 25015KT 9999 -RA FEW022 BKN049 23/19 Q1005 FAEO 150806Z 35008KT 9999 BKN015 22/17 Q1020 FAGG 152000Z AUTO 31005KT 9999 FEW038/// OVC044/// 19/16 Q1008 FAGM 150900Z 01013KT 9999 BKN020 23/15 Q1032 FAHS 152000Z AUTO 30002KT //// // ////// 26/22 Q1010 FAIR 150546Z 01007KT 9999 BKN020 21/18 Q1019 FAJB 200300Z AUTO 00000KT //// // ////// 16/15 Q1022 FAKM 152000Z AUTO 08001KT //// // ////// 17/17 Q1014 FAKN 152000Z AUTO 02008KT //// // ////// 25/19 Q1014 FALA 152000Z AUTO 00000KT //// // ////// 23/18 Q1015 FALE 152000Z VRB02KT 9999 -RA NSC 24/22 Q1003 NOSIG FALW 152000Z AUTO 31003KT //// // ////// 20/16 Q1010 FAMM 152000Z AUTO 22005KT //// // ////// 24/18 Q1014 FAOB 152000Z AUTO 32012KT //// // ////// 20/11 Q1008 FAOR 152000Z 30002KT CAVOK 21/16 Q1018 NOSIG FAPE 152000Z AUTO 25021KT 9999 SCT250/// 22/17 Q1004 NOSIG FAPP 152000Z AUTO 05005KT //// // ////// 22/19 Q1014 FASB 150954Z AUTO 25007KT //// // ////// 19/13 Q1014 FASI 151900Z AUTO 21001KT //// // ////// 20/17 Q1020 FAUP 152000Z AUTO 29005KT //// // ////// 24/17 Q1010 FAUT 152000Z AUTO 24003KT //// // ////// 20/19 Q1010 FAVV 152000Z AUTO 07002KT //// // ////// 20/19 Q1018 FAWB 152000Z AUTO 14002KT //// // ////// 22/20 Q1013 FAWK 152000Z AUTO 25002KT //// // ////// M38/M52 Q1016 FBFT 151600Z 09004KT 050V110 9999 FEW025 FEW030CB BKN065 23/21 Q1010 FBKE 151800Z 07003KT 9999 SCT030 FEW035CB SCT070 22/22 Q1011 FBMN 152000Z 33003KT 9999 FEW030CB SCT065 23/23 Q1011 FBSK 152000Z 11003KT CAVOK 26/18 Q1011 NOSIG FBSP 151800Z 00000KT 9999 BKN025 FEW030CB 23/22 Q1010 FCBB 152000Z 22003KT 9000 NSC 26/22 Q1011 NOSIG FCPP 152000Z 23004KT 9000 FEW010 FEW030CB 27/26 Q1009 NOSIG FDBB 151600Z AUTO 08010KT //// // ////// 35/23 Q1001 FDMS 130800Z 00000KT 9999 SCT025 BKN035 24/21 Q1018 NOSIG FDMY 151400Z AUTO 07004KT //// // ////// 35/20 Q1014 FDOT 151600Z AUTO 01005KT //// // ////// 35/15 Q1004 FDPP 151400Z AUTO 05010KT //// // ////// 31/19 Q1012 FDSK 151300Z 05013KT 9999 SCT035 34/18 Q1005 NOSIG FDST 151600Z AUTO 28012KT //// // ////// 25/19 Q1007 FEFF 152000Z 32002KT 3000 FU NSC 26/21 Q1008 NOSIG FEFT 151000Z 24012KT 9999 SCT025 26/21 Q1013 FGBT 152000Z 00000KT 9999 FEW010 27/26 Q1009 FGSL 152000Z 24005KT 9999 FEW010 26/23 Q1010 NOSIG FHAW 131150Z 14015KT 9999 FEW024 27/20 Q1015 NOSIG FIMP 152000Z 08008KT 9999 BKN017 26/25 Q1012 FIMR 031600Z 11017KT 9999 BKN017 23/19 Q1019 FJDG 151955Z 30009KT 9999 FEW020 SCT080 SCT250 27/25 A2974 RMK SLP068 T02720253 FKKD 152000Z VRB02KT 9999 SCT013 FEW016CB 26/26 Q1009 NOSIG FKKL 151600Z 04006KT 010V080 CAVOK 32/04 Q1010 FKKN 041200Z 04006KT CAVOK 32/04 Q1013 FKKR 152000Z 02003KT 7000 NSC 23/05 Q1010 NOSIG FKYS 152000Z 00000KT 8000 FEW010 23/21 Q1014 NOSIG FLHN 151100Z 07003KT 9000 TSRA FEW025CB SCT025 BKN100 28/21 Q1011 FLKK 151900Z 28004KT 9999 LIT FEW050CB SCT100 21/19 Q1015 FLMF 051600Z 0518/0624 03005KT 9999 FEW///CB BECMG 0604/0606 VRB04KT BKN010 BECMG 0608/0610 BKN040TCU PROB40 TEMPO 0612/0617 -SHRA FEW045CB FLND 051600Z 0518/0624 VRB03KT 9000 -SHRA FEW///CB BKN090 PROB40 TEMPO 0520/0601 34005KT -RA PROB40 TEMPO 0603/0707 33005KT -RADZ BKN009 BECMG 0608/0610 BKN035 FMCH 220700Z 32008KT 9999 FEW020 31/23 Q1013 NOSIG FMCZ 152030Z AUTO 33004KT CAVOK 26/23 Q1009 NOSIG FMEE 152030Z AUTO 11006KT 9999 BKN042 BKN049 OVC060 27/23 Q1010 TEMPO 4000 SHRA FEW023TCU BKN026 FMEP 152030Z AUTO 29005KT 260V320 9999 SCT014 27/25 Q1010 FMMI 152030Z 14007KT 110V170 9999 VCTS SCT017CB 21/18 Q1017 NOSIG FMMS 151500Z 12006KT 9999 FEW020 30/24 Q1008 FMMT 152000Z 32005KT 9999 SCT017 SCT033 26/23 Q1011 NOSIG FMNA 151500Z 26008KT 9999 SCT020CB 28/26 Q1007 FMNM 152000Z VRB02KT 9999 FEW020CB 28/25 Q1009 FMNN 151500Z 24004KT 9999 SCT020CB 29/// Q1007 FMSD 152000Z 08016KT 9999 FEW016 27/25 Q1008 FNCA 151400Z 33006KT 9999 FEW020 FEW023CB 31/22 Q1008 FNCT 151400Z 28010KT 9999 SCT100 29/21 Q1008 FNDU 131000Z 00000KT 9999 SCT020 ///// Q//// FNGI 151600Z 21005KT CAVOK 32/06 Q1010 FNHU 151400Z 29007KT 9999 BKN080 27/10 Q1017 FNKU 151400Z 05010KT 9999 SCT017 26/08 Q1015 FNLU 152000Z 22007KT CAVOK 26/22 Q1008 NOSIG FNMA 151400Z 26006KT 9999 BKN012 30/26 Q1011 FNMN 240500Z 06006KT CAVOK 23/08 Q1018 FNMO 151300Z 24015KT CAVOK 30/16 Q1008 FNSA 151400Z 36005KT 9999 SCT030 28/18 Q1016 FNSO 131300Z 26011KT 9999 SCT014 FEW017CB ///// Q//// FNSU 151400Z 25006KT CAVOK 29/// Q1010 FNTC 031600Z 26006KT 9999 BKN015 27/23 Q1009 FNUB 151200Z 32014KT 9999 FEW030 26/// Q1020 FNUE 151400Z 00000KT 9999 SCT030 28/19 Q1015 FNUG 151600Z 27008KT 9999 SCT028 31/17 Q1009 FOGM 311500Z /////KT 9999 SCT013 BKN026 29/25 Q//// FOGO 151400Z /////KT 9999 SCT015 28/24 Q//// FOGR 151500Z /////KT 9999 SCT012TCU FEW020CB 33/25 Q//// FOOB 061500Z /////KT 9999 SCT011 OVC026 23/20 Q1009 FOOG 152000Z VRB02KT 9999 FEW010 FEW020CB 27/24 Q1010 FOOK 151100Z /////KT 9999 SCT012 OVC020 26/22 Q//// FOOL 152030Z 22006KT 9999 SCT011 28/25 Q1010 NOSIG FOON 151900Z 32006KT 9999 TS FEW015 FEW020CB 26/25 Q1010 FOOR 151500Z /////KT 9999 SCT005 28/23 Q//// FOOT 151400Z VRB02KT 9999 SCT011 BKN040 32/22 Q//// FPST 152000Z 22004KT 9999 FEW020CB SCT040 26/24 Q1010 NOSIG FQBR 152000Z 01008KT 350V060 9999 SCT018 BKN030CB BKN070 27/26 Q1008 RMK CB TO NE FQCB 092100Z 27004KT 9999 BKN015 FEW020CB 22/22 Q1014 RMK CB TO ALL/D FQCH 151400Z 11010KT 9999 TS BKN015 SCT020CB 28/25 Q1012 RMK CB TO ALL/D FQIN 151900Z 06004KT 9999 FEW020 28/26 Q1006 FQLC 152000Z 33005KT 9999 BKN012 BKN016 FEW020CB 19/19 Q1018 RMK DIST LIT TO SE/SW/W FQMA 152000Z 01007KT CAVOK 29/23 Q1006 NOSIG FQNC 151300Z 04016KT 9999 FEW020 30/24 Q1006 RMK TX31.3 TM26.6 R0.0MM FQNP 152000Z 02008KT CAVOK 25/22 Q1011 FQPB 152000Z 05011KT 9999 FEW020 SCT/// 28/26 Q1009 FQQL 152000Z 27011KT 9999 -RA BKN018 FEW025CB BKN/// 25/24 Q1010 RMK CB TO SW/W/N FQTT 152000Z 11003KT 9999 BKN020 SCT100 24/24 Q1010 FQVL 151500Z /////KT 9999 BKN020 BKN025 28/26 Q//// FSIA 152000Z VRB02KT 9999 FEW018 26/23 Q1010 NOSIG FTTA 152000Z 00000KT CAVOK 23/14 Q1010 FTTC 151500Z 00000KT CAVOK 33/// Q1010 FTTD 151200Z 00000KT CAVOK 37/11 Q1010 FTTJ 152000Z 30004KT 8000 NSC 24/04 Q1011 NOSIG FTTY 151000Z 04012KT CAVOK 24/// Q//// FVCZ 041200Z 00000KT CAVOK 27/22 Q1018 FVFA 080700Z 36007KT 320V040 9999 -RA SCT006 FEW035CB BKN045TCU 21/20 Q1016 NOSIG FVJN 080700Z 10008KT 9999 BKN020 22/18 Q1019 NOSIG FVMV 041200Z 33007KT 9999 -TSRA FEW///CB SCT020 OVC080 20/18 Q1020 TEMPO 8000 FVRG 151900Z 07006KT 9999 FEW020CB BKN080 19/18 Q1017 NOSIG FWCL 151400Z 03007KT 9999 FEW028CB SCT030 BKN080 25/19 Q1011 NOSIG FWKI 151500Z 27006KT 9999 FEW027CB SCT100 24/18 Q1013 NOSIG FXMM 151200Z 00000KT 9999 SCT015 FEW030CB BKN070 23/18 Q1016 NOSIG FYGB 152000Z AUTO 10002KT //// // ////// 22/19 Q1016 FYGF 152000Z AUTO 26005KT //// // ////// 20/19 Q1016 FYKM 152000Z AUTO 29001KT //// // ////// 21/21 Q1012 FYKT 151600Z 22012KT 9999 FEW040CB 29/16 Q1011 FYLZ 152000Z AUTO 19011KT //// // ////// 21/15 Q1012 FYML 152000Z AUTO 17007KT //// // ////// 24/20 Q1014 FYOA 152000Z AUTO 00000KT //// // ////// 26/09 Q1010 FYOO 152000Z AUTO 35004KT //// // ////// 26/13 Q1013 FYOW 152000Z AUTO 23005KT //// // ////// 21/14 Q1015 FYRU 151800Z 00000KT 9999 FEW045 BKN080 ///// Q1015 FYWB 152000Z AUTO 25008KT //// // ////// 21/16 Q1013 FYWE 151500Z 00000KT 6000 -RA BKN008 SCT030CB 19/17 Q1016 FYWH 151000Z 15003KT 9999 BKN020TCU 23/18 Q1018 NOSIG FYWW 152000Z AUTO 22004KT //// // ////// 18/16 Q1017 FZAA 151600Z 27010KT 8000 FEW022 32/19 Q1008 NOSIG FZIC 150600Z 00000KT 3000 BR NSC 21/20 Q1013 NOSIG FZNA 150800Z 27006KT 5000 HZ SCT014 FEW018CB BKN100 19/17 Q1022 NOSIG FZQA 150700Z 31016G20KT 9999 SCT008 BKN080 21/17 Q1017 NOSIG FZQM 170910Z 29007KT 9999 BKN017TCU 26/18 Q1021 NOSIG FZRF 150700Z 31004KT 9999 FEW005 FEW028CB BKN100 22/20 Q1019 NOSIG FZWA 150800Z 09004KT 9999 SCT014 BKN110 23/20 Q1015 NOSIG GABS 152030Z 05007KT CAVOK 25/M02 Q1014 NOSIG GAKD 151800Z 04010KT 6000 NSC 33/M01 Q1011 GAKO 271500Z 06010KT CAVOK 33/04 Q1007 GAMB 151800Z 36010KT CAVOK 29/03 Q1011 GANK 121200Z 08008KT CAVOK 34/02 Q//// GANR 151800Z 02008KT CAVOK 30/M01 Q1013 GBYD 152000Z 32005KT 9000 NSC 26/15 Q1009 GCFV 152030Z 03016KT 9999 FEW028 BKN040 18/09 Q1026 GCGM 152030Z AUTO 32011KT 280V350 CAVOK 17/09 Q1026 RMK R09/VRB07KT ARP/35013G23KT 310V030 GCHI 152030Z AUTO 04014KT 9999 OVC045 18/11 Q1026 GCLA 152030Z 02011KT 340V070 9999 BKN045 18/09 Q1027 GCLP 152030Z 03019KT 9999 FEW030 BKN040 17/09 Q1026 NOSIG GCRR 152030Z 03009KT 9999 BKN040 17/09 Q1026 GCTS 152030Z 04008KT 9999 FEW045 17/08 Q1026 NOSIG GCXO 152030Z 01005KT 320V050 9999 FEW011 BKN022 12/09 Q1028 NOSIG GEML 152030Z AUTO 26003KT 230V320 CAVOK 10/04 Q1025 GFLL 141900Z 23008KT 6000 HZ SCT012 28/24 Q1008 GGOV 152000Z 36002KT 8000 NSC 27/13 Q1008 NOSIG GLRB 152030Z 00000KT 9999 BKN014 FEW024CB 27/25 Q1008 NOSIG RMK CB/NE-SE GMAD 152030Z 13005KT CAVOK 10/09 Q1024 NOSIG GMAG 151800Z 27006KT CAVOK 16/06 Q1023 NOSIG GMAT 151800Z 34013KT 9999 FEW016 SCT200 14/08 Q1023 NOSIG GMFF 152030Z 18007KT CAVOK 05/04 Q1027 NOSIG GMFK 152000Z 05003KT CAVOK 10/M14 Q1025 NOSIG GMFM 152000Z 17004KT CAVOK 04/02 Q1026 NOSIG GMFO 152030Z 18005KT CAVOK 05/02 Q1025 NOSIG GMMB 152000Z AUTO VRB01KT 7000NDV ////// 08/07 Q1026 NOSIG GMMC 151900Z 36002KT 9999 SCT016 12/08 Q1027 GMMD 151900Z 14008KT CAVOK 08/02 Q1026 NOSIG GMME 152030Z 00000KT 8000 NSC 07/06 Q1026 NOSIG GMMH 152000Z 01018KT 8000 NSC 16/09 Q1021 NOSIG GMMI 152000Z AUTO 06004KT //// ////// 10/07 Q1025 NOSIG GMML 152000Z 05015KT 9999 SCT030 15/08 Q1025 NOSIG GMMN 152030Z 04002KT 9999 SCT020 09/09 Q1027 NOSIG GMMW 152000Z 19005KT CAVOK 07/02 Q1025 NOSIG GMMX 152030Z 09004KT CAVOK 08/03 Q1025 NOSIG GMMZ 152000Z VRB02KT CAVOK 07/M05 Q1024 NOSIG GMTA 152000Z 20006KT CAVOK 10/06 Q1025 NOSIG GMTN 152000Z 25013KT 220V290 9999 FEW020 12/09 Q1025 NOSIG GMTT 152030Z VRB01KT CAVOK 08/07 Q1027 NOSIG GOBD 152030Z 36017KT 4800 DU NSC 21/18 Q1012 BECMG 6000 NSW GOGG 152000Z 00000KT CAVOK 26/16 Q1010 GOGK 151800Z 00000KT CAVOK 34/10 Q1008 GOGS 151900Z 36006KT CAVOK 29/16 Q1009 GOOD 151900Z 00000KT 8000 NSC 32/08 Q1011 GOOG 151800Z 04008KT CAVOK 35/15 Q//// GOOK 151800Z 08006KT CAVOK 35/08 Q1010 GOOY 152000Z 04008KT 8000 NSC 19/14 Q1013 GOSM 151900Z 08002KT CAVOK 28/07 Q1011 GOSP 151900Z 04002KT CAVOK 27/08 Q1012 GOSS 152000Z 36004KT 310V040 CAVOK 22/12 Q1012 GOTK 151800Z 10006KT 8000 NSC 36/00 Q1008 GOTT 152000Z 03006KT 7000 NSC 29/M01 Q1010 GQNI 111000Z 04024KT 1000 BLSA NSA 21/10 Q//// GQNO 152030Z 03007KT 6000 NSC 23/M08 Q1015 NOSIG GQPA 150900Z 36010KT 8000 NSC 14/M00 Q1022 GQPP 152000Z 05007KT CAVOK 19/07 Q1019 NOSIG GQPZ 020900Z 06010KT CAVOK 23/07 Q1017 GUCY 141400Z 18012KT 5000 HZ FEW015 31/24 Q1010 NOSIG GVAC 152000Z 06016KT 6000 NSC 21/15 Q1015 NOSIG GVBA 151900Z 06016KT 6000 NSC 22/15 Q1015 NOSIG GVNP 152000Z 03021KT 6000 NSC 22/17 Q1014 NOSIG GVSV 152000Z 06024KT 9000 FEW024 BKN200 22/15 Q1015 NOSIG HAAB 150600Z 11003KT 9999 FEW025 17/04 Q1027 HBBA 071500Z 18012KT 9999 FEW030TCU SCT100 29/19 Q1007 NOSIG HCGR 170800Z 02004KT 9999 SCT022 27/16 Q1018 HCMF 081400Z 02012KT CAVOK 25/18 Q1010 HCMM 081400Z 06018KT CAVOK 27/17 Q1005 HDAM 151900Z 00000KT 9999 FEW020 25/22 Q1015 HEAT 152000Z 36006KT CAVOK 13/06 Q1018 NOSIG HEAX 152000Z 19006KT 9999 SCT020 11/09 Q1014 NOSIG HEBA 152000Z 20006KT CAVOK 11/04 Q1015 NOSIG HEBL 152000Z 31004KT CAVOK 15/01 Q1016 NOSIG HECA 152030Z 18007KT CAVOK 16/05 Q1016 NOSIG HECP 151800Z 20006KT CAVOK 14/04 Q1016 NOSIG HEGN 152000Z 29007KT CAVOK 15/04 Q1015 NOSIG HEIS 210900Z 02008KT CAVOK 18/10 Q1021 HELX 152000Z 16003KT CAVOK 13/03 Q1016 NOSIG HEMA 152000Z 07009KT CAVOK 17/08 Q1015 NOSIG HEMM 152000Z 21007KT 9999 FEW020 14/05 Q1014 NOSIG HEPS 152000Z 18003KT CAVOK 15/11 Q1015 NOSIG HESC 152000Z 30005KT CAVOK 07/M00 Q1020 NOSIG HESG 152000Z 27004KT CAVOK 12/04 Q1015 NOSIG HESH 152000Z 29003KT CAVOK 18/06 Q1014 NOSIG HESN 041400Z NI HESW 210900Z 09009KT CAVOK 17/10 Q1022 HETR 210900Z 30013KT CAVOK 24/12 Q1018 HKEL 081800Z 00000KT 7000 -RA SCT014 FEW019CB BKN090 15/14 Q1023 HKJK 081700Z 04007KT 9999 -RA FEW030CB SCT032 BKN080 21/15 Q1018 NOSIG HKKI 071200Z 06010KT 9999 FEW025 27/10 HKML 090500Z 00000KT 9999 BKN022 26/22 Q1010 HKMO 090500Z 01007KT 9999 FEW022 26/23 Q1011 NOSIG HKNW 081800Z 00000KT 9999 -RA BKN021 BKN080 19/17 Q1018 HKWJ 081500Z 00000KT CAVOK 35/14 Q1004 HRYR 090500Z 00000KT 9999 BKN020 BKN090 17/16 Q1020 RERA NOSIG HSSS 152030Z 34012KT CAVOK 23/M03 Q1013 NOSIG HTAR 152000Z 00000KT 9999 FEW022 17/15 Q1018 NOSIG HTBU 152000Z 00000KT CAVOK 19/18 Q1016 HTDA 152000Z 03013KT 9999 SCT010 27/24 Q1010 NOSIG HTDO 152000Z 18010KT 9999 SCT023 FEW024CB SCT080 22/17 Q1017 RETSRA HTGW 091100Z 33009KT 9999 FEW009 SCT021 FEW023CB BKN090 22/18 Q1019 NOSIG HTHA 091100Z 10003KT 9999 TS BKN027 FEW029CB 31/20 Q//// HTIB 152000Z 00000KT 9999 -RA FEW022 FEW023CB BKN080 21/20 Q1016 HTIR 152000Z 19006KT 9999 FEW018 20/15 Q1019 HTKA 152000Z 00000KT 9999 SCT019 FEW020CB OVC080 21/21 Q1014 NOSIG HTKB 091100Z 07004KT 9999 BKN027 32/22 Q//// HTKI 091100Z 36016KT 9999 SCT026 31/24 Q0007 HTKJ 152000Z 00000KT 9999 FEW026 23/17 Q1015 NOSIG HTMG 152000Z 00000KT 9999 FEW023 23/22 Q1013 HTMH 091100Z 27005KT 9999 FEW018 FEW019CB BKN080 23/19 HTMP 151500Z 18005KT 9999 -RA FEW019 FEW021CB BKN080 23/20 Q1016 HTMS 091100Z 32020KT 9999 TS BKN030 FEW032CB BKN100 27/20 Q1011 HTMT 152000Z 33010KT 9999 FEW021 26/24 Q1010 HTMU 152000Z 00000KT 9999 FEW012CB 20/19 Q1017 HTMW 152000Z 15005KT 9999 SCT021 FEW022CB BKN080 22/19 Q1016 NOSIG HTPE 091100Z 03010KT 9999 FEW021 31/23 Q1008 HTSE 091100Z 00000KT 9999 TS BKN022 FEW023CB 24/20 HTSI 091100Z 22005KT 9999 SCT020 BKN090 21/18 Q1019 HTSO 152000Z 00000KT 9999 SCT020 FEW021CB 20/19 Q1015 HTSU 152000Z 00000KT 9999 FEW022 FEW023CB 16/15 Q1022 HTSY 061700Z 18003KT 9999 FEW025 FEW026CB 29/12 Q1013 HTTB 152000Z 00000KT 9999 SCT015 BKN070 19/19 Q1018 NOSIG HTTG 091100Z 06015KT 9999 FEW021 31/24 Q1006 HTZA 152000Z 05005KT 9999 FEW016 26/24 Q1010 NOSIG HUEN 081800Z 17005KT 9999 FEW022 22/20 Q1013.7 HUGU 250900Z 26004KT 9000 BKN022 FEW023CB 25/21 HUJI 250900Z 23008KT 9999 SCT018 FEW021CB OVC100 21/18 Q1020 HUKA 250900Z 00000KT 5000 RA BKN017 FEW019CB OVC090 19/19 Q///// HUKB 250900Z 09004KT 9999 SCT018 OVC118 19/16 HUKS 270700Z 02002KT 9999 SCT021 FEW024CB 22/20 Q1017 HULI 250900Z 18002KT 9999 BKN020 23/18 HUMA 250900Z 36003KT 9999 SCT017 FEW018CB 19/18 RERA HUSO 250900Z 19007KT 9999 BKN020 24/20 1019 HUTO 250900Z 18012KT 9999 BKN018 FEW020CB 23/18 Q1019 K K00U 152035Z AUTO 15004KT 10SM CLR 03/M09 A3008 RMK A01 K04V 152035Z AUTO 32027G37KT 10SM CLR 05/M12 A3015 RMK AO2 K04W 152035Z AUTO 35010KT 10SM -RA OVC008 01/01 A2969 RMK AO2 K05U 152035Z AUTO 00000KT 10SM CLR 08/M06 A3041 RMK A01 K06C 152035Z AUTO 00000KT 10SM OVC070 02/M02 A2949 RMK AO2 T00201022 K06D 152035Z AUTO 33017KT 10SM OVC012 M06/M07 A3003 RMK AO2 K08D 152035Z AUTO 34009KT 10SM OVC007 M07/M06 A3009 RMK AO2 K0A0 152035Z AUTO 35017G23KT 10SM CLR 15/M18 A3016 RMK AO2 K0A9 152040Z AUTO 00000KT 10SM -RA CLR 06/00 A2964 RMK AO2 K0CO 152035Z AUTO 33028G38KT 10SM CLR M12/M21 A3016 RMK AO2 K0E0 152035Z AUTO 34016G21KT 10SM CLR 11/M16 A3016 RMK AO2 T01111160 K0F2 152035Z AUTO 31021G34KT 10SM CLR 10/M12 A3001 RMK AO2 T00981118 K0J4 151858Z AUTO VRB04KT 10SM CLR 16/M03 A2982 RMK AO2 SLP095 T01611028 K0R0 152035Z AUTO 27007G16KT 10SM CLR 15/M12 A2985 RMK AO2 K0R4 152035Z AUTO 27019G23KT 10SM CLR 12/M04 A2987 RMK AO2 T01201045 K0S9 152035Z AUTO 17003KT 10SM BKN021 BKN030 11/07 A3037 RMK AO2 K0V4 152035Z AUTO 25006KT 7SM OVC037 08/07 A2968 RMK AO1 P0002 T00820067 K0VG 261355Z AUTO 00000KT 8SM FEW016 SCT024 BKN031 18/16 A3014 RMK AO2 K11R 152035Z AUTO 30012G25KT 10SM CLR 16/M09 A3007 RMK AO2 T01571095 K12N 151954Z AUTO 00000KT 04/02 A2988 RMK AO1 SLP127 T00440022 K13K 152035Z AUTO 30026G32KT 10SM SCT022 OVC029 01/M03 A2983 RMK AO2 T00101034 K14Y 152035Z AUTO 35013G16KT 5SM BR OVC010 00/M02 A2977 RMK AO2 K17J 152035Z AUTO 28012G15KT 10SM CLR 16/M02 A2976 RMK AO2 T01641021 K18A 152035Z AUTO 26009G16KT 230V300 10SM CLR 12/M08 A2967 RMK AO2 T01221082 K18H 152035Z AUTO 35013G22KT 8SM CLR 17/05 A3001 RMK A01 K19S 152035Z AUTO 34028G40KT 4SM HZ SCT011 SCT021 BKN040 06/M16 A3002 RMK AO2 T00611156 K1A5 152035Z AUTO 22010G17KT 190V250 10SM SCT100 09/M13 A2965 RMK AO2 T00901135 K1A6 152035Z AUTO 17006KT 10SM SCT080 OVC090 08/M05 A2962 RMK AO2 T00831052 K1A9 152035Z AUTO 26011G22KT 10SM CLR 14/M08 A2973 RMK AO2 T01381082 K1AM 151958Z AUTO 21021G30KT 10SM BKN140 10/M05 A3006 RMK AO2 PK WND 21030/53 SLP160 T01021053 $ K1AN 151956Z AUTO 33016KT 10SM OVC010 M06/M08 A3004 RMK AO2 SHSNE1858 SLP219 T10571078 $ K1BM 151958Z AUTO 28020G30KT 10SM BKN170 10/M06 A3003 RMK AO2 PK WND 26032/1857 SLP198 T01001057 $ K1BN 151956Z AUTO 34013KT 10SM OVC010 M06/M09 A3007 RMK AO2 SLPNO T10641086 $ K1BW 151958Z AUTO 33028G38KT 10SM CLR 01/M19 A3008 RMK AO2 PK WND 33043/02 SLP229 T00141188 $ K1CM 151958Z AUTO 27022KT 10SM CLR 09/M06 A3002 RMK AO2 PK WND 26029/36 SLP200 T00941058 $ K1CN 151956Z AUTO 34013KT 10SM -SHSN OVC010 M06/M09 A3008 RMK AO2 SHSNB08E24SHSNB40 SLP221 T10651089 $ K1CW 151958Z AUTO 32032G37KT 10SM CLR 02/M18 A3012 RMK AO2 PK WND 33039/16 SLP222 T00181184 $ K1DM 151958Z AUTO 29011KT 10SM CLR 09/M07 A3000 RMK AO2 SLP202 T00931069 $ K1DN 151956Z AUTO 35012KT 10SM OVC009 M07/M09 A3007 RMK AO2 SNB10E16SHSNB16E28 SLP223 T10681090 $ K1EM 151958Z AUTO 26005KT 10SM CLR 07/M06 A3002 RMK AO2 SLP205 T00701064 $ K1EN 151956Z AUTO 33014G19KT 10SM OVC010 M06/M08 A3006 RMK AO2 SLP224 T10611082 $ K1F0 152035Z AUTO 31014G22KT 10SM BKN085 10/M12 A2997 RMK AO2 T00961115 K1FM 220158Z AUTO M 1/4SM +SN BR FEW008 FEW009 BKN024 M M RMK AO2 PK WND 02040/11 SNB38 SLPNO PNO $ K1FN 151956Z AUTO 33012KT 10SM OVC009 M06/M08 A2999 RMK AO2 SLP228 T10631084 $ K1FW 151958Z AUTO 34030G35KT 10SM CLR 01/M15 A3006 RMK AO2 PK WND 33038/02 SLP207 T00061155 $ K1GM 151958Z AUTO 17018KT 10SM BKN060 04/M10 A3009 RMK AO2 PK WND 17026/20 SLP226 T00391097 $ K1GN 151956Z AUTO 35012KT 10SM OVC009 M M RMK AO2 SLPNO $ K1H2 152035Z AUTO 19012G16KT 4SM -SN OVC013 01/M01 A2954 RMK AO2 T00101007 K1HM 151958Z AUTO 23021G30KT 10SM BKN160 07/M08 A3002 RMK AO2 PK WND 21037/02 SLP193 T00731079 $ K1HN 151956Z AUTO 33007KT 10SM OVC011 M05/M08 A3011 RMK AO2 SLP236 T10541083 $ K1HW 151958Z AUTO 34035G39KT 10SM CLR 02/M16 A3003 RMK AO2 PK WND 34044/08 SLP200 T00151163 $ K1IM 151958Z AUTO 24030G37KT 10SM BKN150 09/M07 A3004 RMK AO2 PK WND 25037/55 SLP213 T00871071 $ K1IN 151956Z AUTO 33010KT 10SM OVC008 M07/M09 A3009 RMK AO2 SLP233 T10671091 $ K1J0 151758Z AUTO 31006KT 10SM CLR 17/01 A2982 RMK AO2 SLP083 60000 T01720006 10172 20106 58014 K1JN 151956Z AUTO 35012KT 10SM OVC009 M07/M08 A3007 RMK AO2 SLPNO T10671079 $ K1JW 191956Z AUTO 34021G27KT 10SM CLR 16/M03 A3001 RMK AO2 PK WND 33027/04 SLPNO T01551029 $ K1K1 152035Z AUTO 33022G32KT 10SM SCT035 OVC041 01/M06 A2987 RMK AO2 T00141061 K1KM 151958Z AUTO 28030G36KT 10SM BKN170 06/M08 A3007 RMK AO2 PK WND 28038/16 SLP213 T00621082 $ K1KW 151958Z AUTO 34033G42KT 10SM CLR 01/M16 A3003 RMK AO2 PK WND 33042/48 SLPNO T00131164 $ K1LM 151958Z AUTO 29017G23KT 10SM BKN170 09/M05 A3003 RMK AO2 SLP208 T00861051 $ K1LW 151958Z AUTO 33031G40KT 10SM CLR 02/M18 A3006 RMK AO2 PK WND 34045/01 SLP217 T00181184 $ K1M4 151956Z AUTO 24014G26KT 10SM BKN080 08/M09 A2971 RMK AO2 PK WND 25026/1951 SLP546 T00831089 K1M5 152035Z AUTO 25010G21KT 210V280 10SM CLR 07/M09 A2960 RMK A01 K1MM 092358Z AUTO 24010KT 10SM CLR M07/M12 A2980 RMK AO2 SLPNO T10711120 11055 21087 $ K1MN 151956Z AUTO 33013KT 10SM OVC011 M06/M08 A3011 RMK AO2 SLP232 T10601081 $ K1MW 151958Z AUTO 34026G34KT 10SM SCT250 03/M21 A3008 RMK AO2 PK WND 34041/00 SLP218 T00251208 $ K1NM 131458Z AUTO 26019G25KT 10SM BKN170 11/M01 A2949 RMK AO2 PK WND 25028/37 SLP993 T01121009 57040 $ K1NN 151956Z AUTO 34012KT 10SM OVC012 M06/M09 A3012 RMK AO2 SLP229 T10591090 $ K1NW 151958Z AUTO 36032G39KT 10SM FEW250 03/M18 A3007 RMK AO2 PK WND 35042/15 SLP210 T00331178 $ K1OM 151958Z AUTO 00000KT 10SM FEW095 05/M07 A3001 RMK AO2 SLP198 T00541071 $ K1ON 151956Z AUTO 35011KT 10SM OVC013 M06/M08 A3011 RMK AO2 SLP228 T10601084 $ K1OW 151958Z AUTO 34032G44KT 10SM CLR 01/M15 A3004 RMK AO2 PK WND 34050/05 SLP220 T00111147 $ K1P1 152035Z AUTO 11003KT 10SM CLR 04/M04 A3004 RMK AO2 T00371040 K1R7 152035Z AUTO 25012G20KT 10SM CLR 12/M08 A2984 RMK AO2 PWINO K1S5 152035Z AUTO 09003KT 10SM SCT090 06/01 A3035 RMK AO2 T00560007 K1U7 152035Z AUTO 00000KT 10SM CLR M04/M10 A3036 RMK A01 K1V4 151954Z AUTO 04/M03 A3000 RMK AO1 SLP168 T00391033 K1V6 152035Z AUTO 13004KT 10SM CLR 06/M13 A3011 RMK AO2 K1YT 151958Z AUTO 00000KT 10SM FEW140 05/M01 A3032 RMK AO2 SLPNO T00451014 $ K20U 152035Z AUTO 29009KT 10SM CLR M02/M10 A3011 RMK AO2 K20V 152035Z AUTO 27003KT 10SM CLR 01/M13 A3029 RMK AO2 K21D 152031Z AUTO 35009KT 10SM UP OVC008 01/00 A2965 RMK AO2 K22N 152035Z AUTO 09004KT 4SM BR OVC012 05/03 A2986 RMK AO2 K24A 152035Z AUTO 25006G17KT 10SM CLR 06/M15 A2961 RMK AO2 T00621150 K24J 152035Z AUTO 00000KT 10SM BKN007 BKN012 BKN070 14/14 A2974 RMK A01 K27K 152035Z AUTO 19017G24KT 10SM SCT065 SCT120 05/M03 A2959 RMK AO1 K2A0 152035Z AUTO 25005G12KT 10SM BKN080 BKN100 09/M06 A2963 RMK A01 K2C8 152035Z AUTO 33018G28KT 4SM BR OVC014 M07/M09 A3002 RMK AO2 K2D5 152035Z AUTO 34025G34KT 10SM OVC017 M03/M06 A2995 RMK AO2 K2DP 151956Z AUTO 19009KT 10SM CLR 15/08 A2979 RMK AO2 SLPNO T01540075 $ K2G4 152035Z AUTO 00000KT 1/2SM OVC002 00/00 A2958 RMK AO1 K2G9 152035Z AUTO 13013G19KT 10SM -RA OVC013 02/00 A2960 RMK AO2 K2I0 152035Z AUTO 25014G26KT 10SM BKN060 BKN070 BKN110 06/M07 A2959 RMK AO2 T00641068 K2IS 152035Z AUTO 23010KT 10SM CLR 24/13 A2985 RMK AO2 T02420126 K2J3 152035Z AUTO 15006KT 10SM SCT021 SCT025 14/10 A2969 RMK AO2 T01360099 K2J5 152030Z AUTO 30003KT 10SM BKN012 12/10 A2971 RMK AO2 T01230100 K2J9 152035Z AUTO 28011KT 10SM CLR 17/01 A2977 RMK AO2 K2LS 152035Z AUTO 26019G24KT 10SM CLR 13/01 A2992 RMK AO2 K2M2 152035Z AUTO 24011G20KT 10SM FEW070 SCT095 07/M09 A2964 RMK A01 K2P2 152035Z AUTO 05007G16KT 5SM BR OVC006 02/02 A2954 RMK AO2 T00200020 K2R9 152035Z AUTO 33014G19KT 10SM CLR 17/M12 A3015 RMK AO2 T01711121 K2V5 152035Z AUTO 35025G36KT 10SM CLR 05/M17 A3006 RMK AO2 K2V6 152038Z AUTO 30026G37KT 10SM CLR 03/M18 A3006 RMK AO2 K2W6 152035Z AUTO 11006KT 10SM CLR 09/05 A2976 RMK AO1 K2WX 151956Z AUTO 31019KT 01/M11 A3006 RMK AO1 PK WND 31030/1857 SLP210 T00061106 K33N 152035Z AUTO 13007KT 10SM OVC049 11/07 A2981 RMK A01 K33V 152035Z AUTO 18008KT 10SM CLR 00/M13 A3023 RMK AO2 T10011130 K35A 152035Z AUTO 19003KT 10SM CLR 12/03 A2971 RMK A02 T01160029 K38S 152030Z AUTO 05004KT 10SM M01/M08 A3026 K3AU 152035Z AUTO 32020G32KT 10SM BKN038 OVC044 02/M06 A2987 RMK AO2 K3D2 152035Z AUTO 05006KT 4SM -DZ OVC004 02/02 A2952 RMK AO2 T00180015 K3F3 152035Z AUTO 29013G26KT 10SM CLR 12/M09 A2995 RMK AO2 T01211091 K3I2 152035Z AUTO 15004KT 10SM CLR 06/02 A2966 RMK AO2 T00560020 K3J7 152035Z AUTO 27005KT 10SM CLR 13/M01 A2969 RMK AO2 K3K3 152035Z AUTO 34030G38KT 5SM HZ SCT028 OVC034 06/M18 A3006 RMK AO2 K3K8 230720Z AUTO 23010KT 10SM CLR 10/M05 A2955 RMK AO2 K3LF 152035Z AUTO 20011KT 5SM -SN BKN007 BKN013 OVC018 00/00 A2949 RMK AO2 T00021003 K3N8 152035Z AUTO 34015G21KT 10SM OVC006 M05/M06 A2987 RMK AO2 T10511061 K3R7 152035Z AUTO 28016G23KT 10SM CLR 14/M09 A2994 RMK AO2 T01401089 K3S8 152035Z AUTO 00000KT 9SM FEW009 OVC032 08/06 A3049 RMK AO2 K3T5 152035Z AUTO 31013G17KT 10SM CLR 17/M10 A3007 RMK AO2 T01661096 K3U3 152030Z AUTO 35010G17KT 10SM 05/M08 A3019 K40B 151916Z AUTO 00000KT 00/M05 A3007 RMK AO1 SLP208 T10041048 53002 K41U 152035Z AUTO 00000KT 10SM CLR M03/M10 A3044 RMK AO1 T10271098 K42J 152035Z AUTO 23016G26KT 10SM FEW037 BKN060 OVC095 21/11 A2971 RMK A01 TSNO K46D 152035Z AUTO 33018G25KT 9SM BKN016 OVC020 M04/M07 A3003 RMK AO2 K46U 152035Z AUTO 00000KT 10SM CLR M10/M13 A3042 RMK A01 K48A 152035Z AUTO 27012KT 240V310 10SM CLR 16/01 A2970 RMK AO2 T01610013 K48W 150149Z 34010KT 10SM SKC 16/12 A3016 K49A 152035Z AUTO 27010G15KT 10SM BKN080 BKN100 11/M08 A2968 RMK AO2 T01051083 K4A6 152035Z AUTO 25013G21KT 10SM SCT085 BKN110 10/M08 A2966 RMK AO2 K4A9 152035Z AUTO 24016G21KT 10SM BKN100 10/M08 A2964 RMK AO2 T01021078 K4BM 152035Z AUTO 31012G22KT 10SM CLR M02/M17 A3015 RMK AO2 K4F2 152035Z AUTO 28014G22KT 250V310 10SM CLR 12/M09 A2993 RMK AO2 T01201088 K4I3 152035Z AUTO 18007KT 10SM SCT055 SCT065 03/M01 A2959 RMK AO2 K4M9 152015Z AUTO 25015G21KT 10SM 05/M03 A2965 RMK AO2 PWINO K4MR 151958Z AUTO 22006KT 10SM CLR 06/M13 A3018 RMK AO2 SLP230 T00551128 $ K4O4 152035Z AUTO 27017G22KT 10SM BKN080 BKN090 09/M11 A2989 RMK AO2 K4R5 152035Z AUTO 00000KT 5SM DZ OVC010 02/01 A2968 RMK AO2 T00150008 K4S1 152035Z AUTO 04005KT 2SM BR CLR 12/11 A3038 RMK AO2 K4S2 152035Z AUTO 34003KT 10SM OVC011 07/05 A3038 RMK AO2 K4U6 152025Z AUTO 21008KT 10SM 01/M10 A3010 RMK A01 Circle K4V0 152035Z AUTO 00000KT 10SM CLR M04/M13 A3033 RMK AO2 T10451132 K54A 152035Z AUTO 18011KT 10SM CLR 21/14 A2985 RMK AO2 K54J 152035Z AUTO 30006KT 10SM CLR 16/M04 A2978 RMK AO2 T01551039 K57C 152035Z AUTO 11003KT 10SM OVC065 02/M01 A2948 RMK AO2 T00181013 K59K 231450Z 08003KT 8SM SKC 13/09 A3010 K5C1 152035Z AUTO 33009G20KT 290V360 10SM CLR 13/M14 RMK AO1 K5H4 152035Z AUTO 16/75000017KT 10SM M05/M07 A3007 RMK AO2 K5M9 152035Z AUTO 00000KT 10SM SCT036 BKN046 OVC090 04/M04 A2959 RMK AO2 T00361045 K5R8 152035Z AUTO 27012G23KT 10SM CLR 14/M08 A2995 RMK AO2 T01411085 K5SM 152035Z AUTO 30005G22KT 170V350 10SM CLR M05/M13 A3034 RMK AO2 K63S 152030Z AUTO 00000KT 10SM OVC065 00/M04 A3035 RMK A01 K65S 152030Z AUTO 00000KT 10SM OVC080 00/M05 A3032 RMK AO2 K66R 152035Z AUTO 33014G21KT 10SM CLR 16/M09 A3009 RMK AO2 T01591092 K6A1 152035Z AUTO 25015G18KT 10SM CLR 14/M04 A2972 RMK AO2 T01391038 K6A2 152035Z AUTO 26010G16KT 240V300 10SM CLR 12/M07 A2970 RMK AO2 K6B0 152035Z AUTO 13007G17KT 060V160 10SM CLR 02/M04 A2996 RMK AO2 T00221037 K6B9 152035Z AUTO 14011G19KT 120V190 10SM SCT024 SCT028 04/00 A2978 RMK AO2 K6I2 152035Z AUTO 19013KT 10SM CLR 05/M02 A2960 RMK AO2 K6L4 152035Z AUTO 13004KT 10SM CLR 05/00 A2964 RMK AO2 K6P9 152035Z AUTO 33020G30KT 10SM CLR 11/M14 A3006 RMK AO2 T01111140 K6R3 152035Z AUTO 31013G21KT 270V330 7SM CLR 15/M16 A3001 RMK AO2 T01461165 K6R6 151951Z AUTO 36004KT 11/M12 A3021 RMK AO1 SLP224 T01111117 $ K6S0 152035Z AUTO 27033G39KT 10SM CLR 08/M10 A3010 RMK A01 K6S2 152035Z AUTO 00000KT 1SM BR OVC002 12/11 A3041 RMK AO2 T01190112 K6S5 152030Z AUTO 26004KT 10SM SCT033 SCT040 BKN048 M01/M07 A3027 RMK AO2 K6S8 152025Z AUTO 21017KT 10SM 04/M13 A3011 RMK A01 LAUREL K74V 152035Z AUTO 00000KT 10SM CLR M01/M14 A3035 RMK AO2 K77S 152035Z AUTO 00000KT 7SM OVC006 10/10 A3041 RMK A01 K79J 151956Z AUTO 29013G22KT 10SM CLR 17/M05 A2977 RMK AO2 SLP077 T01721050 K79S 132000Z AUTO 19042G51KT 09/M10 A2953 K7BM 152035Z AUTO 13020G26KT 10SM CLR 03/M15 A3012 RMK AO2 K7L2 152035Z AUTO 32018G25KT 10SM OVC013 M05/M08 A3008 RMK AO2 K7N0 151956Z AUTO VRB05G15KT 10SM CLR 16/M06 A2990 RMK AO2 SLP125 T01561061 K7S0 152025Z AUTO 00000KT 6SM BR M01/M02 A3029 RMK A01 Ronan K7S1 152035Z AUTO 22005KT 10SM CLR 04/M09 A3023 RMK AO2 K7S6 152025Z AUTO 17013KT 10SM 04/M08 A3015 RMK A01 White Sulphur Spg K7W4 152035Z AUTO 12005KT 10SM SCT065 BKN090 OVC110 10/01 A2969 RMK AO1 T01030005 K7W6 152035Z AUTO 14005KT 10SM CLR 14/06 A2978 RMK AO2 T01350060 K81R 152035Z AUTO 25021G26KT 10SM CLR 13/M14 A3012 RMK AO2 T01321140 K82C 152035Z AUTO 05003KT 10SM SCT017 SCT023 OVC050 03/M01 A2953 RMK AO2 T00261009 K82V 152035Z AUTO 32021G27KT 10SM CLR 01/M12 A3008 RMK AO2 K8A0 152030Z AUTO 27017G25KT 10SM CLR 10/M11 A2967 RMK AO2 K8A3 152035Z AUTO 22009G15KT 190V250 10SM FEW022 FEW033 BKN060 04/M04 A2960 RMK A01 K8B0 290115Z AUTO 26005KT 1 1/4SM -SN BKN004 OVC013 00/00 A2987 RMK AO2 K8D3 151956Z AUTO 34020G30KT M03/M05 A2990 RMK AO1 PK WND 36035/1917 SLP146 T10281050 K8W2 152035Z AUTO 19007G15KT 10SM OVC050 08/01 A2964 RMK AO1 T00830007 K96D 152035Z AUTO 33021KT 9SM OVC015 M07/M07 A3004 RMK AO2 K9A5 152035Z AUTO 25016G32KT 220V280 10SM SCT050 SCT070 BKN090 10/M08 A2966 RMK AO2 T01011081 K9D7 152035Z AUTO 35016G22KT 10SM OVC015 M04/M04 A3004 RMK AO2 K9L2 151958Z AUTO 00000KT 6SM HZ CLR 15/M04 A3034 RMK AO2 SLP273 T01501045 $ K9MN 152035Z AUTO 34004KT 10SM OVC009 02/01 A2958 RMK AO1 T00160006 K9V9 152030Z AUTO 34023G29KT 10SM OVC019 M02/M06 A3000 RMK AO2 T10221064 KA08 281950Z AUTO 12006KT 10SM DZ SCT060 OVC090 A2987 RMK AO2 KA39 152035Z AUTO 01011G17KT 10SM CLR 23/M11 A3016 RMK AO2 KAAA 152035Z AUTO 19004KT 10SM BKN017 OVC050 02/M01 A2947 RMK AO2 T00211015 KAAF 151953Z AUTO 28014G21KT 10SM CLR 17/03 A2980 RMK AO2 SLP090 T01720028 KAAO 151954Z AUTO 33025G38KT 10SM BKN041 OVC049 02/M07 A2986 RMK AO2 PK WND 33042/1937 SLP121 T00221067 KAAS 152035Z AUTO 22008KT 10SM SCT032 BKN065 OVC110 05/M01 A2964 RMK AO1 KAAT 151955Z AUTO 00000KT 10SM CLR 08/01 A3041 RMK AO2 SLP304 T00780011 $ KABE 151951Z 08011KT 4SM HZ OVC011 06/02 A2986 RMK AO2 SLP113 T00560022 KABH 151958Z AUTO 34019G24KT 10SM CLR 05/M21 A3010 RMK AO2 PK WND 01027/18 SLP232 T00461215 KABI 151952Z 32022G30KT 10SM CLR 12/M13 A3013 RMK AO2 PK WND 32039/1916 SLP201 T01171133 KABQ 151952Z 01013G22KT 10SM FEW300 10/M17 A3020 RMK AO2 SLP206 T01001167 KABR 151953Z AUTO 35024G34KT 10SM OVC017 M01/M06 A2996 RMK AO2 PK WND 35037/1906 SLP161 T10111056 KABY 151953Z 29010G19KT 10SM CLR 17/00 A2975 RMK AO2 SLP074 T01720000 KACB 152035Z AUTO 06006KT 10SM -SN OVC015 04/01 A2952 RMK AO2 T00360010 KACJ 152030Z AUTO 30010KT 10SM CLR 16/M02 A2973 RMK AO2 KACK 151953Z 07007KT 10SM CLR 07/M01 A3007 RMK AO2 SLP181 T00671011 KACP 152035Z AUTO 27006G21KT 10SM CLR 14/M10 A2991 RMK AO2 KACQ 152035Z AUTO 35015KT 5SM -SN OVC009 01/00 A2963 RMK AO2 KACT 151951Z 31019G29KT 10SM CLR 13/M12 A3005 RMK AO2 PK WND 31035/1925 SLP175 T01331122 KACV 151953Z AUTO 00000KT 6SM BR FEW004 BKN090 BKN120 12/11 A3040 RMK AO2 SLP302 T01170106 KACY 151954Z 12009KT 10SM SCT026 12/08 A2983 RMK AO2 SLP103 T01170078 KADC 152036Z AUTO 35016KT 7SM OVC009 M02/M03 A2980 RMK AO2 KADF 151956Z AUTO 30013G18KT 10SM OVC080 09/M07 A2983 RMK AO2 SLP101 T00941072 KADG 151953Z AUTO 25006KT 10SM FEW015 SCT049 02/02 A2953 RMK AO2 SLP009 T00220017 KADH 152035Z AUTO 32015G27KT 10SM OVC085 07/M09 A2994 RMK AO2 KADM 151950Z 31023G31KT 10SM CLR 09/M12 A2996 KADS 151958Z 29016G29KT 10SM SKC 11/M14 A3000 KADT 152035Z AUTO 35028G37KT 10SM CLR 04/M13 A3004 RMK AO2 T00421130 KADU 152035Z AUTO 34019G28KT OVC010 M01/M02 A2963 RMK AO2 PWINO KADW 151956Z AUTO 15010KT 10SM SCT036 SCT140 10/04 A2976 RMK AO2 SLP086 T01030036 $ KAEG 151950Z 31016G21KT 10SM CLR 10/M18 A3020 KAEJ 152035Z AUTO 34025G38KT 10SM CLR 04/M13 A3011 RMK AO2 T00421132 KAEL 152035Z AUTO 36012G16KT 5SM BR OVC006 01/01 A2959 RMK AO2 KAEX 151953Z 29018G25KT 10SM CLR 12/M05 A2988 RMK AO2 PK WND 27030/1942 SLP123 T01221050 KAFF 151958Z AUTO 34011G18KT 10SM CLR 04/M18 A3006 RMK AO2 SLP211 T00401176 KAFJ 151956Z AUTO 24005KT 10SM -RA BKN009 BKN028 OVC038 03/02 A2963 RMK AO2 CIG 007V013 SLP044 P0004 T00280022 KAFK 152035Z AUTO 33024G35KT 1 1/4SM -SN OVC013 00/M02 A2971 RMK AO2 T10031020 KAFN 151952Z AUTO 00000KT 10SM CLR 03/M03 A3000 RMK AO2 SLP175 T00331033 KAFO 152035Z AUTO 00000KT 10SM CLR M10/M20 A3039 RMK AO2 KAFP 152035Z AUTO 17005KT 10SM -RA SCT008 BKN070 OVC090 09/08 A2970 RMK AO2 P0001 T00870079 KAFW 151953Z 31030G40KT 10SM CLR 12/M12 A3002 RMK AO2 PK WND 32041/1901 SLP168 T01171117 KAGC 152031Z 24008KT 5SM -RA BR BKN010 OVC017 03/02 A2960 RMK AO2 P0005 T00280017 KAGR 151958Z AUTO 23016G18KT 10SM CLR M A2981 RMK AO2 SLPNO $ KAGS 151953Z 19006KT 10SM SCT013 BKN019 13/09 A2970 RMK AO2 SLP056 T01280089 KAHN 151951Z VRB06G19KT 10SM CLR 14/M04 A2967 RMK AO2 SLP050 T01391044 KAHQ 152035Z AUTO 33020G33KT 1 1/4SM -SN BKN013 OVC017 M01/M02 A2978 RMK AO2 T10091024 KAIA 151953Z AUTO 33021G31KT 10SM CLR 02/M15 A3004 RMK AO2 PK WND 32036/1912 SLP198 T00221150 PNO KAID 151955Z 20012G16KT 10SM BKN041 BKN055 BKN077 05/M04 A2952 KAIG 152035Z AUTO 03008KT 10SM OVC003 00/00 A2953 RMK AO2 T00010001 KAIK 152035Z AUTO 18003KT 10SM BKN015 10/08 A2971 RMK AO2 T01040076 KAIO 152035Z AUTO 34022G28KT 4SM BR OVC013 M00/M02 A2963 RMK AO2 KAIT 152036Z AUTO 34011G15KT 10SM OVC012 02/M01 A2974 RMK AO2 KAIZ 151956Z AUTO 28010G18KT 260V330 3SM -SN BR BKN013 OVC018 00/M02 A2954 RMK AO2 SLP008 P0000 T00001017 FZRANO KAJG 152035Z AUTO 26013KT 10SM SCT017 BKN033 OVC045 02/M01 A2957 RMK AO2 T00161012 KAJO 151956Z AUTO 09012G20KT 10SM CLR 31/M06 A3012 RMK AO2 PK WND 11026/1932 SLP192 T03111061 KAJR 152035Z AUTO 27014G22KT 10SM CLR 11/M12 A2965 RMK AO2 T01101120 KAJZ 152035Z AUTO 18004KT 10SM CLR 05/M15 A3037 RMK AO2 T00511149 KAKH 151954Z AUTO VRB03KT 10SM SCT013 10/06 A2966 RMK AO2 SLP045 T01000056 KAKO 151953Z AUTO 33031G41KT 10SM CLR 03/M19 A3008 RMK AO2 PK WND 34047/1921 SLP212 T00281194 $ KAKQ 151954Z AUTO VRB06KT 10SM CLR 13/03 A2973 RMK AO2 SLP070 T01330028 KAKR 152009Z AUTO 22008KT 4SM -SN BR BKN005 OVC020 02/00 A2957 RMK AO2 P0000 T00220000 KALB 151951Z 14006KT 10SM BKN023 OVC250 02/M02 A2997 RMK AO2 SLP152 T00221017 KALI 151953Z AUTO VRB05KT 10SM CLR 18/M11 A3016 RMK AO2 SLP211 T01831106 KALK 151956Z AUTO 08010KT 10SM CLR 19/M13 A3020 RMK AO2 SLP164 T01891133 KALM 152035Z AUTO 35013KT 10SM CLR 15/M18 A3015 RMK AO2 KALN 151950Z 20011KT 2SM -SN OVC011 01/01 A2947 KALO 152012Z 01005KT 3SM -SN BR OVC012 01/00 A2953 RMK AO2 P0000 T00110000 KALS 151952Z AUTO 35010KT 10SM CLR 06/M14 A3015 RMK AO2 SLP227 T00611144 KALW 151953Z 33003KT 10SM OVC028 03/01 A3035 RMK AO2 RAB08E23 SLP287 P0000 T00330011 KALX 152035Z AUTO 25012G23KT 10SM CLR 13/M09 A2971 RMK AO2 T01261094 KAMA 151953Z 31028G37KT 10SM CLR 08/M19 A3010 RMK AO2 PK WND 34044/1856 SLP192 T00781194 KAMG 151953Z AUTO 22005KT 10SM BKN006 OVC060 13/12 A2973 RMK AO2 RAE52 SLP065 P0000 T01280117 KAMN 152037Z AUTO 23004KT 3SM -SN BKN004 BKN008 OVC033 02/02 A2951 RMK AO2 T00160016 KAMW 152019Z AUTO 35013KT 9SM SCT010 BKN016 OVC029 02/M01 A2956 RMK AO2 T00171011 KANB 151953Z AUTO 22016G28KT 10SM CLR 13/M08 A2969 RMK AO2 PK WND 24030/1928 SLP055 T01281083 KAND 151956Z AUTO 22009KT 10SM CLR 12/M02 A2966 RMK AO2 SLP042 T01221017 KANE 152020Z 34010KT 6SM -SN BR OVC008 02/02 A2966 KANJ 151955Z AUTO 08010G16KT 10SM OVC023 03/M02 A2964 RMK AO2 SLP040 T00331017 KANK 152035Z AUTO 27011KT 10SM CLR 08/M16 A3021 RMK AO1 T00821161 KANQ 152035Z AUTO 22006KT 10SM OVC060 03/M03 A2952 RMK AO2 KANW 152035Z AUTO 34027G33KT 10SM OVC024 M02/M07 A2998 RMK AO2 T10171071 KAOH 151953Z AUTO 21008KT 10SM SCT046 OVC060 05/M03 A2954 RMK AO2 SLP008 T00501028 KAOO 152008Z AUTO 14010KT 9SM SCT026 BKN032 OVC065 05/M01 A2965 RMK AO2 T00501011 KAPA 151953Z 09006KT 10SM FEW080 FEW130 FEW200 03/M18 A3010 RMK AO2 SLP230 T00331178 KAPC 151954Z 10008KT 10SM CLR 18/10 A3031 RMK AO2 SLP255 T01780100 KAPF 151953Z 19007KT 10SM CLR 23/12 A2985 RMK AO2 SLP107 T02280117 KAPG 152010Z 00000KT 7SM BKN025 OVC120 11/04 A2979 RMK PRESRR SLP091 55017 KAPN 151954Z 09010G17KT 4SM -RA BR OVC007 03/02 A2956 RMK AO2 RAB1856 CIG 005V010 SLP018 P0003 T00280017 KAPS 152035Z AUTO 27019G26KT 10SM CLR 17/M09 A2988 RMK AO2 T01661093 KAPY 152040Z AUTO 36005KT 10SM CLR 19/M09 A3018 RMK AO2 T01891087 TSNO KAQO 152035Z AUTO 29018G26KT 10SM CLR 13/M16 A3013 RMK AO2 KAQP 152015Z AUTO 34025G37KT M03/M03 A2982 RMK AO2 PWINO KAQR 152035Z AUTO 32011G23KT OVC085 A2995 RMK AO2 PWINO PNO KAQV 151957Z AUTO 26010G22KT 210V290 6SM HZ BKN041 BKN050 12/M09 A2989 RMK AO2 SLP122 T01221094 KAQW 151952Z AUTO 09006KT 10SM OVC021 03/M02 A2997 RMK AO2 SLP158 T00281022 KAQX 152035Z AUTO 00000KT 10SM BKN006 BKN012 OVC080 12/12 A2970 RMK AO2 KARA 151953Z 28019G32KT 10SM CLR 15/M04 A2993 RMK AO2 PK WND 28032/1944 SLP134 T01501044 KARB 152037Z 22006KT 8SM SCT008 BKN016 OVC055 01/01 A2953 RMK AO2 T00110006 $ KARG 151956Z AUTO 29024G29KT 9SM -RA FEW031 BKN049 OVC070 04/M04 A2968 RMK AO2 PK WND 26030/1908 RAB09E26B46 SLP051 P0000 T00391039 KARM 152035Z AUTO 29014KT 10SM CLR 16/M10 A3009 RMK AO2 T01571097 KARR 151952Z 14008KT 10SM FEW016 BKN042 OVC080 01/M02 A2947 RMK AO2 SLP983 T00111017 KART 151956Z AUTO 08007KT 10SM CLR 04/M02 A2981 RMK AO2 SLP101 T00391017 KARV 152035Z AUTO 02004KT 7SM -SN BKN008 OVC012 03/M02 A2957 RMK AO2 T00251023 KARW 152035Z AUTO 00000KT 7SM -RA OVC030 12/12 A2974 RMK AO2 P0001 KASD 151953Z AUTO 26007G19KT 220V290 10SM CLR 16/M06 A2986 RMK AO2 SLP113 T01611056 KASE 151953Z VRB03KT 10SM CLR 01/M14 A3032 RMK AO2 SLP282 T00111144 KASG 151948Z 28020G30KT 7SM FEW004 SCT028 BKN039 02/M04 A2976 KASH 151956Z 09008KT 10SM OVC037 05/M02 A3006 RMK AO2 SLP186 T00501017 KASJ 152035Z AUTO 17008G14KT 140V210 10SM BKN100 14/03 A2973 RMK AO2 T01360027 KASL 152035Z AUTO 31012G25KT 270V330 10SM CLR 10/M11 A2994 RMK AO1 T01001107 KASN 152035Z AUTO 24019G27KT 10SM CLR 12/M10 A2970 RMK AO2 T01221097 KAST 152042Z AUTO 36004KT 1/2SM FG VV004 08/07 A3042 RMK AO2 T00780072 KASW 152035Z AUTO 00000KT 2 1/2SM -SN SCT005 BKN015 OVC038 00/M01 A2952 RMK AO2 KASX 151953Z AUTO 03010KT 2 1/2SM BR OVC004 01/01 A2966 RMK AO2 SLP053 T00110006 KATL 151952Z 25013G23KT 10SM FEW070 13/M10 A2969 RMK AO2 PK WND 28027/1928 SLP052 T01281100 KATP 152035Z AUTO 30020G28KT 9SM CLR 17/03 A2997 RMK A01 KATS 152035Z AUTO 14010KT 10SM CLR 08/M12 A3019 RMK AO2 KATT 151951Z AUTO 30009G19KT 10SM CLR 15/M13 A3013 RMK AO2 PK WND 28027/1914 SLP203 T01501128 KATW 151945Z 01007KT 10SM BKN008 OVC020 02/01 A2949 KATY 152040Z AUTO 34021G31KT 1 1/4SM -SN BR OVC013 M04/M06 A2985 RMK AO2 PK WND 34037/1955 SNE10B18 P0000 T10391056 KAUG 151953Z AUTO 04006KT 10SM CLR 04/M06 A3008 RMK AO2 SLP190 T00391056 KAUH 152035Z AUTO 34028G37KT 10SM -SN OVC023 M01/M05 A2988 RMK AO2 T10101054 KAUM 152035Z AUTO 35010KT 10SM OVC007 02/01 A2957 RMK AO2 KAUN 152035Z AUTO 24004KT 10SM CLR 19/06 A3032 RMK A01 KAUO 151956Z AUTO 25011KT 10SM CLR 13/M05 A2973 RMK AO2 SLP096 T01281050 KAUS 151953Z 31015G28KT 10SM CLR 16/M11 A3011 RMK AO2 PK WND 33028/1946 SLP196 T01561111 $ KAUW 152011Z AUTO 35006KT 6SM BR BKN008 OVC013 01/M01 A2952 RMK AO2 CIG 007V010 T00111006 KAVC 152035Z AUTO 16005KT 10SM BKN048 OVC055 12/01 A2974 RMK AO2 T01160014 KAVK 152035Z AUTO 33021G32KT 10SM CLR 07/M10 A2996 RMK AO2 PWINO TSNO KAVL 151954Z 31011G20KT 10SM CLR 09/M10 A2961 RMK AO2 SLP028 T00941100 KAVP 151954Z AUTO 13006KT 7SM OVC012 04/01 A2982 RMK AO2 SLP104 T00440006 KAVQ 152035Z AUTO 27007KT 10SM CLR 22/M11 A3011 RMK AO2 T02171111 KAVX 151951Z AUTO 07006KT 10SM CLR 28/M09 A3018 RMK AO2 SLP189 T02781089 KAWG 152035Z AUTO 03010KT 10SM FEW015 BKN034 BKN055 01/00 A2948 RMK AO2 KAWM 151953Z AUTO 28010G18KT 240V310 10SM OVC080 08/M04 A2971 RMK AO2 PK WND 28026/1936 SLP060 T00781039 KAWO 151956Z AUTO 00000KT 6SM BR OVC002 08/08 A3040 RMK AO2 SLP300 T00830078 KAXA 152035Z AUTO 35018G25KT 3/4SM BR BKN005 01/01 A2960 RMK A01 KAXH 152035Z AUTO 31014G22KT 10SM CLR 16/M10 A3006 RMK AO2 T01561103 KAXN 151953Z AUTO 35017G23KT 10SM OVC009 M01/M03 A2978 RMK AO2 SLP102 T10111028 KAXS 152035Z AUTO 34027G38KT 10SM SCT048 11/M15 A3005 RMK AO2 T01101149 KAXV 152035Z AUTO 17007KT 10SM SCT029 SCT041 SCT049 03/M03 A2955 RMK AO2 KAXX 152035Z AUTO 27017G23KT 10SM CLR 02/M14 A3011 RMK AO2 T00201139 KAYS 152035Z AUTO 23005KT 10SM RA SCT006 BKN060 OVC080 13/11 A2973 RMK AO2 T01310105 KAZC 152035Z AUTO 35005KT 10SM CLR 14/M09 A3035 RMK AO2 KAZE 152030Z AUTO 00000KT 10SM SCT019 14/10 A2971 RMK AO2 T01400104 KAZO 151953Z 19006KT 10SM FEW015 OVC055 03/M01 A2950 RMK AO2 SLP997 T00281006 KBAB 151958Z AUTO 22004KT 10SM CLR 15/10 A3030 RMK AO2 SLP264 T01480100 $ KBAC 152035Z AUTO 34019G28KT 10SM -SN OVC013 M05/M05 A2998 RMK AO2 KBAD 151956Z AUTO 29020G24KT 10SM CLR 12/M09 A2988 RMK AO2 PK WND 30030/34 SLP121 T01181092 KBAF 151953Z 03005KT 3SM BR OVC026 02/01 A3001 RMK AO2 SLP167 T00220006 KBAK 151950Z 23010KT 10SM SCT032 BKN049 OVC060 03/M03 A2954 KBAM 152035Z AUTO 03003KT 10SM CLR 08/00 A3036 RMK AO1 KBAN 151952Z AUTO 00000KT 10SM CLR 14/M11 A3043 RMK AO2 SLP287 T01391106 $ KBAX 152035Z AUTO 12008KT 100V210 4SM -SN OVC010 01/01 A2951 RMK AO2 T00100007 KBAZ 151951Z 32013G23KT 10SM CLR 17/M12 A3013 RMK AO2 PK WND 33026/1916 SLP201 T01671117 KBBB 152035Z AUTO 02017G26KT 7SM OVC011 M03/M04 A2981 RMK AO2 KBBD 152035Z AUTO 32021G27KT 10SM CLR 12/M16 A3014 RMK AO2 KBBG 151946Z 28013G26KT 250V320 8SM BKN028 OVC036 01/M05 A2969 KBBP 152035Z AUTO 27006KT 5SM +RA BKN007 BKN013 OVC022 10/10 A2972 RMK AO2 P0006 KBBW 151953Z AUTO 33025G43KT 10SM OVC028 M01/M07 A2993 RMK AO2 PK WND 32045/1900 SLP160 T10111072 KBCB 152035Z AUTO 00000KT 4SM BR OVC044 02/02 A2969 RMK AO2 T00160016 KBCE 151953Z AUTO 33006KT 10SM CLR 07/M08 A3040 RMK AO2 SLP263 T00671083 $ KBCK 152035Z AUTO 02005KT 10SM SCT031 SCT039 OVC050 03/00 A2956 RMK AO2 T00311004 KBCT 151847Z 27005KT 9SM BKN080 24/13 A2989 KBDE 152042Z AUTO 32017G23KT 1 1/4SM -FZRA BR OVC006 M04/M05 A2985 RMK AO2 UPB24E36FZRAE10B36SNB10E24 P0000 I1002 T10441050 KBDG 140755Z AUTO 05003KT 10SM M03/M09 A3032 RMK AO1 T10351089 KBDH 152035Z AUTO 34015KT 10SM -SN BKN011 01/M01 A2978 RMK AO2 KBDL 152027Z 02006KT 7SM OVC031 04/01 A3000 KBDN 152035Z AUTO 15005KT 10SM BKN046 BKN055 BKN060 09/03 A3037 RMK AO2 KBDR 151952Z COR 09014KT 10SM OVC017 06/02 A2997 KBDU 152035Z AUTO 14007KT 10SM CLR 06/M16 A3006 RMK AO2 KBEA 152035Z AUTO 34010G15KT 10SM CLR 18/M05 A3014 RMK AO2 T01821052 KBEC 152035Z AUTO 31016G29KT 10SM BKN037 OVC045 02/M06 A2987 RMK AO2 T00211061 KBED 151951Z 10010KT 10SM BKN028 05/M01 A3006 RMK AO2 SLP195 T00501011 KBEH 151953Z AUTO 19003KT 10SM FEW021 OVC070 03/M02 A2949 RMK AO2 SNE00 SLP992 P0000 T00281017 KBFD 151953Z AUTO 15015G24KT 10SM FEW033 SCT110 04/M04 A2960 RMK AO2 SLP034 T00441039 KBFF 151953Z AUTO 32024G35KT 10SM CLR 04/M18 A3009 RMK AO2 PK WND 32039/1928 SLP208 T00441183 KBFI 151953Z 00000KT 10SM BKN018 12/07 A3039 RMK AO2 SLP291 T01170067 KBFL 151954Z 00000KT 4SM HZ CLR 16/03 A3028 RMK AO2 SLP253 T01610028 KBFM 151953Z 28010G25KT 10SM CLR 16/M09 A2983 RMK AO2 SLP101 T01611089 KBFW 152035Z AUTO 00000KT 4SM -DZ SCT012 OVC020 01/M01 A2969 RMK AO2 KBGD 151958Z AUTO 33028G38KT 1SM HZ VV015 08/M21 A3010 RMK AO2 PK WND 34038/1957 T00781206 KBGE 152035Z AUTO 27012KT 10SM CLR 17/00 A2976 RMK AO2 T01671001 KBGF 152035Z AUTO 26018G24KT 10SM FEW100 09/M10 A2963 RMK A01 KBGM 151953Z 13013KT 6SM BR OVC008 01/M02 A2975 RMK AO2 PK WND 14026/1902 SLP089 T00061017 KBGR 151953Z 02007KT 10SM FEW050 04/M05 A3009 RMK AO2 SLP192 T00391050 KBHB 151956Z AUTO 08007KT 10SM CLR 04/M04 A3010 RMK AO2 SLP195 T00391044 KBHC 152035Z AUTO 22003KT 10SM OVC006 12/12 A2972 RMK AO2 KBHK 151951Z AUTO 28011KT 10SM CLR M02/M10 A3012 RMK AO2 SLP230 T10171100 KBHM 151953Z 26020G28KT 10SM FEW090 12/M10 A2972 RMK AO2 PK WND 24030/1917 SLP062 T01171100 KBID 151956Z AUTO 08010KT 10SM OVC030 05/01 A3003 RMK AO2 SLP169 T00500011 KBIE 152035Z AUTO 33028G40KT 1 1/2SM UP OVC019 M01/M03 A2981 RMK AO2 T10061031 KBIF 151958Z AUTO 19007KT 10SM CLR 14/M16 A3015 RMK AO2 SLP179 T01441162 $ KBIH 151956Z AUTO 00000KT 10SM CLR 19/M08 A3037 RMK AO2 SLP268 T01891078 KBIJ 152035Z AUTO 26008KT 10SM CLR 15/00 A2974 RMK AO2 KBIL 151953Z 23019KT 10SM FEW095 SCT120 BKN250 03/M13 A3009 RMK AO2 SLP219 T00331133 KBIS 151952Z 33012G22KT 10SM OVC015 M04/M08 A3010 RMK AO2 SLP217 T10441078 KBIV 152032Z AUTO 30004KT 3SM -SN BR FEW006 SCT016 OVC025 01/M01 A2951 RMK AO2 RAE08SNB08 T00111006 PNO $ KBIX 151956Z AUTO 28005KT 10SM CLR 17/M02 A2983 RMK AO2 SLP104 T01681018 KBJC 151945Z 13011KT 10SM FEW200 04/M18 A3010 KBJI 152035Z AUTO 34012G17KT 4SM -SN OVC008 M01/M02 A2981 RMK AO2 T10151025 KBJJ 151956Z AUTO 21005KT 6SM -SN BR OVC003 01/00 A2957 RMK AO2 SLP024 P0001 T00060000 KBKB 151954Z AUTO 10SM CLR 13/M08 A2989 RMK AO2 SLP149 T01331083 PNO KBKD 152035Z AUTO 32018G31KT 10SM CLR 13/M12 A3008 RMK AO2 T01301120 KBKE 151953Z AUTO 00000KT 10SM OVC060 02/M03 A3040 RMK AO2 SLP319 T00171028 KBKF 151958Z 04003KT 10SM FEW070 FEW110 SCT220 05/M17 A3010 RMK AO2A SLP204 T00511173 KBKL 151953Z 19010KT 7SM -RA BKN008 OVC017 03/01 A2956 RMK AO2 SLP013 P0005 T00280006 KBKN 152035Z AUTO 32022G33KT 10SM SCT055 SCT100 05/M06 A2992 RMK AO2 KBKS 152035Z AUTO 31005KT 10SM CLR 16/M08 A3016 RMK AO2 T01551077 KBKT 152035Z AUTO 14006KT 10SM BKN050 OVC110 11/02 A2968 RMK AO1 T01110022 KBKV 151953Z 18014G21KT 10SM FEW031 BKN095 22/14 A2979 RMK AO2 SLP086 T02220139 KBKW 152033Z AUTO 24010G15KT 10SM SCT013 BKN019 01/M02 A2964 KBKX 151956Z AUTO 34024G33KT 9SM UP OVC014 M03/M04 A2979 RMK AO2 PK WND 34035/1914 UPB37SNE37 SLP123 P0000 T10281044 FZRANO KBLF 152026Z AUTO VRB04KT 10SM FEW009 01/M01 A2963 RMK AO2 T00111006 KBLH 151952Z AUTO 36019G28KT 10SM CLR 26/M08 A3018 RMK AO2 PK WND 36030/1903 SLP214 T02611083 KBLI 151953Z 19006KT 10SM CLR 10/08 A3037 RMK AO2 SLP291 T01000078 KBLM 151956Z AUTO 09013G21KT 10SM OVC011 09/06 A2988 RMK AO2 SLP120 T00890061 KBLU 151952Z AUTO VRB05KT 10SM CLR 16/M01 A3044 RMK AO2 SLP250 T01561011 KBLV 152021Z 19011KT 5SM -SN BR BKN008 OVC022 01/01 A2949 RMK AO2A SLP993 $ KBMC 152035Z AUTO 00000KT 10SM CLR 01/M09 A3044 RMK AO1 T00091093 KBMG 151953Z 21012G20KT 10SM SCT034 SCT047 OVC055 04/M04 A2952 RMK AO2 SNE06 SLP999 P0000 T00391039 KBMI 151956Z 19011KT 10SM -RA SCT013 BKN022 OVC030 01/M01 A2945 RMK AO2 RAB46SNE42 SLP980 P0000 T00061011 KBML 151952Z AUTO 16008KT 10SM CLR 03/M05 A3001 RMK AO2 SLP175 T00281050 KBMQ 151953Z AUTO 30015G32KT CLR 13/M13 A3014 RMK AO2 PK WND 30032/1953 SLP203 T01281133 $ KBMT 152035Z AUTO 27020G25KT 10SM CLR 16/M08 A2998 RMK AO2 T01571078 KBNA 151953Z 23012G29KT 10SM FEW040 SCT050 BKN090 BKN250 09/M12 A2962 RMK AO2 PK WND 23032/1905 SLP030 T00941117 KBNL 152035Z AUTO 00000KT 5SM BR OVC004 11/10 A2971 RMK AO2 KBNO 152018Z AUTO 00000KT 10SM BKN036 OVC050 01/M01 A3039 KBNW 152035Z AUTO 35013G18KT 10SM FEW014 SCT022 OVC032 01/01 A2956 RMK AO2 KBOI 151953Z 00000KT 10SM CLR 03/M04 A3039 RMK AO2 SLP307 T00331044 KBOK 151956Z AUTO 00000KT 10SM SCT030 13/11 A3042 RMK AO2 SLP302 T01280111 KBOS 151954Z 09009KT 10SM FEW035 OVC250 04/M01 A3009 RMK AO2 SLP188 T00441011 $ KBOW 151950Z 23016KT 10SM FEW045 23/12 A2981 KBPC 152035Z AUTO 33020G34KT 2 1/2SM HZ OVC017 07/M18 A3008 RMK AO2 KBPG 152035Z AUTO 34014KT 10SM CLR 10/M08 A3018 RMK AO2 T00961078 KBPI 151953Z AUTO 01016G23KT 10SM CLR 06/M07 A3025 RMK AO2 SLP257 T00561067 KBPK 151953Z AUTO 30007G20KT 270V330 9SM BKN035 BKN047 OVC070 03/M06 A2967 RMK AO2 PK WND 33026/1913 SNB02E52 SLP050 P0000 T00281056 KBPT 151953Z 27015G25KT 10SM CLR 14/M07 A2998 RMK AO2 PK WND 26028/1918 SLP152 T01441072 KBQK 152035Z AUTO 32007KT 5SM DZ BR BKN008 BKN017 OVC037 13/12 A2974 RMK AO2 T01340125 KBQP 152035Z AUTO 27014G22KT 10SM SCT080 10/M09 A2984 RMK AO2 T01041090 KBQX 152035Z AUTO 32014KT CLR 14/M01 A3011 RMK A01 KBRD 151953Z AUTO 36012KT 6SM BR OVC008 01/M01 A2974 RMK AO2 CIG 007V011 SLP085 T00111011 KBRG 152035Z AUTO 00000KT 10SM CLR 10/M17 A3020 RMK AO2 T00981172 KBRL 151953Z AUTO 05008KT 10SM OVC026 01/M02 A2942 RMK AO2 SLP969 T00061022 KBRO 151953Z 02014G19KT 10SM CLR 19/02 A3014 RMK AO2 SLP206 T01940017 KBRY 152035Z AUTO 22014G22KT 197V257 10SM CLR 06/M08 A2957 RMK AO1 KBTA 152035Z AUTO 32021G32KT 3/4SM -SN OVC010 M01/M02 A2972 RMK AO2 T10101023 KBTL 152000Z 23006KT 10SM SCT026 BKN043 OVC050 02/M01 A2950 RMK AO2 T00221006 KBTM 151953Z AUTO 16003KT 10SM BKN085 M02/M10 A3022 RMK AO2 SLP300 T10171100 KBTP 151956Z AUTO 23013G20KT 9SM -RA FEW019 BKN027 OVC036 04/01 A2958 RMK AO2 RAB24 SLP031 P0000 T00440011 KBTR 151953Z 28018G23KT 10SM CLR 15/M09 A2988 RMK AO2 PK WND 28026/1908 SLP119 T01501089 KBTV 151954Z 13008KT 10SM BKN095 BKN120 03/M03 A2998 RMK AO2 SLP157 T00331033 KBUF 151954Z 11010KT 10SM FEW070 BKN150 BKN200 OVC250 06/M01 A2962 RMK AO2 SLP034 T00611011 $ KBUR 151953Z 12009KT 10SM CLR 28/M04 A3011 RMK AO2 SLP183 T02831044 $ KBUU 152035Z AUTO 11003KT 10SM SCT022 OVC070 02/M02 A2949 RMK AO2 T00201020 PWINO KBUY 152041Z AUTO 20009KT 6SM -RA BR FEW010 SCT016 OVC048 10/08 A2967 RMK AO2 P0008 T01000078 KBVI 152035Z AUTO 21009KT 5SM -RA BKN007 BKN012 OVC032 03/02 A2960 RMK AO2 T00250015 KBVN 152035Z AUTO 34024G34KT 5SM -SN OVC017 M02/M06 A2987 RMK AO2 T10211057 KBVO 151953Z AUTO 32008G23KT 10SM BKN049 OVC060 06/M05 A2986 RMK AO2 PK WND 29028/1918 SLP112 T00561050 KBVS 152035Z AUTO 21005KT 10SM CLR 13/08 A3038 RMK A01 KBVU 152035Z AUTO 03007KT 10SM CLR 19/M09 A3029 RMK AO2 KBVX 151956Z AUTO 27011G19KT 10SM OVC055 05/M07 A2972 RMK AO2 PK WND 26027/1939 SLP067 T00501067 KBVY 152029Z 08007KT 10SM SCT028 05/M02 A3007 RMK AO2 T00501017 PNO KBWD 152035Z AUTO 31020G28KT 10SM CLR 13/M15 A3011 RMK AO1 KBWG 151953Z AUTO 21015G22KT 10SM FEW065 BKN085 09/M08 A2959 RMK AO2 PK WND 24029/1900 SLP019 T00891078 KBWI 151954Z 11013KT 10SM SCT026 BKN150 OVC200 10/03 A2976 RMK AO2 SLP078 T01000033 KBWW 152035Z AUTO 33016KT 10SM CLR M00/M10 A3006 RMK AO2 KBXA 152040Z AUTO 30012G16KT 10SM CLR 16/M10 A2984 RMK AO2 T01621103 KBXK 280935Z AUTO A2981 RMK A01 KBYG 151953Z AUTO 06003KT 10SM CLR 01/M15 A3011 RMK AO2 SLP223 T00111150 KBYH 151958Z 27013G25KT 10SM FEW055 BKN080 OVC120 07/M05 A2967 KBYI 151953Z AUTO 04005KT 10SM CLR 07/M04 A3035 RMK AO2 SLP289 T00671044 KBYL 152035Z AUTO 21005KT 10SM FEW070 08/M09 A2961 RMK AO1 KBYS 151958Z AUTO 16008KT 10SM CLR 20/M08 A3031 RMK AO2 SLP251 T01951079 $ KBYY 152035Z AUTO 30015G19KT 10SM CLR 16/M06 A3008 RMK AO2 T01581065 KBZN 151956Z 00000KT 10SM SCT095 01/M09 A3023 RMK AO2 SLP285 T00061089 $ KC07 152035Z AUTO 28006KT 10SM CLR M07/M12 A3025 RMK AO2 KC09 152035Z AUTO 00000KT 10SM SCT014 BKN037 OVC047 02/00 A2948 RMK AO2 T00151001 KC29 152035Z AUTO 04005KT 10SM SCT014 SCT022 OVC065 02/00 A2951 RMK AO1 T00231002 KC35 152035Z AUTO 02005KT 10SM SCT016 BKN021 OVC042 02/M01 A2952 RMK AO2 T00161008 PWINO KC62 152035Z AUTO 23006KT 10SM OVC060 02/M02 A2952 RMK AO2 T00251024 KC65 152035Z AUTO 00000KT 10SM FEW035 SCT044 OVC049 02/M02 A2951 RMK A01 KC75 152035Z AUTO 13004KT 1 1/2SM +RA SCT009 SCT012 OVC036 00/M01 A2948 RMK AO2 T00021011 KC83 152035Z AUTO VRB04KT 9SM CLR 15/09 A3031 RMK AO2 KC99 152035Z AUTO 31022G43KT 280V360 10SM CLR M06/M17 A3007 RMK AO2 KCAD 152035Z AUTO 08005KT 10SM OVC006 01/00 A2945 RMK AO2 T00080000 KCAE 152035Z 22004KT 5SM BR BKN009 OVC015 10/09 A2970 KCAG 151953Z AUTO 21003KT 10SM CLR M05/M13 A3034 RMK AO2 SLP352 T10501128 KCAK 152032Z 21008KT 1SM R23/P6000FT -SN BR OVC005 01/M01 A2959 KCAO 151955Z AUTO 33018G24KT 10SM CLR 05/M17 A3013 RMK AO2 PK WND 36029/1908 SLP214 T00501172 KCAR 151954Z AUTO 01003KT 10SM OVC040 01/M04 A3010 RMK AO2 SLP204 T00061044 KCAV 152035Z AUTO 36013G20KT 10SM BKN007 BKN011 OVC026 01/01 A2959 RMK A01 KCBE 152035Z AUTO 17007KT 130V190 10SM SCT033 BKN039 OVC049 07/01 A2968 RMK AO2 T00700011 KCBF 152035Z AUTO 34022G36KT 1/2SM -SN BKN008 BKN013 M01/M01 A2968 RMK AO2 KCBG 152035Z AUTO 34006KT 4SM -SN BKN007 02/M02 A2969 RMK AO2 P0002 KCBK 152035Z AUTO 35028G38KT 10SM CLR 02/M15 A2997 RMK AO2 PWINO KCBM 151956Z AUTO 25011G21KT 10SM FEW080 11/M09 A2974 RMK AO2 PK WND 26030/21 SLP074 T01091094 $ KCCA 152035Z AUTO 24014G22KT 10SM SCT060 SCT065 BKN080 05/M07 A2975 RMK AO2 KCCB 152035Z AUTO 23003KT 10SM CLR 28/M09 A3013 RMK AO2 KCCO 152035Z AUTO 26006G17KT 10SM CLR 14/M14 A2969 RMK AO2 T01381145 KCCR 151953Z 02006KT 10SM CLR 17/09 A3032 RMK AO2 SLP254 T01670089 KCCU 152035Z AUTO 28014G21KT 10SM CLR M05/M17 RMK AO2 KCCY 152035Z AUTO 02012KT 10SM OVC013 01/00 A2955 RMK AO2 KCDA 152035Z AUTO 13004KT 10SM CLR 02/M03 A3001 RMK AO2 T00171033 KCDC 151953Z AUTO VRB03KT 10SM CLR 09/M09 A3041 RMK AO2 SLP297 T00891094 KCDD 152033Z AUTO 35004KT 10SM OVC014 00/M01 A2980 RMK AO2 KCDH 152035Z AUTO 28011G17KT 250V310 9SM OVC080 12/M09 A2983 RMK AO2 KCDI 152035Z AUTO 18005KT 10SM OVC010 02/02 A2963 RMK AO2 T00240019 KCDJ 151952Z AUTO 31011G20KT 01/M01 A2950 RMK AO1 SLP999 T00111006 KCDN 152035Z AUTO 20004KT 8SM BKN005 BKN010 OVC020 09/09 A2972 RMK AO2 KCDR 151953Z AUTO 31020G29KT 10SM CLR 03/M14 A3009 RMK AO2 PK WND 30034/1911 SLP225 T00281144 $ KCDS 151953Z AUTO 32028G37KT 9SM OVC035 11/M16 A3008 RMK AO2 PK WND 31044/1905 SLP183 T01111156 KCDW 151953Z 09010KT 6SM HZ OVC011 06/02 A2991 RMK AO2 SLP137 T00610022 KCEC 152032Z AUTO 04005KT 2 1/2SM HZ FEW004 14/11 A3038 RMK AO2 PRESFR T01390111 KCEF 151956Z 12005KT 10SM OVC026 05/M01 A3000 RMK AO2A SLP167 T00461006 KCEU 151954Z AUTO 27013G18KT 10SM CLR 12/M09 A2964 RMK AO2 SLP036 T01221089 KCEW 151953Z AUTO 31010G16KT 10SM CLR 16/M03 A2980 RMK AO2 SLP088 T01611033 KCEY 152035Z AUTO 24017G25KT 10SM FEW041 BKN060 05/M05 A2961 RMK AO1 KCEZ 151953Z AUTO 33015G25KT 10SM CLR 10/M13 A3028 RMK AO2 SLP245 T01001133 KCFD 152035Z AUTO 29017G23KT 10SM CLR 14/M08 A3006 RMK AO2 T01381084 KCFE 152035Z 10SM -RA BKN009 OVC015 01/00 A2970 RMK AO2 T00111001 KCFJ 152035Z AUTO 20013G17KT 10SM BKN030 BKN037 OVC070 01/M03 A2952 RMK AO2 T00081029 KCFO 151947Z 35008KT 10SM FEW220 06/M17 A3012 KCFS 152035Z AUTO 13004KT 4SM RA BKN010 OVC014 02/01 A2950 RMK AO2 T00200014 KCFV 152031Z AUTO 31019G31KT 1 1/2SM -SN BKN022 OVC032 02/M03 A2983 RMK AO2 PK WND 31038/2011 P0000 T00171028 KCGC 152035Z AUTO 21007G16KT 170V260 5SM RA SCT038 BKN048 OVC110 18/16 A2976 RMK AO2 KCGE 152035Z AUTO 15008KT 10SM CLR 11/04 A2978 RMK A01 KCGF 151945Z 20007KT 4SM -FZRA BR OVC009 02/01 A2955 KCGI 151953Z 25022G28KT 10SM SCT046 OVC070 03/M04 A2959 RMK AO2 PK WND 26030/1926 SLP020 T00331039 KCGS 152035Z AUTO 11005KT 10SM SCT035 SCT044 SCT120 10/02 A2976 RMK AO1 T00960022 KCGZ 151956Z AUTO 34009KT 10SM CLR 22/M11 RMK AO2 SLPNO T02221106 $ KCHA 151953Z 24010G18KT 10SM SCT070 SCT100 11/M09 A2964 RMK AO2 PK WND 22029/1903 SLP037 T01111094 KCHD 151947Z 33014KT 10SM CLR 23/M13 A3014 KCHK 152035Z AUTO 32024G31KT 10SM SCT095 08/M09 A2995 RMK AO2 T00841087 KCHO 151953Z 06003KT 10SM BKN060 OVC075 09/01 A2967 RMK AO2 SLP049 T00890011 KCHS 152026Z 20008KT 4SM RA BR SCT025 BKN040 OVC045 12/12 A2975 RMK AO2 P0006 T01220117 KCIC 151947Z VRB04KT 10SM FEW100 BKN150 15/09 A3036 KCID 151952Z 02010KT 10SM BKN015 OVC020 01/M02 A2947 RMK AO2 SLP987 T00061022 KCII 152025Z AUTO 28012G25KT 10SM 09/M03 A3002 RMK A01 Choteau KCIN 152035Z AUTO 34026G35KT 1SM -RA BKN013 OVC021 M00/M00 A2962 RMK AO2 KCIR 152035Z 10SM SCT034 SCT044 OVC060 04/M05 A2962 RMK AO2 T00351048 KCIU 151956Z AUTO 09014KT 8SM OVC017 02/M02 A2963 RMK AO2 PK WND 10026/1915 SLP039 T00171017 FZRANO KCJR 152035Z AUTO 13003KT 10SM OVC075 11/01 A2970 RMK AO2 T01100007 KCKB 152000Z 23005KT 10SM -RA BKN008 03/01 A2966 RMK AO2 PRESRR P0000 T00280011 KCKC 152035Z AUTO 02009KT 10SM OVC007 M01/M03 A2968 RMK AO2 KCKF 152035Z AUTO 29011G14KT 10SM CLR 16/M02 A2973 RMK AO2 T01611021 KCKI 152035Z AUTO 16007KT 10SM -RA OVC006 12/11 A2973 RMK AO2 P0001 KCKM 152035Z AUTO 26019G26KT 10SM 09/M04 A2978 RMK A01 KCKN 152035Z AUTO 35023KT 10SM SCT013 SCT034 M07/M08 A2995 RMK AO2 KCKP 152035Z AUTO 35017G30KT 3SM BR SCT012 SCT017 OVC029 00/M02 A2971 RMK AO2 T10051016 KCKV 151952Z AUTO 25013G28KT 10SM FEW034 SCT070 07/M07 A2960 RMK AO2 PK WND 26028/1947 RAB23E34 SLP024 P0000 T00721067 KCKZ 152035Z AUTO 08006KT 5SM BR BKN010 OVC032 06/06 A2984 RMK AO2 KCLE 152012Z 19007KT 4SM -SN BR SCT006 OVC019 01/00 A2956 RMK AO2 P0001 T00110000 KCLI 152035Z AUTO 01005KT 1/2SM FG OVC002 01/01 A2953 RMK AO2 T00120006 KCLK 152035Z AUTO 33025G31KT 10SM CLR 08/M12 A2999 RMK AO2 TSNO KCLL 151953Z 30020G25KT 10SM CLR 14/M09 A3006 RMK AO2 PK WND 32030/1855 SLP178 T01391094 KCLM 151953Z AUTO 33005KT 10SM CLR 11/06 A3038 RMK AO2 SLP288 T01060056 KCLS 152035Z AUTO 19005KT 9SM SCT009 10/09 A3041 RMK AO2 KCLT 152037Z 22007KT 10SM FEW008 BKN012 BKN150 09/07 A2968 RMK AO2 T00940067 KCLW 152035Z AUTO 19009G18KT 170V230 10SM 19/15 A2980 RMK AO2 KCMA 151955Z 07017G25KT 10SM CLR 33/M04 A3012 RMK AO2 PK WND 07027/1925 SLP205 T03281044 KCMD 152035Z AUTO 27009G16KT 10SM SCT085 09/M11 A2971 RMK AO2 T00931114 KCMH 151951Z 22008KT 10SM SCT055 04/M02 A2958 RMK AO2 SLP021 T00441017 KCMI 151953Z 20011KT 7SM -SN FEW018 BKN037 OVC065 02/M01 A2947 RMK AO2 SNB13E35B43 SLP984 P0001 T00171006 KCMR 152035Z AUTO 36006G12KT 10SM CLR 15/M20 A3034 RMK AO2 KCMX 151953Z AUTO 08010KT 6SM BR OVC007 02/00 A2963 RMK AO2 SLP045 T00220000 KCMY 152035Z AUTO 03006KT 10SM 02/M01 A2956 RMK AO2 P0003 T00201010 KCNB 152035Z AUTO 31022G30KT 280V350 BKN011 OVC016 M02/M03 A2985 RMK AO2 T10231035 PWINO KCNC 152035Z AUTO 35015G21KT 10SM FEW016 BKN023 OVC028 00/00 A2951 RMK AO2 KCNI 152035Z AUTO 26009KT 220V310 10SM CLR 11/M11 A2968 RMK AO2 KCNK 151955Z AUTO 33028G39KT 10SM UP OVC035 01/M07 A2986 RMK AO2 PK WND 32043/1916 UPB17SNB15E17 SLP121 P0000 T00061072 KCNM 151953Z AUTO 17009KT 10SM CLR 08/M11 A3019 RMK AO2 SLP214 T00781111 $ KCNO 151953Z 36003KT 10SM SCT200 31/M03 A3012 RMK AO2 SLP193 T03111028 KCNU 152034Z AUTO 31017G36KT 6SM -SN FEW024 OVC034 02/M03 A2978 RMK AO2 PK WND 32038/2018 P0000 T00221033 KCNW 151955Z 29022G33KT 10SM SKC 13/M14 A3006 KCNY 151953Z AUTO 00000KT 10SM CLR 01/M10 A3036 RMK AO2 SLP321 T00111100 KCOD 151956Z AUTO 03007KT 10SM CLR 02/M14 A3015 RMK AO2 SLP258 T00221139 FZRANO KCOE 151956Z AUTO 01006KT 10SM FEW034 BKN044 01/M04 A3034 RMK AO2 SLP318 T00061039 FZRANO KCOF 151956Z AUTO 13012KT 10SM CLR 20/11 A2981 RMK AO2 SLP099 T01960111 $ KCOM 152035Z AUTO 30016G22KT 10SM CLR 13/M13 A3013 RMK AO2 T01251129 KCON 151951Z AUTO 12009KT 10SM SCT040 05/M05 A3005 RMK AO2 SLP180 T00501050 KCOQ 152035Z AUTO 35010G14KT 10SM OVC005 01/00 A2969 RMK AO2 TSNO KCOS 151954Z VRB03KT 10SM FEW250 05/M16 A3009 RMK AO2 SLP219 T00501161 KCOT 151953Z AUTO 35009KT 10SM CLR 18/M11 A3018 RMK AO2 SLP216 T01781106 KCOU 152031Z 28013G22KT 2 1/2SM -SN BR OVC008 01/M02 A2947 KCPC 152035Z AUTO 16006KT 10SM OVC046 14/08 A2974 RMK AO2 T01420084 KCPF 152035Z AUTO 20008KT 10SM SCT060 BKN070 BKN080 07/M06 A2962 RMK AO2 KCPK 152035Z AUTO 16011G15KT 10SM CLR 14/02 A2975 RMK AO2 T01380017 KCPR 151953Z 21019G25KT 10SM CLR 01/M12 A3013 RMK AO2 PK WND 21027/1916 SLP243 T00061117 KCPS 151953Z 21012G18KT 1 3/4SM -SN BR BKN010 OVC018 01/00 A2949 RMK AO2 SLP987 P0000 T00110000 KCPT 152035Z AUTO 31026G33KT 10SM CLR 12/M13 A3003 RMK A01 KCPU 152035Z AUTO 33004KT 10SM CLR 18/05 A3029 RMK AO2 T01780047 KCPW 152035Z AUTO 35012G23KT 10SM CLR 00/M21 A3030 RMK AO2 KCQB 152035Z AUTO 31026G34KT 10SM SCT055 OVC080 07/M08 A2993 RMK AO2 T00681081 KCQC 151953Z AUTO 32018G29KT 10SM CLR 06/M18 A3015 RMK AO2 PK WND 31035/1917 SLP204 T00611178 KCQF 152035Z AUTO 23010G17KT 200V260 10SM CLR 12/01 A2983 RMK AO2 KCQM 152035Z AUTO 36003KT 10SM OVC007 00/M01 A2975 RMK AO2 KCQT 151952Z AUTO 00000KT 10SM CLR 29/M02 A3009 RMK AO2 SLP188 T02891022 KCQW 152035Z AUTO 24004KT 2 1/2SM -RA BKN005 OVC036 10/09 A2971 RMK AO2 KCQX 151952Z AUTO 05006KT 10SM CLR 06/M02 A3007 RMK AO2 SLP184 T00611022 KCRE 151953Z 18008KT 10SM FEW031 OVC055 14/09 A2975 RMK AO1 SLP074 T01390094 KCRG 151953Z 22015G22KT 10SM FEW055 OVC110 22/11 A2972 RMK AO2 SLP062 T02220111 KCRP 151951Z 02010KT 10SM FEW250 19/M09 A3015 RMK AO2 SLP209 T01891094 KCRQ 151953Z 01005KT 10SM CLR 31/M07 A3008 RMK AO2 SLP183 T03061067 KCRS 151953Z AUTO 30027G37KT 10SM CLR 13/M09 A3002 RMK AO2 PK WND 29037/1904 SLP167 T01281094 KCRW 152026Z 20006KT 10SM SCT014 BKN110 04/01 A2966 KCRX 152035Z AUTO 26013G21KT 10SM FEW055 BKN070 BKN095 08/M08 A2969 RMK AO2 KCSG 151951Z 25010G19KT 10SM CLR 14/M04 A2973 RMK AO2 SLP065 T01441039 KCSM 151953Z 32031G41KT 10SM CLR 08/M12 A3000 RMK AO2 PK WND 31041/1925 SLP160 T00831122 KCSQ 152035Z AUTO 34013G21KT 1SM -RA SCT006 BKN013 BKN019 00/00 A2957 RMK AO2 KCSV 151953Z AUTO 25009G21KT 210V280 10SM BKN075 BKN090 07/M09 A2959 RMK AO2 SLP021 T00671089 KCTB 151956Z AUTO 28009KT 10SM CLR 06/M03 A3005 RMK AO2 SLP208 T00611028 KCTJ 152035Z AUTO 25007G14KT 160V290 10SM SCT095 11/M10 A2971 RMK AO2 T01071097 KCTY 152035Z AUTO 25006KT 10SM SCT015 OVC050 15/13 A2977 RMK AO2 T01510134 KCTZ 152035Z AUTO 19005KT 140V240 10SM OVC048 15/07 A2972 RMK AO2 T01450070 KCUB 151953Z AUTO 00000KT 5SM BR BKN007 OVC012 09/09 A2973 RMK AO2 RAB1857E11 CIG 004V009 SLP067 P0000 T00940089 KCUH 152035Z AUTO 31022G29KT 10SM OVC060 06/M07 A2991 RMK AO2 T00561075 KCUL 152035Z AUTO 23016G20KT 4SM -SN SCT015 BKN029 OVC034 02/M02 A2958 RMK AO2 KCUT 151953Z AUTO 31009G18KT 10SM CLR 00/M18 A3001 RMK AO2 SLP201 T00001183 KCVB 152035Z AUTO 32010G18KT 10SM CLR 17/M11 A3017 RMK AO2 T01711114 KCVC 152035Z AUTO 25007KT 220V300 10SM CLR 12/M05 A2969 RMK AO2 KCVG 152028Z 19007KT 10SM BKN039 BKN055 OVC100 03/M02 A2956 RMK AO2 SNB14E28 BINOVC P0000 T00281022 KCVH 152035Z AUTO 32017G25KT 10SM CLR 20/07 A3026 RMK A01 KCVN 151956Z AUTO 32006KT 10SM CLR 06/M13 A3018 RMK AO2 SLP241 T00611133 KCVO 151956Z AUTO 22003KT 9SM OVC004 10/09 A3044 RMK AO2 SLP309 T01000094 KCVS 151958Z AUTO 23007KT 10SM CLR 05/M14 A3019 RMK AO2 SLP234 T00541136 $ KCVX 152035Z AUTO 06010KT 4SM -RA SCT008 BKN012 OVC017 03/02 A2953 RMK AO2 T00280018 KCWA 151950Z 01005KT 10SM BKN010 OVC015 01/M01 A2953 KCWC 152035Z AUTO 32023G35KT 10SM CLR 11/M15 A3004 RMK AO2 T01051148 KCWF 151945Z 26016G24KT 10SM SKC 14/M09 A2996 KCWI 151956Z AUTO 06010KT 10SM SCT018 OVC025 01/M01 A2947 RMK AO2 SLP990 T00111011 FZRANO KCWN 151958Z AUTO 15004KT 10SM CLR 02/M19 A3004 RMK AO2 SLP120 T00171188 PWINO FZRANO $ KCWV 152035Z AUTO 00000KT 10SM -RA BKN007 OVC011 14/13 A2972 RMK AO2 T01350127 KCXE 152035Z AUTO 13008KT 100V170 10SM OVC042 11/03 A2966 RMK AO1 T01120030 KCXO 151953Z 30011G21KT 10SM CLR 15/M09 A3003 RMK AO2 PK WND 28027/1923 SLP168 T01501089 KCXP 152035Z AUTO 27005KT 10SM CLR 14/M04 A3036 RMK AO2 KCXU 152035Z AUTO 29007KT 260V320 10SM CLR 17/01 A2974 RMK AO1 T01710014 KCXW 152035Z AUTO 27012G19KT 10SM FEW055 SCT065 OVC080 05/M03 A2979 RMK A01 KCXY 151956Z 11011KT 4SM HZ OVC033 08/03 A2976 RMK AO2 SLP081 T00830028 KCYD 152035Z AUTO 30016G20KT 10SM CLR 16/M01 A2995 RMK A02 TSNO T01651007 KCYS 151953Z 32023G41KT 10SM CLR 04/M13 A3006 RMK AO2 PK WND 33047/1904 SLP202 T00441133 $ KCZL 152035Z AUTO 24013G23KT 10SM SCT085 11/M07 A2969 RMK AO2 KCZT 152035Z AUTO 33004KT 10SM CLR 16/M10 A3018 RMK AO2 KCZZ 261552Z AUTO 05012G17KT 09/M03 A2999 RMK AO1 SLP140 T00891028 KD07 151956Z AUTO 33019G28KT M01/M09 A3006 RMK AO1 PK WND 33031/1906 SLP214 T10111094 KD25 152035Z AUTO 01004KT 1 3/4SM -SN OVC004 00/00 A2959 RMK AO2 T00020002 KD39 152035Z AUTO 33016G22KT 10SM OVC009 00/M01 A2976 RMK AO2 T00001015 KD50 152035Z AUTO 29007KT 9SM OVC005 M08/M08 A3014 RMK AO2 KD55 152035Z AUTO 34016G21KT 9SM M07/M07 A3000 RMK AO2 KD57 152035Z AUTO 33017KT 10SM OVC019 M03/M09 A3007 RMK AO2 KD60 152035Z AUTO 29008G14KT 9SM OVC004 M07/M07 A3011 RMK AO2 KD73 152035Z AUTO 29009G18KT 10SM CLR 12/M07 A2969 RMK AO2 T01211072 KD95 152035Z AUTO 21004KT 7SM -SN OVC007 02/01 A2951 RMK AO2 T00150012 KDAA 151956Z AUTO 12009KT 10SM BKN130 11/03 A2975 RMK AO2 SLP078 T01080026 $ KDAB 151953Z 22012G21KT 10SM FEW035 FEW150 BKN250 21/11 A2978 RMK AO2 SLP083 T02110106 KDAG 151950Z AUTO 26003KT 10SM CLR 19/M06 A3032 RMK AO2 SLP259 T01941061 KDAL 151953Z 31028G36KT 10SM CLR 12/M12 A3000 RMK AO2 PK WND 30040/1942 SLP159 T01221122 KDAN 152024Z AUTO 28009KT 5SM -RA BR FEW007 BKN017 OVC028 08/07 A2968 RMK AO2 P0004 T00830067 KDAW 151951Z AUTO 12006KT 10SM CLR 04/M04 A3008 RMK AO2 SLP184 T00391044 KDAY 152041Z 23016G32KT 3/4SM R06L/5000VP6000FT -SN BR SCT016 BKN033 OVC070 02/00 A2959 RMK AO2 PK WND 25032/2033 CIG 017 RWY 6L SNB17 P0000 T00170000 KDBN 152030Z AUTO 00000KT 10SM CLR 17/03 A2971 RMK AO2 KDBQ 152013Z 05007KT 10SM FEW015 BKN050 OVC070 01/M02 A2948 KDCA 151952Z 18010KT 10SM SCT045 OVC140 11/03 A2977 RMK AO2 SLP079 T01060028 KDCM 152035Z AUTO 18004KT 10SM SCT012 09/07 A2968 RMK AO2 KDCU 151953Z AUTO 26014G28KT 10SM FEW090 08/M10 A2968 RMK AO2 PK WND 25028/1945 SLP051 T00831100 KDCY 152035Z AUTO 22009G16KT 10SM SCT046 BKN050 BKN070 05/M04 A2954 RMK AO2 T00471044 KDDC 151952Z AUTO 33029G53KT 7SM CLR 05/M12 A2994 RMK AO2 PK WND 32053/1952 SLP147 T00501122 $ KDDH 151954Z AUTO 12006KT 10SM SCT022 03/M03 A2995 RMK AO2 SLP149 T00281028 KDEC 151954Z 21011G21KT 10SM SCT014 BKN027 BKN032 02/00 A2946 RMK A02 SNB21E40 SLP982 KDED 152035Z AUTO 22010G18KT 10SM SCT040 SCT050 22/13 A2977 RMK AO2 T02170128 KDEH 152035Z AUTO 36006G11KT 10SM 01/01 A2952 RMK AO2 KDEN 151953Z VRB03KT 10SM FEW100 FEW220 06/M17 A3010 RMK AO2 SLP198 T00561167 KDEQ 151953Z AUTO 28017G24KT 10SM OVC085 09/M08 A2986 RMK AO2 PK WND 29027/1907 SLP110 T00891083 KDET 151953Z 25008KT 6SM -RA BR BKN007 OVC023 02/00 A2952 RMK AO2 UPB02E25RAB25SNE02 SLP000 P0000 T00170000 KDEW 151953Z AUTO 00000KT 10SM FEW042 OVC100 01/M05 A3034 RMK AO2 SLP297 T00111050 KDFI 151953Z AUTO 21009KT 10SM OVC060 04/M03 A2954 RMK AO2 SLP007 T00441033 KDFW 151953Z 30024G39KT 10SM CLR 11/M13 A2999 RMK AO2 PK WND 31043/1857 SLP154 T01111133 KDGW 151953Z AUTO 31017KT 10SM CLR 03/M11 A3013 RMK AO2 PK WND 30026/1902 SLP235 T00281106 KDHN 151953Z 28010KT 10SM CLR 16/M01 A2978 RMK AO2 SLP083 T01611011 KDHT 151953Z AUTO 34019G29KT 10SM CLR 07/M19 A3014 RMK AO2 PK WND 34032/1942 SLP211 T00721194 KDIJ 151956Z AUTO 36003KT 10SM CLR M04/M10 A3039 RMK AO2 SLP371 T10391100 KDIK 151956Z AUTO 30011KT 10SM CLR M02/M09 A3006 RMK AO2 SLP214 T10221089 KDKB 152035Z AUTO 08005KT 10SM SCT013 BKN030 OVC085 01/M01 A2949 RMK AO2 T00101008 KDKK 151953Z AUTO VRB03KT 10SM SCT110 07/M02 A2960 RMK AO2 SLP027 T00721017 KDKX 152035Z AUTO 22006KT 10SM CLR 09/M05 A2965 RMK A01 KDLF 151956Z AUTO 34010KT 10SM CLR 15/M12 A3018 RMK AO2 SLP220 T01541120 $ KDLH 152040Z 36006KT 2SM -SN BR BKN007 BKN017 OVC027 01/00 A2969 KDLL 152035Z AUTO 06006KT 10SM SCT014 SCT022 OVC034 01/M01 A2951 RMK AO2 T00061011 KDLN 151953Z AUTO 26012KT 10SM OVC075 04/M09 A3023 RMK AO2 SLP272 T00441089 KDLO 152035Z AUTO 24003KT 5SM HZ CLR 16/03 A3026 RMK AO2 T01640027 KDLP 201200Z AUTO A3030 RMK A01 KDLS 151953Z AUTO 00000KT 10SM CLR 07/02 A3039 RMK AO2 SLP294 T00670022 KDLZ 152035Z AUTO 23007KT 10SM SCT055 SCT065 04/M02 A2958 RMK AO2 KDMA 151958Z AUTO 32004KT 10SM CLR 19/M10 A3013 RMK AO2 SLP185 T01931098 FZRANO $ KDMN 151953Z AUTO 00000KT 10SM CLR 15/M14 A3019 RMK AO2 SLP185 T01501144 KDMO 152006Z AUTO 29018G30KT 3SM -SN BR OVC014 00/M02 A2952 RMK AO2 PK WND 28030/2004 P0000 T00001022 KDMW 152035Z AUTO 13007KT 10SM CLR 08/04 A2975 RMK AO2 KDNA 152035Z AUTO 00000G10KT 10SM CLR 15/M18 A3016 RMK AO2 KDNL 151953Z AUTO 18004KT 10SM CLR 13/08 A2970 RMK AO2 SLP056 T01280078 KDNN 152035Z AUTO 26004KT 10SM OVC095 11/M13 A2968 RMK AO2 KDNS 152035Z AUTO 34022G29KT 2SM -RA OVC013 M01/M01 A2968 RMK AO2 VIS 1 1/2V3 KDNV 152035Z AUTO 21010KT 3/4SM -SN BKN006 OVC009 00/00 A2952 RMK AO2 T00021001 KDOV 151956Z 11009KT 10SM BKN055 BKN220 11/07 A2979 RMK AO2A SLP091 T01110074 $ KDPA 152029Z 18008KT 10SM BKN020 BKN027 OVC080 02/M02 A2948 RMK AO2 T00171017 KDPG 142255Z 29005KT 45SM FEW180 BKN220 BKN390 07/M11 A3047 RMK SLP321 T00731105 LAST KDPL 131915Z AUTO 27006KT 10SM CLR 14/03 A3003 RMK AO2 KDQH 152035Z AUTO 26006KT 10SM SCT012 SCT019 OVC110 14/12 A2974 RMK AO2 T01420115 KDRA 151953Z AUTO 00000KT 10SM CLR 20/M11 A3034 RMK AO2 SLP248 T02001111 KDRI 152035Z AUTO 28014G23KT 10SM CLR 14/M08 A2994 RMK AO2 T01381078 KDRM 152035Z AUTO 08011G16KT 5SM -SN SCT013 OVC022 01/M01 A2963 RMK AO2 T00121010 KDRO 151953Z AUTO 08007KT 10SM CLR 02/M12 A3021 RMK AO2 SLP253 T00221117 KDRT 151953Z AUTO VRB06KT 10SM CLR 16/M09 A3019 RMK AO2 SLP220 T01611094 $ KDSF 152035Z AUTO 30007G20KT 280V350 10SM CLR 16/M01 A2991 RMK A01 KDSM 152023Z 36011KT 10SM R31/4000VP6000FT -SN BKN012 OVC018 01/M01 A2955 KDSV 151954Z AUTO 16020G29KT 10SM CLR 07/M01 A2967 RMK AO2 PK WND 16030/1928 SLP059 T00721011 KDTA 301935Z AUTO 12003G08KT 10SM CLR 05/M07 A3029 RMK AO1 KDTL 152035Z AUTO 33020G26KT 2 1/2SM BR OVC004 M05/M06 A2985 RMK AO2 KDTN 151953Z 28018G31KT 10SM CLR 11/M09 A2990 RMK AO2 PK WND 26031/1949 SLP124 T01111094 KDTO 151953Z 32023G37KT 10SM CLR 11/M12 A3000 RMK AO2 PK WND 29037/1946 SLP159 T01111122 KDTS 151953Z 24008KT 10SM CLR 15/03 A2979 RMK AO2 SLP088 T01500028 KDTW 152022Z 20009KT 5SM BR OVC006 02/01 A2955 RMK AO2 RAE16SNE16 P0000 T00170006 KDUA 152035Z AUTO 30018G28KT 10SM SCT085 10/M07 A2997 RMK AO2 KDUB 152035Z AUTO 29020G32KT 10SM CLR 06/M12 A3020 RMK AO2 KDUC 152035Z AUTO 31023G33KT 10SM CLR 09/M12 A3000 RMK AO2 T00921120 KDUH 152035Z AUTO 21009KT 10SM BKN048 04/00 A2955 RMK AO2 T00370001 KDUJ 152032Z AUTO 13011G18KT 2SM -SN OVC023 03/M01 A2960 RMK AO2 SNB20 P0000 T00281011 KDUX 152035Z AUTO 31026G34KT 3SM HZ OVC007 07/M21 A3011 RMK AO2 T00681211 KDVK 152035Z AUTO 30010G19KT 10SM BKN065 BKN080 OVC090 06/M05 A2960 RMK AO2 KDVL 152016Z AUTO 35016KT 10SM OVC015 M06/M08 A3002 KDVN 152031Z AUTO 10SM FEW009 BKN046 OVC055 01/M02 A2950 RMK AO2 SNE1953 P0000 T00111017 KDVO 152035Z AUTO 12007KT 10SM CLR 17/10 A3030 RMK AO2 KDVP 152033Z AUTO 33021G34KT M03/M04 A2974 RMK AO2 T10271040 PWINO KDVT 151953Z 00000KT 10SM CLR 23/M10 A3015 RMK AO2 SLP195 T02281100 KDWA 152035Z AUTO 00000KT 4SM BR 11/11 A3034 RMK AO2 KDWH 151953Z 29016G25KT 10SM CLR 14/M08 A3004 RMK AO2 PK WND 29028/1924 SLP173 T01441083 KDWU 131856Z AUTO 27005KT 10SM CLR 08/M01 A2999 RMK AO2 SLP162 T00831011 KDWX 152035Z AUTO 08012KT 10SM CLR 00/M13 A3032 RMK AO2 T10031131 KDXR 151953Z 09007KT 7SM OVC008 04/01 A2995 RMK AO2 SLP145 T00390011 KDXX 152035Z AUTO 35030G38KT BKN015 OVC025 M02/M03 A2986 RMK AO2 PWINO KDYA 152035Z AUTO 26015G23KT 10SM CLR 12/M09 A2978 RMK AO2 T01241093 KDYB 152035Z AUTO 19005KT 3SM -RA BR SCT006 BKN010 OVC016 13/13 A2974 RMK AO2 KDYL 151954Z AUTO 00000KT 10SM OVC011 08/04 A2984 RMK AO2 SLP109 T00780039 KDYR 151956Z AUTO 26017G27KT 10SM BKN050 06/M04 A2966 RMK AO2 PK WND 25028/1946 SLP051 T00611044 PNO $ KDYS 151959Z 33022G29KT 10SM CLR 11/M15 A3012 RMK AO2A PK WND 33029/57 SLP202 T01131153 KDYT 152035Z AUTO 03014KT 7SM OVC017 02/00 A2972 RMK AO2 KDZB 152040Z AUTO 32012G20KT 10SM CLR 14/M13 A3014 RMK AO2 KDZJ 152035Z AUTO 26010G24KT 230V290 10SM SCT095 08/M11 A2965 RMK AO2 T00831106 KE11 152035Z AUTO 30006KT 10SM CLR 08/M13 A3020 RMK AO2 T00821132 KE16 152035Z AUTO 33012G16KT 10SM CLR 17/08 A3027 RMK AO2 KE38 152035Z AUTO 00000KT 10SM CLR 10/M06 A3021 RMK AO2 T01011061 KE41 152035Z AUTO 35006KT 10SM CLR 10/M14 A3020 RMK AO2 T01011136 KEAN 152035Z AUTO 32006KT 10SM CLR 05/M12 A3010 RMK AO2 T00511124 KEAR 151956Z AUTO 34028G36KT 10SM OVC029 M01/M07 A2991 RMK AO2 PK WND 35039/1905 SNE15 SLP149 P0000 T10111067 FZRANO KEAT 151955Z AUTO 36003KT 10SM CLR 01/M02 A3035 RMK AO2 SLP291 T00111022 KEAU 151956Z 02003KT 10SM BKN014 OVC019 02/01 A2957 RMK AO2 UPE18B24E27RAB15E16B18E28 SLP022 P0000 T00220006 KEBG 152035Z AUTO 36007G16KT 10SM CLR 18/M08 A3016 RMK AO2 T01831084 TSNO KEBS 152015Z AUTO 36018G23KT 10SM FEW013 SCT026 BKN036 01/01 A2957 RMK AO2 KECG 151954Z 18009KT 10SM CLR 14/06 A2978 RMK AO2 SLP084 T01390061 KECP 151953Z 25012KT 10SM CLR 16/01 A2978 RMK AO2 SLP095 T01610011 KECS 152035Z AUTO 31015KT 10SM CLR 00/M14 A3010 RMK AO2 KECU 152035Z AUTO 35013G19KT 10SM CLR 12/M15 A3021 RMK AO2 KEDC 152035Z AUTO 29018G27KT 10SM CLR 15/M15 A3010 RMK AO2 KEDE 152035Z AUTO 20013G19KT 10SM CLR 16/09 A2976 RMK AO2 T01600085 KEDJ 152015Z AUTO 23009KT 10SM FEW038 SCT046 04/M02 A2956 RMK AO1 KEDN 152035Z AUTO 27006KT 240V300 10SM CLR 14/M03 A2976 RMK AO2 T01441028 KEDU 152035Z AUTO 00000KT 6SM CLR 13/13 A3032 RMK AO1 KEDW 151958Z 00000KT 90SM BKN350 15/M05 A3033 RMK AO2A SLP272 T01521053 KEED 151956Z AUTO 01018KT 10SM CLR 23/M08 A3023 RMK AO2 PK WND 01029/1857 PRESFR SLP217 T02331078 KEEN 151956Z AUTO 15003KT 10SM SCT033 04/M03 A3002 RMK AO2 SLP175 T00391028 $ KEEO 151953Z AUTO 00000KT 10SM CLR M03/M14 A3033 RMK AO2 SLP329 T10331139 KEET 151953Z AUTO 27011G23KT 230V320 10SM CLR 12/M09 A2972 RMK AO2 SLP061 T01221089 KEFD 151950Z 29017G24KT 10SM CLR 15/M10 A3004 KEFK 152035Z AUTO 00000KT 10SM CLR 02/M02 A3000 RMK AO2 T00151024 KEFT 152035Z AUTO 00000KT 10SM BKN033 OVC039 00/M02 A2948 RMK AO2 T00001016 KEGE 151956Z 28003KT 10SM CLR M04/M14 A3035 RMK AO2 SLP354 T10391139 PNO $ KEGI 151956Z AUTO 28010KT 10SM CLR M A2977 RMK AO2 SLPNO ALSTG ESTMD $ KEGV 152035Z AUTO 03006KT 4SM -SN OVC009 01/01 A2957 RMK AO2 T00070007 KEHA 152035Z AUTO 34026G39KT 1 3/4SM HZ OVC007 07/M15 A3006 RMK AO2 T00721148 KEHO 152035Z AUTO 24005KT 10SM SCT031 SCT039 10/03 A2966 RMK AO2 T00970034 KEHR 151956Z AUTO 22012KT 10SM FEW012 BKN045 OVC055 04/M03 A2956 RMK AO2 PK WND 22029/1929 RAB31E44UPB44E50 SLP011 P0000 T00441028 KEHY 152035Z AUTO 10SM CLR 00/M12 A3013 RMK AO2 PWINO KEIK 152035Z AUTO 17008KT 150V210 10SM CLR A3008 RMK AO2 KEIR 152035Z AUTO 29020G25KT 8SM CLR 14/02 A3000 RMK A01 KEKM 151951Z 29006KT 5SM -SN OVC028 02/M02 A2950 RMK AO2 KEKN 152042Z AUTO 00000KT 1 3/4SM -SN BR FEW006 OVC014 01/M01 A2966 RMK AO2 RAE16SNB16 P0003 T00111011 KEKO 151956Z AUTO VRB03KT 10SM CLR 05/M04 A3038 RMK AO2 SLP306 T00501039 KEKQ 151956Z AUTO 27012G22KT 10SM FEW030 BKN065 OVC080 07/M04 A2962 RMK AO2 PK WND 23029/1919 SLP028 T00671039 KEKS 152035Z AUTO 17023KT 10SM BKN075 03/M09 A3024 RMK AO2 KEKX 152035Z AUTO 23012G15KT 10SM SCT060 BKN075 06/M08 A2957 RMK AO2 T00571078 KEKY 151956Z AUTO 26015G22KT 10SM CLR 11/M10 A2973 RMK AO2 PK WND 25028/1857 SLP916 T01111100 PNO $ KELA 152035Z AUTO 10SM CLR 16/M07 A3007 RMK AO2 T01641075 KELD 151953Z AUTO 25018G25KT 10SM BKN085 11/M08 A2985 RMK AO2 PK WND 27029/1906 SLP109 T01061083 KELK 152035Z AUTO 33026G31KT 10SM BKN045 BKN050 09/M12 A2998 RMK AO2 T00861125 KELM 152034Z VRB04G18KT 10SM OVC031 06/00 A2974 RMK AO2 T00560000 KELN 151953Z AUTO 13006KT 10SM CLR 04/01 A3032 RMK AO2 SLP281 T00440006 KELO 152035Z AUTO 35004KT 10SM SCT009 OVC016 01/01 A2973 RMK AO2 KELP 151951Z 21006KT 10SM FEW250 15/M16 A3016 RMK AO2 SLP179 T01501161 KELY 151953Z AUTO VRB03KT 10SM CLR 11/M06 A3040 RMK AO2 SLP296 T01111061 KELZ 151956Z AUTO 16013G33KT 10SM CLR 02/M03 A2964 RMK AO2 PK WND 16034/1931 SLP054 T00221028 KEMK 152035Z AUTO RMK A01 PNO KEMM 152035Z AUTO 27012G17KT 10SM CLR 00/M08 A3032 RMK AO2 KEMP 151953Z AUTO 32025G41KT 8SM UP FEW026 OVC035 01/M03 A2977 RMK AO2 PK WND 34041/1951 UPB49SNE49 SLP090 P0000 T00111033 KEMT 151950Z 32006KT 10SM CLR 28/M04 A3011 KEMV 152035Z AUTO 13010G14KT 10SM SCT060 BKN100 13/02 A2973 RMK AO2 T01310024 KEND 151956Z AUTO 33025G37KT 10SM BKN055 OVC080 06/M08 A2993 RMK AO2 PK WND 33041/00 SLP144 T00601083 $ KENL 152035Z AUTO 20011KT 1 3/4SM -SN OVC008 01/00 A2953 RMK AO2 T00080001 KENV 151956Z AUTO 10007KT 10SM CLR 02/M08 A3042 RMK AO2 SLP339 T00221078 FZRANO PNO $ KENW 151953Z 11006KT 10SM SCT019 OVC070 03/M02 A2948 RMK AO2 SLP989 T00331017 KEOD 151958Z AUTO 25010G19KT 10SM BKN065 07/M07 A2960 RMK AO2 SLP028 T00661073 KEOE 152035Z AUTO 25009KT 10SM SCT033 11/02 A2971 RMK AO2 KEOK 152035Z AUTO 03009KT 10SM FEW017 OVC029 01/M01 A2945 RMK AO2 KEPH 151953Z AUTO 04005KT 10SM CLR 03/M02 A3036 RMK AO2 SLP291 T00331022 KEQA 152035Z AUTO 32022G30KT 10SM -RA SCT030 OVC037 03/M04 A2984 RMK AO2 KEQY 151953Z AUTO 21007KT 10SM OVC005 08/07 A2968 RMK AO2 RAE07 SLP067 P0000 T00780072 KERI 151951Z 13015G20KT 10SM BKN050 BKN100 09/M01 A2954 RMK AO2 PK WND 12026/1919 SLP005 T00891011 KERV 152035Z AUTO 33013G21KT 10SM CLR 14/M24 A3015 RMK AO2 T01351237 KERY 152035Z AUTO 06009KT 10SM OVC013 01/M01 A2962 RMK AO2 T00111009 KESC 151956Z AUTO 05008G15KT 5SM -RA BR OVC006 02/01 A2957 RMK AO2 SLP022 P0001 T00170011 FZRANO KESF 151953Z AUTO 27016G24KT 10SM CLR 13/M08 A2988 RMK AO2 PK WND 26032/1901 SLP118 T01331078 KESN 151950Z 15005KT 10SM BKN080 13/02 A2981 KEST 152041Z AUTO 35024G31KT 1SM -SN BR OVC008 M01/M01 A2966 RMK AO2 PK WND 34032/1955 P0000 T10111011 KETB 152035Z AUTO 05004KT 10SM -DZ SCT025 BKN033 OVC044 02/00 A2949 RMK AO2 KETC 152035Z AUTO 16004KT 10SM SCT065 OVC100 15/04 A2972 RMK AO2 T01470042 KETH 152033Z AUTO 33013G23KT 4SM -SN OVC014 M04/M06 A2992 RMK AO2 KETN 152035Z AUTO 32025G33KT 10SM CLR 12/M16 A3008 RMK AO2 T01151158 KEUF 151958Z AUTO 28008KT 10SM CLR 16/M02 A2974 RMK AO2 SLP071 I1000 T01561022 KEUG 151954Z 15004KT 6SM BR BKN006 OVC015 11/09 A3044 RMK AO2 SLP308 T01060089 KEUL 151956Z AUTO 00000KT 10SM FEW090 01/M03 A3041 RMK AO2 SLP322 T00111028 FZRANO KEVB 151947Z 22013KT 10SM SCT080 21/11 A2978 KEVM 152035Z AUTO 35004KT 10SM BKN010 OVC023 01/00 A2973 RMK AO2 T00100000 KEVU 152035Z AUTO 33017G31KT 3SM UP OVC012 00/00 A2961 RMK AO2 T00061007 KEVV 151954Z 22017G27KT 10SM SCT038 BKN060 BKN070 06/M06 A2955 RMK AO2 PK WND 21027/1948 SLP009 T00611056 KEVW 151953Z AUTO 24016KT 10SM CLR 04/M08 A3036 RMK AO2 SLP295 T00441083 KEWB 151953Z 07009KT 10SM OVC032 07/M01 A3004 RMK AO2 SLP171 T00671006 KEWK 151956Z AUTO 33030G36KT 10SM OVC032 02/M06 A2984 RMK AO2 PK WND 33037/1944 UPE00RAB00E53 SLP113 P0000 T00171056 FZRANO KEWN 151954Z 20009KT 10SM CLR 16/07 A2977 RMK AO2 SLP080 T01610072 KEWR 151951Z 05008KT 8SM FEW012 OVC016 07/03 A2991 RMK AO2 SLP127 T00720033 KEXX 152035Z AUTO 18003KT 7SM SCT004 BKN010 OVC037 07/07 A2968 RMK AO2 T00700070 KEYE 151953Z AUTO 22010G18KT 10SM OVC055 03/M04 A2950 RMK AO2 SNB34E43 SLP995 P0000 T00331044 KEYF 152035Z AUTO 19014G17KT 10SM OVC048 14/08 A2973 RMK AO2 T01410077 KEYW 151953Z 09007KT 10SM BKN110 21/17 A2989 RMK AO2 SLP120 T02060167 KEZF 152035Z AUTO 15006KT 10SM SCT065 OVC095 12/03 A2971 RMK AO2 T01150030 KEZM 152030Z AUTO 25007KT 10SM SCT043 15/04 A2972 RMK AO2 T01520042 KEZS 152035Z AUTO 01008KT 1/2SM FG OVC002 02/02 A2953 RMK AO2 T00200018 KEZZ 152035Z AUTO 31015KT 3 1/2SM BR OVC009 00/M02 A2958 RMK AO2 T10031017 KF00 152035Z AUTO 32015G29KT 10SM CLR 10/M11 A2996 RMK AO2 T00971113 KF05 152035Z AUTO 34025G32KT 10SM CLR 12/M13 A3005 RMK AO2 T01201127 KF17 152035Z AUTO 28017G25KT 10SM CLR 12/M13 A2994 RMK AO2 KF44 152035Z AUTO 30013G29KT 10SM CLR 11/M11 A2998 RMK AO2 KF45 151915Z AUTO 21006KT 10SM CLR 23/10 A2988 RMK AO2 KF46 152035Z AUTO 26019G28KT 10SM CLR 11/M11 A2999 RMK AO2 T01081108 KF70 152035Z AUTO 01006KT 10SM CLR 28/M06 A3013 RMK AO1 KFAF 151956Z 18007KT 10SM SCT210 12/02 A2973 RMK AO2A SLP071 T01230022 $ KFAM 152031Z AUTO 22011KT 2 1/2SM -SN BR BKN012 BKN020 OVC024 01/M01 A2953 RMK AO2 P0000 FZRANO KFAR 151953Z 35027G38KT 9SM OVC016 M05/M08 A2994 RMK AO2 PK WND 35038/1946 UPB1856E23SNB29E39 SLP152 P0000 T10501078 KFAT 151953Z 29003KT 4SM HZ FEW120 SCT200 16/08 A3030 RMK AO2 SLP259 T01610083 $ KFAY 151953Z 22006KT 10SM -RA BKN032 BKN042 OVC055 12/08 A2972 RMK AO2 RAB15 SLP058 P0000 T01170083 KFBG 151956Z AUTO 20004KT 10SM -RA OVC032 11/10 A2971 RMK AO2 SLP065 P0002 T01060104 KFBL 152035Z AUTO 34011G14KT 5SM -RA OVC009 01/01 A2963 RMK AO2 KFCI 151956Z AUTO 15007KT 10SM BKN110 12/03 A2972 RMK AO2 SLP075 T01170028 PNO $ KFCM 152016Z 35010KT 5SM -RA BR OVC009 02/01 A2964 RMK AO2 UPB1958E00RAB00SNE1958 P0000 T00170006 KFCS 151958Z AUTO 28004KT 10SM CLR 04/M17 A3009 RMK AO2 SLPNO T00411169 $ KFDK 151947Z 00000KT 10SM SCT120 09/03 A2975 KFDR 151953Z AUTO 33030G37KT 10SM CLR 11/M13 A3001 RMK AO2 PK WND 33040/1905 SLP157 T01061128 $ KFDW 152035Z AUTO 18005KT 10SM BKN005 OVC011 08/08 A2970 RMK AO1 KFDY 151953Z AUTO 21011KT 10SM FEW029 SCT037 SCT055 06/M02 A2954 RMK AO2 SLP003 T00561022 KFEP 152035Z AUTO 06005KT 10SM SCT016 SCT046 OVC080 01/M02 A2951 RMK AO2 T00051016 KFET 152035Z AUTO 32026G33KT 2 1/2SM -SN OVC016 M01/M03 A2978 RMK AO2 T10071030 KFEW 151958Z AUTO 32032G39KT 10SM CLR 05/M14 A3008 RMK AO2 PK WND 32039/02 SLP215 T00471142 $ KFFA 152035Z AUTO 17003KT 10SM CLR 14/06 A2978 RMK AO2 T01390061 KFFC 151953Z AUTO 26011G22KT 10SM CLR 12/M07 A2970 RMK AO2 SLP058 T01221072 KFFL 152035Z AUTO 02015KT 10SM SCT019 BKN026 OVC033 01/01 A2949 RMK A01 KFFM 152035Z AUTO 35019G30KT 5SM BR OVC009 M05/M07 A2990 RMK AO2 KFFO 151956Z AUTO 20011KT 10SM SCT047 BKN060 OVC080 05/M06 A2955 RMK AO2 SLP013 T00541062 KFFT 151953Z AUTO 23011G20KT 10SM BKN060 BKN075 07/M04 A2957 RMK AO2 PK WND 23033/1913 RAB16E28 SLP013 P0000 T00721044 KFFX 152039Z AUTO 00000KT 7SM -SN SCT005 BKN010 OVC035 01/00 A2950 RMK AO2 T00110003 KFFZ 151954Z 02007KT 10SM CLR 23/M12 A3014 RMK AO2 SLP188 T02331122 KFGN 152035Z AUTO 32014KT M05/M06 A2986 RMK AO2 PWINO KFGX 152035Z AUTO 21012G15KT 10SM SCT055 BKN075 06/M04 A2961 RMK AO2 T00551043 KFHB 152035Z AUTO 22008KT 10SM BKN048 OVC055 19/14 A2971 RMK AO2 T01930140 KFHR 151953Z AUTO 12004KT 10SM CLR 10/07 A3038 RMK AO2 SLP287 T01000067 TSNO KFHU 151958Z AUTO 09004KT 10SM CLR 19/M15 A3020 RMK AO2 SLP184 T01881148 KFIG 152015Z AUTO 13008KT 100V170 10SM -RA BKN026 OVC032 04/M02 A2964 RMK AO2 RAB11 P0000 T00391017 KFIN 151950Z 22014G23KT 10SM SCT045 22/11 A2976 KFIT 151952Z AUTO 12008KT 10SM FEW033 05/M03 A3004 RMK AO2 SLP176 T00501028 KFKA 152035Z AUTO 01006KT 10SM SCT020 BKN032 OVC040 01/M01 A2957 RMK AO2 T00061010 KFKL 152030Z AUTO 15010G15KT 10SM -RA BKN021 OVC029 04/01 A2957 RMK AO2 P0000 KFKN 152035Z AUTO 16013KT 10SM CLR 14/02 A2974 RMK AO2 T01430017 KFKR 152035Z AUTO 22009KT 8SM UP FEW036 SCT048 OVC080 02/M02 A2951 RMK AO2 KFKS 152035Z AUTO 04003KT 4SM -DZ OVC007 02/01 A2950 RMK AO2 T00230006 KFLD 151953Z AUTO 35006KT 10SM OVC034 03/00 A2950 RMK AO2 SLP995 T00280000 KFLG 151957Z 09020G29KT 10SM CLR 12/M21 A3033 RMK AO2 PK WND 09029/1951 SLP237 T01221206 KFLL 151953Z 22004KT 10SM FEW040 BKN075 BKN250 24/12 A2986 RMK AO2 SLP111 T02440117 KFLO 151953Z 15009KT 4SM -RA BR BKN060 OVC075 11/10 A2971 RMK AO2 PRESFR SLP060 P0010 T01110100 KFLP 151956Z AUTO 29015G26KT 9SM FEW017 SCT043 02/M03 A2971 RMK AO2 PK WND 27027/1926 RAB12E18B40E52UPB52E56 SLP064 P0000 T00221033 FZRANO KFLY 152035Z AUTO 35013G22KT 10SM CLR 04/M19 A3008 RMK AO2 T00351194 KFME 152035Z AUTO 14007G14KT 10SM SCT120 08/05 A2979 RMK AO1 KFMH 151955Z 08008KT 10SM OVC034 06/M01 A3006 KFMM 152035Z AUTO 27030G40KT 3/4SM HZ VV005 06/M20 A3010 RMK AO2 T00601198 KFMN 151953Z 28028G34KT 10SM CLR 09/M14 A3019 RMK AO2 PK WND 29034/1952 SLP228 T00891144 KFMY 151953Z 20009KT 10SM CLR 23/14 A2984 RMK AO2 SLP107 T02280139 KFNB 152037Z AUTO 32023G42KT 2SM -SN BR SCT014 BKN022 OVC038 M01/M02 A2969 KFNL 151956Z 20011KT 10SM CLR 05/M14 A3008 RMK AO2 SLP195 T00501144 KFNT 152037Z 23005KT 4SM -SN BR SCT007 OVC023 02/00 A2952 KFOA 152035Z AUTO 22016KT 10SM -RA SCT018 SCT028 BKN034 02/M02 A2955 RMK AO2 KFOD 151956Z AUTO 35011G20KT 9SM OVC007 01/00 A2959 RMK AO2 SLP057 T00110000 FZRANO KFOE 152011Z AUTO 32029G46KT 1SM -SN BR SCT013 BKN022 OVC033 00/M02 A2971 RMK AO2 PK WND 33046/2003 P0000 T00001022 RVRNO KFOK 151953Z 09009G21KT 10SM BKN015 OVC021 07/03 A2997 RMK AO2 SLP150 T00670033 KFOT 152005Z AUTO 00000KT 10SM FEW100 14/11 A3038 RMK AO1 KFOZ 152033Z AUTO 34003KT 7SM BKN010 OVC017 00/M02 A2984 RMK AO2 KFPK 152035Z AUTO 21004KT 10SM SCT009 OVC018 02/01 A2950 RMK AO2 T00160007 KFPR 151953Z 22011G17KT 10SM CLR 23/09 A2984 RMK AO2 SLP103 T02280089 KFPY 152035Z AUTO 10SM BKN010 BKN050 OVC110 16/16 A2976 RMK AO2 T01610156 KFQD 152035Z AUTO 05005KT 10SM SCT005 SCT018 06/05 A2966 RMK AO2 KFRG 151953Z 10016G27KT 10SM BKN014 OVC019 08/04 A2993 RMK AO2 PK WND 10027/1949 SLP135 T00780039 KFRH 152035Z AUTO 20009G16KT 141V201 10SM SCT034 SCT044 BKN060 03/M03 A2955 RMK AO1 KFRI 152030Z AUTO 34020G35KT 10SM OVC036 02/M07 A2981 RMK AO2 RAB1959E06RAB08E09RAB13E18RAB19E30 SLP101 KFRM 151956Z AUTO 35017G27KT 3SM -SN BR OVC006 01/00 A2964 RMK AO2 PK WND 35027/1947 CIG 005V010 SLP051 P0000 T00060000 FZRANO KFRR 152035Z AUTO 15005KT 10SM SCT040 BKN065 BKN090 08/01 A2966 RMK AO1 KFSD 151956Z 34025G40KT 4SM -SN BLSN OVC018 M01/M04 A2978 RMK AO2 PK WND 34043/1934 SLP103 P0000 T10061039 KFSE 152035Z AUTO 33013KT 10SM OVC006 M07/M08 A2989 RMK AO2 KFSI 151956Z AUTO 31021G31KT 10SM CLR 10/M12 A2998 RMK AO2 PK WND 32035/44 SLP153 T01011119 $ KFSM 151953Z 30016G26KT 10SM FEW060 OVC080 06/M05 A2983 RMK AO2 PK WND 29032/1918 SLP103 T00611050 KFSO 152035Z AUTO 00000KT 1SM BR VV007 M02/M03 A3000 RMK AO2 T10191032 KFST 151953Z AUTO 00000KT 10SM CLR 08/M11 A3021 RMK AO2 SLP217 T00831106 KFSW 152035Z AUTO 03006KT 10SM SCT017 BKN025 OVC034 01/M01 A2946 RMK AO2 KFTK 152017Z AUTO 23015G21KT 10SM FEW010 FEW047 SCT060 06/M06 A2957 RMK AO2 WSHFT 05 RAE1959 SLP020 KFTN 152035Z AUTO 33007G13KT 10SM CLR 17/M11 A3020 RMK A01 KFTW 151953Z 30024G40KT 10SM CLR 11/M13 A3002 RMK AO2 PK WND 32040/1944 SLP164 T01061133 KFTY 151953Z 26011G17KT 10SM CLR 12/M11 A2969 RMK AO2 SLP052 T01221111 KFUL 151953Z 07009KT 10SM CLR 33/M07 A3009 RMK AO2 SLP187 T03281067 KFVE 152015Z AUTO 00000KT 10SM OVC029 M01/M08 A3009 RMK AO2 T10111078 KFVX 150115Z AUTO 00000KT 10SM CLR 02/M05 A2979 RMK AO2 T00221046 KFWA 151954Z 19009KT 10SM FEW035 SCT048 OVC070 04/M03 A2952 RMK AO2 SLP001 T00391028 KFWB 152035Z AUTO 28018G25KT 1SM -SN BR SCT003 SCT011 BKN020 01/01 A2970 RMK AO2 KFWC 152035Z AUTO 23007KT 3SM HZ BKN023 BKN032 OVC055 02/M01 A2955 RMK AO1 T00151012 KFWN 152032Z AUTO 03004KT 2 1/2SM BR OVC004 02/02 A2989 RMK AO2 T00220017 KFWS 151955Z 30024G34KT 10SM CLR 12/M12 A3004 KFWZ 152035Z AUTO 23004KT 10SM CLR 02/M11 A3009 RMK AO2 KFXE 151953Z 00000KT 10SM SCT030 24/11 A2986 RMK AO2 SLP113 T02390111 KFXY 152035Z AUTO 36014G19KT 10SM OVC007 01/01 A2959 RMK AO2 KFYE 152035Z AUTO 26014G22KT 220V290 10SM FEW019 FEW030 SCT060 07/M05 A2969 RMK A01 KFYG 152015Z AUTO 23007KT 1SM -SN CLR 00/00 A2948 RMK AO2 P0004 KFYJ 152035Z AUTO 13005KT 10SM CLR 11/02 A2975 RMK AO1 T01120022 KFYM 152035Z AUTO 26014G21KT 10SM FEW070 07/M09 A2967 RMK A01 KFYV 151953Z 28014G28KT 10SM FEW038 BKN065 OVC075 03/M06 A2977 RMK AO2 PK WND 29033/1920 SNB21E46 SLP085 P0000 T00281056 KFZG 152035Z AUTO 26008KT 10SM CLR 17/06 A2972 RMK AO2 T01650059 KFZY 151954Z AUTO 11008G17KT 080V150 6SM HZ CLR 04/M02 A2976 RMK AO2 SLP083 T00391017 KGAD 151956Z AUTO 25017G21KT 10SM FEW090 12/M06 A2968 RMK AO2 PK WND 25030/1939 SLP054 T01171061 KGAF 152035Z AUTO 35022G31KT 7SM OVC016 M06/M09 A3002 RMK AO2 PWINO KGAG 151853Z AUTO 34024G38KT 10SM BKN042 07/M13 A3002 RMK AO2 PK WND 34043/1809 SLP172 T00671133 $ KGAI 151956Z AUTO 12008KT 10SM SCT034 BKN110 08/03 A2975 RMK AO2 SLP093 T00830033 KGAO 152035Z AUTO 24016G21KT 10SM CLR 14/01 A2990 RMK AO2 T01440011 KGBD 151956Z AUTO 34030G35KT 10SM OVC048 04/M08 A2991 RMK AO2 PK WND 33042/1912 SLP139 T00441083 KGBG 152035Z AUTO 02005KT 10SM -RA BKN016 OVC022 00/M03 A2947 RMK AO2 T10051026 KGBK 221920Z AUTO RMK A01 PNO KGCC 151953Z AUTO 28011KT 10SM CLR 01/M18 A3012 RMK AO2 SLP235 T00061178 $ KGCD 082055Z AUTO 28003KT 1SM -SN OVC003 01/01 A3014 RMK AO2 P0005 60006 T00130008 KGCK 151954Z 34033G43KT 10SM CLR 05/M15 A3002 RMK AO2 PK WND 35043/1947 SLP176 T00501150 KGCM 152035Z AUTO 32015G20KT 10SM BKN046 OVC055 05/M07 A2986 RMK AO2 KGCN 151954Z 27006KT 10SM CLR 13/M14 A3036 RMK AO2 SLP268 T01331139 KGCY 152035Z AUTO 23005KT 10SM CLR 07/M06 A2962 RMK A01 KGDB 152035Z AUTO 32018G25KT 1 3/4SM -SN OVC009 M01/M02 A2980 RMK AO2 T10061022 KGDJ 152035Z AUTO 31021G33KT 10SM CLR 13/M13 A3005 RMK AO2 T01271129 KGDP 151951Z AUTO 22010KT 10SM CLR 08/ RMK AO2 SLPNO T0078 $ KGDV 151956Z AUTO VRB03KT 10SM CLR 01/M09 A3014 RMK AO2 SLP235 T00061089 FZRANO KGED 151954Z AUTO 17009KT 10SM BKN036 OVC046 14/05 A2979 RMK AO2 SLP088 T01390050 KGEG 151953Z 04003KT 7SM -SN SCT037 BKN055 BKN100 01/M04 A3035 RMK AO2 SNB50 SLP299 P0000 T00061044 KGEU 151958Z 29004KT 10SM FEW250 24/M10 A3014 KGEV 152035Z AUTO 27006KT 10SM CLR 02/M05 A2962 RMK AO2 T00151046 KGEY 151953Z AUTO VRB06KT 10SM CLR 02/M14 A3019 RMK AO2 SLP262 T00171139 KGEZ 151953Z AUTO 18010KT 10SM SCT048 BKN060 OVC075 04/M03 A2952 RMK AO2 PK WND 21026/1912 SLP000 T00441033 KGFA 151958Z AUTO 24026G30KT 10SM OVC140 08/M07 A3007 RMK AO2 PK WND 24031/31 SLP216 T00821068 $ KGFK 152006Z 35018G31KT 3SM BLSN BKN018 OVC060 M06/M09 A2997 RMK AO2 PK WND 34031/1959 SFC VIS 4 UPB1956E04 P0000 T10561089 KGFL 151953Z AUTO 18003KT 8SM CLR 02/M02 A2997 RMK AO2 SLP157 T00221022 KGGE 152035Z AUTO 26008KT 5SM -RA SCT017 BKN032 OVC047 13/11 A2977 RMK AO2 P0001 KGGG 151953Z 29019G27KT 10SM CLR 12/M09 A2992 RMK AO2 PK WND 28034/1921 SLP133 T01171094 KGGI 152035Z AUTO 36013KT 10SM BKN050 OVC090 03/00 A2953 RMK AO2 T00321001 KGGP 152035Z AUTO 19010KT 10SM SCT048 OVC060 01/M01 A2953 RMK AO2 KGGW 151953Z AUTO 14006KT 10SM CLR M01/M08 A3009 RMK AO2 SLP222 T10061083 KGHB 152030Z AUTO 31021KT 10SM CLR 15/M01 A3002 RMK A01 KGHG 152035Z AUTO 07009KT 10SM FEW025 06/00 A3006 RMK AO2 KGHW 152035Z AUTO 34016KT 10SM OVC009 M01/M02 A2978 RMK AO2 KGIC 152035Z AUTO 08004KT 10SM OVC040 01/M03 A3029 RMK AO1 KGIF 151953Z AUTO 22013G17KT 10SM CLR 23/12 A2981 RMK AO2 SLP094 T02280117 KGJT 151953Z 00000KT 10SM CLR 03/M14 A3037 RMK AO2 SLP306 T00331144 KGKJ 152021Z AUTO 18007KT 110V220 3SM -RA BKN022 OVC030 04/01 A2955 RMK AO2 P0001 T00440006 KGKT 281335Z AUTO 00000KT 10SM OVC030 01/01 A3023 RMK A01 KGKY 151953Z 29025G36KT 10SM CLR 13/M13 A2999 RMK AO2 PK WND 29036/1952 SLP154 T01281128 KGLD 151953Z AUTO 34033G53KT 10SM CLR 03/M16 A2998 RMK AO2 PK WND 34053/1949 SLP171 T00281161 $ KGLE 152035Z AUTO 32023G32KT 10SM CLR 10/M12 A3000 RMK AO2 T00971122 KGLH 151953Z 27017G28KT 10SM BKN085 11/M06 A2979 RMK AO2 PK WND 27033/1938 SLP095 T01061061 KGLR 152043Z AUTO 06008G15KT 2 1/2SM -SN OVC005 03/00 A2950 RMK AO2 UPB00E41SNE00B41 P0000 T00280000 KGLS 151952Z 30015KT 10SM CLR 16/M05 A3006 RMK AO2 SLP177 T01611050 KGLW 152035Z AUTO 22015G24KT 10SM SCT049 SCT070 SCT080 07/M06 A2960 RMK AO2 T00711057 KGLY 152035Z AUTO 29016G23KT 1 3/4SM -SN BR BKN019 OVC025 00/M02 A2960 RMK AO2 KGMJ 152035Z AUTO 29017G25KT 10SM -SN CLR 02/M02 A2982 RMK AO2 KGMU 151953Z 22006KT 10SM FEW043 11/03 A2965 RMK AO2 SLP041 T01110028 KGNA 151956Z AUTO VRB05KT 03/M02 A2971 RMK AO1 SLP070 T00281017 KGNB 151826Z AUTO RMK AO2 PWINO TSNO KGNC 152035Z AUTO 00000KT 10SM CLR 08/M11 A3023 RMK AO2 T00801106 KGNG 152035Z AUTO 08011KT 10SM CLR 05/M05 A3039 RMK AO2 KGNR 151956Z AUTO 04003KT 01/M08 A3001 RMK AO1 SLP182 T00111078 KGNT 152035Z AUTO 35016G25KT 10SM CLR 12/M15 A3026 RMK AO2 T01191155 KGNV 152040Z 27022G35KT 1 1/4SM -RA BR SCT033 BKN044 OVC080 15/13 A2978 RMK AO2 PK WND 28035/2031 WSHFT 2020 RAB21 PRESRR P0003 T01500133 KGOK 151953Z AUTO 32016G31KT 10SM BKN065 OVC080 07/M09 A2994 RMK AO2 PK WND 31035/1938 SLP145 T00671089 KGON 151956Z 09012G20KT 10SM OVC031 06/01 A3000 RMK AO2 SLP159 T00560011 KGOO 152035Z AUTO 00000KT 10SM CLR 19/01 A3034 RMK A01 KGOP 152035Z AUTO 31011G27KT 10SM CLR 13/M13 A3009 RMK AO2 KGOV 152009Z AUTO 09009KT 8SM OVC006 01/01 A2948 RMK AO2 SNE09 SLP000 $ KGPC 152035Z AUTO 23010KT 7SM -RA SCT014 BKN030 OVC035 01/M03 A2953 RMK AO2 T00111027 KGPH 152035Z AUTO 32016G25KT 5SM BR OVC013 00/M01 A2960 RMK AO2 KGPI 152037Z 00000KT 2SM -SN BR BKN023 OVC048 M03/M05 A3027 KGPM 151950Z 28017G26KT 10SM SKC 12/M13 A3003 KGPT 151953Z 29014G23KT 10SM CLR 16/M05 A2984 RMK AO2 SLP105 T01611050 KGPZ 151956Z AUTO 34009KT 10SM OVC007 00/M01 A2975 RMK AO2 SLP094 T00001011 FZRANO KGRB 152017Z 01006KT 3SM -RA BR OVC004 02/01 A2951 RMK AO2 P0001 T00220006 KGRD 151956Z AUTO 25007KT 10SM CLR 12/02 A2969 RMK AO2 SLP054 T01170017 KGRF 152028Z 18006KT 10SM OVC014 10/10 A3038 RMK AO2A SLP293 $ KGRI 151953Z 34032G49KT 7SM -SN OVC027 M01/M07 A2988 RMK AO2 PK WND 34053/1856 SNB1859 SLP139 P0000 T10061072 KGRK 151958Z AUTO 29020G30KT 8SM CLR 13/M14 A3007 RMK AO2 PK WND 31033/17 SLP184 T01301139 KGRN 152035Z AUTO 33021G28KT 10SM CLR 01/M11 A3003 RMK AO2 T00101113 KGRR 151953Z 19003KT 4SM -SN BR SCT005 OVC017 02/01 A2949 RMK AO2 RAB15E24 SLP994 P0000 T00170011 $ KGRY 152335Z AUTO 17007KT 19/16 A2993 RMK A01 KGSB 152038Z AUTO 19005KT 10SM -RA OVC050 15/04 A2970 RMK AO2 RAB38 SLP061 $ KGSH 151953Z AUTO 22010KT 10SM FEW032 SCT041 OVC070 03/M04 A2950 RMK AO2 SLP996 T00281039 KGSO 151954Z 21007KT 7SM BKN007 BKN013 OVC047 07/07 A2966 RMK AO2 RAE53 SLP048 P0008 T00720067 KGSP 151953Z 21008KT 180V260 10SM CLR 11/01 A2965 RMK AO2 SLP041 T01110011 KGTB 151956Z AUTO 10008KT 10SM BKN120 04/M02 A2982 RMK AO2 SLP105 T00371021 KGTF 151953Z 22023G31KT 10SM CLR 08/M07 A3005 RMK AO2 PK WND 23039/1905 SLP214 T00781072 $ KGTR 151956Z 26011KT 10SM FEW080 10/M06 A2976 RMK AO2 SLP084 T01001061 KGTU 151956Z 29016G25KT 10SM CLR 13/M13 A3012 RMK AO2 PK WND 29026/1936 SLP200 T01331128 KGUC 151956Z AUTO 23007G21KT 200V280 10SM CLR 01/M13 A3027 RMK AO2 SLP302 T00111128 FZRANO KGUL 152040Z AUTO RMK A01 PNO KGUP 151953Z AUTO VRB04KT 10SM CLR 12/M14 A3027 RMK AO2 SLP232 T01221139 KGUR 151958Z AUTO 32014KT 10SM CLR 03/M14 A3017 RMK AO2 SLP249 T00331144 KGUS 151956Z 23011KT 10SM FEW032 FEW045 SCT050 OVC080 03/M01 A2950 RMK AO2A SLP999 60000 T00331011 53004 $ KGUY 152032Z AUTO 34024G37KT 1 3/4SM HZ BKN022 OVC033 07/M17 A3005 RMK AO2 PK WND 33039/2008 T00721172 KGVE 152035Z AUTO 04003KT 10SM SCT070 OVC085 08/03 A2966 RMK AO1 T00830025 KGVL 151953Z AUTO 24014G19KT 10SM CLR 11/M09 A2968 RMK AO2 SLP049 T01061089 KGVQ 151956Z AUTO 13011KT 10SM FEW110 04/00 A2965 RMK AO2 SLP045 T00440000 KGVT 152035Z AUTO 30023G30KT 10SM CLR 12/M12 A2998 RMK AO2 KGWB 152035Z AUTO 26003KT 10SM BKN070 03/M02 A2953 RMK AO2 KGWO 151953Z AUTO 26010G27KT 10SM BKN080 BKN095 11/M05 A2979 RMK AO2 PK WND 25028/1918 RAE00 SLP089 P0000 T01061050 KGWR 152035Z AUTO 36021KT 10SM BKN016 OVC039 M03/M03 A2994 RMK A01 KGWW 152035Z AUTO 00000KT 10SM RA OVC050 14/06 A2972 RMK AO2 T01400056 KGXA 112258Z AUTO 30014KT 10SM CLR 17/M16 A2998 RMK AO2 SLP142 WND DATA ESTMD T01701163 KGXF 151958Z COR 01007KT 10SM FEW250 23/M13 A3012 RMK AO2A CONTRAILS SLP194 T02271133 COR 2012 KGXY 151956Z AUTO 22009KT 10SM CLR 07/M14 A3008 RMK AO2 SLP210 T00671139 KGYB 152035Z AUTO 30014G20KT 10SM CLR 16/M09 A3009 RMK AO2 T01641095 KGYF 152035Z AUTO 36016G24KT 10SM CLR 16/02 A3008 RMK AO2 T01600023 KGYH 151947Z 19012KT 10SM FEW012 11/02 A2965 KGYI 151950Z 30018G28KT 10SM SKC 10/M12 A2998 KGYL 152035Z AUTO 34012KT 2 1/2SM -SN OVC007 01/00 A2968 RMK AO2 VIS 1 1/2V4 T00060000 KGYR 151947Z VRB04KT 10SM SCT250 24/M09 A3016 KGYY 151945Z 21003KT 10SM SCT020 SCT044 OVC075 02/M01 A2949 KGZH 151953Z AUTO 26009G18KT 230V320 10SM CLR 16/M06 A2978 RMK AO2 SLP081 T01611061 KGZL 152035Z AUTO 32019G27KT 10SM 05/M16 A2988 RMK AO2 KGZN 152020Z AUTO 32021G32KT 10SM 11/M17 A3007 RMK AO2 KGZS 152035Z AUTO 24010G18KT 180V290 10SM FEW080 BKN095 08/M11 A2965 RMK A01 KH71 121610Z AUTO 21008KT 10SM CLR 03/M01 A3035 RMK AO2 KHAE 152035Z AUTO 32005KT 10SM BKN009 BKN015 OVC024 02/00 A2943 RMK AO2 KHAF 152035Z AUTO 29003KT 9SM CLR 21/08 A3026 RMK AO2 KHAI 152035Z AUTO 17006KT 10SM OVC065 03/M02 A2952 RMK AO2 T00251017 KHAO 151953Z AUTO 23010G16KT 10SM BKN050 OVC070 07/M05 A2956 RMK AO2 SLP012 T00671050 KHBG 151953Z AUTO 31017G28KT 10SM CLR 14/M12 A2983 RMK AO2 PK WND 28034/1926 SLP101 T01441117 KHBI 152035Z AUTO 18008KT 10SM OVC009 08/07 A2971 RMK AO2 T00760071 KHBR 151953Z AUTO 34029G38KT 10SM CLR 11/M13 A3001 RMK AO2 PK WND 34040/1909 SLP165 T01061128 KHBV 152035Z AUTO 36008KT 340V040 10SM CLR A3017 RMK AO2 KHCD 152035Z AUTO 33014G21KT 5SM -SN OVC012 01/01 A2971 RMK AO2 T00130007 KHCO 152035Z AUTO 33018G24KT 10SM OVC012 M07/M08 A2999 RMK AO2 KHCR 152035Z AUTO 00000KT 10SM CLR 01/M12 A3039 RMK AO2 KHDC 152035Z AUTO 29014G22KT 10SM CLR 15/M09 A2986 RMK AO2 KHDE 152035Z AUTO 34023G34KT 10SM SCT036 BKN048 OVC070 01/M07 A2993 RMK AO2 T00051073 KHDN 151956Z AUTO 09004KT 10SM CLR M06/M13 A3034 RMK AO2 SLP335 T10611128 FZRANO KHDO 151951Z AUTO 31011G18KT 10SM CLR 17/M13 A3016 RMK AO2 SLP206 T01671128 KHEF 151956Z 12010KT 10SM OVC100 10/03 A2972 RMK AO2 SLP072 T01000033 KHEG 152035Z AUTO 21005KT BKN042 BKN047 OVC055 20/13 A2973 RMK AO2 KHEI 151953Z AUTO 33015KT 10SM CLR M01/M09 A3008 RMK AO2 SLP217 T10111094 PNO $ KHEQ 152035Z AUTO 34025G33KT 10SM CLR 05/M16 A3005 RMK AO2 KHEY 151958Z AUTO 28005KT 10SM CLR 15/M02 A2974 RMK AO2 SLP073 T01481020 KHEZ 151956Z AUTO 28016G21KT 10SM CLR 12/M08 A2987 RMK AO2 SLP115 T01171078 KHFD 151953Z 07005KT 9SM OVC031 07/M01 A2999 RMK AO2 SLP155 T00671006 KHFF 151956Z AUTO 19009KT 10SM -SHRA BKN006 BKN055 BKN065 10/09 A2970 RMK AO2 RAE54SHRAB54 SLP075 P0004 T00970094 $ KHFJ 152035Z AUTO 27017G23KT 2 1/2SM -SN OVC013 00/M01 A2971 RMK AO2 KHFY 152035Z AUTO 25008G18KT 10SM SCT039 SCT046 BKN049 03/M04 A2954 RMK AO2 T00301044 KHGR 151953Z 12009KT 9SM SCT120 08/02 A2970 RMK AO2 SLP070 T00830017 KHHF 152035Z AUTO 33023G36KT 5SM HZ SCT030 OVC037 07/M16 A3003 RMK AO2 T00731164 KHHG 152035Z AUTO 00000KT 5SM -SN SCT006 SCT017 BKN024 01/01 A2953 RMK AO2 T00130007 KHHR 151953Z 00000KT 10SM CLR 29/M01 A3010 RMK AO2 SLP192 T02891006 KHHW 152035Z AUTO 28016G28KT 10SM BKN080 08/M16 A2991 RMK AO2 KHIB 151953Z AUTO 34009KT 5SM BR OVC006 00/M01 A2972 RMK AO2 SLP082 T00001011 KHIE 151952Z AUTO 16008KT 10SM CLR 03/M05 A3000 RMK AO2 SLP171 T00331050 KHIF 151958Z AUTO 00000KT 10SM CLR 04/M10 A3043 RMK AO2 SLP316 T00351105 KHII 152035Z AUTO 31016KT 10SM CLR 23/M08 A3018 RMK AO2 KHIO 151953Z 28003KT 5SM BR BKN006 OVC014 09/08 A3043 RMK AO2 SLP304 T00890083 KHJH 152035Z AUTO 34029G36KT 7SM -SN OVC029 00/M05 A2985 RMK AO2 T00011053 KHJO 152021Z AUTO 16004KT 3SM BR SCT003 12/11 A3029 RMK AO2 T01220106 KHKA 151953Z AUTO 27018G28KT 10SM SCT060 OVC085 07/M06 A2966 RMK AO2 PK WND 27030/1926 RAB38E48 SLP043 P0000 T00721056 $ KHKS 151953Z 26015G27KT 10SM CLR 12/M08 A2982 RMK AO2 PK WND 27032/1858 SLP094 T01171083 KHKY 151953Z 01004KT 5SM BR OVC011 04/02 A2966 RMK AO2 SLP039 T00440022 KHLB 152035Z AUTO 00000KT 10SM SCT047 04/M03 A2955 RMK A01 KHLC 151953Z AUTO 34027G43KT 10SM SCT046 03/M09 A2997 RMK AO2 PK WND 35049/1911 SLP161 T00281094 $ KHLG 152021Z 22010KT 2SM -SN BR OVC005 02/00 A2962 RMK AO2 CIG 003V010 P0001 T00170000 KHLN 151953Z 00000KT 10SM OVC070 M01/M11 A3024 RMK AO2 SLP298 T10061106 KHLR 151958Z AUTO 32020G26KT 9SM CLR 13/M14 A3008 RMK AO2 PK WND 29029/34 SLP187 T01341141 KHLX 152035Z AUTO 29006KT 10SM BKN036 BKN047 BKN050 02/00 A2963 RMK AO2 T00220000 KHMN 151958Z AUTO 36012G22KT 10SM CLR 15/M18 A3016 RMK AO2 SLP181 T01511176 $ KHMP 152035Z AUTO 24011KT 230V290 10SM CLR 12/M06 A2973 RMK AO2 T01241056 KHMT 152035Z AUTO 35009KT 10SM CLR 29/M07 A3014 RMK AO2 T02871065 KHMZ 152035Z AUTO 13010G16KT 10SM OVC026 05/00 A2962 RMK AO2 T00541001 KHNB 151956Z AUTO 22016G25KT 5SM -RA FEW018 BKN046 OVC095 03/M03 A2957 RMK AO2 PK WND 20028/1912 RAB10E30B53 SLP015 P0000 T00331033 KHND 151956Z 26003KT 10SM CLR 17/M08 A3036 RMK AO2 SLP294 T01671083 KHNR 152035Z AUTO 34025G34KT 2 1/2SM -UP BKN015 M01/M02 A2966 RMK AO2 VIS 1 1/4V5 KHNZ 152035Z AUTO 17008KT 10SM SCT038 SCT050 SCT065 11/01 A2967 RMK AO2 T01110012 KHOB 151950Z 21004G11KT 10SM SKC 07/M13 A3020 KHOE 152030Z AUTO 24004KT 10SM SCT003 BKN007 OVC011 13/12 A2974 RMK AO2 KHON 151955Z AUTO 35022G34KT 10SM OVC019 M02/M05 A2994 RMK AO2 PK WND 35039/1921 SLP152 T10171050 KHOP 151956Z AUTO 23021G29KT 10SM SCT065 07/M07 A2959 RMK AO2 PK WND 24029/47 SLP025 T00701074 KHOT 151953Z AUTO 29017G28KT 10SM BKN075 OVC090 08/M08 A2980 RMK AO2 PK WND 29028/1952 SLP092 T00831083 KHOU 151953Z 28014KT 10SM CLR 16/M09 A3004 RMK AO2 PK WND 30030/1910 SLP178 T01611094 KHPN 151956Z 09012G17KT 6SM BR OVC009 04/02 A2992 RMK AO2 SLP138 T00440022 KHPT 152035Z AUTO 36011KT 10SM BKN030 OVC060 02/00 A2956 RMK AO2 KHQG 152035Z AUTO 34030G41KT 5SM HZ OVC023 06/M17 A3005 RMK AO2 T00631169 KHQM 151953Z AUTO 36004KT 7SM BKN008 11/08 A3042 RMK AO2 SLP303 T01060078 KHQU 152035Z AUTO 33009G15KT 10SM CLR 14/00 A2969 RMK AO2 T01381003 KHQZ 151950Z 30030G36KT 10SM CLR 11/M13 A3001 KHRI 151953Z AUTO 13004KT 10SM SCT028 06/02 A3037 RMK AO2 SLP290 T00560017 KHRJ 152035Z AUTO 00000KT 7SM -RA BKN032 OVC042 11/09 A2973 RMK AO2 P0001 T01060088 KHRL 151952Z 02013KT 10SM CLR 18/M06 A3016 RMK AO2 SLP212 T01781056 KHRO 152035Z AUTO 29015G25KT 2 1/2SM -SN BKN026 BKN033 OVC041 01/M04 A2970 RMK AO2 VIS 1 1/2V5 P0000 T00111044 KHRT 151956Z AUTO 26008KT 10SM CLR 16/M01 A2978 RMK AO2 SLP086 T01621010 $ KHRX 152035Z AUTO 32016G23KT 7SM CLR 09/M15 A3015 RMK AO2 T00901147 KHSA 151950Z 29012G26KT 7SM CLR 16/M07 A2986 KHSB 152035Z AUTO 21012KT 10SM SCT034 SCT048 OVC065 03/M03 A2958 RMK AO2 T00271027 KHSD 152035Z AUTO 31021G33KT 10SM FEW065 BKN075 07/M10 A2997 RMK A01 KHSE 151951Z AUTO VRB04KT 10SM CLR 16/08 A2980 RMK AO2 SLP092 T01560078 KHSG 152035Z AUTO 00000KT 10SM CLR 03/M13 A3016 RMK AO2 T00271129 PWINO KHSI 151953Z AUTO 34031G41KT 9SM -SN OVC028 M01/M07 A2989 RMK AO2 PK WND 35051/1937 UPB06E10SNE06B22 SLP138 P0000 T10061072 KHSP 152035Z AUTO 25014KT M1/4SM -SN OVC003 00/00 A2960 RMK AO2 T00011005 KHST 151956Z AUTO 24005KT 10SM CLR 24/06 A2986 RMK AO2 SLP115 T02440062 KHSV 151953Z 26015G24KT 10SM SCT085 10/M06 A2967 RMK AO2 PK WND 27029/1901 SLP046 T01001061 KHTH 152035Z AUTO VRB03KT 10SM CLR 15/M09 A3034 RMK A01 KHTL 152023Z AUTO 09008KT 1 1/4SM -SN BR OVC008 01/M01 A2948 KHTO 152035Z AUTO 11011G18KT 10SM OVC017 06/03 A2999 RMK AO2 T00610027 KHTS 151951Z 22008KT 10SM SCT035 07/M01 A2963 RMK AO2 SLP034 T00671011 KHUA 151958Z AUTO 28015G21KT 10SM FEW080 10/M09 A2965 RMK AO2 PK WND 28031/1859 SLP042 T00991087 KHUF 151953Z 20011G22KT 10SM FEW029 SCT039 BKN060 03/M03 A2952 RMK AO2 SLP998 T00281028 KHUL 151953Z AUTO 01003KT 10SM OVC037 01/M07 A3011 RMK AO2 SLP202 T00111072 KHUM 151947Z 29015KT 7SM CLR 15/01 A2992 KHUT 151952Z 32026G39KT 10SM OVC044 03/M08 A2988 RMK AO2 PK WND 33043/1912 SLP119 T00331078 KHVE 152035Z AUTO 01010KT 10SM CLR 07/M10 A3035 RMK AO2 KHVN 152023Z 09013G22KT 8SM BKN022 07/02 A2998 RMK AO2 T00670017 KHVR 151953Z AUTO 24015KT 10SM CLR 07/M07 A3001 RMK AO2 SLP189 T00671067 KHVS 152035Z AUTO 26006KT 3SM -RA BKN004 OVC008 09/09 A2972 RMK AO2 KHWD 151954Z 20004KT 10SM CLR 16/10 A3031 RMK AO2 SLP272 T01560100 KHWO 151953Z 23005KT 10SM CLR 24/11 A2988 RMK AO2 SLP118 T02390111 KHWV 151956Z AUTO 10007G16KT 040V140 10SM OVC013 07/03 A2996 RMK AO2 SLP146 T00720028 KHWY 152035Z AUTO 14004KT 10SM BKN055 BKN065 OVC095 11/00 A2971 RMK AO2 T01100000 KHXD 151950Z 25004KT 03SM -RA FEW050 BKN065 14/12 A2977 KHYA 151956Z VRB05KT 10SM CLR 07/M02 A3006 RMK AO2 SLP178 T00671017 KHYI 151956Z 34017G27KT 10SM CLR 16/M11 A3013 RMK AO2 PK WND 33027/1949 SLP200 T01611111 KHYR 152016Z AUTO 02008KT 8SM OVC005 01/M01 A2963 RMK AO2 T00111006 KHYS 151956Z AUTO 34031G41KT 10SM FEW085 03/M09 A2991 RMK AO2 PK WND 34041/1953 SLP141 T00331094 KHYW 152035Z AUTO 23004KT 4SM -RA SCT010 BKN017 OVC023 12/11 A2976 RMK AO2 P0006 KHYX 152035Z AUTO 21008KT 3SM -RA BKN006 BKN011 OVC016 01/00 A2950 RMK AO2 KHZD 152035Z AUTO 23011G25KT 10SM FEW070 FEW080 SCT095 07/M05 A2963 RMK A01 KHZE 152035Z AUTO 33012KT 10SM OVC013 M05/M07 A3012 RMK AO2 KHZL 152035Z AUTO 11008G16KT 050V140 1 3/4SM BR OVC003 03/02 A2979 RMK AO2 KHZR 152035Z AUTO 28015G24KT 10SM CLR 13/M07 A2990 RMK AO2 T01311069 KHZX 152035Z AUTO 34012KT 4SM OVC008 01/00 A2973 RMK AO2 KHZY 151953Z AUTO 18016G26KT 10SM OVC050 08/M02 A2954 RMK AO2 PK WND 18026/1947 SLP007 T00781022 KI16 152035Z AUTO 10SM SCT018 BKN030 OVC039 05/01 A2970 RMK AO2 T00500011 KI19 152035Z AUTO 22016G22KT 7SM SCT049 BKN055 BKN070 05/M05 A2958 RMK AO2 T00481055 KI23 152035Z AUTO 20014G18KT 10SM CLR 05/M03 A2958 RMK AO1 KI35 152035Z AUTO 19003KT 10SM SCT055 BKN065 OVC080 06/M06 A2962 RMK AO2 T00611058 KI43 152035Z AUTO 22006KT 10SM SCT044 BKN050 OVC070 05/M01 A2964 RMK AO2 KI63 152035Z AUTO 00000KT 10SM BKN015 BKN020 OVC033 01/M01 A2943 RMK AO2 T00071013 KI67 141455Z AUTO 19010G15KT 10SM CLR 02/M01 A2980 RMK AO1 KI68 152035Z AUTO 19016G23KT 10SM CLR 05/M02 A2957 RMK AO1 T00511023 KI69 152035Z AUTO 21005G18KT 10SM SCT015 SCT033 BKN055 05/M04 A2959 RMK AO2 T00501039 KI74 152035Z AUTO 21003KT 10SM SCT048 BKN065 BKN075 04/M03 A2956 RMK AO2 KI75 152035Z AUTO 36010KT 10SM OVC016 01/M01 A2954 RMK AO2 T00131008 KIAB 151956Z 34023G37KT 10SM -RA OVC041 03/M08 A2985 RMK AO2A PK WND 35046/25 RAB42 SLP119 P0000 T00281080 $ KIAD 152003Z 13010KT 10SM SCT028 BKN055 OVC100 10/02 A2973 RMK AO2 T01000022 KIAG 151953Z 12012KT 10SM CLR 06/M01 A2962 RMK AO2 SLP042 T00611006 KIAH 151953Z 29014G27KT 10SM CLR 15/M08 A3004 RMK AO2 PK WND 30027/1950 SLP173 T01501083 KIBM 152035Z AUTO 33025G33KT 10SM CLR 02/M18 A3006 RMK AO2 T00201178 KICL 152035Z AUTO 34022G32KT 5SM BR OVC016 00/M00 A2965 RMK AO2 KICR 151953Z AUTO 34027G37KT 10SM OVC022 M01/M07 A2999 RMK AO2 PK WND 33041/1938 SNB13E32 SLP178 P0000 T10111067 KICT 151953Z 32028G37KT 10SM OVC045 03/M07 A2987 RMK AO2 PK WND 33042/1943 SLP124 T00281067 KIDA 151953Z 36005KT 10SM CLR M06/M11 A3042 RMK AO2 SLP369 T10611106 KIDI 152035Z AUTO 16010KT 8SM FEW033 OVC046 05/01 A2963 RMK A01 KIDP 152035Z AUTO 31017G34KT 10SM UP SCT014 BKN028 OVC034 02/M03 A2985 RMK AO2 T00201028 KIEN 151952Z AUTO 33017G39KT 10SM CLR 03/M13 A3006 RMK AO2 PK WND 35039/1946 SLP207 T00281128 KIER 152035Z AUTO 29020G25KT 10SM CLR 13/M06 A2989 RMK AO2 T01321062 KIFA 152035Z AUTO 34014KT 10SM SCT012 BKN020 OVC065 02/M01 A2956 RMK AO2 T00211014 KIFP 151950Z 33020KT 10SM FEW160 22/M07 A3023 KIGM 151951Z AUTO 03006KT 10SM CLR 17/M09 A3031 RMK AO2 SLP230 T01671094 KIGQ 152035Z AUTO 24007KT 230V330 3SM -SN SCT010 BKN040 OVC050 01/M01 A2951 RMK AO2 T00071009 KIIB 152035Z AUTO 35006KT 10SM SCT037 BKN060 OVC080 01/M01 A2952 RMK AO2 T00131011 KIIY 152035Z AUTO 25007KT 220V280 10SM CLR 12/M02 A2969 RMK AO2 KIJD 152028Z AUTO 08009KT 10SM SCT026 BKN034 06/M01 A3001 RMK AO2 T00561006 KIJX 152035Z AUTO 00000KT 10SM -RA BKN012 OVC018 01/00 A2944 RMK AO2 T00100003 KIKG 152035Z AUTO 33005KT 10SM CLR 20/M09 A3017 RMK AO2 T02021093 KIKK 152035Z AUTO 00000KT 10SM SCT037 OVC065 01/00 A2951 RMK AO2 T00121001 KIKV 152035Z AUTO 35012KT 10SM OVC012 02/00 A2957 RMK AO2 KIKW 152035Z AUTO 00000KT 2SM -SN OVC004 01/01 A2949 RMK AO2 T00080005 KILE 151956Z AUTO 30019G28KT 10SM CLR 13/M13 A3009 RMK AO2 PK WND 30028/1954 SLP185 T01281133 KILG 151951Z 16012KT 10SM CLR 11/04 A2982 RMK AO2 SLP097 T01060039 KILM 151953Z 21013KT 10SM SCT050 17/06 A2976 RMK AO2 SLP079 T01720056 KILN 151954Z AUTO 21014G23KT 10SM SCT047 BKN065 06/M03 A2956 RMK AO2 SLP023 T00611028 $ KIML 151953Z AUTO 33029G43KT 10SM CLR 03/M13 A3003 RMK AO2 PK WND 35047/1935 SLP189 T00331128 KIMM 152035Z AUTO VRB06KT 10SM CLR 25/13 A2984 RMK AO2 PWINO KIMS 152035Z AUTO 22014G19KT 10SM SCT055 SCT065 BKN095 06/M05 A2957 RMK AO1 KIMT 151954Z AUTO 02007KT 5SM UP BR OVC005 02/M01 A2955 RMK AO2 UPB47 CIG 004V008 SLP019 P0000 T00171006 KIND 151954Z 21016KT 9SM -SN FEW030 BKN037 BKN055 02/M02 A2952 RMK AO2 PK WND 20026/1941 SNB39 SLP000 P0000 T00221022 KINF 152035Z AUTO 21007G15KT 180V240 7SM BKN040 BKN047 BKN060 22/15 A2975 RMK AO2 KINJ 152035Z AUTO 28023G33KT 10SM CLR 13/M09 A3003 RMK AO2 T01251095 KINK 151953Z AUTO 21004KT 10SM CLR 09/M12 A3020 RMK AO2 SLP224 T00891117 KINL 152039Z AUTO 36010KT 8SM OVC010 00/M02 A2980 KINS 151958Z AUTO 00000KT 10SM CLR 15/M10 A3034 RMK AO2 SLP263 T01541103 $ KINT 152003Z 30008KT 3SM BR OVC003 04/04 A2969 RMK AO2 T00390039 KINW 151956Z AUTO 30009KT 10SM CLR 11/M14 A3035 RMK AO2 SLP278 T01111144 TSNO KIOB 152035Z AUTO 27010G17KT 4SM -SN SCT014 BKN038 OVC070 03/M02 A2963 RMK AO2 KIOW 152027Z AUTO 03010KT 10SM FEW018 BKN034 OVC050 02/M02 A2951 RMK AO2 T00171017 KIPJ 152035Z AUTO 25005KT 10SM SCT015 SCT022 OVC030 08/07 A2968 RMK AO2 T00770072 KIPL 151953Z AUTO 00000KT 10SM CLR 26/M04 A3016 RMK AO2 SLP211 T02611039 KIPT 151954Z 09014G19KT 6SM HZ OVC021 05/01 A2979 RMK AO2 SLP091 T00500006 KIRK 152032Z AUTO 35013G19KT 8SM BKN012 OVC017 01/M02 A2946 KIRS 152035Z AUTO 18005KT 10SM OVC065 03/M02 A2952 RMK AO2 T00251022 KISM 151956Z 23009G18KT 10SM CLR 23/13 A2981 RMK AO2 SLP094 T02330133 PNO $ KISO 151956Z KISOKT 10SM BKN080 OVC090 16/06 A2973 KISP 152034Z 10014G22KT 7SM OVC013 07/04 A2995 RMK AO2 T00670044 KISQ 152035Z AUTO 04008KT 2 1/2SM -SN OVC006 01/01 A2959 RMK AO2 P0001 T00120005 KISW 151954Z AUTO 02007KT 10SM OVC047 03/M01 A2953 RMK AO2 SLP009 T00281011 KITH 151956Z 12015G21KT 090V150 10SM BKN020 03/M01 A2973 RMK AO2 PK WND 11026/1938 SLP074 T00331011 KITR 151953Z AUTO 35033G52KT 10SM CLR 04/M18 A3002 RMK AO2 PK WND 33055/1918 SLP174 T00391183 $ KIWA 151950Z 03006KT 10SM FEW250 23/M12 A3015 KIWD 151956Z AUTO 02004KT 3SM -SN BR OVC003 01/00 A2962 RMK AO2 RAE20B47E49UPB20E31SNB31 SLP045 P0000 T00060000 FZRANO KIWI 151953Z AUTO 08003KT 10SM CLR 06/M06 A3010 RMK AO2 SLP192 T00561056 KIXA 152035Z AUTO 16004KT 10SM BKN060 OVC100 12/06 A2971 RMK AO2 KIXD 152039Z 31020G34KT 3/4SM -SN SCT010 OVC017 M01/M03 A2967 RMK AO2 PK WND 31034/2030 P0000 T10061033 KIYA 152035Z AUTO 26019G24KT 10SM CLR 15/M14 A2993 RMK AO2 T01501138 KIZA 152035Z AUTO 22003KT 10SM CLR 27/02 A3014 RMK AO2 KIZG 151954Z AUTO 10003KT 10SM CLR 04/M06 A3007 RMK AO2 SLP187 T00391061 KJAC 151956Z 00000KT 10SM CLR M08/M14 A3039 RMK AO2 SLP392 T10781144 KJAN 151954Z 26013G24KT 10SM FEW050 12/M07 A2982 RMK AO2 PK WND 27031/1859 SLP098 T01171072 $ KJAQ 152035Z AUTO 32006KT 10SM CLR 18/05 A3031 RMK AO1 T01800048 KJAS 152035Z AUTO 26015G23KT 10SM CLR 14/M07 A2997 RMK AO2 T01401074 KJAU 152035Z AUTO VRB04G12KT 10SM FEW038 FEW048 FEW055 07/M07 A2965 RMK A01 KJAX 151956Z 22007KT 10SM BKN048 BKN060 BKN100 20/12 A2971 RMK AO2 SLP060 T02000117 KJBR 151953Z AUTO 27015KT 10SM OVC070 06/M06 A2970 RMK AO2 PK WND 28026/1854 SLP056 T00561061 TSNO $ KJCA 152035Z AUTO 25011G21KT 220V290 10SM CLR 11/M09 A2968 RMK AO2 T01131085 KJCT 151951Z AUTO 33010KT 290V350 10SM CLR 13/M14 A3018 RMK AO2 SLP209 T01281139 KJDD 152035Z AUTO 32016G25KT 10SM CLR 11/M11 A2996 RMK AO2 KJDN 151948Z AUTO 18010KT 03/M13 A3008 RMK AO1 SLP216 T00331128 KJEF 152038Z 28016G23KT 3SM -SN OVC015 01/M02 A2950 RMK AO2 P0000 T00111022 KJER 151953Z AUTO 08012KT 10SM CLR 04/M03 A3036 RMK AO2 SLP299 T00391028 KJES 152035Z AUTO 00000KT 5SM RA SCT005 BKN042 OVC048 13/11 A2974 RMK AO2 KJFK 152033Z 09019G27KT 10SM BKN015 BKN026 OVC044 08/04 A2991 RMK AO2 PK WND 09027/2032 T00780044 KJFX 152035Z AUTO 26015G23KT 10SM CLR 11/M08 A2972 RMK AO2 PWINO KJFZ 152035Z AUTO 28004KT 10SM SCT023 SCT028 02/M02 A2963 RMK AO2 T00201020 KJGG 152035Z AUTO 00000KT 10SM CLR 13/03 A2975 RMK AO1 KJHN 152035Z AUTO 32030G42KT 3SM HZ OVC016 06/M15 A3005 RMK AO2 T00631147 KJHW 151956Z AUTO 15018G26KT 10SM SCT036 BKN044 OVC110 04/M02 A2957 RMK AO2 PK WND 14026/1956 SLP031 T00391022 KJKA 152035Z AUTO 26016G20KT 10SM CLR 14/00 A2983 RMK AO2 T01401002 KJKJ 152035Z AUTO 35021KT 7SM BKN014 M04/M09 A2994 RMK AO2 KJKL 151953Z AUTO 23006KT 10SM FEW060 SCT080 06/M06 A2961 RMK AO2 SLP028 T00561061 KJLN 152029Z 29016G25KT 1 3/4SM -SN BR SCT015 BKN020 OVC026 01/M02 A2975 KJMR 152035Z AUTO 35007KT 10SM -RA OVC009 00/00 A2971 RMK AO2 KJMS 151956Z AUTO 33023G34KT 10SM OVC016 M02/M07 A2998 RMK AO2 PK WND 33034/1956 SLP171 T10221072 KJNX 152035Z AUTO 20003KT 10SM DZ OVC036 12/07 A2972 RMK AO2 KJOT 152035Z AUTO 09003KT 10SM BKN031 OVC039 02/01 A2951 RMK AO2 T00150005 KJQF 152040Z 2205KT 7SM BKN011 OVC023 09/07 A2971 KJRB 151956Z AUTO 06013G20KT 050V110 10SM OVC017 07/04 A2991 RMK AO2 SLP129 T00720039 KJSL 152020Z AUTO VRB05G22KT 10SM CLR 19/06 A3001 RMK A01 KJSO 152035Z AUTO 31017G22KT 10SM CLR 11/M10 A2997 RMK AO2 T01151096 KJST 152006Z AUTO 15009G18KT 7SM OVC015 02/M02 A2959 RMK AO2 T00221017 KJSV 152035Z AUTO 29023G27KT 10SM SCT065 05/M06 A2987 RMK AO2 KJSY 152035Z AUTO 00000KT 10SM BKN050 BKN065 OVC080 02/M04 A3031 RMK AO2 T00181036 KJTC 152035Z AUTO 33015G21KT 10SM CLR 10/M16 A3033 RMK AO2 KJVL 151945Z 12005KT 6SM BR SCT012 BKN025 OVC070 02/00 A2947 KJVW 152035Z AUTO 25016G27KT 10SM CLR 11/M07 A2983 RMK AO2 KJVY 151915Z AUTO 22017G24KT 10SM CLR 07/M06 A2955 RMK AO2 T00701064 TSNO KJWG 152035Z AUTO 33021G31KT 10SM SCT085 07/M10 A2998 RMK AO2 T00741097 KJWN 152035Z AUTO 26015G23KT 10SM FEW070 FEW090 07/M10 A2961 RMK A01 KJWY 152035Z AUTO 31017G29KT 270V340 10SM CLR 12/M09 A3002 RMK AO2 T01151088 KJXI 151955Z AUTO RMK AO2 PWINO PNO KJXN 152005Z 20006KT 10SM FEW016 FEW023 OVC031 02/00 A2951 RMK AO2 T00170000 KJYG 152035Z AUTO 33018G23KT 10SM OVC008 01/00 A2968 RMK AO2 PWINO KJYL 152035Z AUTO 23004KT 10SM -RA BKN007 BKN038 OVC080 13/12 A2973 RMK AO2 T01260116 KJYM 152035Z AUTO 20006KT 10SM SCT050 BKN055 01/M01 A2951 RMK AO2 T00131010 KJYO 152035Z AUTO 14012G16KT 10SM SCT065 BKN085 OVC110 10/03 A2972 RMK AO2 KJYR 152035Z AUTO 33023G30KT 10SM UP OVC023 M01/M05 A2983 RMK AO2 KJZI 152035Z AUTO 25004KT 2 1/2SM -DZ FEW043 OVC050 13/13 A2975 RMK AO2 KJZP 152035Z AUTO 29008G14KT 250V350 10SM CLR 08/M09 A2969 RMK AO2 T00821094 KK62 152035Z AUTO 18011G20KT 10SM SCT060 SCT070 SCT090 05/M04 A2958 RMK AO2 KK82 152035Z AUTO 33030G36KT 10SM OVC036 01/M06 A2994 RMK AO2 KK88 152035Z AUTO 30021G27KT 4SM SCT016 BKN024 OVC033 00/M02 A2977 RMK AO1 T00011018 KKLS 152031Z AUTO 14004KT 10SM FEW007 OVC015 09/08 A3043 RMK AO2 KKNB 152030Z AUTO 00000KT 10SM CLR 12/M12 A3036 RMK A01 KKY8 152035Z AUTO VRB05KT 10SM SCT049 SCT055 06/M04 A2957 RMK A01 KL08 152035Z AUTO 00000KT 10SM CLR 26/M09 A3016 RMK AO2 KL18 152035Z AUTO 02011G20KT 10SM CLR 30/M07 A3009 RMK AO2 KL35 152035Z AUTO 09008KT 10SM CLR 15/M20 A3045 RMK AO2 KL52 152035Z AUTO 29008KT 250V310 9SM CLR 18/09 A3013 RMK A01 KLAA 152034Z AUTO 35026G34KT 3SM HZ BKN026 OVC033 07/M21 A3007 RMK AO2 PK WND 34037/2005 T00721211 KLAF 151954Z 23007G15KT 10SM SCT023 BKN050 OVC070 04/M01 A2950 RMK AO2 SNB29E38 SLP992 P0000 T00391011 KLAL 151950Z 23014G22KT 10SM SKC 23/12 A2981 KLAM 152030Z AUTO 00000KT 10SM CLR 05/M17 A3018 RMK AO2 T00481169 KLAN 152034Z 22005KT 3SM -SN BR SCT006 BKN020 OVC025 01/01 A2952 KLAR 151953Z AUTO 32028G38KT 10SM CLR 04/M11 A3009 RMK AO2 PK WND 32042/1907 SLP207 T00391111 $ KLAS 151956Z VRB03KT 10SM BKN250 17/M09 A3033 RMK AO2 SLP265 T01671094 KLAW 151953Z 32015G30KT 10SM CLR 11/M12 A3000 RMK AO2 PK WND 32032/1914 SLP160 T01061122 KLAX 151953Z 14006KT 10SM FEW270 SCT330 29/M03 A3010 RMK AO2 SLP192 T02891028 $ KLBB 151953Z 33019G27KT 10SM FEW250 09/M12 A3016 RMK AO2 PK WND 33029/1907 SLP211 T00941117 KLBE 151950Z 14012G22KT 6SM -DZ OVC045 06/01 A2957 KLBF 151953Z AUTO 34026G38KT 10SM CLR 02/M09 A2999 RMK AO2 PK WND 34043/1902 SLP174 T00171094 KLBL 151956Z AUTO 33037G41KT 8SM OVC034 07/M16 A3001 RMK AO2 PK WND 32042/1913 SLP173 T00671161 KLBO 152035Z AUTO 27015G24KT 1 1/2SM -SN BKN007 OVC012 00/M01 A2958 RMK AO2 KLBX 151953Z AUTO 31011G22KT 10SM CLR 16/M10 A3007 RMK AO2 SLP182 T01611100 KLCG 152035Z AUTO 34026G33KT OVC014 M02/M03 A2981 RMK AO2 T10161033 PWINO KLCH 151953Z AUTO 28017G27KT 10SM CLR 14/M09 A2996 RMK AO2 PK WND 31027/1948 SLP153 T01391089 KLCI 151956Z AUTO 09004KT 10SM FEW042 04/M04 A3005 RMK AO2 SLP182 T00391039 KLCK 151955Z AUTO 24006KT 10SM BKN042 OVC050 04/M02 A2959 RMK AO2 T00431024 KLCQ 152030Z AUTO 27008KT 10SM -RA SCT013 SCT040 OVC049 13/12 A2975 RMK AO2 P0001 KLDJ 152035Z AUTO 12014G18KT 10SM OVC014 08/04 A2989 RMK AO2 T00750040 KLDM 152035Z AUTO 00000KT 4SM -RA OVC004 02/01 A2949 RMK AO2 P0001 T00150008 KLEB 151953Z 16007KT 8SM FEW031 04/M04 A3001 RMK AO2 SLP171 T00391039 KLEE 151953Z 20012KT 10SM BKN041 OVC049 22/14 A2978 RMK AO2 SLP084 T02170139 KLEW 151956Z AUTO 00000KT 10SM CLR 04/M06 A3008 RMK AO2 SLP195 T00441056 KLEX 151954Z 22016G28KT 10SM BKN038 BKN047 OVC060 04/M04 A2960 RMK AO2 PK WND 21032/1924 RAB27E44SNB33E42 SLP024 P0000 T00441044 KLFI 151956Z AUTO 20008KT 10SM FEW210 13/01 A2975 RMK AO2 SLP081 T01340014 $ KLFK 151953Z AUTO 27010G24KT 10SM CLR 13/M08 A2996 RMK AO2 PK WND 31027/1910 SLP145 T01281083 KLFT 151953Z 27016G23KT 10SM CLR 15/M09 A2992 RMK AO2 PK WND 27030/1927 SLP132 T01501089 KLGA 151951Z 06010KT 9SM OVC019 07/02 A2993 RMK AO2 SLP134 T00670022 KLGB 151953Z 34003KT 10SM CLR 30/M01 A3009 RMK AO2 SLP189 T03001006 $ KLGC 152035Z AUTO 28011G17KT 10SM CLR 13/M10 A2971 RMK AO2 T01301098 KLGD 151956Z AUTO 16006KT 10SM -RA OVC040 05/M05 A3038 RMK AO2 RAB14 SLP303 P0000 T00501050 KLGF 151658Z AUTO 35015KT 9SM CLR 20/M08 A3021 RMK AO2 SLP228 T02021082 $ KLGU 151951Z AUTO 00000KT 10SM SCT055 M05/M09 A3047 RMK AO2 SLP369 T10501094 KLHB 152035Z AUTO 28019G26KT 10SM CLR 14/M09 A3007 RMK AO2 T01421087 KLHM 152035Z AUTO 25005KT 10SM CLR 16/10 A3030 RMK AO1 KLHQ 151953Z AUTO 21008KT 10SM FEW034 BKN055 06/M01 A2960 RMK AO2 SLP025 T00561011 KLHW 151956Z AUTO 22006KT 9SM RA FEW011 BKN034 OVC042 13/12 A2971 RMK AO2 RAE29DZB29E30RAB30 SLP064 P0005 T01280120 $ KLHX 151953Z AUTO 36023G30KT 10SM OVC041 09/M22 A3012 RMK AO2 PK WND 01033/1936 SLP201 T00891217 KLHZ 152035Z AUTO 20005KT 10SM -RA BKN037 OVC043 11/05 A2974 RMK AO2 KLIC 151955Z AUTO 35036G53KT 4SM HZ OVC016 04/M24 A3004 RMK AO2 PK WND 36058/1855 SLP187 T00441239 KLIT 151953Z 28019G26KT 10SM SCT065 OVC080 07/M07 A2979 RMK AO2 PK WND 27026/1953 SLP091 T00671067 KLJF 152035Z AUTO 35013G20KT 5SM -SN OVC013 02/01 A2972 RMK AO2 KLKR 152035Z AUTO 19006KT 10SM BKN008 BKN014 09/08 A2970 RMK AO2 KLKU 152035Z AUTO 12007KT 10SM BKN090 OVC110 10/02 A2971 RMK AO2 T01000017 KLKV 151953Z AUTO 27003KT 10SM FEW039 05/M01 A3041 RMK AO2 SLP326 T00501006 $ KLLJ 151955Z AUTO 00000KT 10SM CLR M05/M12 A3034 RMK AO2 SLP333 T10501122 KLLQ 151953Z AUTO 30015G24KT 10SM BKN085 10/M09 A2980 RMK AO2 SLP090 T01001094 KLMO 152035Z AUTO 14006KT 10SM CLR 08/M17 A3009 RMK AO2 T00771169 KLMT 152040Z 10003KT 10SM SCT023 BKN028 OVC060 03/01 A3041 RMK AO2 RAE17 P0000 T00330011 KLNA 152035Z AUTO 23005KT 10SM CLR 25/13 A2986 RMK AO2 T02450125 PNO KLNC 152035Z AUTO 31025G31KT 10SM CLR 11/M10 A3002 RMK AO2 T01131103 KLND 151953Z AUTO 36004KT 10SM CLR 01/M12 A3015 RMK AO2 SLP255 T00061122 KLNK 151954Z 33027G41KT 1 1/4SM -SN BKN021 OVC028 M01/M04 A2978 RMK AO2 PK WND 33041/1948 SLP096 P0000 T10061039 KLNL 152035Z AUTO 01005KT 1 3/4SM -SN OVC006 01/00 A2959 RMK AO2 T00100003 KLNN 152035Z AUTO 23009KT 5SM OVC009 02/00 A2958 RMK AO1 P0002 T00201002 KLNP 152035Z AUTO 22006KT 10SM SCT032 SCT038 04/M03 A2962 RMK AO2 KLNQ 152035Z AUTO 25012G19KT 10SM CLR 14/03 A2991 RMK AO2 T01440029 KLNR 151956Z AUTO 06005KT 10SM OVC055 02/M01 A2950 RMK AO2 SLP991 T00221011 KLNS 151953Z 09013KT 7SM FEW023 SCT027 BKN042 09/04 A2975 RMK AO2 PRESFR SLP076 T00890039 KLOL 151953Z AUTO VRB03KT 10SM CLR 10/00 A3039 RMK AO2 SLP306 T01000000 KLOM 152035Z AUTO 09008KT 10SM SCT025 BKN031 OVC042 10/06 A2983 RMK AO2 T00980055 KLOR 151958Z AUTO 25007G15KT 10SM CLR 15/M03 A2976 RMK AO2 SLP061 T01511030 KLOT 152035Z AUTO 00000KT 1/2SM -SN BKN004 OVC008 00/00 A2950 RMK AO2 T00001001 KLOU 151953Z 18016G24KT 10SM FEW055 SCT070 BKN090 06/M04 A2956 RMK AO2 PK WND 24028/1855 WSHFT 1933 RAB1854E05B43E51 SLP011 P0000 T00611044 KLOZ 151953Z AUTO 23007KT 10SM FEW050 BKN065 OVC110 07/M07 A2960 RMK AO2 SLP025 T00671072 KLPC 151956Z AUTO 08003KT 10SM 27/05 A3014 RMK AO2 SLP207 T02670050 $ KLPR 152002Z AUTO 19007KT 6SM BR FEW005 BKN026 OVC060 01/M01 A2957 RMK AO2 SNE1958 P0000 T00111011 KLQK 152035Z AUTO 28007G16KT 230V330 10SM CLR 13/M08 A2962 RMK AO2 T01291079 KLRD 151956Z VRB05KT 10SM CLR 17/M10 A3019 RMK AO2 SLP223 T01721100 KLRF 151956Z AUTO 25015G21KT 10SM OVC070 05/M04 A2977 RMK AO2 PK WND 24028/37 RAB19E28 SLP086 P0000 T00531043 KLRJ 152035Z AUTO 34022G31KT 1/2SM -SN OVC003 M01/M02 A2975 RMK AO2 KLRO 152035Z AUTO 00000KT 3SM RA FEW038 BKN049 OVC060 13/13 A2975 RMK AO2 KLRU 021955Z AUTO 24009KT 10SM CLR 11/M11 A3019 RMK AO2 T01061114 KLRY 152035Z AUTO 31018G24KT 1 3/4SM BKN011 OVC019 00/M01 A2966 RMK AO2 KLSE 151953Z 04009KT 10SM BKN032 OVC043 03/M02 A2953 RMK AO2 SLP010 T00281017 KLSF 151956Z 26012KT 10SM CLR 14/M04 A2973 RMK A02A SLPNO ALSTG ESTMD 56025 RVRNO $ KLSV 151958Z AUTO 00000KT 10SM CLR 18/M08 A3031 RMK AO2 SLP258 T01791083 $ KLTS 151956Z 32025G38KT 10SM CLR 11/M12 A3003 RMK AO2A PK WND 31042/1856 SLP171 $ KLUA 152035Z AUTO 00000KT 10SM OVC060 08/01 A2964 RMK AO2 KLUD 152035Z AUTO 31021G27KT 10SM CLR 11/M14 A3001 RMK AO2 T01071137 KLUF 151958Z AUTO 00000KT 10SM CLR 22/M08 A3013 RMK AO2 SLP198 T02211076 $ KLUG 152035Z AUTO 27010G18KT 250V310 10SM BKN085 09/M11 A2964 RMK A01 KLUK 151953Z 25011KT 10SM BKN060 OVC075 06/M04 A2959 RMK AO2 PK WND 25033/1923 RAB23E33 SLP022 P0000 T00561044 KLUL 152035Z AUTO 27017G21KT 10SM CLR 13/M10 A2981 RMK A02 T01271103 KLUM 152035Z AUTO 32009KT 10SM OVC011 00/00 A2960 RMK AO2 T00000000 KLUV 152035Z AUTO 32010G16KT 10SM SCT075 BKN100 BKN120 09/M09 A3020 RMK AO2 KLUX 152035Z AUTO 26005KT 10SM CLR 11/00 A2968 RMK AO2 KLVJ 151953Z AUTO 30012G20KT 10SM CLR 16/M09 A3006 RMK AO2 PK WND 30027/1928 SLP178 T01561094 KLVK 151953Z 00000KT 10SM CLR 17/07 A3030 RMK AO2 SLP258 T01670072 KLVL 152035Z AUTO 15004KT 10SM BKN050 BKN080 OVC110 12/02 A2970 RMK AO1 T01220021 KLVM 151953Z AUTO 22027G39KT 10SM CLR 07/M10 A3015 RMK AO2 PK WND 24044/1925 SLP234 T00671100 KLVN 152035Z AUTO 34013G17KT 7SM UP OVC010 01/01 A2963 RMK AO2 KLVS 151953Z AUTO VRB05KT 10SM CLR 06/M14 A3011 RMK AO2 SLP189 T00561144 KLWA 152035Z AUTO 22003KT 10SM SCT036 BKN044 OVC050 02/00 A2952 RMK AO2 T00151005 KLWB 152015Z 24005KT 7SM SCT015 BKN022 OVC055 02/00 A2965 KLWC 152010Z AUTO 32023G34KT 1SM -SN BR FEW013 BKN019 OVC026 00/M02 A2969 RMK AO1 PK WND 32034/2009 P0000 T00001017 KLWD 152025Z AUTO 36013G24KT 10SM FEW010 BKN017 OVC030 01/M02 A2952 KLWM 151954Z 10004KT 10SM SCT037 05/M02 A3009 RMK AO2 SLP192 T00501017 KLWS 151956Z 00000KT 10SM OVC048 03/M02 A3035 RMK AO2 SLP290 T00331022 KLWT 151954Z AUTO 35003KT 10SM SCT070 09/M04 A3003 RMK AO2 SLP196 T00891039 KLWV 151953Z AUTO 26011KT 6SM -SN BKN037 OVC055 03/M03 A2954 RMK AO2 SNB47 SLP006 P0000 T00281028 KLXL 152035Z AUTO 34011G19KT 10SM OVC010 00/M01 A2975 RMK AO2 KLXN 152035Z AUTO 34022G31KT 10SM OVC037 01/M07 A2996 RMK AO2 T00061074 KLXT 151953Z AUTO 31023G37KT 7SM OVC020 M01/M03 A2959 RMK AO2 PK WND 30037/1950 SNE38 SLP028 P0000 T10061028 KLXV 151953Z AUTO 30014G21KT 10SM CLR M03/M16 A3025 RMK AO2 SLP232 T10281156 KLXY 152035Z AUTO 30017G29KT 270V330 10SM CLR 13/M11 A3002 RMK AO2 T01271108 KLYH 152031Z COR VRB05KT 5SM -RA BR FEW008 FEW020 OVC027 07/04 A2968 RMK AO2 P0005 T00670044 KLYO 152035Z AUTO 33029G38KT 10SM OVC044 02/M07 A2990 RMK AO2 T00251073 KLYV 152035Z AUTO 35020G32KT M02/M03 A2977 RMK AO2 PWINO KLZU 151956Z 25010G15KT 10SM CLR 12/M07 A2968 RMK AO2 SLP064 T01171067 KLZZ 151815Z AUTO 31016G21KT 10SM CLR 11/M11 A3015 RMK AO2 T01101113 KM02 152035Z AUTO 23018G25KT 10SM SCT070 BKN090 07/M08 A2960 RMK A01 KM04 152035Z AUTO 29019G26KT 10SM SCT060 BKN090 06/M05 A2969 RMK A01 KM08 152035Z AUTO 25014G27KT 10SM FEW043 SCT065 BKN095 07/M07 A2967 RMK A01 KM19 151956Z AUTO 27018KT 10SM BKN065 OVC080 06/M07 A2971 RMK AO2 PK WND 28026/1858 SLP061 T00561067 KM21 152035Z AUTO 23009G19KT 200V260 10SM SCT030 BKN060 OVC100 06/M08 A2960 RMK AO2 T00571076 KM25 152035Z AUTO 25011G25KT 10SM -RA SCT043 BKN049 OVC065 03/M02 A2962 RMK AO2 KM40 152035Z AUTO 28014G25KT 10SM CLR 09/M09 A2976 RMK AO2 KM54 152035Z AUTO 23015KT 10SM FEW110 09/M06 A2960 RMK A01 KM75 152035Z AUTO 18007KT 10SM CLR 03/M10 A3001 RMK A01 KM91 152030Z AUTO 23015G23KT 10SM FEW060 SCT070 BKN085 06/M07 A2960 RMK A01 KMAE 151953Z AUTO 15004KT 4SM HZ CLR 28/10 A3030 RMK AO2 SLP259 T02780100 $ KMAF 151953Z 33005KT 10SM CLR 09/M13 A3021 RMK AO2 SLP225 T00941133 KMAI 151953Z AUTO 27013KT 10SM CLR 17/M02 A2976 RMK AO2 SLP076 T01671017 KMAN 152035Z AUTO 31007KT 10SM BKN080 02/02 A3042 RMK A01 KMAO 151955Z AUTO 24003KT 5SM -RA SCT020 BKN029 OVC065 11/11 A2974 RMK AO2 KMAW 152035Z AUTO 25012KT 10SM SCT009 SCT012 SCT019 04/M01 A2966 RMK AO2 KMBG 151952Z AUTO 35017G29KT 10SM OVC016 M02/M08 A3003 RMK AO2 PK WND 33033/1856 SLP188 T10221078 KMBL 152039Z AUTO 00000KT 6SM -RA BR BKN007 BKN016 OVC026 02/02 A2949 RMK AO2 CIG 004V010 P0000 FZRANO KMBO 152035Z AUTO 26014G24KT 10SM CLR 10/M06 A2982 RMK AO2 KMBS 152020Z 00000KT 1 1/2SM DZ BR OVC009 02/01 A2950 RMK AO2 P0000 T00170006 $ KMBT 152035Z AUTO 25008G15KT 230V300 10SM FEW090 08/M08 A2961 RMK A01 KMBY 152035Z AUTO 29009KT 10SM BKN007 OVC013 01/M01 A2946 RMK AO2 KMCB 151953Z AUTO 29012G22KT 10SM CLR 13/M08 A2985 RMK AO2 PK WND 29031/1936 SLP105 T01281083 KMCC 152035Z AUTO 00000KT 7SM CLR 16/10 A3031 RMK AO2 KMCD 152035Z AUTO 07011G24KT 7SM OVC010 03/01 A2959 RMK AO2 T00250010 KMCE 151953Z AUTO 14006KT 5SM HZ CLR 16/10 A3029 RMK AO2 SLP258 T01610100 KMCF 151956Z AUTO 20013KT 10SM FEW120 20/15 A2981 RMK AO2 SLP098 T01970153 FZRANO $ KMCI 152005Z 31015G31KT 3SM -SN BLSN BR BKN017 OVC023 00/M02 A2961 RMK AO2 PK WND 32031/2002 SFC VIS 4 P0000 T00001022 KMCJ 152035Z AUTO 29019G32KT 270V330 10SM CLR 14/M11 A3000 RMK A01 KMCK 151953Z AUTO 33028G36KT 10SM CLR 03/M10 A2999 RMK AO2 PK WND 32042/1857 SLP173 T00281100 KMCN 151953Z 23009G18KT 10SM CLR 16/01 A2970 RMK AO2 SLP054 T01560011 KMCO 151953Z 20013KT 10SM FEW042 SCT250 BKN300 23/12 A2979 RMK AO2 SLP087 T02280122 KMCW 152024Z AUTO 35017KT 10SM BKN008 OVC015 01/M01 A2958 RMK AO2 CIG 007V012 T00111011 KMCX 152035Z AUTO 25008G14KT 10SM SCT023 BKN039 OVC095 02/M01 A2950 RMK AO2 T00171011 KMDD 152035Z AUTO 36005KT 10SM CLR 09/M15 A3019 RMK AO2 T00881146 KMDH 151952Z 24015KT 10SM BKN045 OVC055 03/M03 A2956 RMK AO2 PK WND 24026/1900 SNE17 SLP013 P0000 T00281033 KMDJ 152035Z AUTO 28027G34KT 10SM CLR 13/01 A2995 RMK A01 KMDQ 152035Z AUTO 25016G20KT 10SM BKN085 09/M10 A2967 RMK A02 T00871095 KMDS 152015Z AUTO 36029G37KT 3SM UP SCT015 OVC028 M03/M03 A2983 RMK AO2 P0002 KMDT 151956Z 13011KT 10SM SCT025 OVC033 07/03 A2976 RMK AO2 SLP080 T00720028 KMDW 151953Z 18006KT 10SM FEW022 SCT040 BKN075 03/M03 A2948 RMK AO2 SNE15 SLP991 P0000 T00281033 KMDZ 152035Z AUTO 36005KT 4SM BR BKN006 OVC011 00/00 A2955 RMK AO2 T00000000 KMEB 152008Z AUTO 16008KT 6SM -RA BR SCT023 SCT050 OVC070 11/09 A2971 RMK AO2 P0000 T01060094 KMEH 151956Z AUTO 00000KT 10SM SCT008 OVC017 03/01 A3033 RMK AO2 RAE05B14E33UPB05E14 SLP292 P0000 T00280006 KMEI 151958Z 27015G23KT 10SM CLR 12/M11 A2980 RMK AO2 PK WND 25030/1913 SLP089 I1000 T01221111 KMEM 151954Z 26013G25KT 10SM SCT050 OVC060 07/M06 A2971 RMK AO2 PK WND 28029/1936 RAB25E42 SLP061 VCSH P0000 T00671056 $ KMER 151945Z 00000KT 4SM HZ SKC 17/14 A3031 KMEV 152035Z AUTO 00000KT 10SM CLR 13/M04 A3035 RMK AO2 KMEZ 152035Z AUTO 28018G26KT 10SM SCT070 OVC080 07/M07 A2983 RMK AO2 KMFD 152019Z 20010KT 10SM SCT010 BKN015 03/02 A2955 KMFE 151953Z 35010KT 10SM CLR 20/M09 A3016 RMK AO2 SLP212 T02001094 KMFI 151954Z AUTO 02007KT 10SM SCT018 BKN026 OVC039 02/M02 A2952 RMK AO2 SLP009 T00221017 KMFR 151953Z 18003KT 10SM OVC031 07/04 A3046 RMK AO2 SLP322 T00670039 KMFV 152035Z AUTO 19006KT 10SM CLR 10/05 A2979 RMK AO2 T01010052 KMGC 152035Z AUTO 12003KT 10SM SCT060 SCT070 BKN080 01/M01 A2952 RMK AO2 KMGE 151956Z 24010G16KT 10SM FEW040 12/M11 A2967 RMK AO2A SLP048 T01231107 $ KMGG 151959Z AUTO 35013KT 3SM -SN 01/01 A2970 RMK AO2 KMGJ 152028Z AUTO 02006KT 4SM BR OVC010 01/01 A2990 RMK AO2 CIG 004V011 T00110006 KMGM 151953Z 26015G23KT 10SM CLR 15/M07 A2975 RMK AO2 PK WND 25026/1930 SLP072 T01501067 KMGN 152035Z AUTO 06010G16KT 5SM -RA OVC009 01/01 A2955 RMK AO2 T00180011 KMGR 152030Z AUTO 28004KT 10SM CLR 15/06 A2974 RMK AO2 KMGW 152008Z VRB05KT 5SM -RA BR OVC014 03/01 A2965 RMK AO2 P0002 T00330011 KMGY 151953Z AUTO 21010G18KT 10SM BKN055 OVC070 06/M06 A2954 RMK AO2 SLP004 T00561056 KMHE 151953Z AUTO 34025G34KT 4SM -SN OVC018 M02/M05 A2993 RMK AO2 PK WND 34040/1858 UPB20E23SNB23 SLP150 P0000 T10171050 TSNO KMHK 151952Z 32025G38KT 9SM -SN SCT028 OVC035 02/M06 A2981 RMK AO2 PK WND 32033/1924 SLP102 P0000 T00171056 KMHL 152035Z AUTO 29020G27KT 10SM OVC012 00/M01 A2952 RMK AO2 KMHP 152030Z AUTO 25003KT 10SM BKN008 BKN012 OVC110 13/13 A2971 RMK AO2 T01290127 KMHR 151953Z 29004KTKT 7SM BR SKC 15/10 A3032 KMHS 151956Z AUTO 00000KT 10SM BKN065 10/03 A3039 RMK AO2 SLP315 T01000028 KMHT 151953Z 12007KT 10SM FEW033 OVC250 05/M04 A3006 RMK AO2 SLP195 T00501039 KMHV 080100Z AUTO 19005KT 10SM CLR 14/M07 A3015 RMK A01 KMIA 151953Z VRB03KT 10SM FEW030 SCT070 BKN210 24/12 A2988 RMK AO2 SLP117 T02390117 $ KMIB 151956Z AUTO 34012KT 10SM OVC013 M05/M09 A3009 RMK AO2 SLP221 T10531089 KMIC 151953Z 35010G16KT 6SM UP BR OVC008 02/00 A2964 RMK AO2 SNB08E20B27E32 CIG 007V013 SLP046 P0001 T00170000 KMIE 151953Z 27005KT 10SM FEW025 BKN036 OVC047 04/M02 A2951 RMK AO2 PK WND 20032/1910 SLP994 T00441017 KMIO 072335Z AUTO 19005KT 10SM CLR 10/02 A3008 RMK AO2 KMIS 152035Z AUTO 26021KT 10SM CLR 12/02 A2988 RMK A01 KMIV 152031Z AUTO 14012G17KT 10SM FEW023 SCT028 OVC065 12/06 A2983 RMK AO2 T01170061 KMIW 152033Z AUTO 35010KT 10SM BKN013 OVC019 01/M01 A2954 RMK AO2 T00061006 KMJD 152035Z AUTO 29016G27KT 10SM CLR 16/M08 RMK AO2 KMJQ 152035Z AUTO 33026G32KT OVC009 M01/M02 A2968 RMK AO2 PWINO KMJX 152014Z AUTO 09011G18KT 10SM SCT011 OVC035 10/07 A2986 RMK AO2 KMKC 151954Z 30016G30KT 8SM -SN SCT018 OVC026 00/M03 A2960 RMK AO2 PK WND 30037/1918 SLP029 P0000 T00001033 KMKE 151952Z 11004KT 10SM FEW020 SCT050 OVC060 03/M02 A2948 RMK AO2 SLP989 T00281017 KMKG 151955Z 00000KT 1SM R32/6000VP6000FT -SN BR FEW007 OVC015 01/M01 A2950 RMK AO2 RAE24SNB24 SLP995 P0002 T00111006 KMKJ 152035Z AUTO 23008KT 10SM SCT017 SCT023 SCT029 03/00 A2967 RMK AO2 T00280000 KMKL 151953Z 26021G28KT 10SM FEW050 BKN070 OVC100 07/M07 A2966 RMK AO2 PK WND 27028/1951 SLP046 T00721072 KMKN 152035Z AUTO 33016G31KT 10SM CLR 12/M11 A3009 RMK AO2 T01211113 KMKO 151953Z AUTO 30019G29KT 10SM OVC065 05/M07 A2988 RMK AO2 PK WND 29031/1910 RAE1856B30E43 SLP119 P0000 T00501072 KMKS 152035Z AUTO 20004KT 4SM -RA OVC007 12/12 A2974 RMK AO2 P0002 KMKT 151956Z AUTO 35017KT 6SM -RA BR OVC007 01/01 A2964 RMK AO2 UPB06E25B47E55RAB25SNE06B08E20 SLP048 P0000 T00110011 FZRANO KMKY 151956Z AUTO 21004KT 10SM CLR 23/14 A2988 RMK AO2 SLP117 T02280139 TSNO $ KMLB 151953Z 19012KT 10SM CLR 22/12 A2981 RMK AO2 SLP094 T02220122 KMLC 151953Z AUTO 32018G33KT 10SM -RA OVC080 07/M10 A2990 RMK AO2 PK WND 34033/1951 SLP127 P0000 T00721100 KMLE 152035Z AUTO 32021G29KT 1 1/2SM -SN OVC013 00/M03 A2974 RMK AO2 T00001027 KMLF 151952Z AUTO 00000KT 10SM CLR 06/M09 A3042 RMK AO2 SLP316 T00561089 KMLI 151959Z 04007KT 9SM BKN023 BKN030 OVC055 02/M02 A2945 RMK AO2 T00171022 KMLJ 152041Z AUTO 27007G15KT 10SM CLR 15/M01 A2971 RMK AO2 KMLP 151953Z AUTO 00000KT 1/4SM SN FZFG VV002 M02/M04 A3022 RMK AO2 SLP276 P0006 T10221039 $ KMLS 151953Z AUTO 23008KT 10SM CLR 00/M12 A3015 RMK AO2 SLP239 T00001117 KMLT 151953Z AUTO 03003KT 10SM OVC042 02/M07 A3011 RMK AO2 SLP207 T00221067 KMLU 151953Z 28016G27KT 10SM FEW085 12/M06 A2986 RMK AO2 PK WND 29027/1946 SLP110 T01171061 KMMH 152035Z AUTO 14006KT 10SM CLR 15/M08 A3046 RMK AO2 KMMI 152035Z AUTO 25008G19KT 10SM FEW090 10/M10 A2965 RMK A01 KMMK 151953Z AUTO VRB04KT 10SM OVC025 06/00 A2999 RMK AO2 SLP155 T00610000 KMML 152043Z AUTO 34028G33KT 1/2SM -SN FZFG OVC008 M03/M04 A2978 RMK AO2 PK WND 35036/2028 CIG 006V011 P0000 FZRANO KMMT 152040Z 23004KT 10SM BKN005 OVC014 10/10 A2970 RMK AO2A SLP061 55012 $ KMMU 151945Z 09007KT 4SM BR OVC012 05/05 A2991 KMMV 152036Z AUTO 21003KT 4SM BR OVC004 09/08 A3041 RMK AO2 T00940083 KMNE 152035Z AUTO 28016G31KT 10SM SCT080 11/M06 A2989 RMK AO2 T01131065 KMNH 152035Z AUTO 35007G14KT 10SM CLR 01/M18 A3010 RMK AO2 KMNI 152035Z AUTO 19005KT 7SM -RA SCT005 BKN010 OVC065 11/11 A2972 RMK AO2 P0002 KMNM 151956Z AUTO 06008KT 5SM UP BR OVC005 02/02 A2954 RMK AO2 UPB25 SLP007 P0000 T00220017 FZRANO $ KMNN 151953Z AUTO 24011KT 10SM FEW033 04/M03 A2957 RMK AO2 SLP019 T00391033 KMNV 152035Z AUTO 24012KT 10SM CLR 09/M08 A2963 RMK A01 KMNZ 152035Z AUTO 32022G36KT 10SM CLR 13/M11 A3008 RMK AO2 T01251115 KMOB 151956Z 29012G23KT 10SM CLR 15/M07 A2982 RMK AO2 PK WND 28030/1941 SLP097 T01501067 KMOD 152013Z 00000KT 3SM HZ CLR 12/09 A3030 RMK AO2 T01220094 KMOP 152035Z AUTO 00000KT 1SM -SN OVC003 01/01 A2949 RMK AO2 T00100010 KMOR 152035Z AUTO 23007KT 8SM CLR 07/M05 A2962 RMK A01 KMOT 152042Z 30012KT 10SM OVC015 M04/M09 A3009 RMK AO2 T10441089 KMOX 152035Z AUTO 34020G29KT 2 1/2SM BR CLR M04/M06 RMK AO2 KMP1 142100Z 21010G19KT -2/ A3030 RMK 4/019 SOG 19.2 KMPO 151953Z AUTO 10008KT M1/4SM FG VV001 00/M01 A2981 RMK AO2 PRESRR SLP115 T00001006 KMPV 152017Z AUTO 17003KT 10SM SCT026 01/M03 A3003 RMK AO2 T00111033 KMPZ 152035Z AUTO 01009KT 10SM SCT025 SCT031 BKN039 01/00 A2948 RMK AO2 KMQB 152035Z AUTO 36004KT 10SM SCT012 OVC037 01/M01 A2947 RMK AO2 T00051010 KMQE 151951Z AUTO 10010KT 04/M02 A3003 RMK AO1 SLP186 T00391017 KMQI 152035Z AUTO 20009KT 10SM CLR 13/06 A2978 RMK AO2 T01310063 KMQJ 152035Z AUTO 24011G16KT 10SM BKN038 BKN050 OVC060 02/M01 A2953 RMK AO1 KMQS 152035Z AUTO VRB05KT SCT030 SCT035 BKN042 09/04 A2980 RMK AO2 KMQY 151956Z 21010KT 10SM FEW024 SCT048 BKN065 08/M04 A2964 RMK AO2 SLP044 T00781044 PNO $ KMRB 151953Z 12005KT 10SM FEW041 SCT120 08/02 A2967 RMK AO2 SLP051 T00780022 KMRC 152030Z AUTO 24013G23KT 10SM FEW075 FEW090 08/M10 A2962 RMK A01 KMRF 151956Z AUTO 26013G16KT 10SM CLR 13/M10 A3017 RMK AO2 SLP202 T01331100 KMRH 151958Z AUTO 22005KT 10SM CLR 16/09 A2977 RMK AO2 SLP080 I1000 T01560089 TSNO KMRJ 152035Z AUTO 03003KT 10SM -RA SCT013 BKN031 OVC049 02/00 A2950 RMK AO2 KMRN 152035Z AUTO 00000KT 10SM BKN008 06/03 A2969 RMK AO2 T00630031 KMRT 152035Z AUTO 23009KT 10SM SCT048 SCT065 BKN080 04/M03 A2958 RMK AO2 T00421033 KMRY 151954Z 33006KT 10SM CLR 18/08 A3025 RMK AO2 SLP255 T01780078 KMSL 151953Z AUTO 25020G26KT 10SM BKN090 11/M09 A2967 RMK AO2 PK WND 25031/1932 SLP046 T01061089 KMSN 152008Z 04007KT 10SM FEW017 SCT022 OVC060 02/M01 A2949 KMSO 152013Z 24004KT 3/4SM -SN BR OVC021 M04/M04 A3031 RMK AO2 P0001 T10391044 KMSP 152004Z 36011KT 7SM -SN FEW009 BKN013 OVC060 01/01 A2964 RMK AO2 P0000 T00110006 KMSS 151953Z AUTO 06008KT 5SM HZ CLR 01/M02 A2993 RMK AO2 SLP143 T00111022 KMSV 151956Z AUTO 09008KT 1/4SM UP FZFG OVC003 M01/M01 A2987 RMK AO2 SLP132 P0000 T10061006 FZRANO RVRNO KMSY 151953Z 27015G26KT 10SM CLR 16/M04 A2989 RMK AO2 PK WND 27026/1949 SLP126 T01611044 KMTC 152021Z 20005KT 2 1/2SM -RASN BR OVC008 02/02 A2952 RMK AO2A PRESRR SLP006 $ KMTH 151953Z AUTO 36003KT 10SM FEW120 21/15 A2988 RMK AO2 SLP118 T02110150 KMTJ 151953Z AUTO 00000KT 10SM CLR 01/M13 A3039 RMK AO2 SLP311 T00111128 KMTK 152035Z AUTO 29019KT 10SM CLR 13/01 A2993 RMK A01 KMTN 151954Z 00000KT 10SM SCT038 BKN200 10/04 A2980 KMTO 152041Z AUTO 20012G22KT 8SM SCT019 BKN027 OVC060 02/M02 A2950 RMK AO2 SNE33 P0000 T00171017 KMTP 151954Z AUTO 09008KT 07/02 A3001 RMK AO1 SLP161 T00670022 KMTV 152035Z AUTO 00000KT 5SM BR OVC016 03/03 A2971 RMK AO2 P0001 T00320032 KMTW 151956Z AUTO 00000KT 8SM -RA OVC007 03/02 A2951 RMK AO2 SLP997 P0000 T00280022 KMUI 151956Z COR 06007KT 3SM BR BKN013 OVC020 06/04 A2977 RMK AO2A CIG 013V020 SLP087 T00560041 COR 2001 KMUO 151958Z AUTO 10008KT 10SM FEW200 04/00 A3039 RMK AO2 SLP313 T00411005 $ KMUT 152035Z AUTO 03010KT 10SM SCT022 SCT029 OVC047 01/M00 A2950 RMK AO2 KMVE 152035Z AUTO 01021G35KT 2 1/2SM -SN OVC010 M02/M04 A2980 RMK AO2 KMVH 152035Z AUTO 30012KT 10SM SCT070 10/M06 A3004 RMK AO2 KMVL 151954Z AUTO 20005KT 10SM BKN031 03/M03 A3000 RMK AO2 SLP170 T00281028 KMVN 152040Z AUTO 23013KT 2 1/2SM -SN BR FEW012 BKN022 OVC034 01/00 A2956 RMK AO2 RAE37SNB37 P0000 FZRANO KMVY 151953Z 09011KT 10SM CLR 06/M01 A3005 RMK AO2 SLP175 T00611006 KMWA 151945Z 25010G20KT 10SM SCT030 SCT039 OVC049 03/M03 A2956 KMWC 151945Z 12005KT 10SM OVC065 03/M04 A2949 KMWH 151952Z 08003KT 10SM CLR 03/M01 A3037 RMK AO2 SLP296 T00331006 KMWK 152035Z AUTO 00000KT 7SM BKN004 BKN011 OVC045 04/03 A2970 RMK AO2 T00350025 KMWL 151953Z AUTO 31020G38KT 10SM -RA CLR 12/M12 A3003 RMK AO2 PK WND 33042/1937 RAB01 SLP168 P0000 T01171117 KMWM 152035Z AUTO 32019G25KT OVC008 M02/M02 A2968 RMK AO2 PWINO KMWN 151953Z COR 18010KT 70SM BKN/// BKN100 BKN180 M04/M19 RMK TPS LWR BKN047 KMWO 152035Z AUTO 25008KT 10SM BKN049 OVC060 05/M04 A2959 RMK AO2 T00471036 KMWT 151953Z AUTO 31013G20KT 10SM BKN075 BKN090 07/M08 A2978 RMK AO2 SLP091 T00721083 KMXF 151956Z AUTO 25012G21KT 10SM CLR 15/M07 A2974 RMK AO2 SLP073 T01461075 $ KMXO 152035Z AUTO 03006KT 10SM FEW055 OVC075 01/M01 A2951 RMK AO2 KMYF 151953Z 25003KT 10SM CLR 29/M03 A3009 RMK AO2 SLP185 T02891028 KMYJ 152035Z AUTO 27009KT 3SM OVC009 00/00 A2944 RMK AO2 KMYL 151951Z AUTO 14003KT 10SM OVC060 M06/M08 A3032 RMK AO2 SLP326 T10611083 KMYP 152035Z AUTO 24021G31KT 10SM CLR M06/M15 A3032 RMK AO2 KMYR 151956Z 17011KT 10SM 13/11 A2976 RMK AO2 SLP077 T01330106 $ KMYV 151953Z AUTO 24003KT 8SM CLR 14/09 A3032 RMK AO2 SLP271 T01440094 KMYZ 152035Z AUTO 33024G37KT 10SM SCT020 BKN028 OVC080 00/M02 A2979 RMK AO2 KMZH 152035Z AUTO 01007KT 10SM OVC009 01/00 A2968 RMK AO2 KMZZ 152035Z AUTO 23007KT 10SM SCT034 BKN043 OVC110 03/M02 A2953 RMK AO2 T00331020 KN KN03 152035Z AUTO 13010G23KT 10SM OVC015 02/00 A2980 RMK AO2 KN38 152035Z AUTO 15014G20KT 5SM BR OVC013 02/00 A2966 RMK AO2 KN60 151952Z AUTO 32013KT M06/M08 A3010 RMK AO1 SLP224 T10561083 KNAK 151954Z AUTO 15007KT 7SM CLR 09/05 A2979 RMK AO2 PRESRR SLP090 T00890050 KNBC 152003Z 17004KT 3SM -RA BR SCT041 BKN048 OVC080 13/12 A2974 RMK AO2 SFC VIS 5 T01330122 PNO KNBG 151955Z 28008G20KT 10SM CLR 16/M02 A2989 RMK AO2 SLP120 T01611017 $ KNBT 151956Z AUTO 17012KT 10SM CLR 17/09 A2978 RMK AO2 SLP087 T01720094 KNCA 151956Z 19008G17KT 10SM CLR 16/07 A2976 RMK AO2 SLP079 T01610067 $ KNDZ 151956Z 29009G15KT 10SM CLR 17/M05 A2980 RMK SLP077 T01671050 KNEL 152000Z 10017G23KT 10SM OVC012 09/07 A2985 RMK AO2 SLP105 T00940072 $ KNEW 151953Z 28011KT 10SM CLR 14/03 A2990 RMK AO2 SLP118 T01390028 KNFE 151956Z AUTO 20011G20KT 170V240 10SM CLR 14/02 A2976 RMK AO2 SLP080 T01440017 $ KNFG 151955Z 03013G20KT 10SM FEW250 33/M17 A3008 RMK AO2 SLP184 T03331167 KNFL 151956Z COR 21003KT 10SM BKN120 BKN150 BKN220 12/M03 A3036 RMK AO2 SLP239 T01171028 KNFW 151952Z 31023G33KT 10SM CLR 12/M12 A3003 RMK PK WND 31033/1952 SLP153 T01221117 VISNO S KNGP 151956Z VRB05KT 10SM FEW250 18/M04 A3015 RMK AO2 SLP209 T01831044 KNGU 151959Z 16009KT 10SM FEW050 BKN220 14/02 A2976 RMK AO2 SLP078 T01390017 $ KNHK 151952Z 14009KT 6SM HZ FEW030 BKN200 BKN250 11/05 A2978 RMK AO2 SLP083 T01060050 $ KNID 151956Z 03003KT 10SM BKN250 19/M06 A3033 RMK AO2 SLP270 T01891061 $ KNIP 151953Z 20014G20KT 10SM FEW045 BKN060 BKN100 BKN250 21/11 A2972 RMK AO2 SLP058 T02110111 KNJK 151956Z 00000KT 10SM FEW250 27/M08 A3018 RMK SLP234 T02671078 KNJM 151957Z AUTO 22006KT 10SM CLR 16/07 A2977 RMK AO2 SLP085 T01560072 KNJW 151857Z AUTO 27017G27KT 10SM CLR 11/M09 A2979 RMK AO2 PK WND 28028/1843 SLP892 T01061094 $ KNKT 151954Z 20010G15KT 10SM CLR 16/08 A2977 RMK AO2 SLP078 T01610083 KNKX 151955Z 28003KT 10SM CLR 30/M06 A3008 RMK AO2 SLP180 T03001056 $ KNLC 151956Z 11007KT 5SM HZ FEW000 BKN250 16/09 A3029 RMK AO2 SLP257 HZ FEW000 RH/66 T01560089 KNMM 151956Z 26018G33KT 10SM FEW085 12/M10 A2979 RMK AO2 PK WND 25033/1950 SLP099 T01171100 KNOG 151956Z AUTO 03011G15KT 10SM CLR A3016 RMK AO2 SLPNO PNO $ KNOW 152035Z AUTO 30007KT 10SM CLR 10/08 A3039 RMK AO2 T01040075 KNOZ 151959Z AUTO 36018KT 10SM CLR 25/M08 A3014 RMK AO2 SLP155 T02501078 $ KNPA 151956Z 26009G16KT 10SM CLR 16/M03 A2981 RMK SLP097 T01561028 KNQA 151950Z 27020KT 10SM BKN055 BKN065 OVC075 07/M05 A2969 KNQI 151956Z 01007KT 10SM FEW300 18/M09 A3016 RMK AO2 SLP210 T01831094 $ KNQX 151953Z 09005KT 10SM FEW035 SCT120 BKN250 21/17 A2988 RMK AO2 SLP118 T02110167 KNRB 151952Z 22013KT 10SM SCT030 BKN100 OVC250 22/11 A2972 RMK AO2 SLP063 T02220111 KNRN 152035Z AUTO 35023G36KT 10SM SCT045 OVC075 02/M09 A2999 RMK AO2 KNRS 151956Z 28008KT 10SM FEW250 27/00 A3009 RMK AO2 SLP187 T02720000 $ KNSE 151956Z 29015G20KT 10SM CLR 16/M07 A2980 RMK SLP077 FU DSNT NE-E T01671067 KNSI 151953Z AUTO 34011KT 10SM CLR 26/03 A3013 RMK AO2 SLP197 T02560028 KNTD 151952Z 05011G23KT 10SM SCT250 31/M02 A3011 RMK AO2 PK WND 06028/1913 SLP198 T03111022 VISNO N $ KNTU 151956Z 21015G25KT 10SM SCT050 BKN220 16/01 A2975 RMK AO2 SLP077 T01560006 KNUC 151956Z 04006KT 10SM FEW250 24/07 A3011 RMK AO2 SLP193 T02390072 $ KNUI 151953Z AUTO 13008KT 10SM CLR 12/07 A2977 RMK AO2 SLP079 T01170067 KNUQ 152035Z AUTO 35005KT 10SM CLR 17/11 A3029 RMK AO2 KNUW 151956Z 23006KT 9SM FEW011 FEW035 BKN250 12/06 A3042 RMK AO2 SLP302 T01170056 KNXF 151056Z AUTO 05008KT 10SM CLR 12/03 A3012 RMK AO2 SLP285 T01170033 $ KNXP 151956Z 34012KT 10SM FEW180 22/M09 A3034 RMK AO2 SLP250 T02221094 KNY0 152036Z AUTO 13012KT 7SM OVC012 00/00 A2991 RMK AO2 KNYC 151951Z AUTO VRB06KT 6SM HZ OVC017 06/03 A2994 RMK AO2 SLP130 T00610028 $ KNYG 151956Z 12009KT 8SM OVC150 09/03 A2975 RMK AO2 SLP075 T00940033 KNYL 151957Z 35014KT 7SM FEW220 26/M08 A3014 RMK AO2 SLP205 T02561083 $ KNZY 151952Z 22003KT 10SM FEW250 28/M03 A3008 RMK AO2 SLP185 T02781028 KO22 152035Z AUTO 28004KT 10SM CLR 20/03 A3031 RMK A01 KO32 152030Z AUTO 17004KT 9SM CLR 19/10 A3027 RMK AO2 KO69 060845Z AUTO 00000KT 9SM CLR 05/05 A3024 RMK A01 KOAJ 151956Z 18011G19KT 10SM CLR 17/07 A2975 RMK AO2 SLP076 T01670072 $ KOAK 151953Z 23004KT 10SM FEW020 FEW160 SCT200 15/10 A3032 RMK AO2 SLP266 T01500100 KOAR 152035Z AUTO 33008KT 10SM CLR 20/06 A3023 RMK AO2 KOBE 152035Z AUTO 00000KT 10SM CLR 20/12 A2984 RMK AO2 KOCF 151951Z 23014G25KT 10SM SCT043 23/14 A2976 RMK AO2 PK WND 21028/1927 SLP077 T02280139 $ KOCH 151956Z AUTO 30019G30KT 10SM CLR 12/M09 A2995 RMK AO2 PK WND 31030/1948 SLP147 T01221089 KOCQ 152035Z AUTO 01005KT 3SM OVC004 02/01 A2953 RMK AO1 T00150013 KOCW 152035Z AUTO 16006KT 10SM CLR 16/06 A2973 RMK AO2 T01610061 KODO 151953Z AUTO VRB05KT 10SM CLR 09/M14 A3021 RMK AO2 SLP224 T00891144 KODX 151953Z AUTO 34024G39KT 10SM OVC023 M01/M07 A2991 RMK AO2 PK WND 35046/1923 SLP151 T10111067 KOEB 152035Z AUTO 21003KT 10SM SCT048 OVC060 02/M01 A2952 RMK AO2 T00201014 KOEL 152035Z AUTO 35034G43KT 10SM CLR 04/M13 A3001 RMK AO1 T00361131 KOEO 152035Z AUTO 34008KT 7SM OVC009 02/02 A2968 RMK AO2 T00150015 PWINO KOFF 152026Z 33022G31KT 1 5/8SM -SN OVC023 00/M03 A2971 RMK AO2A CIG 003 RWY12 SLP075 $ KOFK 152030Z AUTO 33029G43KT 1SM -SN OVC020 M02/M06 A2982 RMK AO2 PK WND 33044/2012 P0000 T10171061 KOFP 151954Z AUTO 15004KT 10SM BKN110 12/02 A2973 RMK AO2 SLP066 T01220017 KOGA 152035Z AUTO 33031G37KT 10SM CLR 04/M13 A3002 RMK AO2 T00371128 KOGB 151953Z AUTO 22006KT 5SM -RA BR BKN007 BKN011 OVC017 11/11 A2972 RMK AO2 CIG 004V009 SLP065 P0004 T01110111 KOGD 151953Z 10SM CLR 06/M11 A3044 RMK AO2 SLP316 T00561111 $ KOGS 152035Z AUTO 06007KT 10SM CLR 03/M02 A2985 RMK AO2 KOIN 152015Z AUTO 34025G33KT 10SM CLR 03/M09 A3002 RMK AO1 T00341094 KOJA 152035Z AUTO 34023G35KT 7SM HZ CLR 08/M12 A2998 RMK AO2 T00751116 KOJC 152024Z 31018G34KT 3/4SM -SN BR OVC013 M01/M02 A2964 RMK AO2 PK WND 31034/2019 P0000 T10061017 KOKB 151952Z AUTO 05012G18KT 10SM CLR 32/M07 A3007 RMK AO2 SLP182 T03221072 KOKC 151952Z 31026G35KT 10SM FEW070 BKN085 07/M11 A2995 RMK AO2 PK WND 32041/1920 SLP145 T00671111 KOKK 151956Z AUTO 24014KT 10SM -RA BKN031 BKN042 04/M02 A2951 RMK AO2 UPE1859B26E30RAB30 SLP998 P0000 T00391022 KOKM 152035Z AUTO 30017G26KT 10SM OVC055 06/M07 A2990 RMK AO2 T00551075 KOKV 152035Z AUTO 12009G16KT 10SM BKN070 OVC080 07/01 A2965 RMK AO2 KOKZ 152035Z AUTO 27009KT 10SM CLR 15/03 A2969 RMK AO2 T01540030 KOLE 152035Z AUTO 15011G20KT 10SM BKN110 02/M03 A2960 RMK AO2 KOLF 151953Z AUTO 25005KT 10SM CLR M02/M08 A3014 RMK AO2 SLP236 T10171083 KOLG 152035Z AUTO 02008KT 5SM OVC006 01/00 A2966 RMK AO1 KOLM 151954Z 27004KT 10SM OVC012 09/07 A3040 RMK AO2 SLP296 T00940067 $ KOLS 151954Z AUTO 28006KT 10SM CLR 20/M08 A3014 RMK AO2 SLP170 T02001083 KOLU 152030Z AUTO 32027G40KT 1 1/2SM -SN OVC019 M02/M04 A2983 RMK AO2 PK WND 34040/2022 VIS 1V3 P0000 FZRANO KOLV 151950Z 24017G24KT 10SM VCSH BKN075 BKN090 07/M08 A2969 KOLY 152035Z AUTO 21010G15KT 10SM SCT026 BKN040 OVC070 02/M03 A2956 RMK AO2 T00241031 KOLZ 152035Z AUTO 34005KT 1 1/2SM BR BKN012 01/00 A2953 RMK A01 VIS 1V3 KOMA 152030Z 33025G36KT 1/2SM R14R/2600V5000FT -SN BLSN BKN012 OVC020 M01/M02 A2971 RMK AO2 PK WND 34037/2008 P0001 T10061022 KOMH 152035Z AUTO 10006KT 10SM SCT070 OVC100 10/01 A2967 RMK AO2 KOMK 151953Z AUTO 01003KT 10SM CLR 02/M03 A3038 RMK AO2 SLP305 T00221033 KOMN 151950Z 20008KT 10SM SCT030 21/12 A2977 KONA 152035Z AUTO 03009KT 10SM SCT024 SCT028 OVC038 02/00 A2959 RMK AO2 KONL 152035Z AUTO 34020G30KT 2 1/2SM -SN OVC016 M03/M05 A2993 RMK AO2 T10271055 KONM 152035Z AUTO 01005KT 10SM CLR 11/M16 A3019 RMK AO2 T01091156 KONO 151953Z AUTO 28003KT 10SM CLR 02/M04 A3047 RMK AO2 SLP338 T00171039 KONP 152035Z AUTO 00000KT 1 1/4SM BR OVC003 10/10 A3045 RMK AO2 KONT 151953Z 29005KT 10SM BKN260 30/M07 A3013 RMK AO2 SLP183 T03001072 KONX 152035Z AUTO 18008G16KT 150V210 10SM CLR 14/06 A2976 RMK AO2 T01410063 KONZ 152035Z AUTO 21005KT 10SM OVC005 02/02 A2955 RMK AO2 T00200015 KOOA 152035Z AUTO 02016KT 10SM SCT015 BKN042 OVC090 02/00 A2951 RMK AO2 T00211003 KOPF 151953Z 27004KT 10SM CLR 23/11 A2988 RMK AO2 SLP118 T02330106 $ KOPL 152035Z AUTO 27016G22KT 10SM CLR 13/M07 A2991 RMK AO2 T01331067 KOPN 152035Z AUTO 28011G18KT 10SM SCT065 BKN075 13/M02 A2972 RMK AO2 KOQN 152035Z AUTO 12009G15KT 078V138 10SM CLR 11/04 A2981 RMK AO2 KOQT 151953Z AUTO 10SM SCT075 10/M07 A2964 RMK AO2 SLP042 T01001072 KOQU 151950Z 14011KT 10SM BKN030 OVC250 07/00 A3003 KORB 152033Z AUTO 00000KT 10SM OVC007 00/M02 A2975 RMK AO2 KORD 151951Z 02004KT 10SM FEW017 SCT037 BKN075 02/M01 A2947 RMK AO2 SNE41 SLP984 P0000 T00221011 KORE 152012Z AUTO 11008KT 10SM OVC029 04/M02 A3002 RMK AO2 T00391017 KORF 151951Z 20016KT 10SM CLR 14/01 A2975 RMK AO2 SLP073 T01390011 KORG 152035Z AUTO 28010G17KT 10SM CLR 16/M13 A2998 RMK AO2 T01561129 KORH 151954Z 09007KT 10SM OVC021 03/M02 A3000 RMK AO2 SLP170 T00331017 KORK 152035Z AUTO 30011G20KT 260V350 10SM BKN070 BKN075 04/M06 A2978 RMK AO2 KORL 151953Z 19012KT 10SM CLR 23/12 A2979 RMK AO2 SLP092 T02280122 KORS 152035Z AUTO 18006KT 9SM CLR 11/07 A3037 RMK AO2 KOSA 152035Z AUTO 28020G30KT 7SM CLR 12/M12 A2995 RMK AO1 T01151117 KOSC 152035Z AUTO 09009KT 3SM UP OVC006 02/02 A2955 RMK AO2 P0004 T00200020 KOSH 152038Z 02008KT 5SM UP BR FEW007 SCT014 OVC033 02/01 A2951 RMK AO2 UPB17 P0000 T00220006 KOSU 151953Z 23011KT 10SM FEW044 OVC055 05/M03 A2957 RMK AO2 SLP018 T00501033 KOTG 151956Z AUTO 34028G34KT 1/2SM -SN FZFG BKN007 BKN016 OVC022 M02/M02 A2969 RMK AO2 PK WND 34036/1936 CIG 005V013 SLP074 P0000 T10171022 FZRANO KOTH 152039Z 16003KT 10SM SCT006 SCT120 14/12 A3041 RMK AO2 KOTM 151953Z AUTO 01012KT 10SM BKN016 OVC022 01/01 A2946 RMK AO2 SLP983 T00060006 KOUN 151946Z 30028G38KT 10SM OVC090 07/M11 A2993 KOVE 151953Z AUTO 31006KT 6SM HZ CLR 14/09 A3036 RMK AO2 SLP282 T01440094 KOVL 152035Z AUTO 32019G24KT 5SM -SN OVC012 00/M01 A2974 RMK A KOVS 151953Z AUTO VRB03KT 10SM OVC055 03/M01 A2951 RMK AO2 SLP000 T00331006 KOWA 152033Z AUTO 35013G17KT 4SM UP OVC006 01/00 A2962 RMK AO2 KOWB 151956Z 23017G22KT 10SM SCT048 SCT060 OVC090 07/M06 A2956 RMK AO2 RAE05 SLP011 P0000 T00721056 KOWD 151953Z 08010KT 10SM OVC034 06/M01 A3005 RMK AO2 SLP178 T00611011 KOWI 152035Z AUTO 30018G27KT 2SM -RA FEW014 SCT020 SCT025 01/M01 A2970 RMK AO2 KOWP 152035Z AUTO 32012G24KT 10SM OVC050 06/M06 A2989 RMK AO2 T00621065 PWINO KOWX 152035Z AUTO 23006KT 10SM SCT042 SCT055 BKN080 05/M02 A2957 RMK AO1 KOXB 151953Z AUTO VRB04KT 10SM OVC042 10/07 A2980 RMK AO2 SLP092 T01000072 KOXC 151951Z 08008KT 7SM OVC015 04/03 A2995 RMK AO2 SLP160 T00390033 KOXD 152035Z AUTO 22008KT 10SM SCT009 SCT029 SCT043 04/01 A2955 RMK AO2 T00390014 KOXI 152035Z AUTO 23007KT 1 1/4SM SCT006 BKN017 OVC060 00/00 A2952 RMK AO1 VIS 1/2V5 KOXR 151951Z 33004KT 10SM CLR 28/02 A3012 RMK AO2 SLP198 T02830022 KOXV 152035Z AUTO 35012KT 10SM FEW020 OVC031 01/M02 A2952 RMK AO2 KOYM 152035Z AUTO 14008G18KT 10SM -RA BKN024 OVC033 02/M01 A2965 RMK AO2 KOZA 152035Z AUTO 36007G17KT 330V030 10SM CLR 11/M13 A3021 RMK AO2 KOZR 152039Z AUTO 28013G17KT 10SM CLR 16/M02 A2975 RMK AO2 WSHFT 33 SLP076 KOZS 152035Z AUTO 25015G21KT 5SM -SN OVC012 00/M02 A2957 RMK AO2 KOZW 152035Z AUTO 21004KT 5SM -RA BKN004 BKN012 OVC029 01/01 A2951 RMK AO2 T00100010 KP08 152035Z AUTO 35012KT 10SM CLR 24/M15 A3011 RMK AO2 KP28 151956Z AUTO 35023G36KT 04/M09 A2992 RMK AO1 PK WND 33041/1913 SLP140 T00441089 KP53 151956Z AUTO 04007KT 02/01 A2961 RMK AO1 SLP034 P0001 T00220006 KP58 151957Z AUTO 12019KT 03/00 A2950 RMK AO1 PK WND 12029/1936 SLP996 P0001 T00280000 KP59 151951Z AUTO 11008G15KT 03/00 A2967 RMK AO1 SLP055 T00280000 KP60 151956Z AUTO 12003KT M11/M16 A3036 RMK AO1 SLP395 T11061161 KP68 151953Z AUTO 02006KT 08/M03 A3040 RMK AO1 SLP293 T00781033 KP69 151952Z AUTO 00000KT 00/M01 A3045 RMK AO1 SLP335 P0003 T00001011 KP92 151959Z AUTO 28009KT 13/02 A2994 RMK AO1 SLP139 T01330017 KPAE 152000Z 00000KT 10SM SCT003 BKN029 10/07 A3039 RMK AO2 T01000067 KPAH 151953Z 25025G33KT 10SM -RA OVC055 05/M06 A2959 RMK AO2 PK WND 24034/1904 RAB53 SLP021 P0000 T00501056 KPAM 151956Z 28017G21KT 10SM CLR 15/04 A2979 RMK AO2A SLP091 T01540038 $ KPAN 152035Z AUTO 01012KT 17/M18 A3025 RMK AO2 PWINO KPAO 151947Z 36004KT 10SM FEW200 14/10 A3031 KPBF 151953Z AUTO 28014G29KT 10SM SCT070 SCT085 08/M09 A2979 RMK AO2 PK WND 30029/1945 SLP087 T00831089 KPBG 152012Z AUTO 00000KT 4SM BR SCT009 01/M01 A2999 RMK AO2 T00111011 KPBH 152035Z AUTO 01008KT 10SM BKN010 OVC016 01/01 A2958 RMK AO2 T00080005 KPBI 151953Z 21009KT 10SM FEW031 SCT085 BKN220 22/11 A2987 RMK AO2 SLP112 T02220106 $ KPBX 152035Z AUTO 20003KT 10SM SCT045 BKN055 06/M04 A2963 RMK AO2 T00581038 KPCD 152035Z AUTO 20008KT 190V260 3SM -SN SCT007 BKN025 OVC033 00/00 A2956 RMK AO2 T00011001 KPCM 152035Z AUTO 22011G15KT 10SM SCT090 23/13 A2982 RMK AO2 KPCW 152035Z AUTO 23009KT 10SM SCT018 BKN024 BKN030 04/01 A2956 RMK AO2 KPCZ 152035Z AUTO 36007KT 10SM BKN011 OVC027 03/01 A2953 RMK AO2 T00340006 KPDC 152035Z AUTO 36005KT 10SM SCT021 OVC050 03/M01 A2954 RMK AO2 P0005 T00271015 KPDK 151953Z 27012G18KT 10SM CLR 12/M08 A2968 RMK AO2 SLP053 T01171083 KPDT 152008Z 00000KT 10SM SCT024 SCT100 06/04 A3034 RMK AO2 T00560039 KPDX 152023Z 00000KT 10SM BKN006 OVC015 09/07 A3043 KPEA 152035Z AUTO 36008KT 10SM SCT018 SCT022 BKN033 02/M01 A2954 RMK AO2 T00151015 KPEO 151953Z AUTO 15015G19KT 10SM OVC025 05/M01 A2971 RMK AO2 SLP069 T00501006 KPEQ 152035Z AUTO 00000KT 10SM CLR 10/M11 A3020 RMK AO2 T00991112 PWINO KPEX 152035Z AUTO 35009G15KT 4SM -SN BKN010 OVC014 01/00 A2975 RMK AO2 KPEZ 152035Z AUTO 30013KT 10SM CLR 18/M11 A3016 RMK AO2 T01801111 KPGA 151953Z AUTO 03004KT 10SM CLR 08/M10 A3034 RMK AO2 SLP267 T00831100 TSNO KPGD 151953Z 21011KT 10SM CLR 24/13 A2985 RMK AO2 SLP107 T02390128 KPGV 152035Z AUTO 20011G16KT 10SM CLR 16/05 A2976 RMK AO2 KPHD 151953Z AUTO 00000KT 6SM UP BR OVC007 02/01 A2960 RMK AO2 UPB51SNE51 CIG 005V011 SLP031 P0002 T00170011 KPHF 151954Z 19012KT 10SM CLR 12/01 A2975 RMK AO2 SLP076 T01220011 KPHL 151954Z 12011KT 10SM SCT035 BKN044 BKN250 11/06 A2984 RMK AO2 SLP103 T01110056 KPHN 152038Z AUTO 17006KT 5SM -RA BKN007 OVC012 02/01 A2952 RMK AO2 KPHP 151955Z AUTO 33020G31KT 10SM CLR 01/M08 A3007 RMK AO2 PK WND 32036/1913 SLP202 T00111083 KPHT 152035Z AUTO 26014KT 10SM SCT047 BKN055 BKN060 05/M04 A2963 RMK A01 KPHX 151951Z 33004KT 10SM FEW250 22/M11 A3013 RMK AO2 SLP195 T02221106 KPIA 152020Z 00000KT 9SM -SN SCT013 BKN027 OVC034 01/M02 A2946 KPIB 151956Z AUTO 28011G17KT 230V310 10SM CLR 13/M08 A2983 RMK AO2 SLP102 T01281083 KPIE 151953Z AUTO 19018KT 10SM BKN085 21/16 A2981 RMK AO2 SLP093 T02110161 KPIH 151953Z 06006KT 10SM CLR 02/M08 A3039 RMK AO2 PRESFR SLP327 T00171078 KPIL 151953Z AUTO 36017G25KT 10SM CLR 17/03 A3016 RMK AO2 SLP212 T01720028 TSNO KPIM 152035Z AUTO 28011G16KT 10SM CLR 13/M08 A2971 RMK AO2 T01261081 KPIR 151953Z AUTO 34022G32KT 10SM OVC022 M01/M07 A3004 RMK AO2 PK WND 36033/1926 SLP190 T10111072 KPIT 152020Z 21007KT 8SM -RA SCT009 OVC025 03/01 A2961 RMK AO2 P0001 T00280011 $ KPJC 152035Z AUTO 18004KT 7SM -RA BKN025 BKN031 OVC060 04/02 A2961 RMK AO2 KPKB 151953Z 21008KT 10SM OVC007 02/01 A2965 RMK AO2 UPB08E09B30E32RAB09E52SNE08B19E30 CIG 004V012 SLP047 P0000 T00220011 KPKD 151953Z AUTO 35014G23KT 4SM BR OVC006 M01/M01 A2978 RMK AO2 SLP103 I1000 T10111011 KPKV 152035Z AUTO 31014G21KT 10SM CLR 18/M19 A3012 RMK AO2 T01801190 KPLD 152035Z AUTO 24008KT 2 1/2SM -SN SCT014 BKN037 OVC043 01/M02 A2954 RMK AO2 KPLN 151954Z AUTO 07012KT 8SM -RA OVC010 03/01 A2957 RMK AO2 RAE27B44 SLP019 P0000 T00280011 KPLR 152035Z AUTO 25012G23KT 10SM CLR 13/M12 A2970 RMK A01 KPLU 152035Z AUTO 00000KT 10SM FEW008 OVC019 10/10 A3038 RMK AO2 KPMD 151953Z 02008KT 10SM CLR 19/M04 A3034 RMK AO2 SLP268 T01941044 KPMH 152035Z AUTO 23003KT 10SM SCT050 SCT060 BKN080 07/M04 A2963 RMK AO2 T00711038 KPMP 151953Z 19004KT 10SM CLR 24/11 A2986 RMK AO2 SLP112 T02390106 KPMU 152035Z AUTO 28015G21KT 10SM CLR 08/M06 A2976 RMK AO2 KPMV 152035Z AUTO 32025G36KT 3/4SM -SN BKN012 OVC017 00/M02 A2971 RMK AO2 T10051022 KPNA 152030Z AUTO 31021G27KT 10SM CLR 03/M06 A3024 RMK AO2 KPNC 151953Z AUTO 33019G32KT 10SM BKN055 BKN070 OVC110 06/M07 A2990 RMK AO2 PK WND 32042/1925 SLP128 T00561072 KPNE 152015Z 09012KT 10SM SCT026 BKN035 OVC046 11/06 A2985 RMK AO2 T01110056 KPNM 152035Z AUTO 33011KT 7SM -SN OVC010 02/01 A2970 RMK AO2 KPNS 151953Z 29015G23KT 10SM CLR 17/M05 A2981 RMK AO2 SLP095 T01671050 KPNT 152035Z AUTO 21004KT 7SM UP SCT042 OVC050 01/00 A2949 RMK AO2 T00071003 KPO1 152030Z AUTO 25005KT 9SM M02/M09 A3012 KPOB 152031Z AUTO 18006KT 10SM -RA FEW005 SCT017 SCT026 BKN034 BKN055 OVC070 10/10 A2970 RMK AO2 SLP062 $ KPOC 151947Z 30003KT 10SM CLR 28/M02 A3014 KPOE 151958Z AUTO 27017G25KT 10SM CLR 13/M09 A2993 RMK AO2 SLP138 T01261086 KPOF 152024Z AUTO 25005KT 4SM -SN BR SCT022 BKN049 OVC075 01/M01 A2963 KPOU 151953Z 09006KT 8SM OVC015 04/01 A2995 RMK AO2 SLP138 T00440011 KPOV 152035Z AUTO 20003KT 2SM OVC004 00/00 A2957 RMK AO2 P0001 T00011005 PWINO KPOY 152035Z AUTO 13011KT 10SM CLR 00/M17 A3013 RMK AO2 KPPA 152035Z AUTO 33032G38KT 1 3/4SM HZ OVC013 07/M19 A3006 RMK AO2 T00721190 KPPF 151952Z AUTO A2980 RMK AO2 SLPNO PWINO FZRANO TSNO $ KPPO 152035Z AUTO 00000KT 10SM SCT008 BKN012 BKN019 01/M01 A2951 RMK AO2 T00111006 KPPQ 152035Z AUTO 21004KT 3SM BKN009 OVC014 01/01 A2944 RMK AO2 T00120011 KPQI 151956Z AUTO 04003KT 10SM OVC038 01/M03 A3012 RMK AO2 SLP235 T00061028 KPQL 151953Z 25008KT 10SM CLR 16/02 A2984 RMK AO2 SLP105 T01560017 KPQN 152035Z AUTO 01016G28KT M03/M03 A2978 RMK AO2 PWINO KPRB 151953Z AUTO 00000KT 10SM CLR 17/07 A3025 RMK AO2 SLP242 T01720067 KPRC 151953Z 33008KT 10SM CLR 15/M14 A3030 RMK AO2 SLP221 T01501139 KPRG 152035Z AUTO 23014G22KT 10SM SCT017 BKN025 OVC070 00/M01 A2953 RMK AO2 T00021008 KPRN 151958Z AUTO 24015G30KT 10SM -RA CLR 15/M10 A2974 RMK AO2 PK WND 27030/1955 RAB57 SLP019 P0000 T01501100 KPRO 152035Z AUTO 35012G18KT 10SM SCT017 SCT030 OVC039 02/00 A2959 RMK AO2 T00161005 KPRS 152035Z AUTO 29004KT 10SM CLR 16/M05 A3015 RMK AO2 T01601055 KPRX 151956Z AUTO 30023G29KT 10SM CLR 09/M11 A2993 RMK AO2 PK WND 32031/1928 SLP152 T00941106 KPSC 151953Z 14009KT 10SM CLR 05/02 A3039 RMK AO2 SLP293 T00500017 KPSF 151954Z AUTO VRB05KT 8SM OVC013 01/M02 A2994 RMK AO2 SLP147 T00111017 KPSK 152035Z AUTO 26005KT 10SM OVC048 03/00 A2967 RMK AO2 T00280000 KPSM 151956Z 06007KT 10SM FEW035 SCT200 BKN250 04/M03 A3007 RMK AO2A SLP186 T00431028 RVRNO $ KPSN 152035Z AUTO 28013G26KT 10SM 12/M09 A3000 RMK AO2 T01231095 KPSO 152035Z AUTO 00000KT 10SM CLR 03/M13 A3021 RMK AO2 T00321129 KPSP 151953Z VRB03KT 10SM CLR 31/M08 A3019 RMK AO2 SLP219 T03061078 KPSX 151952Z AUTO 33014KT 10SM CLR 16/M04 A3011 RMK AO2 SLP194 T01611044 KPTB 152035Z AUTO 00000KT 10SM SCT100 BKN120 12/01 A2972 RMK AO2 T01200011 KPTD 152035Z AUTO 06004KT 10SM CLR 03/M02 A2988 RMK AO2 KPTK 152032Z 20003KT 1 1/2SM -SN BR BKN005 OVC018 01/00 A2951 RMK AO2 SFC VIS 2 1/2 CIG 004V007 P0001 T00110000 KPTN 151956Z AUTO 25013G21KT 10SM CLR 15/M01 A2993 RMK AO2 SLP137 T01501011 $ KPTS 152035Z AUTO 30010G21KT 270V330 2SM -SN BKN018 OVC026 01/M01 A2974 RMK AO2 T00081014 KPTT 152035Z AUTO 33023G32KT 10SM SCT050 BKN085 05/M10 A2993 RMK AO2 T00501099 KPTV 151956Z AUTO 14003KT 6SM HZ CLR 18/06 A3029 RMK AO2 SLP259 T01780061 KPTW 152003Z AUTO 06009KT 6SM HZ SCT026 BKN033 BKN043 07/04 A2983 RMK AO2 T00720039 KPUB 151953Z 23007KT 10SM CLR 06/M15 A3012 RMK AO2 SLP219 T00611150 KPUC 151953Z AUTO 07009KT 10SM CLR 02/M09 A3033 RMK AO2 SLP298 T00171094 KPUJ 152035Z AUTO 25007G16KT 220V300 10SM SCT095 11/M09 A2966 RMK AO2 KPUW 151953Z AUTO 08006KT 10SM BKN011 OVC024 01/M01 A3034 RMK AO2 RAE08 SLP294 P0000 T00111011 KPVB 152035Z AUTO 03003KT 10SM SCT018 OVC050 01/01 A2950 RMK AO1 T00070007 KPVC 151956Z AUTO 05007KT 10SM CLR 06/M02 A3007 RMK AO2 SLP183 T00561017 $ KPVD 151951Z 13007KT 10SM BKN034 OVC250 07/00 A3004 RMK AO2 SLP171 T00670000 KPVE 152035Z AUTO 25017G24KT 10SM SCT070 BKN095 08/M08 A2964 RMK A01 KPVF 152035Z AUTO 29003KT 10SM CLR 18/02 A3034 RMK AO1 KPVG 111656Z AUTO 20004KT 10SM FEW110 06/01 A3033 RMK AO2 SLP271 T00610006 KPVJ 152035Z AUTO 30018G26KT 10SM OVC085 08/M11 A2996 RMK AO2 T00761110 KPVU 151956Z 31004KT 10SM CLR 01/M09 A3046 RMK AO2 SLP346 T00111089 KPVW 152035Z AUTO 33025G31KT 10SM CLR 09/M17 A3011 RMK AO2 T00871169 KPWA 151953Z 32024G36KT 10SM SCT085 08/M11 A2994 RMK AO2 PK WND 33036/1951 SLP143 T00781106 KPWC 152035Z AUTO 33008KT 2SM -SN OVC009 00/M01 A2982 RMK AO2 KPWD 152025Z AUTO 24004KT 10SM CLR M05/M08 A3010 RMK A01 Plentywood KPWG 151956Z AUTO 31015KT 10SM CLR 13/M09 A3007 RMK AO2 SLP182 T01281089 $ KPWK 152019Z 00000KT 9SM SCT018 BKN046 OVC085 02/M02 A2950 RMK AO2 SNB1953E14 P0000 T00221017 KPWM 151951Z 09006KT 10SM FEW060 SCT250 04/M04 A3008 RMK AO2 SLP188 T00441044 KPWT 152029Z AUTO 00000KT 10SM SCT006 BKN014 10/08 A3039 RMK AO2 $ KPXE 152035Z AUTO 29010G17KT 10SM CLR 15/M01 A2971 RMK AO2 T01471010 KPYM 151952Z AUTO 09008KT 10SM FEW033 06/M02 A3006 RMK AO2 SLP178 T00561017 KPYX 152035Z AUTO 34032G43KT 5SM OVC028 07/M17 A3002 RMK AO2 T00651171 KPZQ 152035Z AUTO 08011G18KT 4SM BR OVC010 02/01 A2959 RMK AO2 T00230012 KPZZ 152035Z AUTO 28025KT 10SM CLR 14/02 A2996 RMK A01 KQA8 151955Z AUTO 13003KT 9999 FEW060 BKN090 BKN100 09/05 A3010 RMK AO2 SLP192 WND DATA ESTMD T00910054 KQAJ 151956Z 27005KT 9999 CLR 13/07 A2999 RMK AO2A SLP168 WND DATA ESTMD T01330068 KQAL 151956Z AUTO 00000KT 9999 CLR 07/06 A3011 RMK AO2 SLP172 WND DATA ESTMD T00740055 KQAU 041455Z AUTO 21/ RMK AO2 SLPNO WND DATA ESTMD T0210 PWINO PNO TSNO $ KQAY 210756Z AUTO 04016G24KT 340V090 4000 HZ CLR 29/11 A2997 RMK AO2 SLP150 WND DATA ESTMD T02910111 KQAZ 151957Z AUTO 11004KT 9999 CLR 24/M04 A2994 RMK AO2 SLP142 WND DATA ESTMD T02381036 KQB3 151955Z AUTO VRB03KT 9999 FEW065 SCT080 07/05 A3005 RMK AO2 SLP179 WND DATA ESTMD T00710053 KQBD 041755Z AUTO VRB03KT 10SM CLR 20/02 A3204 RMK AO2 SLP752 WND DATA ESTMD T01970016 10165 20076 51014 KQBG 050956Z AUTO 01011G17KT 320V040 9999 CLR 32/16 A2984 RMK AO2 SLP102 WND DATA ESTMD T03190159 KQBL 151956Z AUTO 24004KT M /// /// CLR 15/02 A2983 RMK AO2 SLPNO WND DATA ESTMD T01540018 $ KQBR 271555Z AUTO VRB03KT 10SM CLR 01/M12 A3200 RMK AO2 SHSNB1453E1508 SLP858 WND DATA ESTMD T00091124 KQBT 012059Z 00000KT 8000 HZ CLR 10/02 A3016 RMK AO2 SLP188 WND DATA ESTMD T010300200 $ KQD3 151956Z AUTO 00000KT 4000 HZ CLR 23/19 A2994 RMK AO2 SLP123 WND DATA ESTMD T02260192 KQDG 151956Z AUTO 19012KT 9999 -SHRA BKN048 03/M01 A2972 RMK AO2 LTG DSNT N SHRAE1856SHRAB00E48SHRAB48 SLP066 P0002 T00281014 $ KQEI 152030Z AUTO 22001KT 9000 HZ BKN033 M02/M08 A3009 RMK A02 TSNO KQEJ 152040Z AUTO 06002KT 6000 HZ CLR M05/M08 A3008 RMK A02 TSNO KQEK 152030Z AUTO 01004KT 8000 HZ CLR 02/M04 A3012 RMK A02 KQEN 152040Z AUTO 26004KT 6000 HZ OVC015 M05/M08 A2994 RMK A02 TSNO KQEO 210755Z AUTO RMK AO2 SLPNO WND DATA ESTMD PWINO PNO TSNO $ KQEP 152040Z AUTO 26006KT 4800 HZ BKN019 M03/M07 A3020 RMK A02 TSNO KQEQ 152040Z AUTO 30003KT 4800 HZ CLR M07/M10 A3026 RMK A02 TSNO KQER 152040Z AUTO 20002KT 4800 HZ OVC018 M06/M08 A3010 RMK A02 TSNO KQES 230020Z AUTO 9999 BKN022 10/02 / RMK A02 TSNO KQEV 152040Z AUTO 27003KT 6000 HZ BKN026 M01/M05 A3017 RMK A02 TSNO KQEW 152040Z AUTO 35001KT 4800 HZ BKN029 00/M06 A3012 RMK A02 TSNO KQEX 152040Z AUTO 35005G13KT 6000 HZ CLR 02/M05 A3004 RMK A02 TSNO KQEY 152040Z AUTO 30004KT 6000 HZ OVC018 M01/M05 A2987 RMK A02 TSNO KQFB 152040Z AUTO 33005G12KT 9999 CLR 03/M07 A3013 RMK A02 TSNO KQFL 052156Z AUTO 00000KT 6000 BR BKN140 06/04 A3023 RMK AO2 SLP242 T00630042 $ KQFT 152040Z AUTO 28003KT / // FEW023 OVC040 M03/M08 A3018 RMK A02 TSNO KQFU 152040Z AUTO 26002KT 4800 HZ OVC016 M06/M10 A3024 RMK A02 TSNO KQFV 152040Z AUTO 25003KT 6000 HZ BKN022 M04/M09 A3014 RMK A02 TSNO KQFW 152040Z AUTO 21002KT 4800 HZ FEW027 M02/M06 A3014 RMK A02 TSNO KQFX 152040Z AUTO 23002KT 4000 HZ OVC020 M02/M06 A3016 RMK A02 TSNO KQGE 151956Z AUTO 24006KT 10SM CLR 16/01 A2980 RMK AO2 SLPNO T01560013 $ KQGX 151956Z 17001KT 6000 BR CLR 14/10 A3000 RMK AO2A SLP156 WND DATA ESTMD ALSTG/SLP ESTMD $ KQHB 150656Z AUTO 05004KT 9999 OVC025 07/02 A3021 RMK AO2 SLPNO T00710021 $ KQHC 151955Z AUTO 00000KT 10SM FEW031 SCT040 BKN230 05/M01 A3008 RMK AO2 SLP186 WND DATA ESTMD T00501013 $ KQHD 151456Z AUTO 00000KT 10SM CLR 03/03 A3007 RMK AO2 SLPNO T00310031 52019 KQHF 151956Z AUTO 10004KT 10SM SCT035 BKN230 05/M01 A3006 RMK AO2 SLPNO T00541009 KQHG 111558Z AUTO 00000KT 9SM BKN150 M01/M06 A3023 RMK AO2 SLPNO T10091056 KQHK 151955Z AUTO 13003KT 4800 BR CLR 04/03 A3007 RMK AO2 SLP192 WND DATA ESTMD T00390025 KQHY 151956Z AUTO 26005KT 10SM CLR 15/03 A2980 RMK AO2 SLPNO T01530025 KQIV 252055Z 23020G28KT 7SM CLR 18/05 A2975 RMK SLP034 WND DATA ESTMD ALT/SLP ESTMD KQIX 031555Z AUTO RMK AO2 SLPNO WND DATA ESTMD PWINO PNO TSNO $ KQIY 061555Z AUTO VRB03KT 10SM CLR RMK AO2 SLPNO WND DATA ESTMD $ KQJ3 031755Z AUTO 29002KT 10SM CLR 13/M07 A2642 RMK AO2 SLP945 WND DATA ESTMD T01301074 10093 21053 50007 KQJC 072055Z 31009G17KT 10SM -SHRA FEW026 BKN030 BKN044 06/M02 A2961 RMK AO2A RAB2032E2048SHRAB2048 SLP014 WND DATA ESTMD P0000 60000 T00601017 58015 KQJD 301755Z AUTO VRB04KT 10SM FEW043 21/10 A2974 RMK AO2 SLP066 WND DATA ESTMD T02080100 KQJE 031555Z 24004KT 7SM CLR 14/M06 A3008 RMK VIS SE 3/ SLPNO/ WIND DATA ESTMD/ ALTSG ESTMD/ 52010 PA +2205 DA +2669 KQJH 051555Z 12010G19KT 9999 OVC011 04/01 A3007 RMK SLPNO WND DATA ESTMD ALSTG ESTMD KQJL 102255Z 00002KT 10SM FEW049 18/11 A3016 RMK AO2A SLP213 WND DATA ESTMD ALSTG/SLP ESTMD KQJM 090658Z 34002KT 7SM -RA BKN120 03/M02 A3006 RMK AO2A RAB45 SLPNO WND DATA ESTMD ALSTG ESTMD KQJN 110456Z VRB05KT 7SM CLR 03/00 A3015 RMK SLPNO WND DATA ESTMD ALSTG ESTMD KQJO 101355Z AUTO 00000KT 10SM CLR 04/M01 A3009 RMK AO2 SLP191 WND DATA ESTMD T00371008 KQJQ 151455Z 36005KT 7SM BKN010 OVC050 11/08 A3024 RMK RAB17E50 PRESRR SLPNO WND DATA ESTMD ALSTG ESTMD P0000 60000 KQJU 111355Z 16003KT 7SM BKN040 BKN100 11/09 A2995 RMK SLP145 WND DATA ESTMD ALSTG/SLP ESTMD LAST KQJV 110558Z 23008KT 10SM CLR 10/00 A3007 RMK SLP188 WND DATA ESTMD ALSTG/SLP ESTMD LAST KQJW 102255Z 13002KT 7SM CLR 14/08 A3018 RMK SLP218 WND DATA ESTMD ALSTG/SLP ESTMD LAST KQJX 120556Z 19005KT 7SM BKN050 07/07 A3017 RMK SLP220 WND DATA ESTMD ALSTG/SLP ESTMD 10150 20060 50000 LAST KQJY 240556Z 10001KT 10SM CLR 03/01 A3066 SLP389 ALSTG ESTMD KQJZ 171455Z 36004KT 10SM CLR 18/04 A3050 RMK SLPNO WND DATA ESTMD ALSTG ESTMD KQKD 112055Z 04006KT 10SM FEW230 21/14 A3014 RMK AO2A SLP207 WND DATA ESTMD T02090142 55016 KQM2 151956Z AUTO 07011G16KT 020V090 9999 FEW012 26/23 A2986 RMK AO2 SLP114 WND DATA ESTMD T02560231 402960251 KQMK 250656Z AUTO 14011G20KT 090V190 M /// /// CLR 31/22 A2986 RMK AO2 SLP114 WND DATA ESTMD T03050220 $ KQN3 151956Z AUTO 00000KT 8000 HZ CLR 27/M03 A2989 RMK AO2 SLP113 WND DATA ESTMD T02691026 KQND 050956Z AUTO 07007G16KT 000V100 9999 CLR 34/05 A2995 RMK AO2 SLP125 WND DATA ESTMD T03430049 KQOS 242355Z 13003KT 7SM BKN240 31/15 A2976 RMK SLP073 T03090146 10284 20233 40190218 56017 KQRD 151958Z AUTO 22006KT 10SM CLR 15/02 A2980 RMK AO2 SLP095 T01530018 KQRH 151956Z AUTO 00000KT 9000 HZ CLR 24/19 A2993 RMK AO2 SLP138 WND DATA ESTMD T02370191 KQSI 151955Z AUTO 00000KT 7SM CLR 19/10 A2998 RMK AO2 SLP150 WND DATA ESTMD T01850104 PWINO $ KQSN 100455Z AUTO 21003KT 9999 CLR 02/M04 A3026 RMK AO2 SLP197 WND DATA ESTMD T00211044 KQTA 151956Z AUTO 00000KT 3000 BR CLR 07/06 A3009 RMK AO2 SLP186 WND DATA ESTMD T00680055 KQTZ 151955Z 28002KT 9000 BR SKC 12/10 A3005 RMK SLP180 KQUT 071455Z AUTO 00000KT 10SM CLR 05/M01 A3034 RMK AO2 SLP277 WND DATA ESTMD T00481009 KQUU 052055Z AUTO VRB05KT 9SM -SN CLR M01/M02 A2988 RMK AO2 SNB2044 SLP130 WND DATA ESTMD P0000 T10081019 KQVF 151956Z AUTO 13004KT 9000 HZ CLR 26/23 A2981 RMK AO2 SLPNO WND DATA ESTMD T02570231 KQWM 151956Z AUTO 30009KT 8000 HZ CLR 13/09 A2999 RMK AO2 SLP155 WND DATA ESTMD T01340089 KQX2 151955Z AUTO 22005KT 9999 SCT050 08/01 A3005 RMK AO2 SLP170 T00760014 PWINO $ KQXH 151956Z 00000KT 9999 CLR 07/04 A3005 RMK AO2A SLPNO WND DATA ESTMD T00710036 PWINO PNO $ KQXT 151956Z 36003KT 8000 HZ FEW220 05/M09 A3001 RMK SLP129 WND DATA ESTMD T00471092 KQYD 241955Z AUTO RMK AO2 SLPNO WND DATA ESTMD PWINO PNO TSNO $ KRAC 151953Z AUTO 13003KT 9SM OVC048 02/M01 A2950 RMK AO2 SNB38E48 SLP995 P0000 T00221006 KRAL 151953Z 01018G27KT 10SM CLR 29/M08 A3014 RMK AO2 PK WND 03030/1905 PRESFR SLP188 T02941083 KRAP 151952Z 34027G36KT 10SM CLR 02/M14 A3007 RMK AO2 PK WND 33038/1907 SLP212 T00221144 KRAS 152035Z AUTO 31007KT 10SM CLR A3015 RMK AO2 KRAW 152035Z AUTO 29013G18KT 3SM -SN OVC012 M01/M02 A2959 RMK AO2 T10061022 KRBD 151953Z 31025G33KT 10SM CLR 12/M13 A2998 RMK AO2 PK WND 31038/1939 SLP153 T01221128 KRBG 152013Z AUTO 00000KT 10SM BKN020 11/07 A3044 RMK AO2 T01060072 KRBL 151954Z AUTO 36008KT 10SM CLR 14/07 A3037 RMK AO2 SLP285 T01390072 KRBO 152035Z AUTO 34011KT 10SM CLR 19/M09 A3015 RMK AO2 T01941089 KRBW 152035Z AUTO 19007KT 7SM -RA OVC008 12/11 A2974 RMK AO2 P0005 KRCA 151956Z AUTO 33022G32KT 10SM CLR 02/M14 A3006 RMK AO2 PK WND 33038/07 SLP213 T00211145 PWINO PNO $ KRCE 152015Z AUTO 33025G35KT 10SM FEW060 FEW090 07/M10 A2996 RMK AO2 KRCM 152035Z AUTO 28013G23KT 4SM -SN BKN020 OVC024 00/M02 A2959 RMK AO2 KRCR 152035Z AUTO 22005KT 10SM SCT005 SCT010 SCT020 02/00 A2952 RMK AO2 KRCV 152035Z AUTO 21008KT 10SM CLR 08/M12 A3016 RMK AO2 T00821125 KRCX 152035Z AUTO 36008KT 10SM 03/02 A2961 RMK AO2 T00250015 KRCZ 152035Z AUTO 25006KT 2 1/2SM RA OVC004 09/09 A2972 RMK AO2 P0008 T00940089 KRDD 151953Z 00000KT 10SM CLR 13/08 A3038 RMK AO2 SLP288 T01330078 KRDG 152030Z 07009KT 040V100 2 1/2SM HZ FEW019 FEW026 SCT032 08/04 A2978 RMK AO2 T00780039 KRDK 152035Z AUTO 33020G33KT 10SM OVC016 00/M01 A2966 RMK AO2 KRDM 151956Z 00000KT 10SM BKN065 BKN110 07/02 A3037 RMK AO2 RAB01E46 SLP298 P0000 T00720022 KRDR 151956Z 35020G27KT 10SM OVC015 M05/M06 A2997 RMK AO2A PK WND 36028/1857 CIG 012 RWY35 SLP168 P0000 T10521063 $ KRDU 151951Z 17018G29KT 7SM -RA BKN036 BKN110 BKN140 12/06 A2969 RMK AO2 PK WND 17029/1949 RAB40 SLP055 P0000 T01170061 KREG 152035Z AUTO 29010G24KT 260V320 10SM CLR 16/M11 A2988 RMK AO2 T01631106 KREO 151952Z AUTO 05005KT 07/M02 A3034 RMK AO1 SLP292 T00721022 KRFD 151954Z 06005KT 10SM FEW020 SCT037 OVC085 03/M03 A2949 RMK AO2 SLP992 T00281028 KRFI 152035Z AUTO 27014G24KT 10SM CLR 12/M10 A2996 RMK AO2 T01151105 KRGA 152035Z AUTO 22008KT 10SM SCT049 SCT070 BKN095 06/M03 A2960 RMK AO2 KRGK 152035Z AUTO 36009KT 10SM OVC013 02/01 A2961 RMK AO2 KRHI 151953Z AUTO 03005KT 10SM OVC008 01/M01 A2955 RMK AO2 SLP021 T00111006 KRHP 152035Z AUTO 24010G18KT 10SM SCT095 09/M09 A2963 RMK AO2 T00861086 KRHV 151947Z 00000KT 10SM SCT150 16/09 A3031 KRIC 151954Z 15008KT 10SM FEW048 BKN110 OVC160 12/02 A2972 RMK AO2 SLP071 T01220022 KRID 152035Z AUTO 22011KT 7SM SCT006 SCT018 BKN032 00/00 A2956 RMK AO2 KRIL 151953Z AUTO 00000KT 10SM CLR 01/M17 A3037 RMK AO2 SLP324 T00061167 KRIV 151958Z AUTO 01005KT 10SM CLR 28/M10 A3018 RMK AO2 SLP212 T02761097 KRIW 151953Z AUTO 00000KT 10SM CLR 00/M13 A3016 RMK AO2 SLP256 T00001133 KRKD 151956Z AUTO 03009KT 10SM CLR 04/M03 A3009 RMK AO2 RAB11E22 SLP191 P0000 T00441028 KRKP 151953Z AUTO 33012KT 10SM CLR 19/M07 A3013 RMK AO2 SLP204 T01941067 KRKR 152035Z AUTO 29014G22KT 10SM OVC075 06/M08 A2988 RMK AO2 KRKS 151954Z AUTO 26028G34KT 10SM CLR 04/M08 A3024 RMK AO2 PK WND 27034/1948 SLP261 T00441083 KRKW 152035Z AUTO 24012G19KT 10SM CLR 07/M09 A2960 RMK A01 KRLD 152035Z AUTO 00000KT 10SM BKN095 07/02 A3038 RMK AO2 T00700022 KRME 152039Z 11014G23KT 8SM SCT019 02/M02 A2986 RMK AO2 T00221022 KRMG 151953Z AUTO 25011G18KT 10SM CLR 12/M08 A2966 RMK AO2 PK WND 23027/1936 SLP040 T01221078 KRMN 152035Z AUTO 15005KT 10SM SCT070 SCT080 OVC095 12/M03 A2976 RMK AO2 T01151033 KRMY 152035Z AUTO 20005KT 10SM SCT016 SCT024 OVC049 02/M01 A2951 RMK AO2 T00221010 KRNC 152035Z AUTO 28005KT 10SM FEW046 SCT060 BKN075 06/M04 A2963 RMK A01 KRND 151956Z AUTO 31013G21KT 10SM CLR 16/M14 A3013 RMK AO2 SLP203 T01581136 $ KRNH 152035Z AUTO 36010KT 10SM -RA OVC012 01/00 A2964 RMK AO2 T00131001 KRNM 151953Z COR 05008KT 020V100 10SM CLR 30/M09 A3013 RMK AO2 SLP187 T03001089 KRNO 151955Z 00000KT 10SM FEW110 BKN220 09/M03 A3038 RMK AO2 SLP282 T00941028 KRNP 152035Z AUTO 25004KT 5SM -SN OVC007 01/01 A2951 RMK AO2 T00100005 KRNT 151953Z COR 00000KT 10SM SCT012 12/08 A3039 RMK AO2 SLP296 T01170078 KRNV 152035Z AUTO 28014G19KT 10SM SCT075 OVC085 09/M05 A2980 RMK AO2 T00871049 KROA 152014Z 02003KT 5SM BR SCT004 BKN042 OVC055 02/01 A2970 KROC 151954Z 14013KT 10SM FEW040 BKN130 OVC180 06/00 A2970 RMK AO2 SLP064 T00560000 KROG 152042Z 30017G26KT 10SM -RA FEW020 BKN029 OVC037 02/M04 A2977 RMK AO2 PK WND 30029/2025 UPE05RAB05 PRESRR P0000 KROS 152035Z AUTO 35009KT 7SM -RA BKN008 OVC019 01/00 A2968 RMK AO2 T00100000 KROW 151951Z 16011G17KT 10SM CLR 08/M11 A3017 RMK AO2 SLP209 T00781111 KROX 152035Z 34013KT 10SM OVC009 A2990 RMK AO2 TSNO KRPD 152035Z AUTO 36010G15KT 10SM -DZ OVC013 02/00 A2963 RMK AO2 T00150001 KRPH 152030Z AUTO 32023G35KT 10SM CLR 11/M11 A3004 RMK AO2 T01131115 KRPJ 152035Z AUTO 07005KT 10SM SCT042 OVC080 01/M01 A2949 RMK AO2 T00071008 KRQB 152035Z AUTO 00000KT 1 3/4SM -SN OVC005 00/00 A2948 RMK AO2 T00000000 KRQE 151953Z AUTO 34016G22KT 10SM CLR 12/M17 A3028 RMK AO2 SLP232 T01221172 TSNO KRQO 152035Z AUTO 32024G34KT 10SM SCT085 07/M09 A2997 RMK AO2 T00711090 KRRL 152035Z AUTO 03006KT 7SM OVC006 01/01 A2954 RMK AO2 T00110010 TSNO KRRT 152035Z AUTO 33009KT 10SM OVC007 M06/M08 A2989 RMK AO2 KRSL 151953Z AUTO 33033G48KT 10SM SCT046 OVC065 03/M09 A2990 RMK AO2 PK WND 34048/1950 SLP138 T00281089 $ KRSN 152035Z AUTO 27011G20KT 240V310 10SM BKN075 11/M11 A2990 RMK AO2 T01111113 KRSP 152024Z AUTO 10009G18KT 7SM OVC014 04/01 A2967 KRST 152040Z 36009KT 10SM OVC009 01/M01 A2957 RMK AO2 CIG 006V014 T00111006 KRSV 152035Z AUTO 23017G21KT 10SM SCT037 BKN065 OVC075 03/M03 A2955 RMK AO2 T00271035 KRSW 151953Z 22009KT 10SM CLR 23/12 A2985 RMK AO2 SLP104 T02280122 KRTN 151953Z AUTO 12003KT 10SM CLR 01/M17 A3011 RMK AO2 SLP223 T00111167 KRTS 152035Z AUTO 13003KT 10SM CLR 12/M03 A3038 RMK AO2 KRUE 151953Z AUTO 27015G21KT 10SM OVC075 04/M03 A2978 RMK AO2 PK WND 30033/1900 SLP083 T00441033 KRUG 152035Z AUTO 32015KT 10SM OVC014 M05/M07 A3006 RMK AO2 KRUQ 152035Z AUTO 00000KT 10SM BKN012 OVC032 07/06 A2968 RMK AO2 T00730060 KRUT 151956Z AUTO VRB06KT 10SM OVC023 02/M03 A2999 RMK AO2 SLP159 T00171028 FZRANO $ KRVJ 152035Z AUTO 00000KT 10SM BKN005 BKN010 OVC029 13/12 A2971 RMK AO2 T01300123 KRVL 152035Z AUTO VRB05G11KT 5SM HZ OVC020 06/04 A2971 RMK AO2 KRVS 151953Z 10SM OVC055 06/M07 A2988 RMK AO2 PK WND 30030/1940 SLP124 T00561067 KRWF 152024Z AUTO 34015G28KT 2SM -SN BR OVC008 00/M02 A2973 RMK AO2 PK WND 34028/2015 P0000 T00001017 KRWI 151953Z AUTO 18008KT 10SM SCT060 BKN095 BKN120 14/04 A2972 RMK AO2 SLP063 T01440039 KRWL 151953Z AUTO 23023G32KT 10SM CLR 00/M11 A3020 RMK AO2 PK WND 24033/1933 SNE10 SLP279 P0000 T00001106 KRWV 152035Z AUTO 29016G22KT 10SM CLR 15/M11 A3006 RMK AO2 T01481106 KRXE 151953Z AUTO 05005KT 10SM CLR M06/M13 A3042 RMK AO2 SLP373 T10611133 KRYM 151956Z AUTO 36011KT 10SM OVC009 01/M01 A2974 RMK AO2 SHRAB11E13RAB13E41 SLP086 T00061009 $ KRYN 151945Z 32006KT 10SM CLR 22/M11 A3016 KRYV 152035Z AUTO 00000KT 10SM SCT017 BKN044 OVC050 02/00 A2949 RMK AO2 T00161004 KRYW 152035Z AUTO 30012G26KT 10SM CLR 14/M14 A3011 RMK AO2 T01431139 KRYY 151950Z 26012G18KT 10SM CLR 12/M10 A2968 RMK AO2 SLP776 T01171100 $ KRZL 152035Z AUTO 16003KT 5SM -SN SCT014 BKN041 OVC055 01/00 A2951 RMK AO2 KRZN 152035Z AUTO 02006KT 10SM -DZ OVC012 02/01 A2967 RMK AO2 T00160007 KRZR 152035Z AUTO 23010G17KT 190V250 10SM SCT100 10/M10 A2962 RMK A01 KRZT 152035Z AUTO 22008G17KT 10SM SCT080 05/M04 A2960 RMK AO2 PWINO KS21 152035Z AUTO 21007KT 10SM FEW029 SCT040 BKN047 07/03 A3042 RMK AO2 KS25 152035Z AUTO 31007KT 10SM CLR M03/M08 A3012 RMK AO2 PWINO KS33 152015Z AUTO 15003KT 10SM OVC036 06/00 A3039 RMK AO2 KS39 152035Z AUTO 16005KT 10SM OVC070 09/01 A3037 RMK AO2 KS52 152035Z AUTO 00000KT 10SM SCT100 M05/M06 A3038 RMK AO2 T10531063 KS59 142130Z AUTO 16003KT 10SM 04/M08 A3049 KS71 152030Z AUTO 00000KT 10SM 02/M07 A3001 KS85 152025Z AUTO 24007KT 10SM M02/M07 A3011 RMK A01 Culbert on KSAA 152035Z AUTO 24015G23KT 10SM CLR 02/M09 A3023 RMK AO2 KSAC 151953Z 00000KT 4SM HZ CLR 14/11 A3034 RMK AO2 SLP273 T01440111 KSAD 151951Z AUTO 30007KT 10SM CLR 18/M11 A3017 RMK AO2 SLP194 T01831111 KSAF 151953Z 35012KT 10SM CLR 08/M18 A3017 RMK AO2 SLP204 T00781178 KSAN 151951Z 24004KT 10SM FEW005 SCT250 28/M03 A3010 RMK AO2 SLP192 FU FEW005 T02781033 KSAR 152043Z AUTO 19008KT 2 1/2SM -SN OVC004 00/00 A2955 RMK AO2 P0001 KSAT 151951Z 32012G23KT 10SM FEW250 16/M11 A3015 RMK AO2 SLP200 T01611111 KSAV 152032Z 21006KT 2SM RA BR OVC043 13/12 A2974 RMK AO2 SFC VIS 4 P0003 T01330117 KSAW 152001Z 03007KT 1/2SM SN OVC004 00/00 A2958 KSAZ 152035Z AUTO 34012KT 5SM BR OVC010 01/M01 A2978 RMK AO2 KSBA 151953Z 24006KT 10SM CLR 27/02 A3013 RMK AO2 SLP201 T02670017 KSBD 151950Z 00000KT 7SM SKC 29/M06 A3017 KSBM 151953Z AUTO 00000KT 10SM OVC034 02/00 A2949 RMK AO2 SLP994 T00220000 KSBN 152009Z 21004KT 8SM -SN BKN036 OVC050 01/M02 A2951 KSBO 152035Z AUTO 00000KT 10SM BKN019 BKN025 13/10 A2971 RMK AO2 KSBP 151956Z 00000KT 10SM CLR 28/02 A3015 RMK AO2 SLP209 T02780022 KSBS 152035Z AUTO 00000KT 10SM CLR M06/M16 A3031 RMK AO1 T10621163 KSBY 151954Z 16011G21KT 10SM CLR 12/05 A2978 RMK AO2 SLP088 T01220050 $ KSCD 152035Z AUTO 26020G27KT 10SM CLR 13/M10 A2971 RMK AO2 T01251102 KSCF 152015Z AUTO 29019G26KT 8SM CLR 12/02 A2997 RMK A01 KSCH 151946Z 18007KT 10SM OVC025 03/M01 A2997 KSCK 152019Z 21004KT 3SM HZ CLR 14/11 A3030 KSCR 152035Z AUTO 19010KT 10SM RA BKN008 OVC011 09/08 A2969 RMK AO2 P0007 T00880082 KSCX 152035Z AUTO 24008G16KT 10SM SCT070 SCT085 07/M09 A2959 RMK A01 KSDA 152035Z AUTO 33022G31KT 5SM -RA FEW015 SCT020 OVC028 00/M00 A2967 RMK AO2 KSDB 151953Z AUTO 04013G21KT 10SM CLR 19/M07 A3038 RMK AO2 SLP249 T01891067 $ KSDC 152035Z AUTO 13004KT 10SM BKN038 06/00 A2977 RMK AO2 KSDF 152035Z 20010G20KT 10SM -RA FEW030 SCT055 BKN085 06/M05 A2957 RMK AO2 RAB29SNB30E35 P0000 T00611050 KSDL 151953Z VRB03KT 10SM CLR 23/M10 A3016 RMK AO2 SLP199 T02281100 KSDM 151953Z 00000KT 10SM CLR 29/M07 A3010 RMK AO2 SLP186 T02891072 KSDY 151956Z AUTO 30004KT 10SM CLR M01/M08 A3014 RMK AO2 SLP237 T10061078 FZRANO KSEA 152022Z VRB03KT 10SM SCT019 12/08 A3038 KSEE 151947Z 00000KT 10SM SKC 28/M04 A3010 KSEF 152035Z AUTO 22009KT 10SM CLR 24/11 A2982 RMK AO2 T02360109 KSEG 151953Z AUTO 10006KT 6SM HZ OVC021 06/02 A2977 RMK AO2 PRESFR SLP084 T00610022 KSEM 152035Z AUTO 28019G30KT 9SM CLR 14/M13 A2974 RMK AO2 KSEP 152035Z AUTO 31019G29KT 10SM CLR 13/M16 A3008 RMK AO2 T01261158 KSEQ 151958Z AUTO 32014G22KT 10SM CLR 16/M13 A3017 RMK AO2 SLP217 T01571127 KSET 152039Z AUTO 21012KT 1 3/4SM -SN BR BKN011 OVC017 02/00 A2947 RMK AO2 P0000 T00170000 $ KSEZ 152035Z AUTO 26006KT 10SM CLR 17/M13 A3026 RMK AO2 KSFB 151953Z 20010G17KT 10SM CLR 22/12 A2978 RMK AO2 SLP085 T02220117 KSFF 151953Z AUTO A3036 RMK AO2 SLPNO PWINO FZRANO KSFM 151956Z AUTO 12006KT 10SM 04/M05 A3009 RMK AO2 SLP195 T00391050 $ KSFO 151956Z 08003KT 9SM FEW003 BKN200 16/10 A3030 RMK AO2 SLP261 T01560100 KSFQ 152035Z AUTO 17007G16KT 10SM CLR 14/03 A2975 RMK AO2 T01370026 KSFY 152035Z AUTO 05007KT 10SM OVC080 01/M02 A2950 RMK AO2 KSFZ 151956Z AUTO 10008KT 10SM OVC031 06/00 A3002 RMK AO2 SLP116 T00560000 PNO $ KSGF 152040Z 28019G31KT 1 3/4SM -SN BR BKN013 OVC020 M01/M02 A2964 RMK AO2 PK WND 27033/2018 P0000 T10061022 KSGH 151956Z AUTO 24007KT 10SM -RA BKN046 OVC065 04/M03 A2955 RMK AO2 RAB55 SLP014 P0000 T00441028 KSGJ 151956Z 21008G22KT 10SM BKN048 22/12 A2975 RMK AO2 SLP072 T02220117 $ KSGR 151953Z 29014G26KT 10SM CLR 16/M08 A3006 RMK AO2 PK WND 28026/1946 SLP180 T01561083 KSGS 152035Z AUTO 36009KT 10SM -RA BKN010 OVC022 02/01 A2964 RMK AO2 T00180010 KSGT 151956Z AUTO 29020G27KT 10SM FEW065 OVC080 07/M04 A2978 RMK AO2 PK WND 28028/1914 SLP087 T00671044 PNO $ KSGU 151956Z AUTO 00000KT 10SM CLR 14/M09 A3034 RMK AO2 SLP270 T01441094 KSHD 152035Z AUTO 23008KT 10SM RA SCT011 OVC030 05/03 A2968 RMK AO2 T00490025 KSHL 152035Z AUTO 34024G35KT 1/4SM +UP BKN015 M02/M01 A2971 RMK AO2 KSHN 152009Z AUTO 20003KT 10SM FEW006 SCT018 09/08 A3038 RMK AO2 T00940083 KSHR 151953Z AUTO 00000KT 10SM CLR 04/M13 A3012 RMK AO2 SLP230 T00441133 KSHV 151956Z 29022G31KT 10SM CLR 13/M09 A2989 RMK AO2 PK WND 29031/1929 SLP121 T01281094 KSIF 151955Z AUTO 31004KT 4SM -RA SCT011 BKN029 OVC034 04/03 A2969 RMK AO2 P0002 T00370032 KSIK 152035Z AUTO 25019G27KT 10SM SCT043 04/M02 A2963 RMK AO2 TSNO KSIY 151953Z AUTO 34005KT 10SM FEW055 SCT080 BKN110 03/02 A3046 RMK AO2 RAB01E36UPB33E35 SLP339 P0000 T00330017 KSJC 151953Z VRB03KT 10SM FEW075 SCT110 SCT170 16/09 A3030 RMK AO2 PRESFR SLP259 T01610089 KSJN 151954Z AUTO 30009KT 10SM CLR 09/M13 A3032 RMK AO2 SLP255 T00891128 KSJS 152035Z AUTO 00000KT 10SM SCT045 SCT055 BKN065 06/M03 A2964 RMK AO2 T00611029 KSJT 151951Z 32015KT 10SM CLR 12/M10 A3019 RMK AO2 SLP230 T01221100 KSJX 152035Z AUTO 07011G16KT 4SM -RA BKN006 OVC011 02/02 A2957 RMK AO2 T00210016 KSKA 152004Z 07005KT 5SM -SN FEW005 FEW022 OVC060 00/M02 A3032 RMK AO2A SLP296 $ KSKF 152016Z AUTO 31012G19KT 10SM CLR 16/M09 A3013 RMK AO2 WSHFT 04 SLP203 $ KSKX 151956Z AUTO 32012KT 10SM CLR 06/M14 A3018 RMK AO2 SLP247 T00561144 KSLB 152035Z AUTO 35024G34KT 1 3/4SM BR OVC013 M01/M01 RMK AO2 KSLC 151954Z 15007KT 10SM BKN200 06/M11 A3043 RMK AO2 SLP316 T00611111 KSLE 151956Z 33006KT 2SM BR OVC004 09/08 A3041 RMK AO2 RAB04E40 SLP300 P0000 T00940078 KSLG 151956Z AUTO 28019G25KT 10SM -RA OVC045 03/M06 A2978 RMK AO2 PK WND 29031/1906 RAE16B43 SLP090 P0000 T00281056 TSNO KSLH 152035Z AUTO 07011G14KT 4SM -RA OVC009 02/01 A2958 RMK AO2 KSLI 151958Z 05008KT 10SM SCT250 33/M06 A3008 RMK AO2A SLP189 T03271059 KSLK 151951Z AUTO 07005KT 9SM CLR 01/M02 A2985 RMK AO2 SLP128 T00061022 KSLN 151953Z 33036G45KT 9SM -SN BKN040 OVC050 02/M07 A2987 RMK AO2 PK WND 32051/1857 SNB20 SLP120 P0000 T00221067 KSLO 152035Z AUTO 20011G15KT 1 1/2SM -SN OVC011 02/01 A2953 RMK AO2 T00150005 KSLR 152035Z AUTO 30018G26KT 10SM CLR 10/M09 A2998 RMK AO2 T01001093 KSMD 152035Z AUTO 19004KT 10SM FEW050 BKN070 04/M03 A2954 RMK A01 KSME 152035Z AUTO 22014G20KT 10SM SCT041 BKN060 BKN075 07/M09 A2963 RMK AO2 KSMF 151953Z 18003KT 6SM HZ BKN250 13/09 A3032 RMK AO2 PRESFR SLP267 T01330094 KSMN 151956Z AUTO RMK AO2 SLPNO PWINO FZRANO $ KSMO 151951Z 00000KT 10SM CLR 29/M02 A3011 RMK AO2 SLP193 T02941022 $ KSMP 152036Z AUTO VRB06KT 2SM BR FEW005 BKN008 OVC020 03/02 A3028 RMK AO2 T00280017 KSMQ 151953Z AUTO 08005KT 5SM HZ OVC015 07/03 A2986 RMK AO2 SLP113 T00670028 KSMS 152035Z AUTO 00000KT 4SM -DZ BKN007 BKN013 OVC019 11/11 A2973 RMK AO2 KSMX 151951Z 00000KT 10SM CLR 26/03 A3016 RMK AO2 SLP213 T02610028 KSNA 151953Z 21005KT 10SM FEW250 32/M03 A3008 RMK AO2 SLP183 T03171033 KSNC 152035Z AUTO 13008KT 10SM OVC021 06/01 A2998 RMK AO2 KSNH 152035Z AUTO 26009G24KT 230V290 10SM SCT050 SCT060 SCT075 08/M09 A2966 RMK A01 KSNK 152035Z AUTO 32015G28KT 10SM CLR 10/M11 A3017 RMK AO2 T00981114 KSNL 152035Z AUTO 32019G25KT 10SM SCT070 OVC080 06/M12 A2994 RMK AO2 T00601124 KSNS 151953Z 00000KT 10SM CLR 23/05 A3023 RMK AO2 SLP246 T02280050 KSNT 151951Z AUTO 00000KT M10/M14 A3037 RMK AO1 SLP338 T11001139 KSNY 151953Z AUTO 33031G43KT 10SM CLR 03/M17 A3004 RMK AO2 PK WND 34046/1940 SLP197 T00281167 KSOA 152035Z AUTO 32011G17KT 290V350 10SM CLR 12/M13 A3023 RMK AO2 KSOP 151956Z AUTO 16009KT 8SM -RA BKN008 BKN011 OVC075 09/08 A2969 RMK AO2 SLP061 T00940083 PNO $ KSOW 152035Z AUTO 35009KT 320V020 10SM CLR 09/M15 A3034 RMK AO2 KSPA 152035Z AUTO 22005KT 10SM CLR 11/00 A2965 RMK AO2 KSPB 151953Z AUTO 00000KT 10SM SCT005 OVC009 09/07 A3042 RMK AO2 SLP302 T00940072 KSPD 151956Z AUTO 35026G42KT 06/M22 A3006 RMK AO1 PK WND 35044/1904 SLP182 T00561217 KSPF 152035Z AUTO 30014G20KT 10SM CLR 01/M16 A3009 RMK AO2 PWINO KSPG 151953Z 20014KT 10SM FEW120 19/16 A2979 RMK AO2 SLP089 T01890161 KSPI 152010Z 19008KT 3SM R04/5000VP6000FT -SN BR SCT010 BKN016 OVC039 01/M01 A2945 RMK AO2 P0001 T00111006 KSPS 151952Z 32029G35KT 10SM CLR 11/M12 A3003 RMK AO2 PK WND 31037/1855 SLP169 T01111122 KSPW 151953Z AUTO 34024G33KT 1 1/4SM -SN BR OVC013 M01/M02 A2966 RMK AO2 PK WND 34038/1905 SLP059 P0002 T10061022 $ KSQI 151956Z 07008KT 10SM BKN036 OVC075 02/M02 A2947 RMK AO2 SLP850 T00171017 FZRANO KSQL 151955Z VRB03KT 10SM SCT200 15/11 A3031 KSRB 152035Z AUTO 24010G20KT 210V290 10SM FEW032 FEW046 BKN060 06/M05 A2963 RMK A01 KSRC 151956Z AUTO 27014G19KT 10SM OVC065 06/M07 A2975 RMK AO2 SLP075 T00611067 KSRE 152035Z AUTO 15.41666715G23KT 10SM BKN065 OVC080 07/M11 A2993 RMK AO2 KSRQ 151953Z 19014KT 10SM CLR 21/15 A2981 RMK AO2 SLP092 T02110150 KSRR 152035Z AUTO 32021G26KT 10SM CLR 09/M18 A3017 RMK AO2 KSSC 152040Z 23007KT 3SM -RA BKN006 OVC017 11/09 A2971 RMK AO2A SLP063 $ KSSF 151953Z 32011G19KT 10SM CLR 16/M13 A3013 RMK AO2 SLP205 T01561128 $ KSSI 151953Z AUTO 18009KT 10SM FEW042 BKN060 OVC070 A2973 RMK AO2 RAB32E41 SLP070 P0000 KSTC 151956Z 36009KT 2SM -SN BR OVC012 01/M01 A2970 KSTE 152035Z AUTO 01006KT 10SM BKN013 OVC029 01/00 A2954 RMK AO2 T00080000 KSTF 152035Z AUTO 26014G26KT 10SM CLR 10/M08 A2977 RMK AO2 KSTJ 152021Z 32020G36KT 4SM -SN BR BKN021 OVC025 00/M02 A2963 RMK AO2 PK WND 32036/2018 P0000 T00001022 KSTK 152035Z AUTO 36026G34KT 10SM CLR 05/M18 A3008 RMK AO2 KSTL 152025Z 21009KT 1SM R30R/4000V6000FT -SN BR SCT006 OVC013 01/M01 A2947 RMK AO2 P0001 T00111006 KSTP 152012Z 35009KT 10SM -RA BKN014 OVC023 02/00 A2965 RMK AO2 RAB06 P0000 T00220000 KSTS 151953Z 00000KT 10SM SCT200 17/09 A3031 RMK AO2 SLP257 T01720089 KSUA 151950Z 24005KT 7SM FEW030 22/09 A2987 KSUE 151956Z AUTO 04004KT 7SM UP OVC005 02/02 A2952 RMK AO2 SLP001 P0000 T00220017 FZRANO KSUN 151950Z 12009KT 10SM SKC 00/M06 A3036 KSUS 152013Z 22009KT 3/4SM R08R/5000VP6000FT -SN BR BKN013 BKN022 OVC031 01/M01 A2946 KSUT 152035Z AUTO 16004KT 10SM CLR 15/08 A2977 RMK AO2 T01450080 KSUU 152028Z 07004KT 1 5/8SM BR OVC002 12/12 A3032 RMK AO2A VIS 7/8V1 5/8 SLP274 $ KSUW 152035Z AUTO 02006KT 7SM -DZ OVC012 02/01 A2971 RMK AO2 T00200007 KSUX 151952Z 33023G37KT 3/4SM R31/5000VP6000FT -SN BR SCT014 OVC019 M01/M03 A2975 RMK AO2 PK WND 34039/1901 SLP084 P0000 T10111028 KSUZ 152035Z AUTO 30013G23KT 270V330 10SM FEW070 SCT085 07/M07 A2980 RMK A01 KSVC 152035Z AUTO 15003KT 10SM CLR 15/M13 A3019 RMK AO2 T01541132 KSVE 152035Z AUTO 10003KT 10SM CLR 09/02 A3039 RMK AO2 KSVH 152035Z AUTO 36006KT 4SM BR OVC004 05/04 A2968 RMK AO2 T00460041 KSVN 152011Z AUTO 18006KT 10SM -RA SCT003 OVC030 13/11 A2972 RMK AO2 SLP068 $ KSWF 151945Z 08007KT 3SM BR OVC007 03/03 A2994 KSWO 151953Z 32017G28KT 10SM OVC060 06/M08 A2992 RMK AO2 PK WND 32035/1919 SLP132 T00611078 KSWW 152035Z AUTO 29019G26KT 10SM CLR 12/M13 A3017 RMK AO2 T01161134 KSXK 152035Z AUTO 34029G38KT 1/4SM -SN SCT003 BKN013 M01/M01 A2974 RMK AO2 KSXS 151958Z AUTO 29016KT 10SM CLR 15/M03 A2975 RMK AO2 SLP076 T01481028 KSXT 152035Z AUTO 00000KT 1/4SM FG VV002 07/07 A3042 KSXU 152035Z AUTO 12008KT 10SM CLR 07/M12 A3013 RMK AO2 T00701119 KSYF 152035Z AUTO 33018G36KT 10SM CLR 04/M16 A3004 RMK AO2 T00361163 PWINO KSYI 152035Z AUTO 26012G22KT 10SM FEW080 08/M08 A2963 RMK A01 KSYM 152035Z AUTO 20009G20KT 10SM SCT060 06/M05 A2962 RMK AO2 KSYN 152035Z AUTO 36014G18KT 7SM -RA OVC012 01/00 A2962 RMK AO2 T00140001 KSYR 151954Z 07013KT 8SM BKN180 OVC230 04/M02 A2978 RMK AO2 SLP086 T00391017 KSZL 151956Z 29017G23KT 7SM -SN OVC012 00/M02 A2951 RMK PK WND 28027/33 SLP003 P0000 60000 T00001025 $ KSZT 152035Z AUTO 22003KT 10SM OVC048 00/M02 A3035 RMK AO2 KSZY 152035Z AUTO 25010G19KT 10SM FEW080 BKN100 07/M08 A2966 RMK A01 KT KT20 152035Z AUTO 33013G23KT 10SM CLR 17/M11 A3011 RMK AO2 T01681106 KT35 152035Z AUTO 31019G26KT 10SM CLR 14/M11 A3007 RMK AO2 T01421111 KT41 152035Z AUTO 28018G26KT 10SM CLR 15/M08 A3003 RMK AO2 T01501078 KT69 152035Z AUTO 34010G18KT 300V010 10SM CLR 18/M10 A3014 RMK A01 KT70 151958Z AUTO 35009KT 10SM CLR 17/M14 A3012 RMK AO2 SLPNO T01661136 $ KT74 152035Z AUTO 29014G23KT 10SM CLR 15/M11 A3009 RMK AO2 T01461113 KT82 152035Z AUTO 32015G21KT 10SM CLR 12/M14 A3015 RMK AO2 T01241140 KTAD 151954Z AUTO 09005KT 10SM CLR 02/M14 A3014 RMK AO2 SLP233 T00171139 KTAN 151952Z AUTO 07006KT 10SM BKN037 07/M02 A3005 RMK AO2 SLP175 T00721017 KTAZ 152035Z AUTO 19010KT 2SM -SN OVC008 00/00 A2948 RMK AO2 T00031002 KTBN 152016Z AUTO 25010G16KT 1 7/8SM -SN BR FEW011 OVC019 M00/M02 A2953 RMK AO2 VIS 1 3/8 RWY15 CIG 014 RWY15 SLP011 $ KTBR 152035Z AUTO 00000KT 10SM BKN006 OVC014 12/11 A2971 RMK AO2 T01220111 KTBX 241135Z AUTO 10SM CLR M03/M19 A3026 RMK AO2 KTCC 151953Z AUTO 34005KT 10SM CLR 06/M11 A3016 RMK AO2 SLP224 T00561111 KTCL 151953Z 26016G23KT 10SM FEW090 11/M08 A2976 RMK AO2 PK WND 24028/1913 SLP075 T01061083 KTCM 152023Z AUTO 23004KT 10SM FEW011 OVC020 10/08 A3039 RMK AO2 CIG 017 RWY34 SLP296 $ KTCS 151953Z AUTO 07008KT 030V110 10SM CLR 14/M15 A3018 RMK AO2 SLP176 T01391150 KTCY 152035Z AUTO 34006KT 10SM CLR 15/09 A3031 RMK A01 KTDF 152035Z AUTO 18011G15KT 10SM -RA SCT030 BKN036 OVC050 10/06 A2968 RMK AO2 KTDR 151956Z AUTO 27008KT 10SM CLR 16/05 A2980 RMK AO2 SLP095 T01580050 $ KTDZ 151953Z AUTO 21013KT 10SM FEW029 FEW034 SCT040 04/M01 A2955 RMK AO2 SLP008 T00441006 $ KTEB 151951Z 08010G17KT 4SM OVC015 06/03 A2990 RMK AO2 SLP126 T00560028 KTEW 152035Z AUTO 00000KT 10SM SCT008 BKN028 OVC034 01/00 A2952 RMK AO2 T00100002 KTEX 152035Z AUTO 26004KT 10SM CLR 02/M15 A3033 RMK AO2 KTFP 152035Z AUTO 33012G15KT 10SM CLR 19/M09 A3013 RMK AO2 T01911091 KTHA 152035Z AUTO 23019G29KT 10SM FEW075 09/M10 A2962 RMK A01 KTHV 151953Z AUTO 12008KT 9SM BKN030 08/02 A2975 RMK AO2 SLP080 T00780017 KTIF 152035Z AUTO 33022G32KT 10SM OVC029 00/M07 A2999 RMK AO2 T00031073 KTIK 151956Z AUTO 32029G37KT 10SM CLR 06/M11 A2992 RMK AO2 PK WND 33039/21 SLP144 T00621110 KTIP 152035Z AUTO 22007KT 10SM BKN013 BKN033 OVC060 01/M01 A2949 RMK AO2 T00051010 KTIW 152029Z 20008KT 10SM SCT008 BKN025 09/07 A3039 RMK AO2 T00940072 KTIX 151946Z 21012G16KT 7SM SCT120 25/11 A2981 KTKC 152035Z AUTO 34021G28KT OVC007 M02/M04 A2976 RMK AO2 T10201040 PWINO KTKI 151953Z 31026G36KT 10SM CLR 11/M11 A2999 RMK AO2 PK WND 31043/1943 SLP165 T01061111 KTKV 152035Z AUTO 03005KT 10SM OVC011 01/M01 A2956 RMK AO2 T00101010 PWINO KTKX 152035Z AUTO 27020G27KT 10SM FEW027 FEW032 FEW049 05/M04 A2966 RMK AO2 TSNO KTLH 151953Z 28014G18KT 10SM FEW025 SCT250 18/07 A2975 RMK AO2 SLP074 T01780067 KTMA 152035Z AUTO 29009KT 10SM CLR 16/07 A2972 RMK AO2 T01610069 KTMB 151953Z 28005KT 10SM -RA CLR 25/12 A2987 RMK AO2 RAB49 SLP116 P0000 T02500117 KTME 152035Z AUTO 31017KT 10SM CLR 16/M10 A3006 RMK AO2 KTMK 152035Z AUTO 00000KT 10SM SCT011 OVC017 12/10 A3043 RMK AO2 KTMT 152035Z AUTO 00000KT 10SM 15/M05 A3037 RMK AO2 T01541050 KTNB 152035Z AUTO 30007KT 10SM 02/M04 A2961 RMK AO2 T00201044 KTNU 152035Z AUTO 36014KT 10SM BKN031 OVC080 01/00 A2953 RMK A01 KTOA 151947Z 00000KT 10SM SKC 29/M03 A3011 KTOB 152035Z AUTO 35011KT 3SM BR OVC004 01/M01 A2958 RMK AO2 KTOC 152035Z AUTO 27010G23KT 230V290 10SM CLR 13/M11 A2965 RMK AO2 T01251113 KTOI 151953Z AUTO 25010G20KT 10SM CLR 16/M06 A2976 RMK AO2 SLP077 T01561061 KTOL 151952Z 21008KT 10SM OVC047 04/00 A2954 RMK AO2 SLP006 T00390000 KTOP 152041Z 31024G35KT 1 1/4SM -SN FEW014 BKN024 OVC035 00/M03 A2974 RMK AO2 PK WND 32045/2004 P0001 T00001033 KTOR 151953Z AUTO 31022G36KT CLR 03/M18 A3009 RMK AO2 PK WND 30038/1933 SLP210 T00331183 $ KTPA 151953Z 19014G21KT 10SM FEW020 SCT085 BKN250 19/14 A2981 RMK AO2 SLP095 T01940144 KTPF 152035Z AUTO 22013KT 10SM OVC090 21/15 A2981 RMK AO2 KTPH 151956Z AUTO 00000KT 10SM CLR 11/M09 A3042 RMK AO2 SLP295 T01061089 KTPL 151951Z AUTO 31023G32KT 10SM CLR 13/M12 A3008 RMK AO2 PK WND 31033/1941 SLP182 T01331122 KTQE 151954Z AUTO 33033G42KT 1/2SM HZ SCT017 BKN022 OVC027 M01/M03 A2973 RMK AO2 PK WND 33042/1953 SLP072 T10061033 PWINO FZRANO KTQH 152035Z AUTO 32020G27KT 10SM SCT028 BKN038 OVC047 03/M05 A2985 RMK AO2 KTQK 152035Z AUTO 10SM CLR 05/M13 A3000 RMK AO1 T00481127 KTRI 151953Z 25007KT 10SM SCT042 BKN050 06/M02 A2966 RMK AO2 SLP041 T00611022 KTRK 151945Z 00000KT 10SM SKC 08/M02 A3044 KTRL 151953Z AUTO 31020G36KT 10SM CLR 11/M12 A3000 RMK AO2 PK WND 32037/1932 SLP158 T01061117 KTRM 151952Z AUTO 34008KT 10SM CLR 31/M09 A3015 RMK AO2 SLP209 T03111094 KTSP 062255Z AUTO 31016G19KT 10SM CLR 13/M05 A3019 RMK AO2 KTTA 152035Z AUTO 17007KT 10SM RA BKN047 OVC070 09/09 A2969 RMK AO2 P0001 T00900090 KTTD 151953Z 00000KT 10SM OVC007 08/07 A3044 RMK AO2 SLP306 T00830072 KTTF 152036Z AUTO 22006KT 10SM SCT015 SCT021 03/02 A2954 RMK AO2 T00330023 KTTN 152032Z 09006KT 7SM OVC014 07/05 A2986 RMK AO2 T00720050 KTTS 151956Z AUTO 12008KT 10SM CLR 20/13 A2979 RMK AO2 SLP092 T02030125 $ KTUL 151953Z 30022G32KT 10SM OVC060 06/M06 A2986 RMK AO2 PK WND 30036/1922 SLP112 T00561061 KTUP 151953Z 25017G28KT 10SM FEW085 FEW100 10/M09 A2972 RMK AO2 PK WND 26028/1944 RAB43E53 SLP064 P0000 T01001089 $ KTUS 151953Z 32005KT 10SM CLR 21/M12 A3015 RMK AO2 SLP189 T02061117 KTVC 151953Z 05004KT 4SM -RA BR BKN009 OVC017 03/02 A2949 RMK AO2 SLP991 P0001 T00330022 KTVF 152038Z AUTO 35015KT 10SM OVC015 M06/M08 A2991 RMK AO2 FZRANO KTVI 152035Z AUTO 30008KT 10SM CLR 16/06 A2975 RMK AO2 KTVK 152015Z AUTO 10SM SCT012 00/00 A2950 RMK AO2 KTVL 151953Z AUTO 02004KT 10SM CLR 09/01 A3045 RMK AO2 SLP304 T00940006 KTVR 151953Z AUTO 27010G20KT 10SM FEW085 13/M06 A2985 RMK AO2 SLP115 T01281061 KTVY 152035Z AUTO 02005KT 10SM CLR 03/M07 A3042 RMK AO2 KTWF 151953Z 11009KT 10SM CLR 03/M02 A3035 RMK AO2 PRESFR SLP283 T00331017 KTWM 152035Z AUTO 02004KT 10SM OVC014 02/M01 A2969 RMK AO2 KTXK 151953Z 29021G29KT 10SM SCT080 10/M11 A2988 RMK AO2 PK WND 30031/1943 SLP117 T01001106 KTXW 152035Z AUTO 05011G16KT 10SM SCT110 18/M08 A3014 RMK AO2 T01821081 KTYL 152035Z AUTO 03005KT 10SM CLR 10/M14 A3033 RMK AO2 KTYQ 152035Z AUTO 21013G17KT 10SM SCT031 BKN060 OVC070 03/M03 A2953 RMK AO2 T00271029 KTYR 151953Z 30021G27KT 10SM CLR 12/M11 A2996 RMK AO2 PK WND 28031/1903 SLP144 T01171111 KTYS 151953Z 19005KT 10SM FEW060 09/M04 A2963 RMK AO2 SLP034 T00891039 KTZR 151945Z 24010KT 10SM SCT040 BKN048 BKN060 04/M03 A2958 KU42 152035Z AUTO 15010KT 10SM CLR 06/M06 A3042 RMK AO1 T00641065 KU55 152035Z AUTO 04004KT 10SM CLR 09/M09 A3040 RMK A01 KU68 152035Z AUTO 04003KT 10SM CLR 01/M14 A3019 RMK AO2 KU69 152035Z AUTO 12006KT 10SM CLR M02/M12 A3030 RMK A01 KUAO 152000Z 00000KT 2SM BR OVC002 09/08 A3043 RMK AO2 T00890083 KUBE 152035Z AUTO 36007KT 10SM -RA OVC008 00/00 A2963 RMK AO2 KUCP 152039Z AUTO VRB04KT 10SM BKN010 BKN014 OVC020 03/02 RMK AO2 PWINO $ KUCY 152030Z AUTO 26013G20KT 10SM SCT049 06/M05 A2963 RMK A01 KUDG 152017Z AUTO 22008KT 8SM -RA BKN007 OVC060 11/11 A2972 RMK AO2 CIG 005V012 P0002 KUES 151945Z 10003KT 10SM BKN070 02/M03 A2948 KUGN 151955Z 18004KT 10SM FEW014 OVC080 02/M02 A2947 RMK AO2 SLP989 T00221017 KUIL 152015Z AUTO 22006KT 10SM BKN011 11/08 A3042 KUIN 152037Z AUTO 35006KT 10SM BKN026 OVC034 01/M02 A2943 RMK AO2 SNE04 P0000 T00061017 KUKF 152035Z AUTO 00000KT 2 1/2SM BR OVC002 02/02 A2972 RMK AO2 KUKI 151956Z AUTO 34004KT 10SM CLR 16/07 A3035 RMK AO2 SLP275 T01560067 KUKL 152035Z AUTO 32023G30KT 3SM -SN SCT014 BKN019 OVC023 00/M02 A2976 RMK AO2 T10021018 KUKT 152035Z AUTO 07009G16KT 7SM OVC009 06/05 A2984 RMK A01 KULM 152035Z AUTO 35012G22KT 2 1/2SM -SN BKN008 BKN012 BKN025 01/M01 A2969 RMK AO2 VIS 2V3 KULS 152035Z AUTO 33030G37KT 240V350 5SM HZ OVC006 06/M13 A3003 RMK AO2 KUNI 152035Z AUTO 20004KT 10SM -RA SCT022 BKN030 OVC044 04/02 A2964 RMK AO2 T00400017 KUNO 152037Z AUTO 25011G19KT 3/4SM -SN BR BKN014 OVC019 00/M02 A2962 RMK AO2 PK WND 28029/2010 P0000 T00001022 KUNU 152035Z AUTO 00000KT 10SM OVC055 02/00 A2950 RMK AO2 T00150000 KUNV 151953Z 13011G18KT 5SM BR SCT026 OVC030 04/00 A2968 KUOX 152035Z AUTO 24017G26KT 10SM BKN065 07/M08 A2975 RMK AO2 PWINO KUTA 152035Z AUTO 27023G28KT 10SM SCT060 SCT075 07/M06 A2977 RMK AO2 TSNO KUTS 151953Z AUTO 31013G20KT 10SM CLR 14/M08 A3001 RMK AO2 PK WND 30027/1936 SLP162 T01391078 KUUU 151953Z AUTO 11007KT 10SM CLR 06/M01 A3003 RMK AO2 SLP170 T00611006 KUVA 152035Z AUTO 30010G14KT 10SM CLR 15/M11 A3019 RMK AO2 T01541115 KUXL 152035Z AUTO 30016G23KT 10SM CLR 16/M08 A2996 RMK AO2 T01571081 KUYF 152035Z AUTO 21010KT 10SM SCT048 BKN055 OVC070 04/M04 A2957 RMK AO2 KUZA 152014Z AUTO 20007KT 8SM SCT010 09/08 A2968 RMK AO2 T00940078 KVAD 151956Z AUTO 25007KT 10SM SCT008 SCT017 BKN100 15/13 A2971 RMK AO2 RAE11 SLP063 P0000 T01480127 $ KVAF 152030Z AUTO 00000KT 10SM CLR 19/M03 A3009 RMK A01 KVAY 152038Z AUTO 09007KT 10SM BKN025 BKN031 OVC046 11/06 A2984 RMK AO2 T01110061 KVBG 151958Z 06005KT 10SM CLR 29/03 A3015 RMK AO2A SLP211 T02870033 KVBT 152040Z AUTO 30015G25KT 1 3/4SM -SN SCT015 BKN025 OVC032 01/M02 A2980 RMK AO2 PK WND 29026/2004 RAE24SNB24 P0000 FZRANO TSNO KVBW 152035Z AUTO 20010KT 5SM SCT013 SCT020 OVC030 06/03 A2966 RMK AO1 P0001 T00550032 KVCB 151953Z AUTO 06005KT 7SM CLR 15/09 A3034 RMK AO2 SLP274 T01500094 KVCT 151951Z 31015KT 10SM CLR 17/M08 A3012 RMK AO2 SLP198 T01671083 KVCV 151945Z 00000KT 10SM SKC A3035 KVDF 152035Z AUTO 22019G22KT 10SM OVC085 22/15 A2981 RMK AO2 KVDI 152035Z AUTO 25005KT 10SM SCT015 BKN110 14/09 A2971 RMK AO2 KVEL 151953Z AUTO 07003KT 10SM CLR M03/M12 A3034 RMK AO2 SLP322 T10281117 KVER 152035Z AUTO 27013G19KT 10SM OVC010 02/01 A2949 RMK AO2 T00170014 KVES 152035Z AUTO 25013G17KT 1 1/4SM -SN BKN007 BKN013 OVC023 00/00 A2957 RMK AO2 VIS 3/4V4 PNO KVGC 152035Z AUTO 18011G17KT 5SM OVC028 03/M01 A2980 RMK AO2 KVGT 151953Z 13006KT 10SM CLR 17/M09 A3029 RMK AO2 SLP271 T01721094 KVHN 152035Z AUTO 15003KT 10SM 11/M08 A3020 RMK AO2 T01101079 KVIH 152035Z AUTO 25014G21KT 1SM -SN BR BKN008 OVC013 M01/M02 A2950 RMK AO2 P0000 T10061022 KVIS 151956Z AUTO 20005KT 4SM HZ CLR 16/08 A3030 RMK AO2 SLP269 T01610083 KVJI 152035Z AUTO 22005KT 10SM SCT019 SCT026 04/M02 A2964 RMK AO2 T00431020 KVKS 152035Z AUTO 28011G19KT 10SM FEW080 12/M08 A2984 RMK A01 KVKY 152035Z AUTO 27019KT 10SM CLR 13/M01 A2990 RMK A01 KVLD 152038Z VRB03KT 10SM SCT018 BKN100 14/12 A2975 RMK AO2 T01440117 KVLL 152035Z AUTO 21004KT 5SM RA BKN005 OVC013 01/01 A2955 RMK AO2 T00120011 KVNC 152035Z AUTO 17011G18KT 7SM CLR 20/15 A2983 RMK AO2 KVNW 152035Z AUTO 28005G09KT 1 3/4SM -RA SCT007 BKN037 OVC048 02/M01 A2955 RMK AO2 KVNY 151951Z 35021G25KT 10SM SCT100 30/M06 A3012 RMK AO2 PK WND 36029/1858 SLP189 T03001061 KVOA 152030Z AUTO 28021KT 10SM 14/M00 A2987 RMK A01 KVOK 152011Z AUTO 02006KT 10SM SCT021 SCT027 SCT035 BKN050 03/02 A2952 RMK AO2 SLP008 KVPC 151953Z AUTO 10SM CLR 13/M08 A2968 RMK AO2 SLP045 T01281078 KVPS 152037Z AUTO 23010G21KT 10SM CLR 16/01 A2978 RMK AO2 WSHFT 34 SLP091 $ KVPZ 152033Z AUTO 20006KT 10SM BKN022 BKN050 OVC080 02/M02 A2950 RMK AO2 T00221017 KVQQ 151950Z 22016KT 10SM BKN044 22/11 A2971 KVQT 141805Z AUTO 3SM HZ FEW032 FEW042 21/13 A2997 RMK A01 KVRB 151953Z 20011KT 10SM CLR 23/09 A2984 RMK AO2 SLP103 T02280094 KVSF 151954Z AUTO 00000KT 10SM OVC033 03/M03 A3002 RMK AO2 SLP175 T00281033 KVTA 151954Z AUTO 22011KT 10SM BKN038 06/M01 A2958 RMK AO2 SLP020 T00561011 KVTI 152035Z AUTO 01009KT 10SM CLR 02/M01 A2953 RMK AO2 T00201011 KVTN 151952Z AUTO 32025G36KT 10SM M01/M08 A3000 RMK AO2 PK WND 32039/1856 SLP185 T10061083 KVTP 152035Z AUTO 27006KT 10SM CLR 00/M16 A3013 RMK AO2 KVUJ 152035Z AUTO 20006KT 10SM OVC007 08/07 A2974 RMK AO2 T00780073 KVUO 151953Z AUTO 00000KT 6SM HZ OVC006 09/06 A3043 RMK AO2 SLP303 T00890061 KVVV 152035Z AUTO 34019G22KT M04/M05 A2987 RMK AO2 PWINO KVWU 152035Z AUTO 34006KT 5SM BR OVC006 M01/M02 A2983 RMK AO2 KVYS 152035Z AUTO 00000KT 10SM 02/M01 A2949 RMK AO2 T00161006 KW13 152035Z AUTO 00000KT 10SM OVC024 05/02 A2967 RMK AO1 T00450015 KW22 152015Z AUTO 240KT 5SM -RA BKN007 BKN013 02/02 A2966 RMK AO2 KW29 152035Z AUTO 15005KT 10SM CLR 10/04 A2979 RMK AO2 KW31 151955Z AUTO 14004KT 10SM OVC046 11/03 A2967 RMK AO1 T01060030 KW43 152035Z AUTO 10SM CLR 00/M16 A3010 RMK AO2 KW63 130115Z AUTO 00000KT 10SM CLR 02/M01 A3012 RMK AO1 KW75 152035Z AUTO 11007KT 10SM CLR 10/07 A2976 RMK AO1 T01000066 KW78 152035Z AUTO 17005G15KT 10SM BKN042 OVC048 12/03 A2966 RMK AO1 T01160025 KW81 152035Z AUTO 13007KT 10SM OVC050 10/00 A2967 RMK AO1 T01031002 KW96 152035Z AUTO 13006KT 10SM CLR 12/02 A2972 RMK AO1 T01200017 KW99 152035Z AUTO 23004KT 5SM RA SCT025 OVC035 07/04 A2966 RMK AO2 P0001 T00680040 KWAL 151954Z 17009KT 10SM BKN045 BKN250 12/08 A2980 RMK AO2 SLP088 T01220078 KWBF 152030Z AUTO VRB06G16KT 10SM CLR 16/02 A3000 RMK A01 KWDG 151948Z 32027G35KT 10SM BKN065 OVC080 06/M07 A2992 KWDR 152035Z AUTO 27007KT 245V305 10SM CLR 12/M10 A2971 RMK AO2 KWHP 151950Z 03007KT 10SM SKC 30/M09 A3016 KWJF 151956Z 05006KT 10SM CLR 19/M05 A3034 RMK AO2 SLP276 T01941050 KWLD 151954Z AUTO 32023G37KT 10SM OVC046 03/M06 A2989 RMK AO2 PK WND 34042/1917 SLP130 T00331061 KWMC 151956Z AUTO 12004KT 10SM CLR 10/M01 A3037 RMK AO2 SLP282 T01001011 KWRB 151956Z 24010KT 10SM CLR 16/01 A2969 RMK AO2A SLP057 T01590008 KWRI 152001Z 10012KT 10SM BKN017 OVC024 10/06 A2984 RMK AO2A CIG 016 RWY24 SLP105 $ KWRL 151953Z AUTO 33003KT 10SM CLR 02/M14 A3019 RMK AO2 SLP270 T00171139 KWST 151953Z AUTO 09010KT 10SM OVC034 05/00 A3003 RMK AO2 SLP169 T00500000 KWVI 151953Z AUTO 17003KT 10SM CLR 22/09 A3026 RMK AO2 SLP245 T02170089 KWVL 151956Z AUTO 04005KT 10SM CLR 04/M04 A3006 RMK AO2 SLP209 T00391044 KWWD 151956Z AUTO 12009KT 10SM BKN060 11/08 A2983 RMK AO2 SLP103 T01060078 $ KWWR 152035Z AUTO 32026G34KT 10SM SCT040 07/M11 A3001 RMK AO2 KWYS 191305Z AUTO 21012G17KT 10SM FEW055 SCT065 BKN075 M01/M02 A2995 RMK AO2 KX07 152035Z AUTO 22012KT 10SM CLR 24/12 A2981 RMK A01 KX26 152035Z AUTO 22009G14KT 10SM CLR 23/10 A2982 RMK AO2 T02270102 KX60 152035Z AUTO 27016G19KT 3SM HZ SCT025 BKN040 OVC075 19/16 A2976 RMK AO2 T01880155 KXBP 152035Z AUTO 31019G28KT 10SM CLR 11/M11 A3005 RMK AO2 T01101106 KXER 152035Z AUTO 00000KT 10SM CLR 16/M00 A3000 RMK A01 KXIF 151958Z AUTO 00000KT 5SM HZ FEW021 SCT032 06/02 A2971 RMK AO2 PK WND 16026/44 SLPNO T00620019 $ KXLL 152035Z AUTO 07011G14KT 7SM BKN014 OVC019 07/04 A2985 RMK AO2 KXMR 151956Z AUTO 16015KT 10SM CLR 20/13 A2980 RMK AO2 SLP094 T01990126 $ KXNA 152040Z 30020G32KT 2 1/2SM R16/4500VP6000FT -SN BKN025 BKN035 OVC049 02/M03 A2979 RMK AO2 PK WND 29032/2006 PRESRR P0000 T00171033 KXNO 152036Z AUTO 19004KT 10SM -DZ OVC006 10/ A2972 RMK AO2 SLPNO $ KXNX 152035Z AUTO 23016G25KT 10SM BKN070 09/M09 A2964 RMK A01 KXSA 152035Z AUTO 11005KT 10SM CLR 11/03 A2974 RMK AO2 T01120025 KXVG 152033Z AUTO 35006KT 10SM OVC010 M01/M02 A2978 RMK AO2 KXWA 151951Z AUTO 28006KT 10SM CLR M04/M09 A3011 RMK AO2 SLP241 T10391089 KY19 152035Z AUTO 32016KT 10SM OVC013 M06/M07 A3008 RMK AO2 PWINO KY23 152035Z AUTO 34003KT 10SM SCT015 BKN022 OVC029 02/00 A2961 RMK AO2 T00170000 KY31 152035Z AUTO 07007KT 1 1/2SM -SN OVC003 00/00 A2950 RMK AO2 T00030000 KY49 152035Z AUTO 34008G15KT 10SM OVC008 M01/M02 A2980 RMK AO2 T10121023 KY50 152015Z AUTO 01004KT 10SM BKN015 BKN024 OVC036 02/M01 A2953 RMK AO2 FZRANO $ KY51 152035Z AUTO 04007KT 10SM SCT015 OVC039 01/01 A2952 RMK AO1 T00100006 KY63 152035Z AUTO 33018G21KT 290V350 10SM OVC008 M04/M05 A2985 RMK AO2 T10431053 KY70 152038Z AUTO 21004KT 4SM -SN BKN006 OVC010 01/00 A2950 RMK AO2 T00070001 KYIP 152036Z 22008KT 3SM HZ OVC004 03/00 A2954 RMK AO2 UPE07 P0000 T00280000 KYKM 151953Z 15003KT 10SM CLR 05/M01 A3035 RMK AO2 SLP289 T00501011 KYKN 152029Z AUTO 33030G39KT 2SM -SN BR OVC014 M02/M04 A2986 RMK AO2 PK WND 31039/2023 VIS 1 1/4V4 P0000 FZRANO KYNG 152036Z 19008KT 3SM -RA BR OVC007 02/00 A2959 KZPH 152035Z AUTO 22014G19KT 10SM BKN085 22/13 A2980 RMK A02 T02230133 KZZV 152020Z AUTO 19007KT 10SM FEW013 SCT019 BKN025 04/02 A2961 RMK AO2 T00390017 LATI 152020Z 36005KT 9999 BKN120 02/M04 Q1012 NOSIG LBBG 152030Z 21004KT CAVOK 00/M04 Q1017 NOSIG LBGO 152030Z AUTO 00000KT 9999 BKN063 M03/M03 Q1017 LBIA 152000Z 11004KT 9999 FEW060 M01/M03 Q1016 LBPD 152030Z AUTO 21003KT 180V280 9999 NCD M02/M07 Q1016 LBPG 152000Z 25006KT 9999 BKN060 M01/M05 Q1016 LBPL 152000Z 19006KT 9999 BKN056 M01/M03 Q1017 LBSF 152030Z 28005KT 9999 SCT044 M04/M07 Q1014 NOSIG LBWB 151200Z 34012KT 9999 FEW010 03/M04 Q1013 LBWN 152030Z 35003KT CAVOK M02/M04 Q1016 NOSIG LCEN 152020Z 19005KT 160V230 9999 FEW025 14/08 Q1012 NOSIG RMK RWY11 19008KT LCLK 152030Z 25011KT 210V270 9999 BKN035 BKN060 16/10 Q1012 NOSIG LCPH 152030Z 20011KT 170V230 9999 FEW035 BKN060 18/10 Q1012 LCRA 151950Z 24014KT 9999 FEW040 17/09 Q1012 NOSIG LDDU 152030Z 03023KT 340V070 CAVOK 03/M11 Q1013 BECMG 02025G35KT LDLO 081300Z 01012KT 9999 FEW033 09/02 Q1010 LDOS 152030Z 31004KT CAVOK M03/M05 Q1019 LDPL 152030Z 06008KT CAVOK 02/M07 Q1019 LDRI 152030Z VRB04KT 9999 FEW040 02/M09 Q1019 LDSB 131200Z 03011KT 9999 FEW060 05/M05 Q1010 LDSP 152030Z 06009KT 010V110 CAVOK 03/M09 Q1016 TEMPO 03018G28KT LDZA 152030Z 25003KT CAVOK M02/M04 Q1021 NOSIG LDZD 152030Z 06007KT CAVOK 02/M09 Q1017 LEAB 152030Z 27008KT CAVOK 01/M02 Q1025 NOSIG LEAG 152030Z AUTO 31010G20KT 280V350 CAVOK 12/03 Q1025 LEAL 152030Z 31010KT CAVOK 11/M01 Q1022 NOSIG LEAM 152030Z 34006KT CAVOK 09/07 Q1023 LEAO 151900Z 11003KT CAVOK 01/00 Q1027 LEAS 152030Z 17003KT 130V200 9999 FEW025 07/05 Q1030 NOSIG LEBA 152030Z AUTO 00000KT CAVOK 04/03 Q1026 LEBB 152030Z 00000KT 9999 FEW025 SCT035 BKN050 09/06 Q1031 NOSIG LEBG 152030Z AUTO 01003KT 340V040 CAVOK 00/M00 Q1029 LEBL 152030Z 32006KT 9999 FEW030 05/04 Q1021 NOSIG LEBR 152030Z AUTO 30014KT 9999 SCT023 BKN032 OVC040 07/04 Q1027 LEBT 152030Z AUTO 31007KT 250V030 CAVOK 11/M02 Q1022 LEBZ 152000Z 11002KT 2300 BR NSC 03/02 Q1027 LECH 152030Z AUTO 11005KT CAVOK 11/M03 Q1021 LECO 152030Z 19003KT 150V210 CAVOK 06/05 Q1031 NOSIG LECV 151800Z VRB01KT CAVOK 04/M03 Q1026 LEDA 152030Z AUTO 28009KT 250V310 CAVOK 05/02 Q1021 LEEC 151400Z VRB02KT CAVOK 13/03 Q1026 LEGA 151400Z VRB03KT CAVOK 13/M02 Q1024 LEGE 152030Z 00000KT 9999 SCT040 04/01 Q1020 LEGR 152030Z 25003KT 210V310 CAVOK 03/M01 Q1025 LEGT 151800Z 29005KT CAVOK M00/M02 Q1027 LEHC 152030Z AUTO 27014KT CAVOK 03/00 Q1022 LEIB 152030Z 31004KT 290V070 CAVOK 07/04 Q1022 NOSIG LEJR 152030Z 00000KT 9000 NSC 06/05 Q1027 LELC 152030Z 31017G28KT CAVOK 14/M03 Q1022 NOSIG LELL 152030Z AUTO 32003KT CAVOK 04/03 Q1020 LELN 152030Z 33003KT CAVOK M05/M05 Q1029 LELO 152030Z AUTO 27012KT 9999 SCT039 06/02 Q1029 LEMD 152030Z 00000KT 6000 NSC M03/M03 Q1027 NOSIG LEMG 152030Z 28017KT CAVOK 14/04 Q1024 NOSIG LEMH 152030Z 02012KT 9999 -RA FEW036 BKN045 09/07 Q1021 LEMI 152030Z 35015KT CAVOK 11/M04 Q1023 LEMO 152030Z 15003KT 9000 NSC 04/02 Q1026 NOSIG LEPA 152030Z 07004KT 9999 FEW025 SCT045 10/06 Q1021 NOSIG LEPP 152030Z 36013KT 9999 FEW020 SCT040 05/02 Q1027 LERI 151800Z 33004KT 290V010 CAVOK 12/M02 Q1023 NOSIG LERL 151400Z 06008KT CAVOK 09/02 Q1027 LERS 152030Z VRB03KT CAVOK 10/01 Q1020 LERT 152030Z 29003KT 8000 NSC 07/06 Q1026 NOSIG LESA 152030Z AUTO 07006KT 0300 R21/0750D FZFG VV002 M01/M02 Q1030 LESB 152030Z AUTO 09003KT 9999 FEW033/// SCT038/// BKN043/// 09/06 Q1022 LESO 152030Z VRB02KT 9999 BKN027 BKN056 08/07 Q1030 LEST 152030Z 14006KT CAVOK 04/03 Q1030 NOSIG LESU 151600Z 31010KT 270V330 CAVOK 09/M10 Q1020 LETL 152030Z AUTO 33020KT CAVOK M01/M03 Q1024 LETO 152030Z 01006KT 8000 NSC M04/M05 Q1027 NOSIG LETU 152030Z AUTO 31015KT 9999 BKN039 BKN049 08/02 Q1027 LEVC 152030Z 32008KT CAVOK 11/M00 Q1022 NOSIG LEVD 152030Z 32003KT 0200 R23/0800N R05/0650N FZFG VV001 M03/M03 Q1029 LEVS 152030Z AUTO VRB01KT CAVOK M01/M03 Q1027 LEVT 152030Z 28007KT 240V300 9999 FEW022 SCT034 05/03 Q1029 LEVX 152030Z 21007KT CAVOK 05/04 Q1030 NOSIG LEXJ 152030Z VRB01KT 9999 FEW044 06/05 Q1031 LEZG 152030Z 28023KT 9999 SCT040 08/02 Q1026 LEZL 152030Z VRB01KT CAVOK 06/04 Q1026 NOSIG LFAC 152000Z AUTO 20004KT CAVOK 02/M02 Q1031 LFAQ 152030Z AUTO 36003KT 9999 OVC045 M01/M03 Q1031 LFAT 152030Z AUTO 15001KT 7000 OVC049 M01/M02 Q1031 LFBA 152030Z AUTO 34006KT 300V360 9999 SCT030 BKN038 OVC054 06/01 Q1029 NOSIG LFBC 152030Z AUTO 01003KT 9999 BKN032 OVC041 07/02 Q1030 LFBD 152030Z AUTO 34003KT 9999 FEW044 05/01 Q1030 NOSIG LFBE 152030Z AUTO 23003KT 7000 NSC 01/00 Q1030 NOSIG LFBG 152030Z AUTO 35004KT CAVOK 03/00 Q1030 LFBH 152030Z AUTO 03004KT CAVOK 03/01 Q1031 NOSIG LFBI 152030Z AUTO 01003KT 9000 NSC M01/M03 Q1030 NOSIG LFBL 152030Z AUTO 02005KT 340V050 9999 OVC018 M00/M03 Q1028 BECMG OVC007 LFBM 152030Z AUTO 29003KT 9999 OVC044 06/04 Q1030 NOSIG LFBO 152030Z AUTO 33007KT 9999 BKN032 OVC042 05/04 Q1028 NOSIG LFBP 152030Z AUTO 25007KT 9999 FEW025/// SCT031/// BKN042/// ///TCU 06/04 Q1029 TEMPO 4000 BR BKN002 LFBT 152030Z AUTO 28005KT 230V320 9999 -RA FEW035/// BKN042/// OVC052/// ///TCU 05/03 Q1029 BECMG SCT040 LFBU 152030Z AUTO 35004KT CAVOK 01/M01 Q1030 NOSIG LFBY 152030Z AUTO 00000KT 4600 // ////// 06/05 Q1030 LFBZ 152030Z AUTO VRB03KT 9999 FEW018 SCT027 BKN036 07/07 Q1030 NOSIG LFCK 152030Z AUTO 30012KT CAVOK 04/02 Q1027 NOSIG LFCR 152030Z AUTO 30010KT 9999 BKN017 M00/M02 Q1025 NOSIG LFGA 152030Z AUTO 33005KT 5000 BR NSC M10/M12 Q1028 LFGJ 152030Z AUTO 34010KT 9999 BKN036 OVC045 M00/M02 Q1026 LFHP 211000Z AUTO VRB03KT 9999 -RA ///TCU 04/02 Q1024 LFJL 152030Z AUTO 02004KT 7000 NSC M06/M07 Q1028 BECMG 3000 BR LFJR 152030Z AUTO 09004KT CAVOK M03/M04 Q1031 LFKB 152030Z AUTO 33004KT 290V020 9999 SCT035 BKN043 OVC056 08/06 Q1015 NOSIG LFKC 152030Z AUTO 16004KT 9999 FEW020 OVC120 06/05 Q1015 LFKF 152030Z AUTO VRB03KT 9999 OVC046/// ///TCU 09/08 Q1014 BECMG FEW025 BKN045 LFKJ 152030Z AUTO VRB03KT 9999 BKN058 BKN078 OVC092 10/08 Q1013 NOSIG LFKS 152030Z AUTO VRB02KT 9999 ////// 08/06 Q1014 LFLB 152030Z AUTO 03007KT 9999 OVC022 03/01 Q1024 LFLC 152030Z AUTO 35007KT 9999 OVC026 00/M05 Q1028 TEMPO 2500 -SN BKN008 LFLL 152030Z 35015KT 9999 OVC007 01/M00 Q1025 NOSIG LFLN 152030Z AUTO 32008KT 9999 OVC025 00/M02 Q1027 NOSIG LFLP 152030Z AUTO 03008KT 9999 OVC035 02/M01 Q1023 LFLS 152030Z AUTO 34014KT 300V010 9999 SCT006 OVC010 00/M01 Q1023 LFLU 151800Z AUTO 36013KT 9999 SCT019 BKN025 OVC035 02/01 Q1022 LFLW 211000Z AUTO 10005KT 9999 OVC040 07/03 Q1024 TEMPO 4000 RA LFLX 152030Z AUTO 03006KT 9999 OVC029 02/M02 Q1029 NOSIG LFLY 152030Z AUTO 34012KT 9999 BKN010 OVC015 01/M00 Q1026 NOSIG LFMC 152030Z AUTO 23004KT 180V260 9999 ////// 07/M02 Q1016 LFMD 152030Z AUTO VRB03KT 9999 BKN040 OVC047 09/08 Q1015 LFMH 152030Z AUTO 34009KT 300V010 9999 OVC009 M01/M02 Q1026 LFMI 152030Z AUTO 33033KT CAVOK 05/M02 Q1018 BECMG 34025G40KT LFMK 152030Z AUTO 27014KT 9999 -RA FEW022 OVC038 04/02 Q1027 LFML 152030Z AUTO 32019KT CAVOK 05/M01 Q1018 NOSIG LFMN 152030Z 32006KT 9999 FEW033 BKN040 BKN120 09/07 Q1015 NOSIG LFMO 152030Z AUTO 35029G42KT 9999 FEW025 BKN230 04/M01 Q1020 NOSIG LFMP 152030Z AUTO 33015G29KT 280V010 9999 FEW015 SCT030 BKN036 08/01 Q1024 TEMPO 31030G45KT LFMT 152030Z AUTO 30009KT CAVOK 07/M02 Q1021 NOSIG LFMU 152030Z AUTO 32012KT CAVOK 06/M04 Q1023 LFMV 152030Z AUTO 34030G41KT CAVOK 04/M02 Q1019 LFMY 152030Z AUTO 33019KT 290V360 CAVOK 04/M02 Q1018 LFOA 152030Z AUTO 01004KT CAVOK M01/M03 Q1029 LFOB 152030Z AUTO VRB02KT CAVOK M02/M04 Q1031 NOSIG LFOC 152030Z AUTO 36003KT 9999 ////// 00/M03 Q1031 LFOE 152030Z AUTO 09004KT 9999 BKN025 M00/M05 Q1031 BECMG BKN010 LFOH 152030Z AUTO 11004KT CAVOK M00/M04 Q1031 LFOJ 152030Z AUTO 03006KT 9999 OVC026 01/M03 Q1030 LFOK 152030Z AUTO 02005KT 9000 FEW025 M01/M03 Q1029 NOSIG LFOP 152030Z AUTO 08003KT 7000 NSC M04/M05 Q1031 NOSIG LFOT 152030Z AUTO 32003KT 9000 NSC M01/M03 Q1030 NOSIG LFOV 152030Z AUTO 12003KT CAVOK 01/M02 Q1030 LFOZ 152030Z AUTO 02004KT 9999 OVC029 01/M04 Q1030 LFPB 152030Z AUTO 32003KT 9999 OVC037 00/M04 Q1031 NOSIG LFPG 152030Z 36004KT 340V150 9999 BKN034 M00/M04 Q1030 NOSIG LFPM 152030Z AUTO VRB03KT 9999 OVC029 01/M03 Q1030 LFPN 152030Z AUTO 05005KT 020V080 9999 OVC027 00/M04 Q1030 NOSIG LFPO 152030Z 06007KT 9999 BKN030 01/M05 Q1031 NOSIG LFPT 152030Z AUTO VRB03KT 9999 FEW036 M01/M03 Q1031 LFPV 152030Z AUTO 03005KT 320V070 9999 OVC027 00/M04 Q1030 NOSIG LFQA 152030Z AUTO 02005KT 8000 FEW041 M00/M02 Q1030 LFQB 152030Z AUTO 30003KT 9000 NSC M03/M04 Q1029 LFQG 211000Z AUTO 12010KT 9999 -RA BKN035/// OVC041/// 07/06 Q1021 LFQQ 152030Z AUTO 00000KT 9999 OVC045 01/M02 Q1031 TEMPO 3000 BR LFRB 152030Z AUTO 18006KT CAVOK 06/05 Q1029 NOSIG LFRC 152030Z AUTO 16007KT CAVOK 02/M01 Q1030 LFRD 152030Z AUTO 15002KT CAVOK 03/00 Q1030 NOSIG LFRG 152030Z AUTO 11004KT 9000 NSC M03/M04 Q1031 NOSIG LFRH 152030Z AUTO 11004KT 9999 BKN029 OVC170 06/03 Q1030 NOSIG LFRI 152030Z AUTO 03003KT CAVOK 01/M00 Q1030 NOSIG LFRJ 152030Z AUTO 18006KT CAVOK 06/04 Q1029 LFRK 152030Z AUTO 10004KT CAVOK 00/M02 Q1031 NOSIG LFRL 152030Z AUTO 18004KT 9999 BKN024 BKN150 OVC170 06/05 Q1029 LFRM 152030Z AUTO 09003KT CAVOK M01/M03 Q1031 LFRN 152030Z AUTO 00000KT CAVOK 01/M01 Q1031 NOSIG LFRO 152030Z AUTO 13006KT CAVOK 04/03 Q1031 LFRQ 152030Z AUTO 10002KT CAVOK 05/04 Q1030 NOSIG LFRS 152030Z AUTO 00000KT CAVOK 00/M01 Q1030 NOSIG LFRT 152030Z AUTO 14005KT CAVOK 03/01 Q1029 LFRU 151800Z AUTO 14003KT CAVOK 06/04 Q1029 LFRV 152030Z AUTO 11005KT CAVOK 03/01 Q1030 LFRZ 152030Z AUTO 09002KT CAVOK 02/01 Q1031 NOSIG LFSB 152030Z AUTO VRB02KT 5000 BR FEW006 OVC012 M02/M03 Q1027 TEMPO 0700 FZFG VV/// LFSD 152030Z AUTO 01008KT 9999 BKN019 OVC026 00/M03 Q1027 LFSG 152030Z AUTO VRB02KT CAVOK M05/M06 Q1027 LFSI 152030Z AUTO 32001KT CAVOK M02/M04 Q1029 LFSL 152030Z AUTO 32006KT 9999 OVC027 01/M01 Q1027 NOSIG LFSM 152030Z AUTO 09005KT 9999 SCT013 BKN020 OVC041 M02/M03 Q1026 LFSN 152030Z AUTO 00000KT CAVOK M06/M06 Q1028 LFSO 152030Z AUTO 03003KT 5000 BR NSC M06/M07 Q1027 LFST 152030Z AUTO 26003KT 4800 BR BKN017 M07/M07 Q1028 TEMPO BKN006 LFSX 152030Z AUTO 02003KT 9999 OVC013 M00/M01 Q1027 LFTH 152030Z AUTO 36004KT 330V040 CAVOK 06/M02 Q1015 TEMPO SCT030TCU LFTW 152030Z AUTO 02010KT CAVOK 03/M01 Q1021 LFVP 152000Z 02019KT 9999 FEW016 BKN110 01/M02 Q1011 NOSIG LFYR 152030Z AUTO VRB02KT //// // OVC030 02/M03 Q1030 LGAD 152020Z 02004KT 9999 FEW020 BKN070 10/06 Q1009 LGAL 151750Z VRB03KT 9999 FEW025 01/M06 Q1016 LGAV 152020Z 03008KT 9999 FEW020 BKN035 07/02 Q1013 NOSIG LGBL 151950Z 32004KT 9999 SCT030 BKN080 05/M01 Q1014 BLU LGEL 152020Z 31004KT 9999 FEW025 BKN035 07/01 Q1012 LGHI 151950Z 36010KT 9999 SCT025 08/02 Q1013 LGIO 151750Z 33003KT 9999 FEW035 04/M00 Q1010 LGIR 152020Z 00000KT 9000 -RA FEW018 BKN025 BKN070 11/10 Q1011 NOSIG LGKC 151150Z 06016KT 9999 FEW020 BKN025 10/08 Q1012 LGKF 151450Z 00000KT 9999 SCT018 BKN070 13/07 Q1010 LGKL 152020Z AUTO VRB02KT //// // ////// 12/09 Q1009 RE// LGKO 152020Z VRB02KT 9999 FEW020 09/05 Q1011 LGKP 152030Z AUTO VRB01KT //// // ////// 12/08 Q1011 RE// LGKR 152020Z 00000KT 9999 SCT040 09/04 Q1009 NOSIG LGKV 151750Z 01004KT 9999 FEW030 03/M01 Q1015 LGKZ 152020Z AUTO 36006KT 320V030 //// -SN ////// M02/M09 Q1013 RE// LGLM 151950Z 00000KT 9999 FEW025 03/M03 Q1015 LGLR 151950Z 00000KT 9999 SCT025 BKN070 04/M01 Q1015 BLU LGMK 151950Z 03006KT 9999 FEW012 11/04 Q1012 LGMT 152020Z VRB03KT 9999 FEW025 05/01 Q1015 LGNX 151350Z 01012KT 9999 SCT025 11/05 Q1012 LGPA 152020Z AUTO 03006KT //// // ////// 10/04 Q1012 RE// LGPZ 151950Z 08005KT 9999 -RA FEW012 SCT025 BKN080 09/08 Q1010 BLU LGRP 152020Z 29007KT 9999 FEW020 13/06 Q1010 NOSIG LGRX 151950Z 05016KT 9999 FEW025 BKN080 10/06 Q1010 BLU LGSA 152020Z 12005KT 7000 -RA FEW012 BKN025 BKN070 10/10 Q1010 LGSK 150850Z 36012KT 9999 SCT025 07/00 Q1016 LGSM 151950Z 01007KT 9999 FEW020 09/02 Q1012 LGSO 151850Z 05012KT 9999 FEW011 SCT016 10/03 Q1012 LGSR 151750Z 02015KT 9999 BKN020 12/04 Q1012 RMK BKN080 BLU LGSY 151750Z 06007KT 9999 SCT020 07/06 Q1014 RMK BKN050 BLU LGTG 151950Z 00000KT 9999 SCT030 BKN070 05/01 Q1014 BLU LGTS 152020Z 14004KT 9999 FEW025 02/M03 Q1016 NOSIG LGZA 151750Z VRB02KT 9999 FEW020 BKN070 12/09 Q1010 LHBC 151745Z 02009KT 7000 -SN FEW020 OVC083 M03/M04 Q1016 LHBP 152030Z 06003KT 360V080 7000 NSC M05/M06 Q1019 NOSIG LHDC 152015Z AUTO 01007KT CAVOK M05/M11 Q1018 LHKE 152015Z 08004KT 9999 SCT013 BKN030 BKN200 M03/M06 Q1019 R12/01//95 NOSIG RMK BLU LHPA 152015Z 04006KT 360V060 4000 SN FEW005 SCT020 OVC083 M01/M02 Q1020 TEMPO 3000 SN RMK GRN LHPP 151745Z 30007KT 9999 FEW033 M00/M05 Q1018 LHPR 152015Z AUTO 33006KT 9999 -SN FEW023 SCT033 BKN060 M02/M03 Q1020 LHSM 152015Z AUTO 02003KT 8000 NSC M01/M03 Q1020 LHSN 152015Z 34002KT 9999 BKN029 OVC060 M03/M06 Q1019 NOSIG RMK BLU LIBA 151955Z 31004KT 9999 FEW040 SCT060 05/03 Q1014 RMK OVC BKN100 VIS MIN 9999 WIND THR11 29004KT WIND THR29 /////KT BLU LIBC 151850Z 35008KT 9999 RA SCT020 SCT040 05/03 Q1011 LIBD 152020Z 23005KT 9999 SCT048 04/03 Q1013 R07/290195 LIBF 151450Z 09004KT 9999 FEW030 BKN040 07/01 Q1013 LIBG 151850Z VRB02KT 9999 FEW010 SCT035 05/00 Q1013 LIBH 151955Z 32005KT 9999 FEW010 06/05 Q1011 RMK OVC OVC100 QUK / QUL / VIS MAR 20 KM VIS MIN 9999 LIBN 151955Z 35010KT 9999 BKN035 07/01 Q1012 RMK OVC BKN070 VIS MIN 9999 WIND THR14 35011KT WIND THR32 36012KT BLU LIBP 152020Z AUTO 31006KT 280V340 9999 -RA OVC040 07/M00 Q1017 LIBQ 151955Z 07009KT 0000 -SN FZFG VV/// M03/M03 Q1004 RMK MON INVIS VAL INVIS VIS MIN 0000 LIBR 152020Z 03008KT 360V060 9999 FEW040 08/00 Q1012 LIBV 151955Z 27005KT 9999 FEW011 BKN035 03/03 Q1011 RMK BKN VIS MIN 9999 WIND THR32 29005KT WIND THR14 27004KT BLU LIBY 151755Z ///14KT CAVOK 08/01 Q1010 RMK BKN BKN080 QUK / QUL / VIS MAR 10 KM VIS MIN 9999 LICA 152020Z AUTO 07014KT 9999 -RA OVC045 04/03 Q1011 RERA LICB 152020Z AUTO VRB03KT 5000 RA BR BKN007 BKN043 09/09 Q1010 LICC 152020Z 25006KT 2000 BR FEW090 09/08 Q1009 LICD 152020Z AUTO 29022G32KT 9999 FEW035 SCT110 14/07 Q1014 LICF 151955Z 23008KT 9999 SCT025 11/08 Q1008 RMK BKN SCT080 QUK / QUL / VIS MAR 10 KM MON INVIS NC VIS MIN 9999 LICG 151850Z 26020G33KT 9999 SCT025 13/07 Q1014 LICJ 152020Z 32022KT 9999 SCT025 SCT050 14/09 Q1009 LICL 151755Z 32008KT 290V350 3000 BR SCT015 12/11 Q//// RERA RMK SCT QUK / QUL / VIS MAR 3 KM VIS MIN 3000 LICR 152020Z AUTO 12005KT 9999 BKN032 BKN130 BKN150 11/08 Q1009 LICT 151955Z 30023G33KT 9999 -RA FEW015 SCT025 12/10 Q1010 LICZ 151955Z 25003KT 9999 FEW070 10/09 Q1010 RMK SCT VIS MIN 9999 WIND THR28 25003KT WIND THR10 31002KT A2984 BLU LIEA 152020Z 31008KT 280V350 CAVOK 11/05 Q1015 LIEB 151955Z 32009KT 9999 FEW030 11/06 Q1012 RMK SCT SCT060 QUK / QUL / VIS MAR 20 KM MON INVIS VIS MIN 9999 LIEC 151955Z 30026G47KT 9999 FEW018 12/06 Q1012 RMK FEW QUK / QUL / VIS MAR 10 KM VIS MIN 9999 LIED 151955Z 31011KT 9999 FEW035 10/07 Q1014 RMK FEW VIS MIN 9999 WIND THR35 /////KT WIND THR17 31010KT BLU LIEE 152020Z 35009KT CAVOK 10/06 Q1015 LIEO 152020Z VRB01KT 9999 -RA SCT025 10/08 Q1014 LIMA 151550Z 00000KT CAVOK 04/M01 Q1017 LIMC 152020Z VRB02KT CAVOK M02/M04 Q1018 NOSIG LIME 152020Z 03003KT CAVOK M00/M03 Q1019 NOSIG LIMF 152020Z 30006KT 8000 SCT120 00/M02 Q1018 LIMG 151850Z 21004KT CAVOK 07/00 Q1015 LIMH 151955Z 06025KT 0500 FZFG VV/// M19/M19 Q1008 RMK MON INVIS VAL INVIS VIS MIN 0500 LIMJ 152020Z 04008KT CAVOK 07/M01 Q1017 LIMK 130955Z 18002KT CAVOK 08/M07 Q1013 RMK FEW FEW190 VAL S FOSCHIA VIS MIN 9999 LIML 152020Z 02003KT CAVOK M01/M04 Q1019 NOSIG LIMN 151755Z /////KT CAVOK 00/M01 Q1017 RMK SKC VIS MIN 9999 BLU LIMP 151950Z VRB01KT 8000 FEW050 01/01 Q1019 LIMS 151755Z 20001KT CAVOK 02/02 Q1016 LIMU 151955Z 02016KT 9999 FEW023 07/M02 Q1015 RMK BKN SCT090 QUK / QUL / VIS MAR 25 KM VIS MIN 9999 LIMV 151755Z /////KT 9999 2000N BKN007 01/M02 Q1014 RMK OVC MON N INVIS S LIB NC VAL N INVIS S FOSCHIA VIS MIN 2000N LIMW 151620Z AUTO 08004KT 040V110 9999 FEW130/// 03/M03 Q1016 LIMY 151755Z /////KT 8000 NSC 01/M02 Q1016 RMK OVC OVC060 VAL FOSCHIA VIS MIN 8000 LIMZ 152020Z AUTO 24002KT 9999 BKN120 01/M00 Q1018 LIPA 151855Z 09006KT CAVOK 02/M04 Q1017 RMK SKC VIS MIN 9999 WIND THR05 /////KT WIND THR23 /////KT A3006 BLU LIPB 151950Z VRB02KT CAVOK M02/M02 Q1019 RMK MON INVIS LIPC 151955Z 27003KT 9999 SCT040 02/01 Q1018 LIPE 152020Z 28003KT 9999 BKN055 03/01 Q1019 LIPF 151755Z /////KT 9999 SCT080 03/00 Q1017 LIPH 152020Z AUTO 36005KT 9999 NCD 01/M05 Q1020 LIPI 151055Z 04008KT CAVOK 05/M07 Q1018 RMK SCT SCT200 VIS MIN 9999 WIND THR06 10009KT WIND THR24 07009KT BLU LIPK 151650Z VRB01KT 8000 FEW015 SCT020 04/M01 Q1017 LIPL 151955Z 05004KT CAVOK M00/M01 Q1017 RMK SCT SCT100 VIS MIN 9999 WIND THR31 05004KT WIND THR13 05004KT BLU LIPO 152020Z AUTO 01005KT 9999 NCD M00/M04 Q1019 LIPQ 152020Z AUTO 09006KT 9999 NCD 02/M07 Q1020 LIPR 152020Z AUTO 06007KT 9999 FEW042/// 06/M02 Q1018 LIPS 151955Z 04005KT CAVOK M01/M04 Q1019 RMK SKC VIS MIN 9999 WIND THR26 35005KT WIND THR08 04005KT BLU LIPU 150700Z 04007KT CAVOK 03/M04 Q1016 LIPX 152020Z 01003KT 9999 FEW060 M01/M05 Q1019 LIPY 152020Z AUTO 18003KT 150V210 9999 BKN048 03/02 Q1017 LIPZ 152020Z 04009KT CAVOK 00/M05 Q1020 NOSIG LIQC 151955Z 22004G15KT CAVOK 08/01 Q1010 RMK SCT SCT080 QUK / QUL / VIS MAR 25 KM VIS MIN 9999 LIQN 151650Z 11006KT CAVOK 05/M04 Q1009 LIQO 140755Z 06006KT 0000 FG VV/// 05/05 Q1010 RMK VAL INVIS NC VIS MIN 0000 LIQW 151255Z 30005KT CAVOK 12/M02 Q1013 LIRA 152020Z 04005KT 010V080 CAVOK 05/M01 Q1012 LIRE 151955Z 03007KT CAVOK 06/01 Q1011 RMK SKC VIS MIN 9999 WIND THR13 03007KT WIND THR31 /////KT BLU LIRF 152020Z 01007KT CAVOK 05/M01 Q1012 NOSIG LIRG 151755Z 34004KT CAVOK 07/M02 Q1011 LIRH 151755Z 12003KT CAVOK 06/M01 Q1010 LIRI 151550Z 06011KT 9999 OVC045 06/01 Q1010 LIRK 151955Z AUTO 09021KT //// M07/M09 Q1008 LIRL 151755Z 06003KT 9999 FEW010 SCT040 07/06 Q1010 LIRM 151955Z /////KT 9999 FEW030 SCT060 07/02 Q1011 LIRN 152020Z 04010KT 020V080 9999 FEW030 SCT080 07/M01 Q1012 NOSIG LIRP 152015Z 09011KT CAVOK 07/M00 Q1016 NOSIG LIRQ 152020Z 04008KT 360V060 CAVOK 06/M03 Q1017 LIRS 151955Z 03012KT 9999 FEW060 06/M02 Q1014 LIRT 151855Z 09006KT 9999 SCT004 M02/M04 Q1008 RMK OVC SCT060 MON LIB VAL CLD SCT VIS MIN 9999 LIRU 151550Z 35008KT CAVOK 10/02 Q1010 LIRV 151755Z 04011KT CAVOK 06/M02 Q1010 LIRX 151855Z 36005KT 9999 FEW005 06/02 Q1010 RMK SCT SCT060 VIS MIN 9999 VIS MAR 30 KM LIRZ 152020Z AUTO 03008KT 360V060 //// // NCD 05/M02 Q1015 LIVC 152006Z AUTO 04026G36KT ///// M10/M11 Q1009 LIVD 151755Z /////KT CAVOK M09/M12 Q1016 RMK SKC VIS MIN 9999 BLU LIVE 151955Z 02007KT CAVOK M08/M11 Q1014 RMK SKC VIS MIN 9999 LIVF 131655Z 18003KT CAVOK 02/M00 Q1013 RMK SKC MON LIB VAL FOSCHIA SKC SUP NC VIS MIN 9999 LIVM 151955Z AUTO 05007KT //// 06/M03 Q1017 LIVO 151755Z 00000KT CAVOK M09/M10 Q1016 RMK SKC VIS MIN 9999 LIVP 151555Z 34008KT CAVOK M10/M12 Q1008 RMK FEW FEW060 MON LIB VAL CLD SCT VIS MIN 9999 LIVR 151755Z 33005KT CAVOK M10/M11 Q1010 RMK SKC MON LIB VIS MIN 9999 LIVT 151755Z /////KT CAVOK 04/M08 Q1019 RMK SKC QUK / QUL / VIS MAR 20 KM VIS MIN 9999 LJCE 152030Z AUTO 00000KT 9999 NSC M03/M05 Q1021 LJLJ 152030Z 30002KT 9999 FEW050 M07/M08 Q1020 NOSIG LJMB 152030Z VRB01KT CAVOK M03/M05 Q1020 LJPZ 152030Z 12004KT CAVOK M02/M06 Q1020 LKCV 152030Z 31010KT 9999 -SN BKN016 OVC022 M02/M04 Q1022 NOSIG LKKB 152030Z 30006KT 9999 SCT016 OVC030 M02/M05 Q1022 LKKU 151500Z 04006KT 9999 FEW002 BKN038 BKN043 M02/M08 Q1018 LKKV 152000Z 29006KT 9999 -SN BKN018 M05/M06 Q1021 R29/////// LKLN 152030Z AUTO 30003KT 260V010 9999 -SN OVC044 M02/M04 Q1023 LKMT 152030Z 22005KT 9999 -SN BKN014 OVC023 M05/M06 Q1019 R04/29//95 NOSIG LKNA 152030Z 32012KT 9999 BKN014 OVC035 M03/M06 Q1019 LKPD 152030Z 29005KT 9999 -SN BKN018 OVC032 M02/M04 Q1021 NOSIG LKPR 152030Z 30005KT 9999 -SN BKN017 OVC022 M03/M05 Q1022 R24/29//98 R30/39//93 NOSIG LKTB 152030Z 32008KT 8000 -SN FEW010 BKN031 M01/M03 Q1020 R27/490293 NOSIG LKVO 131400Z 26015KT 9999 FEW019 BKN030 02/M02 Q1010 LLBG 152020Z 12005KT 9999 SCT030 11/10 Q1015 NOSIG LLER 151650Z 01006KT CAVOK 17/02 Q1015 LLHA 151650Z 16008KT 9999 FEW030 16/10 Q1015 RMK BKN067 LMML 152015Z 29019G33KT 9999 FEW032 13/07 Q1012 NOSIG LOAN 151600Z 32009KT 15KM FEW020CU BKN030SC LOAV 151600Z 31012KT 4000 -SHSN SCT005ST BKN015SC 01/M02 LOWG 152020Z AUTO VRB02KT 9999 NCD M06/M09 Q1020 R17/19//95 NOSIG LOWI 152020Z VRB01KT 8000 FEW015 SCT040 BKN050 M04/M06 Q1024 R08/19//95 NOSIG LOWK 152020Z AUTO 33005KT 9999 NCD M10/M12 Q1021 LOWL 152020Z AUTO 27006KT 4600 -SN FEW007 SCT014 BKN026 M02/M03 Q1023 R08/490394 TEMPO 5000 LOWS 152020Z 22004KT 9999 FEW015 BKN022 M03/M03 Q1023 R88//////// TEMPO 4000 LOWW 152020Z 32012KT 9000 -SHSN FEW010 BKN030 M00/M03 Q1020 R88/590195 TEMPO FM2040 2500 SHSN LOXT 151950Z 28006KT 15KM OVC035SC 01/M03 Q1021 RMK WIND INFO EST/OVC LOXZ 151950Z VRB02KT 20KM SCT045SC BKN060SC M08/M11 Q1018 LPAR 151700Z 34008KT 9999 FEW020 15/07 Q1028 LPAZ 152030Z 18014KT 9999 FEW014 16/13 Q1027 LPBJ 152000Z 32003KT 8000 NSC 07/05 Q1028 LPCS 151930Z 34010KT 9999 FEW009 11/09 Q1029 LPFL 151800Z 31011G26KT 240V010 9999 VCSH SCT016 16/12 Q1019 LPFR 152030Z 31003KT 270V360 CAVOK 09/05 Q1027 LPHR 152030Z 25012KT 9999 SCT016 SCT030 17/15 Q1022 LPLA 152000Z /////KT 9000 -SHRA FEW008 SCT018 16/15 Q1022 LPMA 152030Z 35009KT 310V010 9999 FEW016 15/08 Q1030 LPMR 152000Z VRB01KT 6000 NSC 09/08 Q1029 LPMT 152000Z 33005KT CAVOK 11/08 Q1028 LPOV 151800Z 36004KT CAVOK 10/08 Q1029 LPPD 152030Z 20015KT 9999 FEW007 SCT030 16/14 Q1026 LPPR 152030Z 00000KT 6000 FEW002 05/05 Q1030 LPPS 152030Z 03009KT 360V070 9999 FEW015 SCT030 15/10 Q1030 LPPT 152030Z 31005KT 270V350 CAVOK 10/08 Q1028 LPST 151700Z 35010KT 9999 FEW012 12/09 Q1028 LQBK 152000Z VRB02KT 7000 NSC M02/M03 Q1020 NOSIG LQMO 152000Z VRB04KT CAVOK 04/M10 Q1014 LQSA 152000Z 32003KT 7000 BKN040 M03/M03 Q1016 LQTZ 152000Z 32003KT 3500 BR BKN035 M02/M03 Q1018 LRAR 152030Z 01011KT 9999 SCT040 M03/M05 Q1017 R09/550394 LRBC 152030Z 32006KT CAVOK M06/M09 Q1016 R16/850394 LRBM 152030Z AUTO 29004KT 270V330 9999 NCD M08/M10 Q1016 LRBO 152000Z 03014KT 8000 SCT017 BKN080 M02/M04 Q1016 BLU BLU LRBS 152030Z 22004KT CAVOK M03/M05 Q1016 NOSIG LRCK 152030Z 25007KT 6000 NSC M03/M03 Q1016 BECMG 5000 BR LRCL 152030Z 28008KT 9999 OVC064 M04/M07 Q1014 R07/19//95 LRCT 152000Z 34005KT 4000 -SN BR BKN002 OVC020 M04/M06 Q1014 AMB AMB LRCV 152030Z 27014KT CAVOK M02/M05 Q1014 LRFT 152000Z 22006KT 9999 SKC M02/M03 Q1016 BLU BLU LRIA 152030Z AUTO 28004KT 9999 FEW064/// OVC083/// M06/M11 Q1016 LROD 152030Z AUTO 36010KT 9999 OVC075/// M05/M08 Q1017 LROP 152030Z 21003KT 8000 NSC M05/M05 Q1015 R08R/19//95 NOSIG LRSB 152030Z 33005KT 8000 SCT010 BKN017 M03/M05 Q1013 LRSM 152030Z AUTO 30004KT 9000 -SN NCD M09/M12 Q1017 LRSV 152030Z 29008KT CAVOK M07/M13 Q1013 R16/450395 LRTC 152030Z AUTO 36004KT 9999 OVC023/// M01/M03 Q1016 LRTM 152030Z AUTO 24003KT 200V290 9999 -SN FEW040/// BKN052/// BKN068/// M04/M06 Q1014 LRTR 152030Z 36008KT 9999 -SN SCT028 BKN047 M03/M03 Q1016 R11/590394 LRTZ 152000Z 29010KT 9999 SCT090 M01/M3 Q1016 BLU BLU LSGC 152020Z AUTO 07006KT 030V110 9999 BKN009 BKN011 M05/M07 Q1021 LSGG 152020Z 04014KT 9999 FEW015 BKN028 01/M03 Q1024 NOSIG LSGS 152020Z AUTO 25005KT 200V320 9999 NCD 02/M01 Q1021 LSMA 152020Z AUTO 08006KT 9999NDV OVC018 M02/M04 Q1026 RMK LSMD 152020Z AUTO 00000KT 0300NDV R11/0300V0800D R29/0275D FZFG FEW028 M07/M08 Q1026 RMK LSME 152020Z AUTO 33004KT 280V010 9999NDV OVC021 M03/M05 Q1026 RMK LSMM 152020Z AUTO 04013KT 7000NDV -FZDZ SCT013 OVC017 M02/M04 Q1024 RMK LSMP 152020Z AUTO 06009KT 9999NDV SCT027 OVC037 M01/M04 Q1025 RMK LSZA 152020Z AUTO VRB01KT CAVOK M01/M02 Q1019 LSZB 152020Z 36004KT 310V090 9999 SCT044 M03/M06 Q1024 NOSIG LSZC 152020Z AUTO 33006KT 290V360 9999 OVC015 M02/M05 Q1025 LSZG 152020Z AUTO 03004KT 8000 NSC M05/M05 Q1026 LSZH 152020Z 31004KT 3500 R14/P2000N R16/P2000N R28/0650U R34/1100N BCFG VCFG FEW022 BKN028 M09/M10 Q1026 R88/29//// TEMPO 5000 LSZL 152020Z AUTO VRB02KT 9999NDV NCD M01/M02 Q1019 RMK LSZR 152020Z AUTO 23003KT 3900 BR NCD M06/M06 Q1026 LSZS 152020Z AUTO 18002KT CAVOK M20/M22 Q1015 LTAB 151950Z VRB01KT CAVOK M05/M06 Q1013 NOSIG RMK RWY06 VRB01KT LTAC 152020Z 03004KT 9999 FEW040 SCT100 M09/M11 Q1013 NOSIG RMK RWY21L 00000KT RWY03L 03003KT RWY21R 00000KT LTAD 151950Z VRB02KT CAVOK M05/M06 Q1014 NOSIG RMK RWY29 31002KT LTAE 151950Z 32006KT CAVOK M07/M08 Q1013 NOSIG RMK RWY21 36006KT LTAF 152020Z 00000KT 4000 1900S -SHRA BR BKN035 12/11 Q1012 TEMPO -TSRA RMK RWY23 00000KT LTAG 152020Z 05006KT 9999 SCT030 BKN100 11/11 Q1012 RESHRA NOSIG RMK 4CU030 7AC100 LTAH 151350Z 31006KT 9999 BKN040 M01/M04 Q1011 RMK RWY13 32006KT LTAI 152020Z 34008KT 9999 BKN030 08/05 Q1010 NOSIG RMK RWY18C 33006KT RWY36R 34006KT RWY18L 33004KT LTAJ 152020Z VRB02KT 9999 FEW040 BKN080 06/05 Q1013 NOSIG RMK RWY10 00000KT 2CU040 5AC080 LTAL 151250Z 00000KT 9999 SCT030 BKN100 M01/M04 Q1007 LTAN 151950Z 35012KT 6000 -SN SCT015 BKN030 BKN080 M02/M03 Q1012 NOSIG RMK RWY19 35011KT LTAP 152032Z 25006KT 0550 R05/0550D R23/P1500N PRFG FEW002 SCT033 BKN080 M01/M02 Q1014 BECMG TL2130 9999 NSW RMK RWY23 21003KT 170V250 LTAR 151950Z 27011KT 1100 R01/P1500D R19/P1500D -SN BR BKN003 BKN024 OVC080 M04/M04 Q1011 RESN LTAT 152020Z 32003KT 250V020 9999 SCT033 BKN090 03/M00 Q1013 NOSIG RMK RWY03 31003KT 290V020 LTAU 152020Z 00000KT 3200 -SN BR SCT005 BKN025 OVC070 M00/M00 Q1012 NOSIG RMK RWY07 VRB01KT LTAV 151350Z 30007KT 9999 SCT040 M02/M05 Q1010 RMK RWY11 34009KT LTAW 151250Z 12005KT 9999 -RA FEW015 BKN030 BKN080 04/01 Q1009 RMK RWY22 06005KT LTAY 151950Z 12006KT 9999 FEW010 SCT030 BKN090 01/M00 Q1011 LTAZ 152020Z 00000KT 4000 -SN BR SCT008 BKN030 OVC080 M01/M01 Q1013 LTBA 152020Z 04004KT CAVOK 00/M02 Q1017 NOSIG RMK RWY23 05005KT LTBD 151750Z VRB01KT CAVOK 05/03 Q1012 LTBF 151850Z 01004KT CAVOK M00/M02 Q1016 NOSIG RMK RWY18 00000KT LTBG 151950Z 27002KT CAVOK M02/M03 Q1016 NOSIG RMK RWY18 29004KT LTBH 151950Z 03005KT CAVOK M00/M02 Q1016 LTBI 151950Z 13002KT 9999 SCT040 M07/M09 Q1014 NOSIG RMK RWY08 00000KT LTBJ 152020Z 02007KT CAVOK 02/M00 Q1012 NOSIG RMK RWY16 03006KT LTBL 151950Z 00000KT CAVOK 02/M02 Q1014 NOSIG RMK RWY17 03003KT 020V080 LTBO 151350Z 26005KT 9999 SCT040 BKN100 02/M02 Q1011 LTBQ 151950Z 00000KT 8000 NSC M02/M02 Q1017 NOSIG RMK RWY09 05003KT LTBR 152020Z 09004KT 9999 SCT030 SCT100 M02/M03 Q1016 NOSIG LTBS 152020Z 05007KT 020V090 9999 FEW030 08/08 Q1010 NOSIG RMK RWY19 01007KT 330V060 2CU030 LTBT 151350Z VRB07KT 9999 SCT035 07/01 Q1014 RMK RWY13 36008KT 330V040 LTBU 152020Z 03008KT CAVOK M01/M04 Q1016 RMK RWY22 01004KT LTBY 151950Z VRB01KT 9999 SCT040 M06/M06 Q1013 LTCA 151950Z 00000KT 9999 FEW035 BKN100 06/02 Q1012 NOSIG RMK RWY07 14003KT 2SC035 5AC100 LTCB 152009Z 27015G27KT 9999 SCT015 BKN026 08/06 Q1014 LTCC 152020Z 19015KT 9999 SCT040 BKN100 08/05 Q1015 NOSIG RMK RWY16 18013KT LTCD 151950Z 27006KT 9999 -SN BKN033 OVC080 01/M00 Q1012 NOSIG LTCE 152020Z 29005KT 8000 -SN BKN025 M02/M03 Q1010 NOSIG RMK RWY08R 26006KT RWY26R 29005KT RWY08L 27006KT LTCF 151950Z 23010KT 9999 SCT035 BKN070 M02/M04 Q1010 LTCG 152020Z 31014KT 3300 -SHRA BR BKN012 BKN025 07/05 Q1016 BECMG TL2050 9999 NSW SCT012 BKN028 RMK RWY29 29015KT LTCI 152026Z 19013G23KT 150V220 9999 SCT035 BKN070 02/M09 Q1016 NOSIG RMK RWY21 20011KT 3CU035 5AC070 LTCJ 152020Z 16014KT 9999 BKN035 BKN080 10/05 Q1015 RMK RWY20 17008KT 120V190 5CU035 7AC080 LTCK 151450Z 12011KT 9999 SCT035 BKN100 04/M02 Q1013 RMK RWY11 04004KT 340V100 LTCL 151250Z 18012KT 9999 SCT040 BKN100 11/05 Q1015 LTCM 151650Z 27011KT 8000 SHRA FEW015 BKN027 BKN080 04/02 Q1015 LTCN 151950Z 11005KT 9999 -SHRA BKN030 BKN080 08/07 Q1013 NOSIG LTCO 151250Z 24013KT 9999 SCT035 01/M03 Q1010 LTCP 151250Z 14006KT 9999 SCT035 BKN090 09/03 Q1012 LTCR 151350Z 15007KT 9999 FEW017 BKN033 11/07 Q1015 LTCS 152020Z 20005KT 9999 SCT040 BKN100 06/06 Q1015 RMK RWY22 20008KT 3SC040 5AC100 LTCT 151350Z 30011KT 9999 FEW040 BKN080 08/M05 Q1010 LTCU 151250Z 19014KT 9999 SCT035 BKN100 07/M02 Q1013 LTCV 151250Z 10007KT 8000 FEW013 BKN030 11/07 Q1016 LTCW 151250Z 14010KT 100V180 9999 SCT030 BKN070 01/M04 Q1014 LTDA 151950Z 35003KT 9999 SCT035 BKN090 10/10 Q1014 NOSIG LTFA 151250Z 03010KT 340V050 9999 FEW035 10/01 Q1013 RMK RWY17 04012KT LTFC 152020Z 02002KT 9999 BKN030 00/M00 Q1011 LTFD 151950Z 08009KT CAVOK 01/M02 Q1016 LTFE 152020Z 09006KT CAVOK 05/01 Q1011 NOSIG RMK RWY10 11005KT 080V140 LTFG 152020Z 00000KT 9000 -SHRA FEW017CB BKN025 12/12 Q1012 RESHRA LTFH 151950Z 32013KT 9999 FEW036 BKN100 07/02 Q1016 NOSIG LTFJ 152020Z 03003KT CAVOK 02/M01 Q1016 NOSIG LTFK 151350Z 06005KT 9999 SCT030 07/M01 Q1015 LTFM 152020Z VRB02KT 9999 SCT035 03/M03 Q1017 NOSIG RMK RWY17L VRB02KT RWY34L 00000KT RWY16R VRB01KT RWY36 00000KT RWY18 20003KT LUBM 131300Z 31004KT 9999 -SN OVC013 M00/M03 Q1004 R25/CLRD65 LUKK 152030Z 32008KT CAVOK M05/M11 Q1016 R26/D NOSIG LWOH 151800Z 32008KT 9999 FEW040 BKN090 M03/M09 Q1012 LWSK 152030Z 00000KT 9999 BKN050 M01/M04 Q1017 NOSIG LXGB 151950Z AUTO 27019KT 9999 NCD 12/07 Q1025 LYBE 152030Z 28010KT CAVOK M00/M03 Q1018 R12/1///95 NOSIG LYBT 152030Z 28010KT 9999 BKN045 00/M04 Q1018 NOSIG LYKV 152030Z 00000KT 9999 BKN040 M01/M02 Q1018 NOSIG LYNI 152030Z 09002KT 9999 BKN040 OVC068 M02/M04 Q1017 R11/5/0293 NOSIG LYPG 152030Z 02011KT 340V040 9999 FEW090 03/M12 Q1015 NOSIG LYTV 152030Z 05011KT 340V100 CAVOK 05/M12 Q1014 LYUZ 152030Z AUTO VRB02KT 9999 FEW010/// SCT051/// M07/M08 Q1014 LYVR 152030Z AUTO 29007KT 9999 -SHRASN FEW039/// OVC060/// 00/M02 Q1017 LZIB 152030Z 28004KT 9999 -SN FEW020 BKN059 M02/M05 Q1020 R13/0///95 LZKZ 152030Z VRB02KT 9999 FEW040 SCT050 BKN080 M07/M12 Q1017 LZPP 152030Z AUTO VRB02KT 9999 SCT068/// OVC082/// M07/M09 Q1020 LZSL 010530Z VRB02KT 3000 BR OVC002 01/01 Q1009 LZTT 152030Z 26015KT 9999 -SN FEW010 OVC036 M08/M11 Q1013 LZZI 152030Z 15002KT 8000 -SN FEW037 SCT046 OVC069 M06/M08 Q1018 MBGT 152000Z 10007KT 9999 SCT012 SCT060 27/21 Q1013 MBPV 151800Z 14005KT 9999 SCT012 27/21 Q1013 MDAB 152000Z 09008KT 9999 SCT022 28/23 Q1013 MDBH 152000Z 13012KT 9999 FEW020 BKN300 30/25 Q1013 MDCY 152000Z 09004KT 9999 FEW022 29/24 Q1012 MDJB 152000Z 18008KT 9999 FEW018 SCT300 30/24 Q1013 MDLR 152000Z 20006KT 9999 FEW021 BKN300 30/21 Q1013 MDPC 152000Z 12007KT 9999 FEW022 BKN300 28/23 Q1013 MDPP 152000Z 00000KT 9999 FEW020 SCT300 2824 Q1013 MDSD 152000Z 18004KT 9999 FEW020 BKN300 30/20 Q1013 MDST 152000Z 15008KT 9999 FEW022 SCT300 31/18 Q1012 MFTV 191400Z 17006KT 9999 FEW020 23/19 Q1012 MGCB 152000Z 32010KT 9999 FEW018 BKN200 23/17 QFE869.6 MGES 152000Z 03004KT 9999 SCT020 OVC200 27/17 QFE907.9 MGGT 152000Z 03006KT 9999 SCT020 OVC200 26/14 Q1022 A3018 MGHT 152000Z 00000KT 9999 BKN018 26/13 FEW200 MGMM 152000Z 31004KT 9999 BKN020 29/22 Q1014 A2994 MGMT 152000Z 18004KT CAVOK 33/23 BKN200 MGPB 152000Z 36004KT 9999 -RA BKN018 BKN090 26/23 Q1012 A2988 MGQZ 152000Z 18012KT 9999 SCT020 21/12 QFE 771/1 MGRT 152000Z 22004KT 9999 SCT018 33/24 Q1012 A2988 FEW200 VOL SANTA MARIA Y SANTIAGUITO EN ACTIVIDAD MGSJ 152000Z 20010KT 7000 FEW018 BKN200 33/23 Q1009 A2980 FU MGTU 111300Z 09004KT CAVOK 20/19 MGZA 152000Z 05010KT 9999 FEW030 OVC200 32/16 QFE985/3 MHCA 152000Z 00000KT 9999 SCT024TCU BKN080 29/19 MHCH 152000Z 03014KT 9999 SCT032 SCT250 35/25 MHGR 222100Z 28004KT 8000 SCT042TCU FEW044CB BKN200 28/18 CB N E MHGS 152000Z 36010KT 9999 FEW042 SCT250 27/17 MHLC 152000Z 25004KT 9999 FEW025 BKN080 27/22 Q1012 A2989 NOSIG MHLE 152000Z 09004KT 9999 SCT024TCU FEW025CB SCT200 21/14 CB W MHLM 152000Z 03009KT 9999 SCT028TCU SCT250 29/22 Q1011 A2986 NOSIG MHNO 152000Z 36006KT 9999 FEW040 SCT250 29/17 MHPL 152000Z 00000KT 9999 BKN026TCU SCT080 ///// Q1012 RERA MHRO 152000Z 25004KT 9999 SCT018TCU BKN070 28/23 Q1012 A2989 NOSIG MHSC 142256Z 35011KT 9999 BKN050 BKN085 24/18 A2996 RMK AO2A SLPNO WND DATA ESTMD ALSTG ESTMD $ MHSR 152000Z 35010KT 9999 BKN025 SCT250 25/18 MHTE 152000Z 34015KT 9999 SCT022TCU SCT200 28/24 Q1010 MHTG 152000Z 06008KT 9999 SCT030 27/15 Q1016 A3000 NOSIG MHTL 051200Z VRB02KT 8000 VCSH BKN024TCU BKN080 22/22 Q1013 MHTR 152000Z 29003KT 9999 SCT025TCU BKN080 27/23 MHYR 152000Z 09004KT 9999 SCT025TCU 28/22 MKJP 152000Z 14017KT 9999 FEW020 29/22 Q1011 MKJS 152000Z 06010KT 9999 FEW022 29/22 Q1011 MLSP 270319Z 05008KT 9999 3000NE TSRA FEW023 FEW030CB BKN057 26/24 Q1012 TEMPO 04006G18KT 5000 +TSRA RMK CB N NE E MMAA 151955Z 16005KT 6SM FEW015 SCT100 OVC300 28/24 A2983 RMK 8/172 HZY DSNT TCU N NE MMAN 151240Z 30006KT 8SM SKC 06/M02 A3020 RMK RTS MMAS 151650Z 02011KT 10SM BKN200 16/M15 A3030 RMK 8/002 MMBT 151945Z 18006KT 6SM FEW030 BKN100 BKN220 28/21 A2989 RMK 8/138 CU N MMCB 151945Z 13005KT 10SM FEW250 28/08 A3005 RMK 8/002 ISOL CU MMCE 151152Z 00000KT 7SM OVC080 20/19 A2993 RMK SLP132 5//// 931 8/02/ RTS MMCL 151649Z 32004KT 10SM SKC 20/05 A2999 MMCM 151857Z RTD 34008KT 7SM OVC100 27/22 A2994 RMK 8/02/ MMCN 151301Z RTD 12004KT 10SM SKC 04/M05 A2994 RMK RTS MMCP 151945Z 36005KT 7SM BKN080 OVC250 25/20 A2996 RMK 8/028 HZY MMCS 151847Z 30005KT 10SM SCT250 14/M15 A3023 RMK 8/005 MMCU 151240Z 00000KT 10SM SKC M01/M08 A3023 RMK RTS MMCV 152008Z RTD 30010KT 10SM OVC250 21/M01 A3011 RMK 8/001 MMCZ 151847Z 34006KT 8SM SCT015TCU BKN250 27/21 A2991 RMK 8/209 MMDO 152000Z RTD 00000KT 14SM SKC 20/M17 A3021 RMK HZY S ISOL CI MMEP 151949Z 00000KT 12SM OVC250 28/08 A2999 RMK 8/007 BINOVC MMGL 151952Z 06003KT 7SM BKN300 24/M05 A3014 RMK 8/008 HZY MMGM 151352Z 00000KT 10SM SKC 15/05 A2994 RMK RTS MMHO 151445Z 00000KT 10SM FEW200 08/M01 A3004 RMK SLP178 5//// 971 8/008 HZY MMIA 151948Z 23007KT 8SM SCT030 BKN200 29/12 A2995 RMK 8/108 MMIO 151940Z 36005KT 10SM SKC 18/06 A3020 RMK CI MMLM 151513Z 00000KT 1 1/4SM BCFG SKC 08/07 A3000 MMLO 151649Z 20007KT 10SM BKN220 17/03 A3034 RMK 8/008 MMLP 151400Z RTD 19004KT 10SM SKC 03/M03 A3002 RMK HZY RTS MMLT 151946Z 03017KT 10SM SKC 25/16 A2995 RMK HZY MMMA 151947Z 36010KT 8SM SCT200 18/03 A3015 RMK 8/006 MMMD 151945Z 34006KT 7SM BKN020 BKN300 28/18 A2995 RMK 8/108 HZY AC MMML 151948Z 36009KT 10SM SKC 26/M11 A3017 MMMM 151658Z 35002KT 6SM BKN300 18/05 A3028 RMK 8/002 FU/PLUME/N SCT020/FU VIS/SW/N/3SM MMMT 151253Z 27002KT 3SM HZ BKN080 20/19 A2992 RMK 8/010 HZY RTS MMMV 131947Z 26008KT 12SM SCT200 18/M01 A3012 RMK 8/002 MMMX 151945Z 10008KT 6SM FEW100 BKN220 22/02 A3024 NOSIG RMK 8/038 HZY ISOL CU MMMY 151340Z 27003KT 10SM SCT250 08/M01 A3017 RMK 8/001 MMMZ 151947Z 24007KT 13SM SKC 28/08 A2990 RMK ISOL CI HZY MMNL 151400Z RTD 00000KT 8SM SKC 04/M01 A3024 RMK RTS MMOX 151845Z 00000KT 10SM OVC100 23/07 A3018 RMK 8/01/ BINOVC/CU ARND MMPA 151745Z 34010KT 7SM BKN300 23/09 A3012 RMK SLP215 54000 940 8/002 MMPB 151946Z 21005KT 8SM SCT025 BKN220 21/05 A3023 RMK 8/102 HZY MMPE 151520Z RTD 32014KT 10SM SCT090 16/M09 A3010 RMK 8/040 RTS MMPG 151945Z 35008KT 12SM SKC 16/02 A3023 MMPN 151446Z 00000KT 10SM OVC260 12/06 A3017 RMK 8/001 HZY AC MMPQ 151648Z 00000KT 3SM HZ OVC010 21/21 A2993 RMK 8/5// MMPR 151946Z 22007KT 15SM BKN250 23/17 A2987 RMK 8/008 MMPS 151453Z 05002KT 12SM BKN070 24/21 A2993 RMK 8/010 HZY MMQT 151350Z 00000KT 7SM BKN250 04/01 A3032 RMK 8/004 MMRX 151952Z 34010KT 8SM FEW300 18/M12 A3016 RMK 8/002 MMSD 151846Z 36004KT 12SM SKC 27/M08 A3000 MMSL 151305Z RTD 31006KT 8SM SKC 12/M04 A3001 RMK RTS MMSP 151847Z 00000KT 12SM BKN210 18/M18 A3022 RMK 8/008 AC MMTC 151947Z 12003KT 8SM SKC 21/M10 A3013 MMTG 151845Z 31016KT 8SM SCT025 BKN100 28/17 A2996 RMK 8/530 MMTJ 151945Z 26005KT 10SM SKC 28/M09 A3013 RMK HZY MMTM 151946Z E36013G23KT 10SM SCT200 21/09 A3008 RMK 8/006 MMTO 151947Z 18008KT 6SM BKN020 OVC200 20/03 A3029 RMK 8/201 HZY BINOVC MMTP 151959Z RTD 27010KT 10SM FEW040 FEW200 31/23 A2984 RMK 8/101 HZY MMUN 151547Z 36007KT 7SM FEW015 BKN250 25/21 A2999 RMK 8/508 MMVA 151949Z 02004KT 5SM SCT008 OVC017 25/20 A2999 RMK 8/7// MMVR 151948Z 34015KT 6SM BKN220 24/17 A3002 RMK 8/008 HZY MMZC 151809Z RTD 03004KT 10SM BKN200 16/M19 A3029 RMK 8/001 MMZH 151945Z 00000KT 7SM BKN250 30/24 A2990 RMK 8/008 HZY MMZO 151546Z 36005KT 10SM FEW020 BKN210 21/14 A2989 RMK 8/106 MNBL 152000Z 05004KT 9999 SCT017 SCT300 28/23 Q1010 MNCH 152000Z 36004KT 9999 FEW025 SCT090 34/19 Q1009 MNJG 152000Z 36004KT 9999 SCT020 24/15 Q1011 MNJU 152000Z 09004KT 9999 SCT020 31/21 Q1010 MNMG 152000Z 08014KT 9999 FEW025 SCT300 33/22 Q1008 A2978 NOSIG MNPC 152000Z 07006KT 7000 SCT016 29/26 Q1010 HZ MNRS 152000Z 12006KT 9999 FEW012CB 28/23 Q1008 CB NE/E/SE MPBO 152000Z 36004KT 9999 SCT020 Q1014 MPDA 152000Z 21006KT 9999 SCT018 SCT120 29/24 Q1007 MPMG 152000Z 32012KT 260V350 9000 SCT018TCU SCT080 30/23 Q1008 NOSIG MPPA 152000Z 34008KT 9999 SCT018TCU SCT090 30/24 Q1008 MPPN 021200Z 19004KT 3000 DZ FEW006 OVC012 23/23 RWY DAMP MPSM 152000Z 35012KT 9999 FEW030 BKN080 29/22 Q1008 MPTO 152000Z 19005KT 9999 SCT018 SCT080 30/23 Q1009 NOSIG MRLB 152000Z 09018KT 9999 FEW045 32/20 A2976 MRLM 152000Z 01008KT CAVOK 29/22 2982 MROC 152000Z 11010KT 070V150 CAVOK 28/15 A2991 NOSIG MRPV 152000Z 07013KT 9999 FEW045 BKN200 26/14 A2993 NOSIG MSAC 151950Z 21006KT 9999 FEW030 32/25 Q1009 A2981 MSLK 290600Z 05004IT 9999 FEW030 14/09 Q1020 MSLP 151950Z 19007KT 130V260 9999 FEW053 31/22 Q1009 A2981 MSLU 151950Z 12006KT CAVOK 34/20 Q1008 A2978 MSSA 151950Z 35003KT 9999 FEW033 32/17 Q1015 A2999 MSSM 151950Z 00000KT 9999 FEW035 34/20 Q1008 A2979 MSSS 151950Z 12006KT 9999 SCT040 29/19 Q1013 A2992 MTCH 121453Z 11005KT 9999 FEW025 SCT060 27/19 Q1019 MTPP 151953Z 29009KT 9999 FEW028 SCT060 31/21 Q1011 A2987 MUCC 151950Z VRB03KT 9000 FEW030 29/21 Q1012 MUCF 151950Z 21011KT 9999 SCT020 SCT080 27/23 Q1013 MUCL 152005Z AUTO 19010KT 150V210 28/22 Q1012 MUCM 151950Z 16006KT 120V200 9000 BKN020 29/20 Q1012 MUCU 151950Z 20006KT 170V230 9000 FEW020 29/21 Q1012 MUGM 151951Z 16009KT 10SM FEW030 BKN280 29/23 A2991 RMK AO2 SLP130 T02890233 $ MUHA 151955Z 21007KT 180V240 9000 FEW020 BKN030 26/21 Q1012 MUHG 151950Z 13005KT 090V170 9999 FEW036 SCT045 31/17 Q1012 MUSC 151950Z 25009KT 9000 SCT020 BKN040 29/19 Q1012 MUVR 151950Z 36005KT 340V040 9000 SCT020 BKN150 25/22 Q1012 MWCB 152000Z 17006KT 9999 SCT018 29/24 Q1012 MWCR 152000Z 03005KT 9999 SCT020 29/22 Q1012 MYCB 121700Z AUTO 11007KT 080V150 9999 BKN018 26/22 A3016 MYGF 152000Z 34004KT 280V020 9999 SCT016 BKN050 BKN150 22/18 A2987 MYNN 152000Z 20012KT 9999 -SHRA FEW012CB BKN016 BKN040 24/22 A2988 MYSM 152000Z AUTO 15009KT 9999 FEW030/// 26/21 A2992 MZBZ 152000Z 00000KT 9999 BKN018 BKN040 28/23 A2990 Q1012 NOSIG RMK DIST SHWR-NW/N MZMZ 051505Z 35008KT 9000 -RA BKN007 OVC030 24/24 A2983 Q1010 TEMPO 4000 SHRA NCAI 152000Z AUTO 08006KT 030V130 29/23 Q1015 NCAT 152000Z AUTO 06002KT //// ////// ///// Q//// NCMG 152000Z AUTO 05003KT //// ////// ///// Q//// NCMH 152000Z AUTO 08001KT //// ////// ///// Q1011 NCMK 152000Z AUTO 09003KT //// ////// 26/25 Q1014 NCMR 152000Z AUTO 06003KT //// ////// ///// Q1014 NCNS 152000Z AUTO 08003KT //// ////// 30/24 Q1011 NCPK 122200Z AUTO 10005KT //// ////// 31/24 Q1012 NCPL 152000Z AUTO 06004KT //// ////// 30/24 Q1015 NCPY 152000Z AUTO 05008KT //// ////// 29/24 Q1011 NCRG 152030Z AUTO 06009KT 9999 NCD 29/24 Q1014 NCRK 152000Z AUTO 09002KT //// ////// 30/24 Q1011 NCSW 152000Z AUTO 07002KT //// ////// 29/24 Q1012 NFFN 152000Z 09004KT 9999 SCT028TCU 28/24 Q1010 NOSIG NFKD 151800Z AUTO 30002KT //// 27/25 Q1010 NFLB 240300Z 12008KT 50KM SCT020TCU BKN048 BKN300 27/25 Q1008 NFNA 152000Z 32003KT 9999 FEW020 SCT300 29/24 Q1010 NFNL 151800Z AUTO 15001KT //// 23/// Q1010 NFNM 282100Z 12014KT 9999 SCT022 BKN085 27/21 Q1013 NFNR 140900Z 03007KT 9999 SCT022 BKN043 27/26 Q1009 NFNS 150100Z AUTO 25007KT 170V330 //// ///// Q//// NFTF 152000Z 01008KT 9999 SCT016TCU 29/25 Q1013 NFTL 152000Z VRB02KT 9999 SCT017TCU BKN290 28/25 Q1012 NFTV 152000Z 03008KT 9999 FEW016 BKN290 28/25 Q1013 NGFU 152000Z 05012KT 9999 FEW016CB SCT018TCU BKN110 30/24 Q1009 NGTA 152000Z 10012KT 9999 FEW020 27/23 Q1008 NGTT 110600Z 14007KT 9999 SCT020 SCT100 BKN300 28/24 Q1009 NHTE 021500Z 34024KT 8000 -TS RA SCT022TCU FEW028CB OVC080 25/24 Q1012 CB TS SE S SW NIUE 152000Z 06007KT 020V100 9999 SCT018 BKN300 28/25 Q1013 NLWW 152030Z 09010KT 9999 FEW025 30/24 Q1010 NOSIG NSFA 152000Z 05010KT 360V080 9999 SCT023 31/26 Q1011 NSTU 152000Z 09011KT 12SM SCT019 BKN035 30/28 A2986 RMK SLP112 T03000282 NTAA 152030Z 01005KT 9999 FEW025 SCT090 BKN140 30/22 Q1014 NTGA 200300Z 12011KT 9999 FEW020 29/24 Q1005 NVSC 151800Z 00000KT 9999 BKN020 26/25 Q//// NVSG 150600Z 36004KT 9999 SCT020 BKN300 29/26 Q1005 NVSS 152000Z 00000KT 9999 FEW015 SCT018 FEW026CB BKN110 26/25 Q1008 RMK CB TO NE NVVA 150900Z 00000KT 9999 SCT020 FEW025CB OVC040 27/24 Q1006 RMK RERA NVVV 152000Z 06001KT 9999 SCT020 BKN110 25/25 Q1008 NVVW 152000Z 00000KT 9999 SCT022 BKN110 27/25 Q1008 NWSD 040555Z 25014KT 4800 -SN DRSN OVC020 M16/M19 A2857 RMK SDF/HDF NWWW 152030Z AUTO VRB02KT CAVOK 27/25 Q1005 NOSIG NZAA 152030Z AUTO 17002KT 9999 OVC043/// 21/15 Q1011 NOSIG NZCH 152030Z AUTO 05013KT 9999 OVC012/// 18/15 Q1009 BECMG SCT014 NZFX 151955Z 02006KT 9999 FEW005 FEW030 FEW070 SCT120 SCT200 M11/M13 A2913 RMK ACSL GRID SW SLP858 RCRNR GRID19006KT SDG/HDG NZOH 240500Z 30015KT 7000 -SHRA SCT010 BKN013 17/15 Q0997 TEMPO 20KM NZSP 151750Z 05009KT 9999 FEW010 M30/ A2871 RMK SKWY WNDS ESTMD CLN AIR 07011KT ALL WNDS GRID SDG/HDG NZWD 040555Z COR 36014KT 4800 -SN DRSN OVC020 M16/M19 A2857 RMK SLPNO GRID25014KT SDG/HDG NZWN 152030Z AUTO 02010KT 9999 OVC017/// 19/16 Q1010 NOSIG NZWP 292100Z 35005KT 320V020 15KM BKN013 OVC020 16/13 Q1005 TEMPO SCT015 OAHR 151730Z VRB02KT CAVOK 02/M10 Q1017 RMK CLOSED FEW200 A3005 BLU OAIX 151958Z 00000KT 6000 HZ CLR 00/M06 A3011 RMK AO2A SLP169 T10031060 $ OAKB 151950Z VRB02KT 1400 FU NSC M01/M05 Q1021 RMK A3017 AMB AMB OAKN 241555Z AUTO 23002KT 6000 BR CLR 10/06 A3010 RMK AO2 SLP183 WND DATA ESTMD T00950062 OALK 040900Z 16012G22KT 9999 FEW026CB SCT030 BKN090 17/15 Q1012 OAMS 151950Z 27005KT 9999 FEW200 05/01 Q1014 BLU+BLU+ OBBI 152030Z VRB02KT CAVOK 20/12 Q1014 NOSIG ODKL 311500Z 06008KT 7000 SCT026 BKN100 25/M06 Q1015 OEAB 152000Z 17004KT CAVOK 11/09 Q1023 NOSIG OEAH 152000Z 34003KT CAVOK 16/M06 Q1014 NOSIG OEAO 152000Z 28002KT CAVOK 14/M03 Q1016 OEAR 152000Z 00000KT CAVOK 23/15 Q1014 OEBA 152000Z 21003KT CAVOK 15/12 Q1020 NOSIG OEBH 152000Z 00000KT CAVOK 18/06 Q1017 NOSIG OEDF 152000Z 20004KT CAVOK 18/08 Q1013 NOSIG OEDM 152000Z 06014KT CAVOK 15/M04 Q1017 NOSIG OEDR 152000Z 13006KT CAVOK 19/05 Q1012 OEGN 152000Z 10004KT 9999 FEW030 25/21 Q1013 NOSIG OEGS 152000Z 04006KT CAVOK 13/08 Q1017 OEGT 152000Z 31002KT CAVOK 10/05 Q1017 NOSIG OEHL 152000Z 06002KT CAVOK 10/00 Q1019 OEJB 152000Z AUTO 23006KT 8000 BKN041 18/06 Q1014 NOSIG OEJN 152000Z 01004KT CAVOK 22/17 Q1013 NOSIG OEKJ 152000Z 01005KT CAVOK 18/04 Q1019 OEKM 152000Z 00000KT CAVOK 13/10 Q1023 NOSIG OEMA 152000Z 00000KT CAVOK 20/04 Q1016 NOSIG OENG 152000Z 00000KT CAVOK 15/00 Q1019 NOSIG OENI 071100Z 32006KT 8000 NSC 19/M06 Q1022 NOSIG OEPA 152000Z 33006KT CAVOK 12/05 Q1018 NOSIG OEPS 151956Z 36003KT 9999 FEW080 18/04 A3016 RMK AO2A SLP193 WND DATA ESTMD T01750041 OERF 152000Z 00000KT CAVOK 09/03 Q1018 OERK 152000Z 35007KT 4000 HZ NSC 16/05 Q1018 NOSIG OERR 152000Z 00000KT CAVOK 10/04 Q1017 NOSIG OERY 152000Z 36008KT 4000 HZ NSC 17/05 Q1018 OESH 152000Z 06006KT CAVOK 21/00 Q1016 NOSIG OESK 152000Z 17003KT CAVOK 09/01 Q1020 OETB 152000Z 16005KT CAVOK 10/M03 Q1015 NOSIG OETF 152000Z 22008KT CAVOK 16/09 Q1020 NOSIG OETR 152000Z 10005KT CAVOK 06/06 Q1017 NOSIG OEWD 152000Z 04008KT CAVOK 17/03 Q1015 NOSIG OEWJ 152000Z 03003KT CAVOK 19/09 Q1014 NOSIG OEYN 152000Z 27006KT CAVOK 20/11 Q1012 NOSIG OIAA 152000Z 02002KT 4000 BR NSC 15/13 Q1015 OIAD 150900Z 17004KT CAVOK 25/05 Q1016 A3003 FEW170 OIAG 151700Z 20006KT 9999 SCT040 17/03 Q1014 OIAH 152000Z 00000KT CAVOK 08/M00 Q1017 OIAM 152000Z 00000KT 7000 FEW040 15/13 Q1014 OIAW 152030Z 00000KT CAVOK 10/05 Q1014 OIBA 151500Z 27008KT 8000 NSC 22/15 Q1013 OIBB 151900Z 08006KT 9999 SCT040 17/12 Q1014 A2996 OIBH 151500Z 00000KT 9999 FEW040 SCT100 19/12 Q1014 A2997 OIBJ 151500Z 29004KT CAVOK 15/05 Q1017 A3004 OIBK 152000Z 29010KT 8000 NSC 20/14 Q1013 OIBL 151800Z 30004KT 8000 NSC 18/14 Q1014 OIBP 151800Z 00000KT CAVOK 15/11 Q1014 A2995 OIBQ 151500Z 13008KT 9999 FEW040 BKN090 20/16 Q1014 OIBS 151500Z 33010KT CAVOK 22/15 Q1014 OIBV 151500Z 27006KT 5000 HZ NSC 20/12 Q1014 OICC 152000Z 06004KT CAVOK 04/00 Q1019 A3010 OICI 152000Z 08004KT CAVOK 02/00 Q1020 A3013 OICK 151430Z 15002KT 9999 SCT040 BKN080 08/01 Q1018 OICM 151400Z 17002KT CAVOK 18/05 Q1014 OICS 140900Z 19023KT CAVOK 15/M18 Q1013 A2993 OIFM 152030Z 22004KT 9999 FEW040 03/M06 Q1019 A3011 OIFS 152000Z 30006KT 9999 FEW040 05/M02 Q1020 OIGG 151800Z 00000KT CAVOK 11/08 Q1012 OIHH 151300Z 23010KT 9999 FEW040 08/M04 Q1014 OIHR 111100Z 01006KT 8000 NSC 06/M08 Q1025 OIIE 152000Z 32004KT CAVOK 04/M08 Q1017 OIII 152030Z 09006KT CAVOK 07/M10 Q1017 A3003 OIIK 152000Z 03002KT CAVOK 03/M05 Q1016 OIIP 152000Z 00000KT CAVOK 06/M11 Q1016 A3001 OIKB 152030Z 36006KT 3500 BR NSC 13/09 Q1013 A2992 OIKK 152000Z 17004KT CAVOK 08/M16 Q1018 A3006 OIKM 111800Z 30006KT CAVOK 06/M16 Q1025 OIKQ 152000Z 27006KT CAVOK 17/14 Q1012 OIKR 051100Z 30006KT CAVOK 07/M12 Q1024 A3024 OIMB 152000Z 09006KT CAVOK M00/M22 Q1017 OIMC 151700Z 18010KT 8000 NSC 17/M11 Q1008 OIMD 152000Z AUTO 22004KT //// // ////// 03/M15 Q1014 OIMJ 151100Z 24012KT 9999 FEW035 13/M10 Q1013 OIMM 152030Z 21008KT 9999 FEW040 09/M09 Q1013 A2993 OIMN 152000Z 08006KT CAVOK 09/M23 Q1015 OIMQ 152000Z AUTO 14002KT //// // ////// 03/M12 Q1017 OIMS 151500Z 33010KT CAVOK 10/M11 Q1015 OIMT 152000Z AUTO 06004KT //// // ////// 03/M20 Q1014 OINE 151800Z 11004KT CAVOK 14/07 Q1012 OING 152000Z 17004KT CAVOK 10/03 Q1013 OINN 152000Z 33006KT 9999 FEW025 13/09 Q1014 OINR 152000Z 00000KT CAVOK 11/09 Q1014 OINZ 151600Z 05006KT CAVOK 10/08 Q1009 OISF 152000Z 30004KT CAVOK 06/M10 Q1017 A3003 OISL 152000Z 00000KT CAVOK 09/M09 Q1015 A2997 OISR 151500Z 26004KT CAVOK 16/04 Q1015 A3000 OISS 152030Z 00000KT 9999 FEW040 SCT100 03/M10 Q1019 A3009 OISY 152000Z 00000KT 9999 SCT040 05/M12 Q1020 OITK 091030Z 11002KT 2000 0900SE BR OVC020 M05/M06 Q1024 OITL 151430Z 21023G35KT 9999 FEW030 08/M01 Q1009 OITM 151800Z 17004KT 9999 FEW040 02/M01 Q1015 OITP 152000Z 25006KT CAVOK 03/M00 Q1012 OITR 152030Z 28008KT CAVOK M01/M06 Q1014 OITT 152030Z 03004KT 9999 FEW030 FEW035CB 03/M04 Q1016 A3002 OITU 040800Z 24004KT 8000 SCT040 16/08 Q1023 OITZ 151500Z 19012KT 9999 FEW035 05/M02 Q1013 A2991 OIYY 152000Z 26006KT 7000 NSC 07/M09 Q1019 OIZB 152000Z 01008KT CAVOK 04/M11 Q1018 OIZC 151900Z 28002KT CAVOK 13/07 Q1012 OIZH 152000Z 17008KT CAVOK 02/M24 Q1018 A3006 OIZI 152000Z 36008KT CAVOK 12/M25 Q1014 OIZJ 151800Z 32010KT 7000 NSC 19/13 Q1012 OJAI 152000Z 26006KT 4000 BR SCT035 SCT080 07/06 Q1016 NOSIG OJAM 152000Z 00000KT 3000 BR NSC 07/07 Q1017 NOSIG OJAQ 152000Z 00000KT CAVOK 16/05 Q1014 NOSIG OKAS 151958Z 30011KT 9000 HZ CLR 14/09 A2998 RMK AO2A SLP151 T01350085 $ OKBK 152000Z 30005KT CAVOK 15/08 Q1015 NOSIG OLBA 152000Z 11004KT 8000 -RA FEW031 BKN050 15/11 Q1016 NOSIG OMAA 152000Z 00000KT 7000 NSC 17/14 Q1014 NOSIG OMAD 152000Z 00000KT 7000 NSC 17/13 Q1015 NOSIG OMAL 152000Z 33008KT 4000 HZ NSC 15/13 Q1016 BECMG 2000 BR OMDB 152000Z 23004KT 210V270 9999 FEW026 20/14 Q1014 NOSIG OMDW 152000Z 22005KT 6000 NSC 17/14 Q1015 BECMG 4000 HZ OMFJ 151950Z 30014KT CAVOK 20/14 Q1013 RMK A2993 OMRK 152000Z 15003KT 6000 NSC 15/12 Q1015 A2999 OMSJ 152000Z 13003KT 6000 FEW028 17/12 Q1014 BECMG 4000 HZ OODQ 151950Z AUTO 29007KT CAVOK 18/M03 Q1014 NOSIG RMK RH23? 0 OOMS 151950Z 26003KT CAVOK 19/15 Q1013 NOSIG OOSA 151950Z 35004KT CAVOK 22/08 Q1014 NOSIG OOSH 151950Z AUTO 26003KT //// ////// 17/09 Q1012 RMK 1008 OPFA 151955Z 05004KT 0250 FG VV/// 08/08 Q1016 NOSIG OPGD 141455Z 31004KT 2000 BR SCT040 BKN100 11/09 Q1018 BECMG 1500 OPIS 152025Z 23005KT 3000 BR NSC 05/05 Q1015 TEMPO 2500 BR OPKC 152025Z 02006KT 3000 FU NSC 14/04 Q1013 NOSIG OPLA 152025Z 29003KT 0500 FG VV/// 08/07 Q1015 TEMPO 0350 RMK QFE987 RMK A29.98 OPMT 152030Z 05004KT 0050 FG VV/// 05/05 Q1015 NOSIG OPNH 151955Z 36004KT 2500 FU NSC 10/07 Q1014 TEMPO 2000 FU OPPS 152000Z 23004KT 1500 HZ SKC 09/05 Q1016 OPSK 152000Z 00000KT 3000 HZ NSC 10/06 Q1013 NOSIG OPSS 121100Z 00000KT 2500 FU NSC 28/16 Q1016 TEMPO 2500 FU OPST 152000Z 00000KT 0020 FG VV/// 10/10 Q1016 NOSIG RH100 ORBI 152000Z 30003KT CAVOK 09/06 Q1018 NOSIG ORER 152000Z VRB02KT 5000 BR NSC 05/05 Q1020 NOSIG ORMM 152000Z 31004KT 7000 NSC 14/12 Q1015 NOSIG ORNI 152000Z 31004KT 8000 NSC 12/09 Q1017 NOSIG ORNN 092000Z 00000KT CAVOK 13/09 Q1019 NOSIG ORSU 152000Z 33003KT 4000 BR NSC 03/03 Q1021 OSAP 152000Z 11002KT CAVOK 08/07 Q1015 OSDI 152000Z 26008KT 8000 07/05 Q1017 OSDL 310700Z 12004KT CAVOK 18/04 Q1019 OSKL 152000Z 05012KT 8000 SCT026 BKN100 08/05 Q1017 OSLK 152000Z 22015KT 9999 SCT026 16/09 Q1014 OSLO 052100Z 02003KT CAVOK 11/03 Q1021 OTBD 152030Z AUTO 15005KT CAVOK 17/13 Q1014 NOSIG OTBH 151956Z 00000KT 9999 CLR 13/07 A2996 RMK AO2A SLP147 T01340072 $ OTHH 152000Z AUTO 16003KT CAVOK 17/12 Q1014 NOSIG PAAD 152035Z AUTO 07016KT 7SM SCT024 OVC055 M23/M25 A2996 RMK AO2 T12281251 PAAK 152031Z AUTO 30015KT SCT022 SCT036 BKN070 M02/M07 A2969 RMK AO2 P0001 PWINO FZRANO PAAQ 151953Z 00000KT 10SM OVC038 M02/M03 A2929 RMK AO2 SNE05 SLP920 P0000 T10171033 PABA 152037Z AUTO 08018KT 2 1/2SM -SN FEW022 BKN028 OVC065 M23/M26 A2998 RMK AO2 P0000 FZRANO PABE 151953Z 34006KT 10SM FEW014 M13/M14 A2925 RMK AO2 SLP907 T11281144 PABI 151953Z 11019KT 10SM SCT065 OVC100 M05/M10 A2917 PABL 151956Z AUTO 13005KT 10SM CLR M19/M21 A2948 RMK AO2 SLP987 T11941211 FZRANO PABR 151953Z 05014KT 6SM HZ CLR M23/M26 A3012 PABT 151953Z 34004KT 10SM FEW110 SCT180 M16/M20 A2947 RMK AO2 SLP002 T11611200 PNO PABV 151956Z AUTO 05005KT 10SM -SN SCT039 BKN047 OVC060 M02/M03 A2931 RMK AO2 SNE37B53 SLP932 P0000 T10221033 FZRANO PACD 151953Z 25006KT 10SM OVC036 M04/M08 A2932 PACM 151956Z AUTO 33003KT 10SM BKN120 M08/M09 A2936 RMK AO2 SLP939 T10831089 FZRANO PNO $ PACV 152011Z 08005KT 6SM -RA BR FEW015 SCT030 OVC045 04/03 A2935 RMK AO2 P0000 T00390028 PACZ 152041Z AUTO 03037KT 1 1/2SM -FZRA BR FEW003 FEW080 M08/M08 A2921 PADE 260253Z AUTO 07009KT 10SM FEW015 BKN025 OVC110 M02/M04 A2882 RMK AO2 SLP759 T10221039 53004 TSNO $ PADG 151954Z 05020KT 15SM SKC M11/M18 A2949 PADK 151956Z AUTO 35011KT 10SM SCT055 M03/M10 A2973 PADL 151956Z 00000KT 4SM -SN BR OVC012 M06/M07 A2926 PADM 152002Z AUTO 04018KT 10SM OVC095 M09/M13 A2896 RMK AO2 SNB1932E1941 SLP812 P0000 T10941128 FZRANO PADQ 151953Z 28003KT 10SM CLR 00/M02 A2932 PADU 151956Z 31017G23KT 10SM BKN035 BKN045 M01/M08 A2939 RMK AO2 SLP955 T10111078 PAEC 151949Z 00000KT 3SM -SN BR OVC015 M05/M06 A2919 RMK NOSPECI PAED 151956Z 13005KT 3SM -SN BR OVC033 M01/M03 A2928 RMK AO2A SNB47 SLP913 P0000 T10091033 $ PAEG 151953Z AUTO 00000KT 8SM FEW025 BKN110 M16/M20 A2943 RMK AO2 SNB09E48 SLP989 P0000 T11611200 TSNO PAEH 151955Z 30006G11KT 10SM OVC006 M08/M10 A2926 PAEI 151956Z 36010KT 10SM FEW034 BKN160 M09/M14 A2923 PAEL 151945Z 22015G30KT 7SM RA OVC015 06/05 A2955 RMK SPB E22015G30KT SEA 1 0 SWELL 3 SW NOSPECI PAEM 151752Z AUTO 33007KT 10SM CLR M07/M09 A3028 RMK NOSPECI PAEN 151953Z 13007KT 10SM SCT100 M01/M05 A2927 PAFA 151953Z 07006KT 10SM BKN040 BKN080 OVC140 M08/M13 A2926 PAFB 151958Z AUTO 00000KT 10SM OVC037 M09/M13 A2927 PAFE 151956Z AUTO 15007KT 9SM -RA FEW017 OVC024 06/04 A2976 RMK AO2 SLP090 P0002 T00560044 $ PAFM 151956Z AUTO 03019G25KT 10SM CLR M18/M24 A2952 RMK AO2 SLP009 T11781244 FZRANO PAFR 152038Z AUTO 00000KT 1 3/8SM -PL BR BKN007 BKN020 OVC038 M02/M03 A2928 PAFS 152001Z AUTO 00000KT 10SM FEW050 OVC085 M12/M14 A2928 PAGA 151956Z AUTO 01007KT 350V050 10SM OVC095 M12/M14 A2936 PAGB 131950Z 30006KT 10SM FEW150 M24/ A2935 RMK TOTAL SKY COVER 2 PAGH 151956Z AUTO 00000KT 10SM CLR M22/M23 A2951 RMK AO2 SLP004 T12171233 FZRANO PAGK 151953Z AUTO 36003KT 10SM CLR M13/M15 A2928 RMK AO2 SLP965 T11331150 TSNO PAGL 312356Z AUTO 09016KT 1SM -SN BR CLR M04/M07 A2958 RMK AO2 SLP011 P0000 60000 T10441067 11044 21061 58026 FZRANO PAGM 151956Z AUTO 02011KT 10SM OVC007 M07/M08 A2956 RMK AO2 SNB02E43 SLP015 P0000 T10671078 FZRANO PAGN 151256Z AUTO 08006KT 10SM -RA SCT030 OVC035 04/03 A2938 RMK AO2 SLP938 P0004 T00440033 PAGS 151956Z AUTO 13011KT 9SM RA OVC027 04/03 A2958 RMK AO2 PRESRR SLP017 P0003 T00440033 PAGY 151953Z AUTO 19016G27KT 10SM BKN047 BKN060 OVC085 06/02 A2946 RMK AO2 PK WND 22034/1933 RAE42 SLP975 P0001 T00560022 TSNO PAHL 151956Z AUTO 06010G16KT 10SM CLR M11/M16 A2941 RMK AO2 SLP966 T11061156 FZRANO PAHN 152013Z AUTO 11014G23KT 080V140 7SM -RA OVC012 05/03 A2951 RMK AO2 P0000 T00500028 TSNO $ PAHO 151953Z 00000KT 10SM SCT032 M01/M02 A2930 RMK AO2 SLP924 T10061022 PAHP 291756Z AUTO 07016KT 10SM CLR M04/M06 A2938 RMK AO2 SLP947 T10441056 11006 21067 50009 FZRANO $ PAHY 152022Z AUTO 22008KT 7SM -RA BKN033 OVC044 07/04 A2997 RMK AO2 PRESRR PNO $ PAIG 151956Z AUTO 35004KT SCT032 M09/M11 A2930 RMK AO2 SLP933 T10941106 PWINO FZRANO $ PAII 151656Z AUTO 19006KT 10SM BKN047 OVC060 M04/M06 A2924 RMK AO2 UPE02 SLP899 P0000 T10441056 FZRANO PAIK 151956Z AUTO 20003KT 10SM CLR M19/M21 A2954 RMK AO2 SLP008 T11891211 FZRANO PAIL 151953Z 30004KT 10SM OVC045 M05/M07 A2931 RMK AO2 SLP930 T10501072 PAIM 151955Z AUTO 08018G29KT 040V110 10SM BKN140 M13/M17 A2935 PAIN 151956Z AUTO VRB03KT 10SM BKN080 M15/M17 A2917 RMK AO2 SLP932 T11501167 FZRANO PAIW 152038Z AUTO 05012KT 9SM BKN010 M15/M16 A2962 RMK AO2 SNE36 P0000 FZRANO PAJN 151953Z 12012G20KT 10SM -RA FEW008 BKN034 OVC040 06/03 A2960 PAJZ 152036Z AUTO 00000KT 9SM OVC009 M14/M16 A2935 RMK AO2 FZRANO $ PAKF 151956Z AUTO 31009KT 10SM CLR A2932 RMK AO2 SLPNO FZRANO $ PAKH 151956Z AUTO 10SM CLR 01/M01 A2934 RMK AO2 SLP936 T00111011 FZRANO $ PAKI 151956Z AUTO 10SM -SN CLR A2928 RMK AO2 SNB56 SLPNO P0000 FZRANO $ PAKK 151956Z AUTO 35011G19KT 10SM CLR M11/M14 A2935 RMK AO2 SLP949 T11061144 FZRANO PAKN 151954Z 13006KT 10SM SCT043 M07/M08 A2928 PAKP 152028Z AUTO 03012KT 3/4SM -SN OVC004 M29/M32 A2955 RMK AO2 P0000 FZRANO PAKT 151953Z 14010G16KT 10SM FEW025 BKN035 OVC045 07/04 A2997 PAKU 151945Z 04011KT 10SM R06/P6000FT SCT013 BKN040 BKN060 M25/M30 A3000 PAKV 151853Z AUTO 04012KT 10SM CLR M09/M15 A2937 RMK AO2 SLP948 T10941150 TSNO PAKW 152014Z AUTO 23009G19KT 9SM -RA SCT023 BKN029 OVC035 06/04 A2990 RMK AO2 P0001 T00610039 TSNO PAKX 152035Z AUTO 00000KT 10SM SCT017 BKN041 OVC060 M04/M06 A2931 RMK AO2 PALG 110154Z 00000KT 7SM OVC010 M12/M15 A3009 RMK NO SPECI PALH 152029Z 14006KT 3SM -SN BR OVC031 M01/M03 A2932 RMK AO2 P0000 T10111028 PALJ 151955Z 00000KT 25SM SCT040 BKN060 M02/M06 A2928 RMK EST PASS CLSD NOSPECI PALP 151950Z 04012KT 10SM BKN012 OVC016 M25/M28 A3003 PALU 142258Z 11009KT 10SM SCT010 M17/M19 A2991 PAMB 152035Z AUTO 00000KT 2 1/2SM -SN BR OVC008 M06/M07 A2928 RMK AO2 CIG 006V010 P0000 FZRANO $ PAMC 151953Z AUTO 32006KT 10SM SCT080 OVC090 M11/M12 A2928 RMK AO2 SNE35 SLP924 P0000 T11111122 TSNO PAMD 151951Z AUTO 18014KT 7SM FEW012 OVC040 05/03 A2931 RMK AO2 RAB1858E33 SLP912 P0000 T00500033 PAMH 151956Z AUTO VRB03KT 10SM OVC023 M11/M14 A2926 RMK AO2 SLP917 T11061139 FZRANO PAMK 151956Z AUTO 03012KT 10SM CLR M08/M10 A2933 RMK AO2 SLP935 T10831100 FZRANO PAMM 191456Z AUTO 07012G18KT 10SM -RA BKN018 OVC024 02/01 A2979 RMK AO2 UPB07E11 SLP078 P0004 60010 T00220011 53004 FZRANO $ PAMO 142017Z AUTO 35011KT 3SM -SN BR OVC002 M09/M10 A2957 RMK AO2 P0000 FZRANO PAMR 152015Z 12003KT 2SM -SN OVC030 M01/M04 A2930 RMK AO2 P0000 T10061039 PAMY 100356Z AUTO 02023G27KT 10SM OVC014 M15/M17 A2932 RMK AO2 PK WND 02027/0356 SNE50 SLP929 P0000 T11501172 FZRANO PANA 050656Z AUTO 16010KT SCT037 BKN110 M07/M08 A3022 RMK AO2 SLP234 T10721083 PWINO FZRANO $ PANC 152019Z 12008KT 3SM -SN BR OVC036 M01/M03 A2930 PANI 152023Z AUTO 06004KT 10SM SCT028 M14/M16 A2931 RMK AO2 FZRANO PANN 151953Z AUTO 31006KT 10SM CLR M11/M16 A2924 RMK AO2 SLP916 T11061156 TSNO PANV 220256Z AUTO 04018G26KT 2 1/2SM -SN BR FEW016 BKN024 OVC030 M16/M18 A2897 RMK AO2 PK WND 04028/0215 VIS 2V3 SLP932 P0000 60000 T11611183 56039 FZRANO TSNO PANW 151956Z AUTO 09003KT 10SM M11/M12 A2928 RMK AO2 SLP923 T11061117 FZRANO $ PAOH 120156Z AUTO 09004KT 10SM -RA BKN028 OVC036 04/02 A2933 RMK AO2 RAB33 SLP931 P0000 T00390017 PAOM 151953Z 35012KT 7SM CLR M04/M10 A2938 PAOO 011222Z AUTO 07035G41KT 6SM UP BR SCT023 OVC033 00/M02 A2893 RMK AO2 PK WND 07042/1212 SNB04E17 P0000 FZRANO TSNO $ PAOR 151953Z 09004KT 10SM FEW045 BKN170 BKN180 M14/M17 A2929 PAOT 151953Z 00000KT 10SM CLR M19/M22 A2952 PAOU 151956Z AUTO 31007KT 6SM BR BKN023 M01/M02 A2933 RMK AO2 SLP930 T10111022 FZRANO PNO $ PAPB 151953Z AUTO 35018G23KT 2SM -SN FEW017 SCT022 OVC027 M03/M07 A2941 RMK AO2 PK WND 33026/1926 SLP947 P0000 T10331072 TSNO PAPC 121850Z 01009KT 15SM SCT065 M06/ A2895 PAPG 151956Z 16011G17KT 120V200 10SM -RA FEW017 SCT022 OVC028 07/04 A2980 RMK AO2 SLP093 P0003 T00670039 PAPH 152028Z AUTO 19005KT 3SM -SN BR FEW007 OVC012 M02/M02 A2935 RMK AO2 SNB14 P0000 FZRANO PAPM 151956Z AUTO 36004KT 10SM OVC010 M09/M10 A2928 RMK AO2 SLP917 T10891100 FZRANO PAPN 152037Z AUTO 21008KT 1/2SM -SN FZFG OVC003 M02/M02 A2889 RMK AO2 SNB23 P0000 FZRANO PAPO 152013Z AUTO 05027G35KT 4SM -SN CLR M14/M18 A2964 RMK AO2 PK WND 05040/2003 P0000 FZRANO PAPR 121950Z 36007KT 20SM FEW060 BKN090 M05/ A2895 RMK LAST OBS PAPT 151954Z 00000KT 25SM BKN060 BKN100 M13/M13 A2917 RMK NO SPECI PAQH 141256Z AUTO 01010KT 10SM SCT021 SCT027 BKN040 M11/M13 A2958 RMK AO2 SLP018 T11111128 FZRANO PAQT 151954Z 02013KT 3SM BR OVC012 M24/M27 A3002 RMK (SCC FSS) PARC 151956Z AUTO 32007KT 10SM CLR M16/M18 A2946 RMK AO2 SLP054 T11611183 FZRANO PARS 151956Z AUTO 05006KT 10SM SCT100 M10/M13 A2926 RMK AO2 SLP911 T11001133 PWINO FZRANO $ PASA 152010Z AUTO 00000KT 10SM OVC009 M08/M09 A2955 RMK AO2 FZRANO PASC 151953Z 06018KT 1 1/4SM BR BKN016 OVC040 M23/M26 A2997 PASD 151956Z 34011KT 10SM CLR 01/M03 A2930 RMK AO2 SLP923 T00061028 PNO $ PASI 151953Z 20014KT 5SM -RA BR BKN020 BKN025 OVC030 07/04 A2970 PASK 151956Z AUTO 21004KT 10SM CLR M21/M23 A2954 RMK AO2 SLP999 T12111228 FZRANO PASL 151956Z AUTO 00000KT 10SM CLR M19/M21 A2933 RMK AO2 SLP925 T11891211 FZRANO PASM 152026Z AUTO 07007KT 1 1/4SM -SN BR SCT010 OVC018 M08/M09 A2929 RMK AO2 P0000 FZRANO PASO 152021Z AUTO 00000KT 9SM BKN028 OVC034 00/M01 A2932 RMK AO2 T00001006 TSNO PASV 151955Z AUTO 14001KT 10SM OVC038 M09/M13 A2918 PASX 151856Z AUTO 07004KT 10SM CLR M01/M04 A2925 RMK AO2 SLP914 T10061044 FZRANO PASY 151957Z 03012KT 5SM -SN BR FEW005 BKN018 BKN042 OVC055 M03/M03 A2982 PATA 152034Z 08004KT 1 1/4SM -SN BKN026 OVC032 M13/M17 A2938 RMK AO2 SNB21 T11281167 $ PATC 152030Z AUTO 02030KT 1 1/4SM -SN BR BKN003 M14/M15 A2951 PATE 151956Z AUTO 35004KT 10SM CLR M11/M12 A2949 RMK AO2 SLP996 T11111122 FZRANO PATG 151256Z AUTO 03004KT 10SM CLR M09/M11 A2912 RMK AO2 SLP954 T10891106 FZRANO PATK 151953Z 00000KT 10SM OVC055 M02/M08 A2927 RMK AO2 PRESRR SLP919 T10221078 PATL 152019Z AUTO VRB02KT 10SM -SHSN BKN008 BKN060 BKN085 M12/M13 A2927 PATO 042153Z AUTO 28008G17KT 10SM OVC018 M07/M09 A2976 RMK AO2 SLP079 T10721089 TSNO $ PATQ 152042Z AUTO 06012KT 2SM -SN CLR M28/M31 A3006 RMK AO2 FZRANO TSNO PNO $ PAUN 151956Z AUTO 05010KT 10SM CLR M09/M13 A2935 RMK AO2 SLP940 T10941133 FZRANO PAUT 152035Z AUTO 31014G19KT 10SM SCT029 SCT039 SCT048 M01/M06 A2935 RMK AO2 T10141064 PWINO PAVA 151956Z AUTO 02020KT 10SM BKN100 M08/M09 A2931 RMK AO2 PK WND 02031/1901 SNE1859 SLP929 P0000 T10781089 FZRANO PAVC 151956Z AUTO 30003KT 10SM CLR M03/M08 A2932 RMK AO2 SLP932 T10331078 FZRANO PAVD 152027Z 29003KT 1/2SM SN FZFG BKN005 BKN010 OVC016 M01/M01 A2941 PAVL 151953Z AUTO 02012KT 8SM CLR M19/M22 A2956 RMK AO2 SLP009 T11891222 TSNO PAWD 151953Z AUTO 36011KT 10SM OVC042 01/M03 A2928 RMK AO2 SLP917 T00061028 TSNO PAWG 151956Z 13006G15KT 10SM -RA OVC028 07/03 A2987 PAWI 301359Z 17017KT 10SM CLR M06/M08 A2957 RMK VIA PHONE PAWM 151956Z AUTO 36009KT 10SM CLR M09/M12 A2938 RMK AO2 SLP954 T10941122 FZRANO PAWN 151956Z AUTO 03019G26KT 8SM -SN CLR M11/M17 A2952 RMK AO2 PK WND 03026/1956 SNB49 SLP011 P0000 T11061167 FZRANO PAWS 152042Z AUTO 07004KT 1 3/4SM -SN BR BKN016 OVC022 M02/M04 A2934 RMK AO2 P0000 FZRANO PAYA 151953Z AUTO 10004KT 3SM RA BR FEW015 OVC022 03/03 A2944 RMK AO2 SLP970 P0007 T00330028 TSNO $ PAZK 151956Z AUTO 34003KT 10SM CLR M13/M15 A2914 RMK AO2 SLP937 T11281150 FZRANO PFCL 151928Z AUTO 21012KT 3SM -SN BR OVC009 M02/M03 A2925 RMK AO2 CIG 003V013 P0000 FZRANO TSNO PFEL 151956Z AUTO 02020G29KT 10SM CLR M07/M13 A2935 RMK AO2 PK WND 02029/1952 SLP943 T10671128 FZRANO PFKT 151956Z AUTO 09014KT 10SM CLR M09/M13 A2953 RMK AO2 SLP000 T10941133 FZRANO PFKW 151656Z AUTO 03004KT 10SM FEW120 M11/M12 A2918 RMK AO2 SLP882 T11061117 FZRANO PFNO 152036Z AUTO 05003KT 3SM BR CLR M19/M21 A2954 RMK AO2 FZRANO PFNU 032250Z AUTO 21010KT 10SM FEW055 M13/M14 A2971 RMK A01 PFSH 151956Z AUTO 02028G33KT 10SM CLR M10/M13 A2936 RMK AO2 PK WND 02034/1902 SLP941 T11001128 FZRANO PFWS 151656Z AUTO 21005KT 10SM BKN040 OVC060 M07/M07 A2923 RMK AO2 SLP940 T10671067 FZRANO PFYU 151956Z 05012KT 10SM OVC055 M15/M19 A2953 PGRO 150950Z 08010KT 7SM BKN015 26/22 A2981 PGSN 151954Z 11014G20KT 10SM FEW023 SCT110 27/23 A2981 RMK AO2 SLP116 T02670228 PGUA 152025Z 10014KT 10SM FEW013 SCT017 OVC055 23/21 A2982 RMK AO2A SHRAB1942E25 SLP088 $ PGUM 151954Z 11009KT 10SM FEW018 FEW025 BKN065 26/23 A2980 RMK AO2 SLP082 T02610228 $ PGWT 150954Z 09012KT 7SM FEW018 27/23 A2983 RMK LAST PHBK 151956Z AUTO 15006KT 10SM CLR 26/21 A3008 RMK AO2 SLP188 T02610206 PHHI 151956Z AUTO 35005KT 10SM CLR 24/20 A3010 RMK AO2 SLP185 T02390196 $ PHHN 150045Z 12008G16KT 10SM SCT025 27/21 A2998 PHJH 151945Z 00000KT 15SM CLR 26/18 A3010 PHJR 151953Z 00000KT 10SM CLR 28/18 A3010 RMK AO2 SLP200 T02780183 PHKO 151953Z 27007KT 10SM FEW026 SCT036 BKN060 25/19 A3008 PHLI 151953Z 00000KT 10SM CLR 25/22 A3010 PHMK 151954Z 32004KT 10SM CLR 25/19 A3011 RMK AO2 SLP199 T02500194 PHMU 150050Z 28006G12KT 9SM FEW020 SCT030 BKN034 24/17 A3004 PHNG 151957Z 34003KT 8SM SCT025 SCT050 25/21 A3008 RMK AO2 SLP179 T02500211 PNO $ PHNL 151953Z VRB04KT 10SM FEW025 FEW050 27/17 A3009 PHNY 151956Z AUTO 32008KT 10SM FEW023 24/19 A3015 RMK AO2 SLP189 T02390194 PHOG 151954Z 01007KT 10SM FEW045 27/19 A3009 PHSF 151958Z AUTO 27003KT 10SM CLR 18/03 A3038 RMK AO2 SLP183 T01800033 $ PHTO 151953Z VRB05KT 10SM SCT055 27/19 A3011 PKMJ 151959Z 05020KT 15SM SCT014 BKN050 BKN120 OVC300 28/25 A2975 PKMR 151953Z 06014KT 15SM SCT014TCU BKN050 BKN120 OVC300 28/24 A2975 RMK TCU NE-E-SE SLP076 T02800237 PKWA 152040Z AUTO 05017G25KT 7SM SCT020 SCT032 BKN040 27/24 A2981 RMK AO2 T02710240 PLCH 152000Z 09011KT 9999 SCT020 BKN040 27/22 Q1011 PMDY 151956Z AUTO 05004KT 6SM HZ FEW037 OVC100 18/13 A3010 RMK AO2 SLP192 T01830128 PPIT 151856Z AUTO 01005KT 1 1/4SM BR OVC021 M11/M11 A2924 RMK AO2 SLP907 T11061106 PWINO FZRANO TSNO $ PPIZ 152018Z AUTO 05019KT 2 1/2SM -SN FEW042 BKN050 BKN060 M27/M30 A3001 RMK AO2 P0000 FZRANO PRVD 061200Z 14004KT 9999 TS-SHRA FEW015 OVC070 27/24 Q1011 RMK A2985 CB SE PTKK 151950Z 06008G16KT 15SM FEW014 SCT120 OVC280 28/25 A2971 RMK SLP064 T02780248 PTPN 150252Z 08015KT 15SM SCT018 BKN300 31/26 A2970 RMK LAST PTR0 120850Z 08003KT 14SM BKN015TCU BKN110 BKN290 27/25 A2981 RMK TCU ALQDS PTRO 151955Z COR 07010G15KT 14SM SCT016 BKN120 OVC300 27/24 A2969 PTSA 151950Z 10011KT 10SM SCT017 BKN130 BKN300 28/25 A2973 PTTP 151954Z 07005G21KT 15SM SCT018 OVC300 28/24 A2976 RMK SLP076 T02750236 PTYA 151959Z VRB02KT 12SM FEW016 SCT130 BKN300 26/23 A2972 RMK SLP066 T02620229 PWAK 151958Z AUTO 06010KT 9999 FEW023 25/21 A2996 RMK AO2 SLP151 T02540206 $ RCFN 151300Z 33004KT 280V010 9999 FEW030 16/12 Q1016 NOSIG RMK A3002 RCKH 152000Z 08003KT 4000 BR FEW014 13/10 Q1014 NOSIG RMK A2996 RCMQ 152030Z 00000KT 5000 BR FEW012 10/08 Q1013 RMK A2993 RCNN 152041Z 00000KT 2400 BR FEW012 09/06 Q1015 RMK A2998 RCSS 152000Z 09005KT 9999 FEW020 SCT060 14/14 Q1016 NOSIG RMK A3003 RCTP 152030Z 06011KT 9999 FEW020 SCT050 17/13 Q1015 NOSIG RMK A3000 RJAA 152030Z VRB02KT 5000 R16R/P2000N R16L/P2000N MIFG BR FEW008 BKN015 01/01 Q1014 TEMPO 4000 BR MIFG RMK 1ST008 7SC015 A2995 RJAF 150700Z 15011KT CAVOK 10/M05 Q1016 RJAH 152000Z 25005KT 8000 FEW012 BKN020 04/02 Q1013 RJAI 120302Z 11002KT 9999 -RA FEW010 BKN012 05/M03 Q1015 RMK 1CU010 7SC012 A2998 RJAK 150315Z 01006KT 320V030 9999 -RA SCT020 BKN030 07/00 Q1023 RMK 3SC020 7SC030 A3021 RJAO 080424Z 08012KT 4900 -SHRA BR BKN007 24/23 Q1015 RMK 7CU007 A2997 RJAT 120025Z 01004KT 2000 -SN FEW000 SCT008 BKN015 01/M05 Q1014 RMK 1ST000 3ST008 5SC015 A2996 RJAW 152000Z 14006KT 5000 -SHRA BR FEW003 BKN006 BKN010 22/22 Q1009 RMK 1ST003 6ST006 7CU010 A2982 RJBB 152030Z AUTO 07006KT 9999 NCD 07/05 Q1015 NOSIG RJBD 151000Z 11004KT 9999 FEW035 SCT050 12/07 Q1019 RJBE 151300Z 04003KT CAVOK 08/05 Q1018 RJBT 150900Z 19009KT 9999 FEW050 09/02 Q1016 RJCA 150030Z 17006KT 9999 -SHSN FEW010 SCT020 BKN030 M07/M09 Q1023 RMK 1ST010 3CU020 5CU030 A3021 RJCB 151100Z 29001KT 9999 FEW040 BKN110 BKN/// M11/M14 Q1019 RJCC 152030Z 13016KT 7000 -SHRASN FEW003 BKN006 BKN012 02/02 Q1001 RMK 1ST003 6ST006 7ST012 A2958 P/FR RJCH 151100Z 13018KT 9999 FEW025 BKN050 01/M06 Q1016 RJCK 151100Z 32005KT 9999 FEW020 BKN030 BKN/// M08/M11 Q1020 RJCM 151100Z 20004KT 9999 FEW030 BKN150 M12/M15 Q1020 RJCN 150900Z VRB01KT CAVOK M11/M15 Q1021 RJCO 151100Z 14011KT 9999 FEW015 SCT040 BKN100 M04/M09 Q1018 RJCT 140333Z 29008KT 2000 -SHSN FEW005 SCT008 BKN015 M01/M05 Q1006 RMK 2ST005 4ST008 6CU015 A2970 RJCW 150900Z 15007KT 9999 -SHSN FEW015 SCT025 BKN035 M09/M11 Q1019 RJDC 151200Z 09005KT 9999 FEW030 09/07 Q1016 RJDM 122311Z 05003KT 9999 -RA FEW030 SCT040 BKN050 03/00 Q1020 RMK 1CU030 3CU040 5SC050 A3012 RJDT 151100Z VRB02KT 9999 FEW025 SCT030 14/10 Q1014 RJEB 150700Z 25005KT 220V310 9999 FEW040 SCT/// M05/M11 Q1021 RJEC 151100Z 15009KT 9999 FEW020 SCT140 BKN/// M08/M15 Q1016 RJFE 151000Z 22004KT 9999 -SHRA FEW020 SCT025 BKN035 13/11 Q1016 RJFF 152030Z AUTO 26008KT 230V310 9999 FEW014 SCT017 OVC019 12/10 Q1016 NOSIG RJFG 150900Z 11005KT 9999 FEW030 13/09 Q1017 RJFK 151200Z 04004KT 9999 FEW040 BKN060 09/07 Q1018 RJFM 151200Z 28007KT 9999 FEW035 BKN060 11/09 Q1018 RJFO 151300Z 24006KT 210V270 9999 FEW030 10/08 Q1016 RJFR 152000Z 24006KT 190V330 9999 FEW030 BKN120 11/07 Q1015 RJFS 151400Z 08003KT 9999 FEW040 BKN050 09/07 Q1016 RJFT 151200Z 15002KT 9999 FEW050 08/05 Q1017 RJFU 151200Z 14009KT 9999 FEW040 BKN060 11/09 Q1016 RJFY 142218Z 04002KT 9999 MIFG FEW030 03/M01 Q1021 RMK 1CU030 A3016 FG N AND SE-S VOLCANIC ASH 20KM SE MOV SE RJGG 152030Z 34007KT 9999 FEW030 05/03 Q1016 NOSIG RJKA 151000Z 09012KT 9999 FEW025 SCT030 19/14 Q1015 RJKI 152000Z AUTO 12002KT 9999 NCD 13/12 Q1017 RJKN 150016Z AUTO 12007KT 080V170 2700 RA BR FEW027 SCT031 BKN036 17/15 Q1018 RMK A3007 RI007 RJNG 132320Z 00000KT 9999 MIFG FEW030 BKN045 03/01 Q1021 RMK 1CU030 5SC045 A3017 RJNK 152000Z 20009KT 9999 FEW030 SCT050 BKN130 10/02 Q1012 RJNS 151200Z 31005KT 9999 FEW030 09/05 Q1019 RJNT 151200Z 17012KT 130V210 9999 FEW050 09/M02 Q1015 RJNW 151000Z VRB01KT CAVOK 04/02 Q1015 RJNY 140030Z 34004KT 250V050 9999 FEW025 10/M00 Q1017 RMK 1CU025 A3005 RJOA 151300Z 07003KT 8000 FEW030 06/04 Q1016 RJOB 151200Z VRB01KT 9999 FEW020 05/02 Q1017 RJOC 151100Z VRB02KT 9999 FEW045 12/03 Q1014 RJOE 120530Z 34003KT 9999 FEW010 SCT050 BKN080 05/02 Q1013 RMK 1ST010 4SC050 6AC080 A2993 RJOF 151814Z VRB02KT 9999 FEW025 BKN045 07/06 Q1015 RMK 1CU025 7CU045 A2999 RJOH 152000Z 25008KT 9999 -SHRA FEW030 BKN040 BKN060 09/07 Q1013 RETS RJOI 151955Z COR 15003KT 9000 BR FEW020 BKN050 BKN120 09/07 A2999 RMK RAE1859B37E47 SLP155 P0000 T00940067 RJOK 151100Z 35006KT 9999 FEW030 BKN040 10/07 Q1019 RJOM 151200Z 11003KT 080V140 9999 FEW035 10/07 Q1017 RJOO 152000Z VRB02KT 9999 FEW025 SCT080 BKN/// 03/03 Q1015 RMK 1CU025 3AC080 A2999 RJOP 140348Z 02010KT 330V050 9999 FEW030 12/07 Q1021 RMK 1CU030 A3015 RJOR 151200Z 19007KT 150V220 9999 FEW030 SCT050 BKN130 11/03 Q1015 RJOS 152000Z 29008KT 9999 FEW030 05/03 Q1015 RJOT 151200Z 14010KT CAVOK 07/04 Q1017 RJOW 151000Z 16015KT 9999 FEW050 12/04 Q1016 RJOY 151000Z 16004KT 090V200 9999 FEW050 10/04 Q1018 RJOZ 151908Z 33002KT 9999 FEW030CB SCT060 07/07 Q1014 RETS RMK 1CB030 4SC060 A2997 CB 30KM N MOV E RJSA 151200Z VRB02KT 9999 FEW030 BKN/// M07/M09 Q1012 RJSC 151000Z VRB02KT 9999 FEW030 BKN/// M02/M03 Q1020 RJSF 151100Z 15006KT 9999 FEW012 BKN015 04/01 Q1018 RJSH 152020Z 23021G31KT 8000 -SHRA FEW025 BKN035 BKN060 04/02 Q1006 RMK 2CU025 5CU035 7SC060 A2971 RJSI 151000Z VRB02KT CAVOK M02/M06 Q1020 RJSK 151200Z 12009KT 9999 FEW030 BKN/// M00/M05 Q1015 RJSM 152000Z 21012KT 9999 -SHRA SCT030 BKN050 BKN080 04/M00 Q1006 RJSN 151200Z 19007KT CAVOK 05/00 Q1015 RJSO 151820Z 29006KT 260V320 5000 -SHRA FEW020 BKN030 01/M00 Q1006 RMK 2CU020 7CU030 A2972 RJSR 151000Z 06004KT CAVOK M02/M07 Q1017 RJSS 152030Z 20009KT 9999 FEW030 SCT/// 05/02 Q1011 RMK 1SC030 A2985 RJSU 140630Z 36005KT 9999 FEW015 SCT050 05/M03 Q1018 RMK 1ST015 3CU050 A3006 RJSY 151200Z 10016KT CAVOK 02/M03 Q1015 RJTC 120323Z 04006KT 9999 -RA FEW010 BKN020 BKN040 05/M06 Q1014 RMK 1ST010 5SC020 7SC040 A2995 RJTE 152004Z 22005KT 5000 BR FEW010 BKN020 09/09 Q1015 RMK 2ST010 5CU020 A2997 RJTF 150700Z 04003KT 360V080 9999 FEW020 SCT030 BKN050 07/01 Q1021 RJTI 150700Z 04006KT 350V140 9999 FEW015 BKN025 07/04 Q1021 RJTK 150323Z 02009KT 9999 -RA FEW012 BKN015 BKN030 07/04 Q1021 RMK 1ST012 5SC015 6SC030 A3017 RJTL 122219Z VRB02KT 9999 FEW020 M04/M05 Q1013 RMK 1CU020 A2992 RJTO 150700Z 05014KT 9999 FEW013 BKN017 BKN020 10/07 Q1019 RJTR 142316Z AUTO 31006KT 6SM HZ OVC025 04/M01 A3024 RMK AO2 RAB2259E16 SLP245 52012 $ RJTT 152030Z 33004KT 9999 FEW008 SCT011 BKN020 07/04 Q1014 NOSIG RMK 1ST008 4SC011 7SC020 A2995 RJTU 150215Z VRB02KT 9999 FEW025 BKN030 BKN040 05/M04 Q1024 RMK 1CU025 5CU030 7SC040 A3025 RJTY 151956Z AUTO 00000KT 10SM CLR 01/M01 A2998 RMK AO2 SLP162 T00091007 FZRANO $ RKJB 152000Z AUTO 36015KT 9000 ///025/// 02/M02 Q1022 RKJK 151956Z 33015KT 10SM OVC024 00/M05 A3019 RMK AO2A CIG 021 RWY18 SLP228 T00031047 FZRANO $ RKNF 151908Z 26014KT 9999 SKC M09/M10 A2975 RKNN 140919Z 22002KT 9999 SKC 03/M04 A3023 RKNO 150314Z 02006KT 9000 -RA BR BKN040 03/M01 A2987 RMK CIG040 RKNR 122328Z 17003KT 9000 BR SCT025 BKN040 M03/M06 A2989 RMK CIG040 RKNW 150612Z 23012KT 9999 OVC030 11/05 A2985 RMK CIG030 RKNY 152000Z AUTO 28011KT 9000 NCD 01/M08 Q1017 RKPC 152000Z 32008KT 280V350 7000 BKN025 07/01 Q1022 NOSIG RKPK 152000Z 33014KT 9000 NSC 07/M02 Q1016 RKPM 120124Z 35014KT 9000 -SN BR OVC030 02/02 A3017 RMK CIG030 RKSD 150232Z 03004KT 9999 BKN025 04/M04 A2995 RMK CIG025 RKSF 150411Z 22009KT 9999 -RA BKN020 OVC040 11/07 A2988 RMK CIG020 RKSG 151956Z AUTO 32008KT 9SM CLR M02/M06 A3020 RMK AO2 SLP231 T10241064 $ RKSI 152030Z 32011KT 8000 FEW015 M05/M09 Q1024 NOSIG RKSM 152000Z 34003KT 8000 BR FEW020 M03/M08 A3020 RKSO 151958Z 29010KT 5SM HZ BKN014 OVC200 M03/M04 A3020 RMK AO2A BKN V OVC SLP231 T10311042 $ RKSP 142356Z 25012G022KT 800 FG VV001 07/06 A2988 RMK CIG001 RKSQ 150648Z 31011G022KT 4800 BR BKN010 OVC025 03/M00 A2997 RMK CIG010 SLP157 8/6// 9/8// RKSS 152000Z 31007KT 4500 BR FEW015 M06/M09 Q1023 NOSIG RKSU 150217Z 16001KT 9999 -RA BKN040 01/M03 A3001 RMK CIG040 RKSV 150422Z 26009G022KT 000 FG VV000 05/05 A2983 RMK CIG000 RKSW 150418Z 25015KT 9999 -RA BKN022 12/07 A2994 RMK CIG022 RKSY 151958Z AUTO 30003KT 9999 CLR M04/M07 A3019 RMK AO2 SLP227 T10411072 $ RKTB 150924Z 28021KT 9000 BR SCT010 OVC160 02/M01 A3007 RMK CIG160 RKTE 150903Z 32012KT 8000 BR BKN020 BKN030 09/05 A2994 RMK CIG020 RKTF 121430Z 33001KT 4800 BR SCT015 BKN030 M01/M02 A3003 RMK CIG030 RKTI 132336Z 35002KT 4800 BR SKC M05/M06 A3023 RKTN 152000Z 33010KT CAVOK 03/M06 Q1018 RKTP 151602Z 32007KT 9000 BR SCT200 M01/M04 A3016 RKTS 122123Z 00000KT 4800 BR BKN040 M06/M06 A3008 RMK CIG040 RKTU 152000Z 32004KT 9999 BKN025 M02/M05 Q1022 RKTW 142227Z 15010KT 9999 BKN025 10/06 A2997 RMK CIG025 RKTY 122109Z 00000KT 4000 BR BKN050 M06/M06 A3002 RMK CIG050 ROAH 152030Z 06005KT 030V100 9999 FEW025 17/15 Q1016 RODN 151956Z AUTO 05005KT 10SM CLR 12/10 A3002 RMK AO2 SLP173 T01150104 $ ROIG 151100Z 04013KT 9999 FEW036 20/16 Q1014 ROMD 152000Z AUTO 05011KT 9999 FEW023 20/17 Q1015 ROMY 151100Z 04009KT 9999 FEW021 20/16 Q1014 RORK 152000Z AUTO 06015KT 9000 FEW023 21/17 Q1015 RORS 151000Z 05014KT 9999 FEW023 20/16 Q1014 RORY 152000Z AUTO 07002KT //// // BKN060 OVC070 //////TCU 18/15 Q1017 ROTM 151456Z 07008KT 9999 FEW030 SCT070 19/11 A2998 RMK SLP137 T01890111 402170161 58010 ROYN 152000Z AUTO 03019KT 9999 FEW047 BKN050 20/14 Q1016 RPLB 152000Z 06006KT 9999 FEW020 25/21 Q1008 NOSIG RMK A2977 RPLC 152000Z 36004KT 8000 FEW020 BKN300 25/21 Q1009 NOSIG RMK A2980 RPLI 151800Z 07003KT 9999 FEW018 SCT090 22/19 Q1009 NOSIG RMK A2980 RPLL 152000Z VRB02KT 9999 FEW025 SCT100 25/22 Q1008 NOSIG RMK A2977 RPLZ 241000Z 28006KT 9999 SCT017 BKN090 26/24 Q1009 RMK A2980 RPMD 152000Z 36003KT 9999 FEW016 25/25 Q1006 RMK A2971 RPMR 150900Z 08005KT 9999 -RA FEW018 OVC080 25/25 Q1007 RMK A2974 RPMX 241200Z 08003KT 060V150 9000 -SHRA FEW017 OVC090 26/23 Q1010 RMK A2983 RPMZ 151800Z 00000KT 9999 SCT016 BKN090 25/25 Q1006 RMK A2971 RPVD 151800Z 34004KT 9999 FEW015 26/24 Q1006 RMK A2971 RPVK 301400Z 35004KT 9999 FE020 BKN300 24/20 Q1014 NOSIG RMK A2995 RPVM 152000Z 01005KT 9999 FEW020 25/22 Q1007 RMK A2974 RPVP 151800Z 27006KT 9999 FEW019 SCT080 26/24 Q1006 RMK A2971 SAAC 152000Z 23012KT 5000 -TSRA FEW006 FEW045CB OVC045 21/20 Q1005 SAAG 151900Z 14006KT 5000 RA SCT035 BKN045 21/20 Q1005 SAAJ 151900Z 09004KT CAVOK 26/19 Q1005 SAAP 152000Z 18010KT 9999 FEW020 OVC100 22/20 Q1005 SAAR 152000Z 09006KT 9999 FEW017 BKN021 BKN028 23/19 Q1004 SAAV 151900Z 04017KT 9999 OV 20/19 Q1001 SABE 152000Z 15005KT 100V200 8000 -RA NSC 21/20 Q1005 NOSIG SACE 301230Z 20020KT 8000 FEW020 FEW040CB OVC057 17/09 Q1015 SACO 152000Z 13005KT 080V220 9999 SCT020 25/19 Q1006 NOSIG SADF 152000Z 14004KT 080V160 CAVOK 21/20 Q1005 SADM 152000Z 14005KT 8000 -RA BKN030 OVC100 21/20 Q1005 SADO 151900Z 20005KT 5000 -RA OVC040 20/19 Q1008 SADP 152000Z 09006KT 9999 FEW035 OVC060 21/19 Q1005 RERA SAEZ 152000Z 13005KT CAVOK 23/18 Q1006 NOSIG SAME 152000Z 29003KT 9999 FEW040 SCT045 30/16 Q1004 SAMM 151900Z 09005KT 9999 FEW030 27/10 Q1010 SAMR 151900Z 09007KT 9999 FEW040 28/19 Q1007 SANC 151900Z 18008KT 9999 FEW050 36/21 Q1001 SANE 151900Z 34009KT 9999 SCT020 FEW025TCU 38/22 Q0999 SANL 152000Z 09002KT 9999 BKN040 36/21 Q1000 SANR 141440Z 18003KT 9999 FEW004 SCT015 BKN030 25/22 Q1013= REDZ SANT 151900Z 23006KT 9999 FEW035 34/26 Q1001 SANU 152000Z 18008KT 9999 FEW040 34/16 Q1002 SAOC 152000Z 02010KT 9999 FEW030 26/17 Q1005 SAOR 051607Z 23008KT 7000 RA BKN007 SCT050 20/16 Q1017 SAOU 152000Z 05004KT 9999 SCT040TCU 32/19 Q1004 SARC 151900Z 05013KT 9999 SCT035TCU 35/23 Q1002 SARE 151900Z 01011KT 9999 SCT050 36/22 Q1002 SARF 152000Z 05011KT 9999 SCT030 FEW040TCU 34/23 Q1002 SARI 151900Z 05006KT 9999 -SHRA SCT035 FEW040TCU 32/24 Q1007 SARL 152000Z 07005KT 9999 SCT018 OVC100 31/25 Q1003 SARM 111920Z 29030G45KT 6000 BKN010 OVC040 FEW050CB 36/27 Q1000 SARP 152000Z 36007KT 9999 SCT025 34/23 Q1004 SARS 152025Z 05009KT 9999 TS FEW045CB BKN030 37/22 Q1001 SASA 152000Z 36006KT 9999 SCT030 BKN100 27/20 Q1008 SASJ 151900Z 07010KT 9999 FEW035TCU SCT060 29/20 Q1006 SAST 120935Z 18018KT 9999 FEW015 FEW030 FEW040CB 25/24 Q1007 SATR 152000Z 18027KT 4000 TSRA OVC030 FEW035CB 21/20 Q1006 SAVC 152000Z VRB06KT 9999 SCT030 SCT100 18/12 Q1010 SAVE 152000Z 27015KT 9999 SCT038TCU 16/01 Q1011 SAVT 152000Z 14018KT 9999 BKN030 FEW040CB BKN100 20/13 Q1005 SAVV 152000Z 20016KT 160V240 9999 FEW025 29/12 Q1001 SAVY 152000Z 14010KT 9999 -RA SCT015 SCT020 16/15 Q1005 SAWB 142038Z 23032G43KT 0100 -SN FZFG BLSN OVC004 M03/M03 Q0979 SAWC 152000Z 29015KT 9999 FEW040 SCT100 23/07 Q1011 SAWE 152000Z 36016KT 9999 SCT014 BKN020 12/09 Q1015 SAWG 152000Z 02018KT CAVOK 18/06 Q1012 SAWH 152000Z 07007KT 9999 FEW045 FEW047 17/07 Q1011 SAWJ 092035Z 36016KT 4000 -TSRA SCT030TCU FEW040 20/01 Q0985 SAWT 141236Z 20014G25KT 9999 SCT020 ///// Q0999 RESN SAWU 131500Z 34020KT CAVOK 19/M01 Q1014 SAZA 150642Z 02011KT 9999 -TSRA OVC045 FEW050CB 18/14 Q1010 SAZB 152000Z 29013KT CAVOK 30/11 Q1004 SAZG 151900Z 02003KT 9999 BKN035 29/19 Q1005 SAZM 152000Z 36012KT 9999 SCT040 SCT200 26/18 Q1006 SAZN 151900Z 23011KT 9999 SCT040 26/05 Q1007 SAZR 152000Z 09005KT CAVOK 29/17 Q1005 SAZS 152000Z 29018KT 8000 VCSH SCT030 SCT040 BKN080 11/04 Q1014 RERA SAZT 152000Z 34012KT 9999 SCT030 SCT200 27/19 Q1006 SAZY 152000Z 25015KT 9999 SCT035 SCT100 10/08 Q1014 SBAF 152000Z 25010KT 9999 FEW030 32/21 Q1009 SBAN 152000Z VRB08KT 9999 SCT017 FEW030TCU SCT040 21/19 Q1015 SBAR 152000Z 09011KT 9999 FEW018 28/23 Q1010 SBAT 151700Z 33003KT 9999 FEW025 FEW027TCU 30/24 Q1009 SBAU 151600Z 09010KT 9999 FEW030TCU SCT030 BKN100 28/22 Q1012 SBAX 152000Z 05005KT 9999 -RA SCT020 SCT040 20/19 Q1014 SBBE 152000Z 36012KT 9999 SCT033 FEW040TCU 30/25 Q1006 SBBG 152000Z 02010KT 9999 FEW030 32/20 Q1006 SBBH 152000Z 05006KT 9999 -TSRA SCT045 FEW050CB 28/16 Q1013 SBBI 151800Z 09010KT 9999 SCT030 26/19 Q1015 SBBQ 152000Z 09008KT 050V120 9999 SCT030 24/17 Q1017 SBBR 152000Z 00000KT 9999 SCT030 FEW040TCU BKN100 21/18 Q1014 SBBU 152000Z 32002KT 9999 FEW040 BKN090 29/21 Q1011 SBBV 152000Z 10010KT 9999 BKN040 FEW045TCU BKN070 31/20 Q1007 SBBW 152000Z 11005KT 9999 FEW010 BKN090 25/23 Q1010 SBCA 151800Z 04010KT 9999 FEW020 SCT030 27/21 Q1012 SBCB 152000Z 07015KT CAVOK 26/21 Q1011 SBCC 152000Z 29005KT 9999 BKN007 21/21 Q1009 SBCF 152000Z 03005KT 9999 VCSH SCT040 SCT070 27/18 Q1013 SBCG 152000Z 31003KT 9999 VCSH SCT030 FEW035TCU SCT100 25/22 Q1008 SBCH 152000Z 02010KT 9999 BKN020 31/20 Q1009 SBCI 150500Z AUTO 30004KT 270V350 9999 -RA FEW016 24/24 Q1010 SBCJ 152000Z 01002KT 9999 SCT025 FEW030TCU 27/21 Q1010 SBCO 152000Z 10015KT 060V130 9999 VCSH SCT035 FEW040TCU SCT070 32/22 Q1007 SBCP 152000Z 06018KT CAVOK 28/21 Q1012 SBCR 152000Z 03006KT 330V060 9999 SCT025 31/25 Q1003 SBCT 152000Z 11010KT 9999 SCT013 BKN020 24/19 Q1014 SBCX 151500Z 06008KT 9999 SCT025 26/18 Q1016 SBCY 152000Z 32009KT 9999 SCT020 FEW025TCU 29/23 Q1006 SBCZ 152000Z 03003KT 9999 BKN025 30/25 Q1007 SBDN 152000Z 15002KT 9999 FEW020 26/23 Q1008 SBEG 152000Z 02005KT 9999 SCT010 BKN100 27/23 Q1007 SBEK 151900Z 36003KT 9999 SCT015 29/24 Q1006 SBES 152000Z 07022KT 9999 FEW025TCU 28/// Q1011 SBFI 152000Z 01006KT 9999 FEW040TCU SCT040 31/24 Q1006 SBFL 152000Z 06010KT 9999 SCT030 28/22 Q1011 SBFN 152000Z AUTO 12010KT 9999 FEW018 SCT022 27/22 Q1010 SBFS 151000Z 06005KT 9999 FEW015 25/24 Q1015 SBFZ 152000Z 07012KT 9999 FEW025 29/23 Q1008 SBGL 152000Z 14011KT 9999 TS FEW030CB 30/21 Q1009 SBGM 151900Z 25004KT 210V300 9999 VCSH FEW025 FEW027TCU 28/24 Q1007 SBGO 152000Z 36003KT 320V030 9999 SCT012 BKN100 24/22 Q1012 SBGR 152000Z 10002KT 5000 RA BKN006 BKN100 20/20 Q1015 SBGW 152000Z 36003KT 2000 TSRA BKN030 FEW033CB BKN080 29/20 Q1013 SBHT 152000Z 08004KT 9999 SCT030 32/22 Q1007 SBIH 152000Z 09009KT 9999 SCT023 FEW025TCU 32/24 Q1005 SBIL 152000Z 09005KT 9999 SCT012 SCT018 FEW028TCU BKN080 26/24 Q1012 SBIZ 152000Z 23002KT 9999 VCSH SCT023 SCT080 29/24 Q1006 SBJE 150530Z 21001KT 9999 FEW020 26/22 Q1009 SBJP 152000Z 10012KT 9999 SCT025 28/23 Q1010 SBJR 151500Z 15010KT 9999 FEW025 33/22 Q1012 SBJU 151700Z 32006KT 9999 SCT022 32/18 Q1012 SBJV 152000Z 08007KT 9999 SCT015 BKN025TCU 27/23 Q1011 SBKG 152000Z 11015KT 9999 FEW030 28/19 Q1011 SBKP 152000Z 35010KT 8000 1500N R15/P2000 R33/P2000 +TSRA SCT025 SCT040CB OVC070 22/20 Q1013 SBLB 040800Z AUTO 01018KT 9999 -RA BKN072 25/22 Q1012 W27/S4 SBLE 150500Z AUTO 00000KT 9999 OVC026 21/20 Q1014 SBLO 152000Z 09006KT 9999 SCT040 29/22 Q1010 SBLP 301900Z AUTO /////KT ///V/// //// // ///////// ///// Q//// SBLS 152000Z 11006KT 050V130 9999 VCSH FEW010 SCT045 27/18 Q1013 SBMA 152000Z 07006KT 9999 FEW020 FEW025TCU BKN100 29/25 Q1007 SBME 152000Z 09018KT CAVOK 28/22 Q1011 SBMG 152000Z 05008KT 9999 SCT035 FEW045TCU BKN090 30/22 Q1007 SBMK 152000Z 31005KT 9999 FEW050TCU 27/17 Q1011 SBML 151700Z 06008KT 9999 BKN030 27/21 Q1013 SBMN 152000Z 08003KT 9999 SCT010 BKN100 26/23 Q1007 SBMO 152000Z 12015KT 9999 FEW033 BKN080 28/22 Q1010 SBMQ 152000Z 10010KT 9999 SCT020 32/25 Q1007 SBMS 151900Z 05021KT 9999 BKN030 33/22 Q1007 SBMT 152000Z 10003KT 7000 -RA FEW009 BKN060 OVC080 20/19 Q1015 RERA SBMY 271200Z AUTO 06005KT 9999 BKN007 25/23 Q1009 SBNF 152000Z 08009KT 9999 SCT016 28/24 Q1011 SBNM 151900Z AUTO 36005KT 310V070 CAVOK 32/21 Q1007 SBNT 152000Z 12015KT 9999 SCT027 28/21 Q1009 SBOI 152000Z 09006KT 9999 BKN049 29/23 Q1008 SBPA 152000Z 10018KT 9999 SCT045 31/21 Q1007 SBPB 152000Z 04009KT 9999 FEW020 30/24 Q1007 SBPC 152000Z /////KT 7000 -TSRA SCT020 SCT022CB BKN100 20/20 Q1016 SBPF 102200Z 23008KT CAVOK 29/21 Q1012 SBPG 132000Z 14012KT 9999 SCT030 26/21 Q1015 SBPJ 152000Z 25004KT 200V300 9999 FEW035 FEW040TCU 29/23 Q1007 SBPK 152000Z 09023KT 9999 BKN018 27/22 Q1009 SBPL 152000Z 16005KT 9999 FEW037 32/19 Q1009 SBPP 152000Z 33008KT 9999 SCT020 28/22 Q1007 SBPR 151900Z 06008KT 9999 -RA BKN030 FEW035TCU SCT080 27/17 Q1014 SBPS 152000Z 05004KT 9999 BKN020 BKN050 25/22 Q1012 SBPV 152000Z 36004KT 9999 FEW015 SCT020 BKN080 26/23 Q1006 SBRB 152000Z 29008KT 9999 VCSH FEW006 FEW030TCU SCT050 BKN100 25/24 Q1007 SBRF 152000Z 13007KT 9999 FEW025 27/19 Q1010 SBRJ 152000Z 20014KT 9999 TS VCSH SCT030 FEW035CB 29/22 Q1009 SBRP 152000Z 12006KT 9999 FEW035 OVC100 26/22 Q1011 SBSC 152000Z 13009KT 9999 SCT035 FEW040TCU 31/21 Q1009 SBSG 152000Z 17009KT 9999 FEW023 SCT080 28/21 Q1009 SBSJ 152000Z 10004KT 5000 -RA SCT010 SCT020 BKN070 21/19 Q1015 RETS SBSL 152000Z 04010KT 9999 SCT030 29/24 Q1007 SBSM 152000Z 10011KT 9999 FEW040 32/22 Q1005 SBSN 152000Z 10013KT 9999 FEW025 30/23 Q1006 SBSP 152000Z 10004KT 7000 -RA FEW006 BKN047 OVC067 21/18 Q1016 SBSR 152000Z 16003KT 8000 -RA FEW015 BKN020 23/20 Q1011 SBST 151900Z 11004KT 070V150 9999 VCTS FEW018 BKN036CB BKN070 26/23 Q1011 SBSV 152040Z 08014KT 6000 -RA FEW006 SCT012 FEW018TCU OVC045 25/23 Q1011 SBSY 061300Z AUTO 17009KT 120V210 CAVOK 26/08 Q1017 SBTA 152000Z 34010KT 8000 2500S -TSRA BKN025 FEW030CB OVC100 21/20 Q1013 SBTC 152000Z 26004KT 9999 SCT015 BKN060 25/23 Q1012 SBTD 151700Z 06012KT 9999 BKN025 28/22 Q1012 SBTE 152000Z 26005KT CAVOK 33/22 Q1006 SBTF 152000Z 01007KT 9999 FEW020 FEW025TCU 29/25 Q1006 SBTK 010900Z AUTO 21004KT 9999 FEW009 OVC016 24/23 Q1011 SBTT 152000Z 18004KT 9999 SCT025 SCT080 29/24 Q1006 SBUA 151900Z 34007KT 9999 SCT030 27/25 Q1006 SBUF 151900Z 10009KT 9999 FEW021 34/14 Q1008 SBUL 152000Z 09006KT 9999 VCSH FEW045 FEW049TCU BKN100 24/19 Q1013 SBUR 152000Z 06005KT 9999 FEW038 BKN100 22/20 Q1012 SBVH 152000Z 30009KT 9999 SCT030 FEW035TCU 29/21 Q1007 SBVT 152000Z 06010KT 9999 SCT030 29/22 Q1013 SBYS 152000Z 01004KT 330V050 9999 VCSH SCT030 FEW040TCU BKN100 28/19 Q1012 SCAP 152000Z AUTO 22013KT 200V260 9999 ////// 17/05 Q1016 SCAR 152000Z 20013KT CAVOK 23/15 Q1011 SCAS 151900Z 25010KT 9999 BKN036 BKN100 18/10 Q1013 SCAT 152000Z 29008KT 240V350 9999 FEW033 20/12 Q1012 SCBA 152000Z VRB03KT 9999 -SHRA BKN025 BKN030 OVC070 14/10 Q1013 SCCC 151900Z 29003KT 9999 SCT030 OVC090 ///// Q1014 REFZRA SCCF 152000Z 27022KT CAVOK 23/01 Q1021 SCCH 152000Z 27008KT 9999 SCT030 26/08 Q1014 SCCI 152000Z 17014KT CAVOK 14/09 Q1012 NOSIG SCCY 152000Z 25004KT 9999 -RA FEW030 BKN040 OVC100 17/09 Q1012 SCDA 152000Z 24013KT 9999 BKN040 23/13 Q1011 SCEL 152000Z 22014KT 8000 NSC 29/02 Q1012 NOSIG RMK FU 13000FT NW SCFA 152000Z 19015KT CAVOK 21/14 Q1011 NOSIG SCFM 152000Z VRB03KT 9999 FEW030 19/10 Q1012 SCFT 152000Z AUTO 30007KT 260V350 9999 -SHRA FEW024/// SCT060/// 14/09 Q1014 SCGE 152000Z 19010KT 9999 BKN025 25/07 Q1015 SCGZ 152000Z 08009KT 9999 FEW053 SCT066 17/09 Q1011 SCHR 151700Z 13003KT 9999 FEW010 OVC030 15/11 Q1010 SCIC 152000Z 17010KT CAVOK 28/10 Q1012 SCIE 152000Z 23019KT CAVOK 20/12 Q1017 SCIP 152000Z 11010KT 9999 FEW018 SCT024 BKN043 25/21 Q1023 NOSIG SCIR 152000Z 17013KT 9999 SCT020 19/13 Q1022 SCJO 152000Z 27013KT 9999 BKN025 19/09 Q1016 SCMI 271200Z 09006KT 9999 FEW016 26/23 Q1010 SCMK 152000Z 23009KT 9999 BKN030 16/10 Q1015 SCNT 152000Z 15012KT 110V200 9999 FEW040 22/10 Q1010 SCON 152000Z AUTO 05003KT 350V140 9999 -SHRA OVC027/// 13/11 Q1017 SCPQ 152000Z AUTO 09005KT 020V160 CAVOK 16/10 Q1016 SCQP 152000Z 26012KT 230V290 9999 BKN030 18/08 Q1018 SCRD 152000Z 18020KT CAVOK 23/11 Q1013 RMK FU 2500FT E SCRG 152000Z /////KT CAVOK 28/08 Q1013 SCRM 152000Z 26014KT 9999 BKN025 02/M01 Q1006 NOSIG SCSE 152000Z 27013KT CAVOK 19/12 Q1013 SCSN 152000Z 24022KT CAVOK 19/13 Q1013 SCTB 152000Z 21006KT CAVOK 30/06 Q1013 SCTE 152000Z 06006KT 320V130 9999 SCT025 BKN036 14/10 Q1016 NOSIG SCTN 152000Z 22007KT 190V250 9999 SCT030 15/11 Q1016 SCVD 152000Z 23011KT 180V260 9999 BKN040 19/09 Q1017 SCVM 152000Z 24016KT 9999 SCT030 25/14 Q1012 SEAM 151900Z 00000KT 9999 SCT020 BKN100 21/10 Q1024 SECA 152000Z 21006KT 9999 -RA BKN040 OVC100 19/17 Q1016 SECO 152000Z 11004KT 9999 SCT025 SCT100 32/23 Q1006 RMK A2973 SECU 152000Z 22014KT 9999 VCSH BKN040 20/13 Q1020 SEGS 152000Z 27013KT 9999 SCT040 28/22 Q1010 A2985 SEGU 152000Z 07006KT 9999 FEW023 BKN100 29/22 Q1008 NOSIG RMK A2977 SEJD 152000Z 08006KT 9999 SCT023 32/23 Q1007 RMK A2975 SELT 152000Z 16010KT 9999 TS FEW030CB SCT040 16/09 Q1024 SEMC 151900Z 06007KT 9999 SCT030 SCT100 27/17 Q1013 RMK A2992 SEMT 152000Z 29006KT 9999 FEW023 BKN080 27/23 Q1009 RMK A2979 SENL 152000Z 07005KT 9999 SCT020 31/22 Q1008 RMK A2977 SEQM 152000Z 36016KT 9999 SCT033 20/12 Q1021 NOSIG RMK A3015 SERB 152000Z 06020KT 9999 BKN040 23/07 Q1024 SERO 152000Z 30006KT 9999 FEW010 SCT026 BKN100 28/23 Q1009 SESA 152000Z 26009KT 9999 FEW023 BKN100 27/23 Q1009 RMK A2980 SESM 152000Z 22002KT 9999 VCSH BKN023 23/21 Q1012 RMK A2988 SEST 152000Z 21010KT 9999 SCT020 27/24 Q1008 RMK A2979 SETN 152000Z 28007KT 250V320 9999 SCT026 BKN100 28/24 Q1008 RMK A2978 SETU 152000Z 10006KT 9999 SCT020 18/08 Q1027 SFAL 151650Z 16009KT 9999 BKN026 09/03 Q1015 SGAS 152000Z 05008KT 360V090 9999 BKN033 34/24 Q1003 SGCO 100300Z 19006KT CAVOK 27/24 Q1008 SGEN 152000Z 07006KT 9999 BKN033 FEW045TCU 31/19 Q1008 SGES 152000Z 04007KT 9999 BKN030 32/23 Q1005 SGGR 212100Z 36010KT CAVOK 25/20 Q1011 SGLV 212100Z 18002KT 9999 SCT015 BKN070 28/23 Q1011 SGME 212100Z 18008KT 9999 OVC010 21/17 Q1012 SGPC 212100Z 14010KT 9999 FEW033 BKN060 27/20 Q1011 SGPI 212100Z 18006KT CAVOK 30/19 Q1012 SGPJ 212100Z 13012KT 9999 FEW020 BKN070 24/21 Q1012 SGSJ 070000Z 00000KT CAVOK 20/17 Q1014 SGSP 212100Z 14005KT CAVOK 26/21 Q1008 SGVR 212100Z 18004KT CAVOK 29/16 Q1011 SKAR 110000Z 00000KT 9999 SCT022 22/19 Q1014 RMK A2997 SKBG 152000Z 33007KT 9999 SCT020 26/19 Q1012 RMK A2988 SKBO 152000Z 28011KT 9999 SCT023 20/11 Q1022 NOSIG SKBQ 152000Z 31010KT 9999 FEW015 SCT200 30/23 Q1007 NOSIG RMK A2976 SKCC 152000Z 35010KT 330V030 9999 FEW020 31/20 Q1010 RMK A2983 SKCG 152000Z 01008KT 9999 FEW017 SCT200 30/24 Q1007 RMK A2976 SKCL 152000Z 32004KT 9999 SCT040TCU 31/18 Q1011 NOSIG RMKTCU/E/SW A2987 SKGO 111100Z 36003KT 9000 4000S RA BR BKN050 OVC110 20/19 A3005 SKGP 111100Z 00000KT 3000 BR OVC020 22/22 A2991 SKGY 111100Z AUTO VRB01KT 9999NDV R29///// -RA SCT001/// SCT007/// BKN011/// 11/11 Q1028 RERA SKLC 252000Z 34008KT 280V360 9999 SCT020TCU SCT300 30/24 Q1007 RMK TCU/SW/W A2975 SKLT 152000Z 17003KT 9999 SCT015 BKN200 31/26 Q1006 RMK A2971 SKMD 111100Z VRB02KT 9999 6000S VCSH SCT017 BKN090 18/18 A3018 SKMU 111100Z 00000KT 0100 FG OVC001 23/23 A2984 RMK/ AD BLW MNM MET SKPD 111100Z 07004KT 9999 SCT040 24/23 A2988 SKPE 152000Z 28006KT 9999 SCT016TCU SCT080 27/18 Q1014 RMK TCU NE/E/SE A2994 SKPP 111100Z 00000KT 5000 BR SCT008 BKN020 16/16 A3016 SKPS 111100Z 00000KT 0100 FG VV001 16/16 A3016 RMK AD BLW MNM MET SKPV 111100Z 00000KT 9999 FEW017 OVC200 24/24 A2987 SKRG 152000Z 04008KT 9999 SCT020TCU 23/13 Q1021 NOSIG RMK TCU/S/N A3017 SKSM 110000Z 04003KT 9999 FEW020 29/23 Q1009 RMK A2980 SKSP 152000Z 07010KT 040V100 9999 FEW018 OVC200 29/21 Q1010 RMK A2984 SKUC 111100Z 00000KT 9999 -DZ BKN020 25/25 A2989 SKUI 111100Z 14005KT 7000 -DZ BKN015 OVC080 23/23 A2991 SKVV 010100Z 30004KT 9999 FEW020 SCT090 22/21 Q1011 RMK A2988 SKYP 010100Z 02006KT 9999 SCT030 25/21 Q1011 RMK A2986 SLAG 151700Z 03008KT 9999 FEW020 SCT200 30/18 Q1007 SLAL 152000Z 06008KT 9999 BKN023 21/11 Q1022 SLAP 121400Z 36005KT 9999 BKN020 OVC070 22/19 METAR SLOR 121400Z 01008KT 9999 FEW020 18/M01 Q1034 SLAS 081600Z 34006KT 9999 SCT017 31/25 Q1014 SLCA 152000Z 00000KT 9999 SCT033 32/20 Q1006 SLCB 152000Z 14003KT 9999 FEW030 BKN200 25/10 Q1016 SLCO 152000Z 27007KT 8000 VCSH SCT017 FEW020CB BKN200 28/25 Q1005 SLCP 152000Z 33008KT 9999 OVC013 25/24 Q1008 SLET 152028Z 33011KT 7000 -TSRA BKN017 FEW030CB BKN070 28/25 Q1003 SLGM 230900Z 35006KT 5000 -RA SCT004 BKN015 FEW020CB OVC070 23/23 Q1010 SLJE 152000Z 00000KT 9999 BKN015 OVC070 24/23 Q1008 SLJO 151700Z 32008KT 8000 VCSH SCT017 FEW023CB BKN200 30/24 Q1009 SLJV 281600Z 00000KT 9999 NSC 30/22 Q1014 SLLP 152000Z 27007G18KT 120V290 4000 TSRA SCT017 SCT020CB BKN070 06/05 Q1032 SLMG 152000Z 00000KT 9999 FEW017 FEW023CB SCT080 BKN200 29/26 Q1005 SLOR 152000Z 29004KT 9999 SCT020 FEW025CB BKN200 16/05 Q1030 SLPO 081700Z 06010KT 9999 SCT017 FEW025CB 15/07 Q1034 SLPS 152000Z 36006KT 9999 SCT017 BKN200 32/26 Q1005 SLRA 061800Z 32004KT 7000 VCSH SCT017 FEW023CB BKN080 29/24 Q1011 SLRB 152000Z 36006KT 9999 SCT017 FEW023CB BKN200 30/23 Q1007 SLRI 152000Z 00000KT 9999 BKN017 FEW020CB BKN200 26/25 Q1005 SLRQ 152000Z 00000KT 9999 SCT020 BKN200 28/26 Q1003 SLRY 152000Z 32003KT 9999 FEW017 BKN070 BKN200 29/25 Q1002 SLSA 152000Z 33006KT 8000 VCSH SCT017 FEW020CB OVC200 29/24 Q1005 SLSB 142300Z 00000KT 9999 FEW020 BKN200 29/24 Q1006 SLSI 152000Z 36005KT 9999 BKN012 FEW025CB OVC070 27/24 Q1005 SLSR 122000Z 32006KT 9999 FEW017 FEW023CB BKN200 33/24 Q1005 SLTI 231320Z 00000KT 8000 -RA BKN015 FEW030CB OVC070 26/24 Q1016 SLTJ 152000Z 13012KT 9999 SCT030 FEW036CB 29/17 Q1011 SLTR 152000Z 32005KT 9999 -RA FEW005 FEW020CB OVC070 25/24 Q1004 SLUY 181600Z 31017KT 9999 NSC 14/M13 Q1031 SLVG 021500Z 36003KT 9999 SCT025 FEW030CB 21/15 Q1025 SLVM 151700Z 36012KT 9999 SCT025 35/23 Q1004 SLVR 152000Z 36010KT 7000 VCSH SCT013 BKN020 FEW030CB BKN070 28/24 Q1004 SLYA 151800Z 06010KT 9999 FEW023 34/25 Q1005 SMJP 151900Z 06006KT 9999 VCSH FEW010 FEW015CB SCT020 27/25 Q1008 TEMPO 3000 SHRA SMSO 301300Z 04006KT 9999 SCT010 29/24 Q1012 NOSIG SMZO 152000Z 09010KT 9999 VCSH SCT005 FEW018CB SCT030 25/24 Q1008 NOSIG SOCA 152030Z AUTO 08008KT 040V100 9999 BKN019 BKN024 BKN031 27/24 Q1009 SPAY 011415Z 01003KT 8000 BKN015 OVC070 25/23 Q1015 SPCL 152000Z 36004KT 330V050 9999 BKN025 30/23 Q1008 RMK BIRD HAZARD RWY 02/20 PP000 SPEO 151900Z 20016KT 9999 BKN020 22/17 Q1011 RMK BIRD HAZARD RWY 01 PP000 SPGM 152000Z 01007KT 9999 FEW040 SCT100 28/22 Q1009 RMK PP000 SPHI 152000Z 19018KT CAVOK 25/17 Q1010 RMK BIRD HAZARD RWY 19/01 PP000 SPHO 151800Z VRB02KT 9999 VCSH SCT020 BKN090 19/08 Q1024 RMK SH NE PP000 SPHY 061900Z 01009KT 8000 SCT012TCU BKN050 13/10 Q1031 RMK BIRD HAZARD RWY03/21 PP000 SPHZ 251625Z 03003KT 8000 BKN050 BKN100 14/09 Q1029 SPJA 231820Z 34003KT 7000 SCT020 BKN080 23/21 Q1015 SPJC 152000Z 18008KT 150V210 CAVOK 23/18 Q1011 NOSIG RMK PP000 SPJE 191824Z 06012KT 4000 +RA BR BKN030 BKN070 24/23 Q1012 SPJI 151900Z 09003KT 9999 FEW023 SCT100 32/23 Q1016 RMK PP000 SPJJ 121620Z 06018KT 9999 TSRA FEW040CB SCT060 OVC080 13/09 Q1031 SPJL 151900Z 10006KT 9999 SCT020 SCT080 17/04 Q1029 RMK PP000 SPJR 152030Z 14009KT 8000 -RA SCT020 OVC043 14/12 Q1023 SPLO 151800Z 15006KT CAVOK 24/18 Q1012 RMK PP000 SPME 152000Z 30008KT 9999 SCT020 BKN080 28/23 Q1008 RMK BIRD HAZARD RWY 32/14 PP000 SPMF 062210Z 34013KT 1500 +SHRA BKN025TCU OVC080 24/22 Q1011 SPMS 151900Z 36005KT 9999 SCT015 SCT100 29/23 Q1010 RMK BIRD HAZARD RWY 09/27 PP000 SPNC 152000Z /////KT 9999 FEW030 OVC110 22/15 Q1017 RMK PP000 SPPY 151900Z 35006KT 9999 SCT012 BKN050 17/12 Q1024 RMK PP000 SPQT 152000Z 03007KT 9999 VCSH SCT018 FEW020TCU BKN100 30/24 Q1006 TEMPO -DZ RMK TCU SW BIRD HAZARD RWY 06/24 PP000 SPQU 152011Z 26009KT 2000 DZ BR OVC003 12/11 Q1024 SPRU 090100Z 14010KT 8000 SCT040 20/18 Q1013 RMK BR QUAD N PP000 SPSO 152000Z 22017KT CAVOK 25/19 Q1010 RMK BIRD HAZARD RWY 22/04 PP000 SPST 152000Z 34007KT 9999 VCSH SCT015TCU SCT090 34/22 Q1005 RMK BIRD HAZARD RWY 17/35 PP000 SPTN 152000Z 23011KT 9999 SCT100 BKN220 22/13 Q1013 RMK PP000 SPTU 152000Z 29007KT 240V350 9999 SCT025 32/24 Q1004 RMK BIRD HAZARD RWY 01/19 PP000 SPUR 031200Z 00000KT CAVOK 15/12 Q1016 RMK TX.30.3 TN.13.5 BIRD HAZARD RWY 19/01 PP000 SPYL 152000Z 19015KT CAVOK 28/20 Q1009 RMK BIRD HAZARD RWY 17/35 PP000 SPZO 152030Z 28010KT 9999 VCSH SCT043TCU BKN080 17/07 Q1025 NOSIG RMK BIRD HAZARD RWY 28 SUAA 152000Z 15007KT 9999 SCT025 OVC200 28/18 Q1006 SUCA 152000Z 23010KT 9999 FEW033 BKN080 22/19 Q1006 SUDI 172300Z 05008KT 9999 FEW030 29/12 Q1009 SUDU 152000Z 10009KT 9999 FEW033 OVC200 31/21 Q10050 SULS 152000Z 02009KT 9999 FEW036 OVC200 30/20 Q1006 SUMU 152000Z 12009KT 9999 FEW045 OVC200 26/19 Q1006 NOSIG SUSO 152000Z 25018KT 5000 TSRA FEW004 SCT017 FEW040CB OVC067 21/20 Q1005 SUSU 051300Z 05010 9999 SCT023 28?20 1008Q SVBC 232200Z 2400/2500 07005KT 9999F SVSA 232200Z 2400/2500 14003KT 9999 SCT020 TX33/2419Z TN21/2408Z TEMPO 2400/2404 17002KT 8000 +TSDZ OVC020 SVBI 182302Z AUTO 05004KT NCD 23/21 Q1013 SVBM 152000Z 09004KT 9999 SCT016 30/16 Q1012 SVBS 182302Z AUTO 12005KT NCD 29/// Q1013 SVCS 172202Z AUTO 00000KT NCD ///// Q//// SVFM 182302Z AUTO 12004KT NCD 24/16 Q1014 SVGD 182302Z AUTO 04003KT NCD 29/22 Q1010 SVGU 182302Z AUTO 05003KT NCD 23/21 Q1010 SVJM 182302Z AUTO 21006KT NCD 27/15 Q1011 SVMC 182302Z AUTO 01009KT NCD 29/22 Q1009 SVMG 152000Z /////KT 9999 FEW010 ///// Q1010 NOSIG SVMI 152000Z 07002KT 9999 FEW016 30/24 Q1012 SVSA 232200Z 0Z 2400/2500 06002KT 9999 SCT013 TX35/2419Z TN24/2408Z TEMPO 2400/2404 27004KT 9000 DZ SCT013 SVVA 151400Z /////KT 9999 FEW016 27/21 Q1015 SVVG 152000Z ///// 9999 SCT017 31/24 Q1009 SYCJ 152000Z 05004KT 020V080 9000 -RA SCT014 BKN036 OVC070 25/24 Q1010 NOSIG SYEC 152000Z 09004KT 8000 -SHRA FEW016CB BKN017 BKN036 BKN060 25/24 Q1010 NOSIG RMK CB ALQDS SYKM 241200Z 08004KT 5000 BR SCT015 SCT036 BKN070 22/20 ///// NOSIG SYLT 151800Z 10010KT 9999 SCT028 30/24 Q//// NOSIG SYMB 151800Z 25010KT 9999 FEW024 ///// Q//// NOSIG TAPA 152000Z 09007KT 040V140 9999 SCT018 26/21 Q1014 NOSIG TBPB 152000Z 10017KT 9999 SCT018 28/21 Q1012 NOSIG TDCF 152000Z 14005KT 9999 -SHRA SCT015 27/22 Q1012 TDPD 152000Z 10008KT 9999 BKN014 26/23 Q1014 TDPF 041900Z 12006KT 9999 FEW01728/22 Q1014 TFFF 152030Z AUTO 10014KT 9999 FEW017 SCT029 BKN047 26/23 Q1013 TEMPO 4000 SHRA SCT018TCU BKN025 TFFR 152030Z AUTO 11011KT 9999 SCT026 BKN038 28/22 Q1013 TEMPO 4000 SHRA SCT018TCU BKN020 TGPY 152000Z 10014KT 9999 SCT018 SCT038 29/23 Q1011 NOSIG TIST 151953Z 13011KT 10SM SCT030 28/22 A2995 TISX 151953Z AUTO 12010KT 10SM FEW005 28/22 A2996 TJBQ 151950Z 05007KT 10SM CLR 28/21 A2995 TJIG 151945Z 10011KT 10SM SCT030 SCT050 28/22 A2994 TJNR 151953Z AUTO 05008KT 10SM CLR 28/22 A2996 TJSJ 151956Z 07011KT 10SM SCT043 SCT060 29/21 A2995 TKPK 152000Z 08008KT 9999 FEW018 28/23 Q1014 TKPN 152000Z 09010KT 9999 SCT018 27/23 Q1014 TLPC 152000Z 10011KT 9999 BKN022 27/23 Q1013 NOSIG TLPL 152000Z 09017KT 3000 -SHRA BKN023 26/24 Q1013 BECMG FM2015 NSW TNCA 152000Z 09013KT 9999 SCT022 29/22 Q1010 NOSIG TNCB 151955Z 09012KT 060V140 9999 SCT019 BKN023 BKN027 28/22 Q1010 TNCC 152000Z 10010KT 9999 FEW026 28/21 Q1011 NOSIG TNCE 151955Z AUTO 08010KT 040V110 //// // ///////// 27/21 Q1014 RE// TNCM 152000Z 09006KT 9999 FEW018 28/21 Q1015 NOSIG TPRO 202350Z 06006G17KT 13SM BKN015CB BKN110 BKN300 29/25 A2983 RMK CB OHD AND ALQDS TQPF 152000Z 11010KT 9999 SCT018 27/22 Q1014 TRPG 152000Z 10012KT 360V130 9999 BKN012 26/23 Q1015 TTCP 152000Z 10011KT 9999 FEW020 29/22 Q1011 NOSIG TTPP 152000Z 11009KT 9999 FEW025 30/19 Q1010 NOSIG TUPJ 152000Z 12006KT 10SM FEW019 28/22 A2997 RMK Q1015 VIS16KM TVSA 152000Z 06011KT 9999 -SHRA BKN014 27/23 Q1012 TEMPO SHRA TXKF 151955Z 33006KT 9999 FEW039 BKN300 20/11 Q1016 UAAA 152030Z VRB01MPS 0050 R23R/0250N R23L/0450N FZFG VV001 M14/M16 Q1023 R23R/9///50 R23L/91//45 NOSIG RMK QBB030 UAAH 151100Z 08009MPS CAVOK M15/M20 Q1034 R05/720155 NOSIG RMK QFE738/0984 UAAT 151300Z 03003MPS 9999 NSC M21/M24 Q1030 NOSIG RMK QFE720/0960 UACC 152030Z 12003MPS CAVOK M16/M21 Q1027 R04/85//60 NOSIG RMK QFE738/0985 UACK 151130Z 16007MPS 9999 DRSN NSC M15/M19 Q1031 R20/850245 NOSIG RMK QFE749/0999 UACP 151130Z 12006MPS CAVOK M19/M22 Q1032 R05/4/0552 NOSIG RMK QFE762/1016 UADD 152030Z 19004MPS 150V210 9000 NSC M03/M03 Q1014 R13/890350 NOSIG RMK QFE704/0939 UAII 152030Z 12004MPS 6000 NSC 03/M01 Q1014 R10/0///70 NOSIG RMK QFE725/0967 UAKD 120702Z 26010G15MPS 9000 BLSN BKN014CB M06/M09 Q1014 R22/850040 NOSIG RMK QFE727/0970 UAKK 152030Z 13006MPS CAVOK M17/M24 Q1027 R05/820557 NOSIG RMK QFE722/0963 UAOO 152000Z 08005MPS CAVOK M11/M14 Q1014 NOSIG RMK QFE749/0999 UARR 152032Z 12006MPS 5000 -FZDZ BR OVC004 M04/M04 Q0999 R04/790137 TEMPO 1000 -FZDZ BR RMK QBB130 QFE746/0995 UASK 152000Z 34003MPS 5000 BR NSC M31/M34 Q1041 R30/450245 NOSIG RMK QFE754/1006 UASP 152030Z 14006MPS CAVOK M23/M27 Q1035 R21/0///60 NOSIG RMK QFE765/1020 UASS 151500Z 12005MPS 8000 NSC M29/M33 Q1043 R08/81//54 NOSIG RMK QFE761/1014 UATE 152030Z 32009MPS 9999 OVC007 03/01 Q1011 R30/1///65 NOSIG RMK QFE757/1009 UATG 152030Z 26007MPS 5000 BR BKN008 M00/M01 Q1005 R14/29//60 NOSIG RMK QFE756/1008 UATT 152030Z 14003MPS CAVOK M05/M09 Q1004 R13/0///60 NOSIG RMK QFE734/0979 UAUU 152030Z 14006MPS CAVOK M10/M13 Q1015 R15/810158 NOSIG RMK QFE745/0994 UBBB 152030Z 31004KT CAVOK 04/03 Q1013 R88/D NOSIG UBBG 152030Z 20008KT 9999 SCT100 03/M02 Q1011 R30/CLRD// NOSIG UBBL 152000Z VRB02KT 9999 BKN040 07/03 Q1015 R33/CLRD// NOSIG RMK MT OP UBBN 152000Z 36004KT 9999 FEW046 SCT100 04/M01 Q1012 R14R/190050 NOSIG RMK MT OP QFE684 UBBQ 152000Z 10005KT 9999 SCT150 M01/M03 Q1012 R34/////// NOSIG RMK MT OP UBBY 152000Z 01008KT 9999 SCT100 06/M01 Q1014 R33/CLRD// NOSIG RMK MT OP UBEE 152000Z 30004KT CAVOK 02/M01 Q1012 R30/CLRD// NOSIG UCFL 152000Z 36004MPS 9999 NSC M04/M10 Q1025 R07/CLRD95 UCFM 152030Z 07004MPS 2300 BR NSC M11/M13 Q1015 R08/1///95 NOSIG UCFO 152030Z VRB01MPS 5000 FU NSC 01/M03 Q1017 R12/0///95 NOSIG UDSG 152030Z 27003KT 9999 OVC036 00/M04 Q1010 R02/CLRD70 NOSIG UDYZ 152030Z 33003KT 9999 FEW046 02/M02 Q1012 R09/010070 NOSIG UEEE 152030Z 00000MPS 0250 0200NE R23L/0600N FG VV005 M50/M56 Q1023 R23L/450150 NOSIG RMK QBB150 QFE758 UERP 152000Z 28003MPS 9999 -SN NSC M46/M51 Q1021 NOSIG RMK QFE721 UERR 152000Z 27002MPS 2000 BR NSC M42/M46 Q1019 R25/390234 NOSIG RMK QFE733/0977 UGKO 152030Z 07004KT 9999 -RA SCT027 OVC060 06/05 Q1013 R25/////// NOSIG UGMS 260530Z AUTO 18003KT 150V230 //// ////// M02/M03 Q1021 UGSB 152030Z 01004KT 330V070 9999 -RA SCT023 BKN060 08/04 Q1014 R13/////// NOSIG UGTB 152030Z 32008KT CAVOK 01/M02 Q1012 NOSIG UHBB 152030Z 23001MPS CAVOK M32/M35 Q1022 R36/420360 NOSIG RMK QFE749/0999 UHHH 152030Z 02001MPS 9000 NSC M26/M30 Q1018 R23L/090060 NOSIG RMK QFE757/1009 UHMA 152000Z 34004MPS 9999 -SN FEW026 SCT044 M21/M24 Q1009 R01/////// NOSIG RMK TDZ R01/34004G05MPS END R01/32004MPS QFE753/1004 UHMD 150400Z 34006MPS P1000 FEW013 OVC031 M12/M15 Q1005 RMK QBB400 QFE753/1004 UHMM 152000Z 09001MPS 9999 NSC M41/M45 Q1014 RMK QFE746 R28/10003MPS UHPP 152030Z 01003MPS 9999 NSC M18/M22 Q1013 R34L/CLRD70 NOSIG RMK QFE756/1009 UHSS 152030Z 36005MPS 2200 -SHSN BKN029CB M12/M14 Q1013 R01/450550 NOSIG RMK MT OBSC QFE759/1012 UHWW 152030Z 36006MPS 6000 -SHSN BKN023CB M14/M19 Q1021 R25L/420255 NOSIG RMK QFE765 UIAA 152030Z 21003MPS 9999 NSC M18/M23 Q1018 R29/420260 NOSIG RMK QFE705/0940 UIBB 152030Z AUTO 27003MPS 220V310 9000 // ///045/// M20/M23 Q1027 RMK QFE727/0969 UIII 152030Z 32005MPS 280V350 9999 SCT040CB M11/M19 Q1030 R30/810555 NOSIG RMK QFE727/0970 UIUU 152030Z 31012G17MPS 7000 -SHSN OVC031CB M12/M18 Q1026 R26/490250 NOSIG RMK QFE725/0966 UKBB 152030Z 27002MPS 9999 FEW018 BKN040 M13/M16 Q1011 R36R/811050 NOSIG UKDD 152040Z 32005MPS 6000 -SN BKN011 OVC023 M09/M11 Q1010 R26/710532 NOSIG UKDE 152000Z 31004MPS 5000 -SHSN BKN012 BKN020CB M06/M08 Q1010 R20/810570 NOSIG UKDR 152000Z 29005MPS 9999 OVC014 M11/M14 Q1012 R18/92//40 NOSIG UKHH 152030Z 29005MPS 7000 -SHSN BKN009 BKN026CB M08/M09 Q1006 R25/72//81 NOSIG UKKK 152030Z 29003MPS 9999 -SN BKN036 M11/M13 Q1010 R26/820345 NOSIG UKKM 152030Z AUTO 24002MPS 9999 ///037/// M11/M13 Q1010 UKLI 151800Z 27003MPS CAVOK M10/M13 Q1015 R28/490530 NOSIG UKLL 152032Z 27004MPS 7000 -SHSN BKN011 BKN023CB M07/M09 Q1013 R31/850530 NOSIG UKLN 151100Z 33006MPS 9999 -SHSN BKN027CB M06/M08 Q1013 R33/490530 TEMPO 32010G15MPS 1500 SHSN BKN003 BKN015CB UKLR 151500Z 27006MPS 5000 -SN OVC006 M08/M10 Q1011 R29/493226 NOSIG UKLU 151600Z VRB01MPS 9999 NSC M05/M14 Q1017 NOSIG UKOH 152000Z 32006MPS CAVOK M07/M10 Q1015 R03/190060 NOSIG UKON 151400Z 30005MPS 9999 FEW026CB M04/M08 Q1011 R22/090075 NOSIG UKOO 152030Z 33004MPS CAVOK M06/M10 Q1016 R34/810260 NOSIG UKWW 151800Z 27004MPS 9999 BKN023CB M09/M12 Q1011 NOSIG ULAA 152030Z 13001MPS 9999 SCT016 M34/M37 Q1018 R08/490154 NOSIG RMK QFE763/1017 ULLI 152030Z 03002MPS 340V060 3100 -SN BKN029 M13/M15 Q1015 RESN R10L/490538 NOSIG ULMM 152030Z 00000MPS 8000 -SHSN SCT006 BKN033CB M12/M13 Q1013 R31/490433 NOSIG RMK OBST OBSC QFE753 ULOO 152030Z 33001MPS 5000 -SHSN SCT017CB BKN037 M18/M20 Q1014 RESHSN R01/450532 NOSIG RMK QFE756 ULPB 152000Z AUTO VRB01MPS 9999 // NCD M32/M35 Q1018 RMK QFE760/1013 ULWC 152000Z 00000MPS CAVOK M25/M27 Q1013 R21/950545 NOSIG RMK QFE750/1000 UMBB 151300Z 32005MPS 5000 -SHSN OVC032CB M06/M09 Q1013 R/SNOCLO NOSIG UMGG 152000Z 30003MPS CAVOK M17/M19 Q1009 R28/410560 NOSIG UMII 151600Z 35002MPS 6000 BKN014 M18/M21 Q1008 R23/420345 NOSIG UMIO 150759Z 34002MPS 3800 -SN BR NSC M14/M16 Q1008 R05/990926 NOSIG RMK QFE738/0984 UMKK 152030Z 05003MPS 9999 BKN027 M09/M12 Q1019 R24/820295 NOSIG RMK QFE763/1018 UMMG 151500Z 32004G07MPS 9999 FEW015 SCT200 M14/M19 Q1015 NOSIG UMMS 152030Z 34003MPS CAVOK M21/M23 Q1010 R31R/420442 R31L/////// NOSIG UMOO 151300Z 30004MPS 4300 -SHSN BR BKN014CB OVC/// M14/M18 Q1010 TEMPO 2000 SHSN BKN005 BKN012CB UNAA 152030Z 00000MPS 5000 FU NSC M26/M28 Q1041 R20/810154 NOSIG RMK QFE758 UNBB 152030Z 16004MPS CAVOK M22/M25 Q1040 R24/490337 NOSIG RMK QFE757 UNEE 152030Z 15002MPS CAVOK M22/M24 Q1040 R23/850545 NOSIG RMK QFE757 UNKL 152030Z 26005MPS CAVOK M18/M22 Q1038 R29/810255 NOSIG RMK QFE752 UNNT 152030Z 16003MPS CAVOK M19/M22 Q1041 R07/490150 R16/810160 NOSIG RMK QFE771/1028 UNOO 152030Z 15005MPS CAVOK M17/M22 Q1030 R25/410350 NOSIG RMK QFE764 UNTT 152030Z 22005MPS 9999 BKN025 M18/M21 Q1040 R21/490140 NOSIG RMK QFE765 UOOO 152000Z 23003MPS 4500 HZ NSC M42/M46 Q1029 R01/39//50 NOSIG RMK QFE757/1009 URFF 152030Z VRB01MPS CAVOK M04/M07 Q1015 R19/090095 NOSIG URKA 152030Z AUTO 15003MPS 9999 // ///066/// M02/M04 Q1013 RMK QFE756/1008 URKK 152030Z VRB01MPS 9000 OVC012 M02/M03 Q1013 R23L/290060 NOSIG RMK QFE757 URMG 152030Z 35002MPS CAVOK 01/M02 Q1012 R26/090070 NOSIG RMK QFE744/0993 URML 152030Z 01005MPS 9999 SCT032 04/02 Q1013 R32/01//70 NOSIG RMK QFE759/1013 URMM 152030Z 28008MPS 9999 -SN OVC057 00/M02 Q1011 R30/090070 NOSIG RMK QFE730/0974 URMN 152000Z 12002MPS 9999 OVC014 M00/M01 Q1010 R24/////// NOSIG RMK MT OBSC QFE721 URMO 152030Z AUTO 03003MPS 9999 // ///017/// 01/M01 Q1010 RMK QFE714/0952 URMT 152030Z 31005MPS 8000 OVC006 M04/M04 Q1009 R25/190060 NOSIG RMK QFE719 URRP 152030Z 26004MPS 8000 BKN014 M03/M05 Q1010 R23/390037 TEMPO 0300 FZFG BKN002 RMK QFE750/1000 URSS 152030Z 07004MPS 9999 -SHRA BKN023 OVC050CB 04/03 Q1013 WS ALL RWY R06/290060 R02/290060 NOSIG RMK MT OBSC QFE759 R02/04004MPS MT OBSC QFE759 URWA 152030Z 27006MPS 8000 BKN013 M01/M03 Q1009 R27/390035 NOSIG RMK QFE758/1011 URWI 152030Z AUTO 28015MPS 2600 // ///008/// M05/M06 Q1009 URWW 152030Z 26006MPS 3600 BR NSC M09/M10 Q1004 R24/450234 TEMPO 0300 -FZDZ FZFG OVC002 USCC 152030Z 16005MPS 9999 FEW040 M10/M13 Q1012 R09/390033 NOSIG RMK QFE738 USCM 152030Z 34003MPS 9999 NSC M16/M18 Q1009 R36/850250 NOSIG RMK QFE718 USHH 152030Z 21005MPS 3700 -SHSN BKN027CB M12/M14 Q1014 R24/450238 TEMPO 0500 +SHSN BKN003 OVC010CB USNN 152030Z 18006MPS 1000 R21/2000D SN OVC011 M15/M17 Q1022 R21/451534 TEMPO 0600 +SN RMK QFE762 USPP 152030Z VRB01MPS 5000 -SN BR FEW017 M14/M15 Q1011 R21/650140 NOSIG RMK QFE747 USRR 152030Z 19005MPS 0700 0650W R25/1600D +SHSN VV007 M14/M16 Q1017 R25/452038 NOSIG RMK OBST OBSC QFE758 USSS 152030Z 11004MPS 9000 -SHSN SCT027CB M12/M14 Q1011 R08L/490532 NOSIG RMK QFE739/0985 USTR 152030Z 17004MPS CAVOK M10/M15 Q1016 R12/390040 R21/390040 NOSIG UTAA 152000Z 26006KT 230V290 9999 FEW099 13/M04 Q1009 R88/CLRD70 NOSIG UTAK 152000Z 31022KT 9999 OVC013 09/05 Q1011 R16R/CLRD70 NOSIG UTAM 152000Z 17008KT 6000 NSC 10/02 Q1010 R88/CLRD70 NOSIG UTAT 152000Z 17006KT CAVOK 03/M02 Q1007 R08/CLRD70 NOSIG UTAV 152000Z 16014KT CAVOK 13/M02 Q1009 R13/CLRD70 NOSIG UTDD 152030Z 00000MPS 7000 NSC 04/M05 Q1018 R09/CLRD// NOSIG RMK QFE695/0926 UTDK 152030Z 02005MPS 9999 NSC 05/M04 Q1017 R01/09//70 RMK QFE705/0940 UTDL 152030Z 08007G12MPS 2800 BR NSC 07/M01 Q1016 R08/CLRD70 NOSIG RMK QFE723/0964 UTDT 152030Z 00000MPS 4100 BR NSC 02/01 Q1016 R35/////// RMK QFE722/0963 UTFA 300900Z VRB02KT 2300 BR FEW016 M00/M04 Q1033 R88/09//70 UTFF 151300Z 00000KT 2500 HZ NSC 06/M02 Q1018 R18/CLRD70 UTFN 152030Z 32004KT 4500 BR NSC 01/M04 Q1018 R28/CLRD70 NOSIG UTNN 152030Z 17006KT CAVOK 07/M02 Q1007 R33/CLRD60 NOSIG UTNU 152030Z 17006KT 6000 NSC 07/M02 Q1007 R31/CLRD70 NOSIG UTSA 152000Z 10014KT 8000 NSC 07/M00 Q1011 R07/CLRD70 NOSIG UTSB 152030Z 14006KT CAVOK 08/01 Q1011 R19/CLRD70 NOSIG UTSK 151930Z 07006KT CAVOK 07/02 Q1012 R16/CLRD70 UTSS 152000Z 15006KT 120V190 6000 NSC 06/M03 Q1013 R09/CLRD70 NOSIG UTST 152030Z 05004KT 8000 NSC 04/M01 Q1015 R88/CLRD70 NOSIG UTTT 152030Z 03002KT CAVOK 04/M02 Q1014 R08R/CLRD70 NOSIG UUBC 152000Z AUTO 07003MPS 6000 // M11/M13 Q1006 RMK QFE736/0982 UUBP 151500Z 31003MPS 9000 OVC024 M12/M13 Q1005 R34/490540 NOSIG RMK QFE736/0982 UUBW 152030Z 32002MPS CAVOK M15/M17 Q1008 R30/810250 NOSIG UUDD 152030Z 02004MPS CAVOK M14/M17 Q1007 R32L/420240 NOSIG UUDL 152030Z 02003MPS 9999 OVC040 M16/M19 Q1010 R23/490335 NOSIG RMK QFE749 UUEE 152030Z 34003MPS 320V030 CAVOK M17/M19 Q1008 R06R/450245 R06C/450230 NOSIG UUMO 152000Z 08002MPS 9999 -SN BKN025 M13/M16 Q1008 R07/810350 NOSIG RMK QFE741/0989 UUOB 152030Z 24006MPS 5000 -SN BR OVC007 M06/M08 Q1005 R11/////// NOSIG UUOK 151900Z 16003MPS 6000 BKN007 M04/M05 Q1004 R30/090060 NOSIG RMK QFE734/0979 UUOL 152030Z 34002MPS 7000 -SN SCT010 OVC020 M10/M11 Q1005 R15/890245 NOSIG UUOO 152030Z 08001MPS 7000 OVC017 M08/M09 Q1005 R30/750136 NOSIG RMK QFE741 UUWW 152030Z 36003MPS CAVOK M13/M16 Q1008 R06/410250 NOSIG UUYY 152030Z 31001MPS 9999 -SN BKN041 M14/M16 Q1013 R18/490334 NOSIG RMK QFE751/1002 UWGG 152030Z 03004MPS 7000 -SN OVC011 M09/M10 Q1006 R36R/490234 TEMPO 1500 SN BKN003 UWKD 152030Z 07006MPS 9999 OVC020 M09/M12 Q1005 R11/820040 NOSIG RMK QFE744/0992 UWKE 152030Z 03004MPS 9999 -SN OVC005 M11/M12 Q1005 R03/420540 NOSIG RMK OBST OBSC QFE737/0983 UWKS 152030Z 07003MPS 8000 -SN BKN010 M10/M11 Q1006 R06/850537 NOSIG RMK QFE739 UWLW 152000Z 03004MPS 8000 -SN OVC011 M08/M09 Q1003 R20/850542 NOSIG RMK QFE747 UWOO 152030Z 13006MPS CAVOK M05/M09 Q1004 R08/950345 NOSIG RMK QFE742/0990 UWOR 152000Z 14007MPS CAVOK M08/M11 Q1008 R07/950042 NOSIG RMK QFE731/0975 UWSG 152030Z 29002MPS 1600 1300SE R08/P2000U SN BR BKN007 OVC020 M07/M08 Q0999 R08/490235 NOSIG RMK QFE747/0996 UWUU 152030Z VRB01MPS CAVOK M11/M14 Q1007 R14R/0///60 NOSIG UWWW 152030Z 08007MPS 9999 BKN027 M06/M09 Q1000 R15/450245 NOSIG RMK QFE739/0985 VAAH 152030Z 00000KT 4000 BR NSC 16/14 Q1009 NOSIG VAAU 151800Z 02002KT 4000 HZ SCT020 22/17 Q1013 NOSIG VABB 152030Z 00000KT 3000 FU NSC 23/14 Q1010 NOSIG VABO 151700Z 00000KT 6000 NSC 22/16 Q1010 NOSIG VABP 151800Z 02004KT 5000 HZ NSC 15/09 Q1014 NOSIG VABV 151200Z 00000KT 6000 NSC 27/13 Q1009 NOSIG VADU 151000Z 26010KT 6000 NSC 28/14 Q1008 NOSIG VAID 151800Z 09005KT 5000 HZ NSC 16/08 Q1013 NOSIG VAJB 151300Z 02002KT 5000 HZ NSC 19/06 Q1014 VAJJ 151230Z 00000KT 3000 FU NSC 27/18 Q1009 NOSIG VAKP 150930Z 09006KT 8000 HZ FEW100 30/13 Q1011 VANP 152000Z 00000KT 3000 HZ NSC 15/08 Q1013 NOSIG VAOZ 151430Z 26004KT 5000 BR SKC 18/15 Q1013 NOSIG VAPR 151100Z 35011KT 6000 NSC 28/09 Q1010 VARK 151100Z 34008KT 6000 NSC 29/08 Q1009 NOSIG VASD 151130Z 27006KT 5000 HZ NSC 28/11 Q1011 NOSIG VASU 151400Z 24003KT 5000 HZ NSC 25/16 Q1010 NOSIG VAUD 151300Z 06002KT 6000 NSC 21/08 Q1013 NOSIG VCBI 152010Z 02002KT CAVOK 23/23 Q1008 NOSIG VCRI 151810Z 02002KT 9999 FEW017 23/23 Q1010 NOSIG VDPP 152030Z 23005KT 9000 FEW017 23/20 Q1009 VDSR 152030Z 00000KT 9000 SCT015 SCT040 18/18 Q1009 VDSV 151600Z 06002KT 9000 FEW015 22/20 Q1011 VEAT 151430Z 00000KT 2500 BR FEW100 15/14 Q1013 NOSIG VEBD 230530Z 05004KT 6000 SCT025 BKN100 30/22 Q1007 NOSIG VEBI 150730Z 04002KT 2500 HZ FEW020 19/03 Q1012 VEBN 151800Z 00000KT 0600 FG VV//// 11/09 Q1013 NOSIG VEBS 152000Z 00000KT 1600 BR NSC 20/19 Q1010 NOSIG VECC 152030Z 00000KT 1800 BR NSC 15/13 Q1011 NOSIG VEDG 151500Z 00000KT 2100 HZ NSC 17/12 Q1013 NOSIG VEGK 230530Z VRB02KT 6000 SCT030 31/26 Q1006 NOSIG VEGT 152030Z 00000KT 1700 BR FEW010 SCT018 BKN100 12/10 Q1011 BECMG 1500 BR VEGY 152000Z 00000KT 0200 FG VV/// 08/07 Q1014 VEIM 151200Z 27001KT 4000 HZ FEW018 13/05 Q1012 NOSIG VEJH 151230Z 23002KT 5000 HZ NSC 25/06 Q1011 VEJS 151200Z 00000KT 2500 HZ NSC 22/12 Q1010 VEKO 151200Z 00000KT 4000 HZ NSC 19/14 Q1013 VELP 151030Z 26003KT 3000 HZ FEW020 21/13 Q1011 NOSIG VELR 151500Z 00000KT 0400 FG 15/14 Q1012 VEMN 151130Z 18003KT 2000 BR SCT020 BKN100 18/16 Q1011 NOSIG VEMR 150800Z 22003KT 2000 HZ FEW020 SCT100 22/13 Q1011 VEPT 152000Z 00000KT 1500 R25/1900 BR NSC 09/07 Q1013 NOSIG VEPY 150900Z 24003KT 2000 BR FEW008 SCT015 16/08 Q1014 NOSIG VERB 151100Z 00000KT 0800 FG NSC 15/12 Q1013 VERC 151800Z 00000KT 2500 HZ NSC 12/06 Q1014 NOSIG VERP 151800Z 36002KT 3000 HZ NSC 17/04 Q1013 NOSIG VGEG 151600Z 00000KT 3200 HZ NSC 18/15 Q1012 NOSIG VGHS 152030Z 00000KT 3500 HZ NSC 16/12 Q1012 NOSIG VHHH 152030Z VRB03KT 030V150 9000 NSC 15/11 Q1015 NOSIG VIAG 230530Z 34004KT 4000 HZ FEW250 31/15 Q1008 BECMG 5000 VIAR 152000Z 00000KT 0050 R34/0175 FG VV/// 08/08 Q1015 NOSIG VIBR 150400Z 00000KT 5000 BR SCT045 BKN080 08/04 Q1017 VICG 230530Z 31003KT 6000 SKC 31/05 Q1010 NOSIG VIDD 150200Z 00000KT 0300 FG FEW100 08/08 Q1015 NOSIG VIDN 161100Z 34003KT 5000 SCT030 21/14 Q1017 VIDP 152030Z 00000KT 0000 R28/0100 R29/0075 FG VV/// 09/09 Q1013 NOSIG VIGG 150800Z 13003KT 5000 HZ FEW080 18/11 Q1018 VIGR 230530Z VRB02KT 4000 HZ SKC 32/11 Q1009 NOSIG VIJP 151930Z 00000KT 2500 HZ NSC 13/08 Q1013 NOSIG VIJU 230530Z 36003KT 6000 SKC 27/10 Q1010 NOSIG VIKO 150600Z 36001KT 2000 HZ NSC 18/09 Q1016 NOSIG VILD 160700Z 09004KT 4000 BR SCT025 BKN030 19/14 Q1019 VILH 230530Z VRB02KT 6000 FEW070 12/-1 Q1023 NOSIG VILK 152030Z 00000KT 0050 R27/0125 FG VV/// 09/08 Q1013 NOSIG VIPT 150630Z 14003KT 6000 NSC 27/10 Q1017 VISM 150530Z 00000KT 4000 HZ FEW050 13/00 Q1018 VISR 230530Z 35003KT 5000 FU FEW025 17/05 Q1019 NOSIG VLLB 151200Z 00000KT 9999 FEW020 23/13 Q1010 NOSIG VLLN 151200Z 14002KT 6000 FEW050 17/16 Q1012 NOSIG VLPS 151200Z 22002KT CAVOK 26/17 Q1010 NOSIG VLSK 151200Z 36004KT 3000 BR FEW040 24/14 Q1011 NOSIG VLVT 151230Z 36004KT 5000 BR NSC 20/16 Q1010 NOSIG VMMC 152030Z 29003KT CAVOK 12/10 Q1015 NOSIG VNKT 151950Z 16003KT 3500 BR FEW010 08/07 Q1015 NOSIG VOAT 150400Z 10004KT 4000 HZ SCT015 BKN080 29/25 Q1010 TEMPO 5000 HZ VOBG 151800Z 09003KT 4000 BR FEW012 20/18 Q1014 NOSIG VOBL 152030Z 12003KT 4000 BR SCT008 17/17 Q1014 TEMPO 3000 BR VOBM 151400Z 09003KT 6000 FEW015 22/10 Q1014 VOBZ 151600Z 22003KT 2500 BR FEW020 SCT100 24/21 Q1012 NOSIG VOCB 152000Z 35002KT 2500 BR FEW012 BKN080 22/21 Q1012 NOSIG VOCC 060000Z 00000KT 3500 BR FEW016 BKN080 25/23 Q1008 NOSIG VOCI 152030Z 06004KT 4000 HZ FEW015 SCT090 25/22 Q1007 NOSIG VOCL 152030Z 00000KT 4000 BR FEW015 SCT080 24/21 Q1007 NOSIG VOCP 151100Z 10012KT 5000 HZ FEW020 29/20 Q1009 NOSIG VOGB 151030Z 12004KT 8000 NSC 30/18 Q1011 VOGO 151900Z 01004KT 6000 FEW020 BKN090 26/21 Q1009 NOSIG VOHB 151200Z 09003KT 9999 FEW018 SCT080 27/13 Q1014 VOHS 152030Z 13005KT 5000 BR FEW020 19/18 Q1013 NOSIG VOHY 151600Z VRB04KT 4000 HZ NSC 24/16 Q1015 NOSIG VOKN 152000Z 08003KT 4000 BR SCT012 25/23 Q1008 NOSIG VOMD 151900Z 35002KT 6000 FEW020 SCT090 24/23 Q1011 NOSIG VOML 152030Z 00000KT 6000 FEW015 BKN090 27/23 Q1008 NOSIG VOMM 152030Z 00000KT 4000 BR SCT020 SCT100 23/22 Q1010 NOSIG VOMY 151500Z 00000KT 6000 FEW015 SCT080 24/19 Q1014 VOND 150300Z 14001KT 2500 HZ NSC 20/15 Q1015 NOSIG VOPB 150630Z 06008G15KT 6000 SCT014 SCT220 29/22 Q1009 NOSIG VOPC 041000Z 04008KT 6000 SCT020 BKN100 27/24 Q1010 NOSIG VORY 151600Z VRB02KT 4000 BR FEW020 24/21 Q1012 NOSIG VOSM 150700Z 25003KT 5000 HZ FEW018 BKN080 26/20 Q1011 NOSIG VOTK 151200Z 04008KT 6000 -DZ SCT016 OVC080 27/24 Q1009 NOSIG VOTP 151500Z 06006KT 4000 HZ FEW020 26/21 Q1011 NOSIG VOTR 152000Z 03003KT 3500 BR SCT016 SCT100 24/23 Q1010 TEMPO 3000 BR VOTV 152030Z 00000KT 3000 BR FEW015 27/25 Q1007 NOSIG VOVZ 152000Z VRB02KT 2500 BR NSC 21/21 Q1010 NOSIG VQPR 150630Z VRB04KT 9999 FEW030 16/00 Q1015 VRMG 111400Z 33007KT 9999 FEW018TCU 29/25 Q1011NOSIG VRMM 152000Z 23007KT 9999 FEW018 BKN280 28/22 Q1008 NOSIG VTBD 152030Z 11003KT 5000 BR NSC 22/19 Q1010 NOSIG VTBO 150900Z 21015KT 9999 FEW020 29/23 Q1008 VTBS 152030Z 15004KT 120V190 2400 BR NSC 24/22 Q1010 NOSIG VTBU 152030Z 36004KT 5000 BR NSC 19/18 Q1010 NOSIG VTCC 152030Z VRB01KT 8000 NSC 15/14 Q1011 NOSIG VTCH 151200Z 10005KT 9999 FEW025 23/15 Q1009 NOSIG VTCL 151200Z 12003KT CAVOK 23/13 Q1009 NOSIG VTCN 151100Z VRB02KT CAVOK 26/16 Q1009 NOSIG VTCP 151100Z 21002KT CAVOK 26/14 Q1009 NOSIG VTCT 152000Z 00000KT 6000 NSC 14/14 Q1012 NOSIG VTPB 151100Z 00000KT 9000 NSC 29/12 Q1008 NOSIG VTPH 151100Z 15002KT 8000 NSC 26/18 Q1008 NOSIG VTPM 151100Z 29003KT CAVOK 28/13 Q1009 NOSIG VTPO 151000Z VRB02KT 9000 NSC 29/16 Q1007 NOSIG VTPP 151300Z 00000KT 7000 NSC 19/16 Q1009 NOSIG VTPT 151100Z /////KT 6000 NSC 28/15 Q//// NOSIG VTSB 151500Z 35005KT 8000 SCT020 26/23 Q1011 VTSC 151000Z 10007KT 9999 SCT020 BKN100 27/22 Q1007 NOSIG VTSE 151100Z 04003KT 320V100 9999 FEW020 26/21 Q1008 NOSIG VTSF 151300Z 00000KT 9000 SCT018 26/25 Q1010 NOSIG VTSG 152000Z 03005KT 350V060 8000 FEW020 23/22 Q1009 NOSIG VTSM 151300Z 12005KT 9999 FEW020 27/22 Q1011 VTSP 152030Z 08008KT 9999 FEW020 25/21 Q1007 NOSIG VTSR 151300Z 12007KT 070V180 9999 FEW020 BKN100 27/21 Q1009 NOSIG VTSS 152030Z 28003KT 9999 FEW020 BKN100 25/25 Q1009 NOSIG VTST 151300Z 03004KT 350V080 9999 FEW030 SCT055 26/23 Q1008 NOSIG VTUD 151300Z VRB01KT 8000 NSC 21/13 Q1010 NOSIG VTUI 151200Z 00000KT 9000 NSC 22/13 Q1010 NOSIG VTUK 152000Z VRB01KT 7000 NSC 17/13 Q1011 NOSIG VTUL 151200Z 00000KT 9999 FEW030 19/15 Q1010 NOSIG VTUO 151300Z 00000KT 8000 NSC 22/15 Q1010 NOSIG VTUQ 151100Z 00000KT 9000 NSC 29/20 Q1009 NOSIG VTUU 152000Z 06004KT 8000 NSC 18/16 Q1011 NOSIG VTUV 151400Z 00000KT CAVOK 19/14 Q1011 NOSIG VTUW 151300Z 15003KT 110V170 8000 NSC 21/13 Q1011 NOSIG VVCI 152030Z 07005KT 030V100 9999 OVC045 17/13 Q1014 NOSIG VVCR 152030Z 33005KT 9999 FEW015 20/18 Q1012 NOSIG VVCT 152030Z 21001KT 8000 NSC 20/20 Q1010 NOSIG VVDN 152030Z 21001KT 6000 FEW015 BKN060 16/16 Q1013 NOSIG VVNB 152030Z 04002KT 4100 BR BKN035 17/12 Q1015 NOSIG VVPB 152030Z 16002KT 3500 BR SCT015 BKN050 16/16 Q1014 NOSIG VVPQ 152000Z 04001KT CAVOK 19/18 Q1009 NOSIG VVTS 152030Z 00000KT 9999 FEW020 22/21 Q1009 NOSIG VYMD 151130Z 35003KT 6000 FEW020 25/13 Q1008 NOSIG VYNT 151200Z 16005KT 6000 FEW018 25/17 Q1009 NOSIG VYYY 152030Z 23003KT 7000 NSC 21/18 Q1009 NOSIG WAAA 152030Z 10003KT 8000 SCT018 23/23 Q1006 NOSIG WABB 242330Z VRB02KT 9000 -RA SCT018 OVC100 26/24 Q1010 WADD 152030Z 27007KT 9999 SCT015 26/24 Q1006 NOSIG WADL 152030Z 00000KT 7000 BKN016 24/23 Q1007 NOSIG WAHQ 130100Z 00000KT 5000 HZ FEW015 25/24 Q1010 NOSIG WAHS 151200Z 30004KT 6000 SCT014 29/24 Q1008 NOSIG WAJJ 152030Z 32002KT 9999 SCT011 25/23 Q1005 NOSIG WAKK 150800Z 28007KT 9000 BKN015 29/24 Q1003 WALL 150900Z 24004KT 9999 SCT020 29/24 Q1006 WAMM 152030Z 26005KT 8000 SCT020 26/25 Q1006 NOSIG WAOO 152030Z AUTO 05004KT 9000 FEW047 SCT170 23/23 Q1007 WAPP 150900Z VRB02KT 9999 SCT018 29/24 Q1004 NOSIG WAQQ 152000Z 35001KT 8000 SCT015 25/24 Q1006 WARR 152030Z 01005KT 5000 HZ FEW020 26/25 Q1006 NOSIG WATT 151200Z 32002KT 8000 BKN015 26/26 Q1007 NOSIG WAYY 151800Z 00000KT 5000 SCT013 24/23 Q1005 RERA NOSIG WBGB 152000Z 14004KT 080V250 8000 -RA SCT016 24/24 Q1008 WBGG 152030Z 00000KT 6000 -RA FEW002 SCT020 23/23 Q1009 NOSIG WBGR 152000Z 19007KT 160V230 8000 -RA SCT013 23/23 Q1007 WBGS 152000Z 25003KT 190V290 8000 -RA FEW005 SCT016 23/22 Q1009 WBGY 152000Z AUTO 00000KT //// // ////// 23/22 Q1009 WBKK 152030Z 19005KT 9999 FEW014 25/24 Q1007 NOSIG WBKL 152000Z 13004KT 060V210 9999 FEW010 25/23 Q1007 WBKS 152000Z 00000KT 9999 FEW015 24/24 Q1006 WBKT 152000Z 25006KT 210V300 9999 FEW014 25/23 Q1006 WBKW 152000Z 00000KT 9999 FEW017 24/24 Q1006 WBSB 152030Z 20005KT 9999 FEW003 BKN140 25/24 Q1008 NOSIG WIBB 151830Z 00000KT 7000 FEW015 25/23 Q1008 WIDD 151530Z 02007KT 9999 FEW014 26/23 Q1012 NOSIG WIDN 150530Z 01009KT 9999 BKN015 29/23 Q1010 NOSIG WIEE 141030Z 1803KT 160V220 9999 FEV020 SCT150 29/24 Q1007 NOSIG? WIHH 151200Z 29003KT 6000 SCT020 28/23 Q1008 RA TO SW WIII 152030Z 26004KT 3000 BR SCT020 25/22 Q1007 NOSIG WIMM 152000Z 20003KT 5000 HZ SCT017 25/24 Q1007 NOSIG WIOO 152030Z AUTO 01004KT 9999 OVC130 24/24 Q1008 WIPP 151230Z 06005KT 8000 -RA FEW010 28/25 Q1009 WMAU 152000Z AUTO 34005KT 290V050 //// // ////// 25/23 Q1009 WMBA 152000Z 00000KT 8000 FEW032 25/24 Q1007 WMKA 152000Z 09003KT 030V150 5000 -RA FEW010 SCT025 24/23 Q1009 WMKB 152000Z 06005KT 020V080 7000 FEW025 25/23 Q1008 NOSIG WMKC 152000Z 11004KT 060V170 9999 FEW020 25/22 Q1009 WMKD 152000Z 34004KT 320V030 9999 FEW025 23/22 Q1009 NOSIG WMKE 152000Z AUTO 00000KT //// // ////// 22/22 Q1009 WMKI 152000Z 03004KT 7000 FEW027 24/23 Q1008 WMKJ 152000Z 00000KT 9999 FEW024 24/23 Q1008 WMKK 152030Z VRB01KT 9999 FEW030 24/22 Q1008 NOSIG WMKL 152000Z 06005KT 330V110 9999 FEW026 27/23 Q1008 WMKM 152000Z 05006KT 320V120 9999 FEW028 25/22 Q1009 WMKN 152000Z VRB02KT 9999 FEW022 24/23 Q1009 WMKP 152030Z 02005KT 340V050 8000 FEW025 25/24 Q1007 NOSIG WMSA 152000Z 00000KT 9999 FEW026 25/22 Q1008 WSAP 152000Z 03003KT 9999 FEW018 BKN150 25/23 Q1009 WSSL 152000Z 04005KT 9999 FEW016 BKN150 25/23 Q1008 WSSS 152030Z 36006KT 9999 FEW014 BKN170 25/24 Q1008 NOSIG YABA 152000Z AUTO 09009KT 9999 // BKN033 15/10 Q1024 YAMB 152030Z AUTO 00000KT 9999 // NCD 24/21 Q1007 YARG 152000Z AUTO 35005KT 9999 // NCD 29/22 Q1005 YAYE 152000Z AUTO 14012KT 9999 // OVC125 19/10 Q1015 YBAS 152030Z AUTO 10011KT 9999 // NCD 22/03 Q1014 RF00.0/000.0 YBBN 152030Z 35008KT 9999 VCSH FEW040 SCT145 BKN160 24/21 Q1007 YBCG 152030Z AUTO 33009KT 9999 // NCD 24/21 Q1006 RF00.0/004.4 YBCS 152030Z AUTO 17013KT 9999 // NCD 26/19 Q1004 YBCV 152000Z AUTO 17012KT 9999 // NCD 25/M01 Q1010 YBDV 152000Z AUTO 00000KT //// // ////// 22/02 Q1011 YBHI 152000Z AUTO 19014KT 9999 // NCD 11/03 Q1018 YBHM 152034Z AUTO /////KT 9999 // SCT016 SCT021 25/23 Q1006 YBLN 152030Z AUTO 10013KT 9999 // NCD 16/10 Q1020 RF00.0/000.0 YBMA 152030Z AUTO 17012KT 9999 // NCD 29/06 Q1008 RF00.0/000.0 YBMK 152000Z AUTO 27005KT 9999 // NCD 21/20 Q1007 YBNA 152000Z AUTO 35005KT 9999 // NCD 23/21 Q1005 YBOK 152000Z AUTO 36004KT 9999 // NCD 21/18 Q1009 YBPN 152000Z AUTO 21003KT 9999 // NCD 21/20 Q1006 YBRK 152030Z AUTO 00000KT 9999 // NCD 23/21 Q1008 RF00.0/000.0 YBRM 152030Z AUTO 16013KT 9999 // SCT021 BKN120 29/25 Q1005 YBTL 152030Z AUTO 33002KT 9999 // NCD 23/23 Q1006 YBUD 152000Z AUTO 22003KT 9999 // NCD 22/20 Q1007 YBWP 152000Z AUTO 05003KT 9999 // SCT028 25/24 Q1004 YBWW 152030Z AUTO 01006KT 9999 // NCD 21/19 Q1009 RF00.0/002.4 YBWX 152000Z AUTO 02011KT //// // ////// 30/27 Q1003 YCAR 152000Z AUTO 20007KT 9999 // NCD 25/25 Q1005 YCAS 152000Z AUTO 27003KT //// // ////// 23/21 Q1005 YCBA 152000Z AUTO 17012KT 9999 // NCD 16/02 Q1014 YCBB 152000Z AUTO 19011KT 9999 // NCD 11/00 Q1012 YCBP 152000Z AUTO 16010KT 9999 // NCD 17/05 Q1017 YCCY 152000Z AUTO 18008KT 9999 // NCD 27/13 Q1005 YCDU 152000Z AUTO 12007KT 9999 // NCD 12/05 Q1021 YCFS 152030Z AUTO 19015KT //// // NCD 23/18 Q1007 RF00.0/016.6 YCIN 152030Z AUTO 17008KT 9999 // SCT105 26/23 Q1005 RF00.0/022.2 YCNM 152000Z AUTO 19006KT //// // ////// 14/03 Q1013 YCOM 152000Z AUTO 23016KT 9999 // NCD 07/M01 Q1009 YDBY 152023Z AUTO 17015KT 9999 // BKN105 26/25 Q1005 YEML 152000Z AUTO 00000KT 9999 // NCD 22/19 Q1008 YESP 152000Z AUTO 09006KT 9999 // OVC038 13/08 Q1024 YFRT 152030Z AUTO 12008KT 9999 // OVC040 15/09 Q1022 RF00.0/000.0 YGEL 152030Z AUTO 06019KT 9999 // NCD 28/13 Q1008 RF00.0/000.0 YGFN 152000Z AUTO 00000KT 9999 // NCD 21/21 Q1006 YGLA 152030Z AUTO 21006KT 9999 // SCT021 23/20 Q1008 RF00.0/000.0 YGTE 152000Z AUTO 00000KT 9999 // NCD 24/24 Q1002 YGTH 152000Z AUTO 27005KT 9999 // NCD 12/06 Q1014 YHID 152030Z AUTO 33007KT 6000 RA OVC120 26/24 Q1005 RF00.6/062.4 YHUG 152000Z AUTO 04005KT 9999 // NCD 23/13 Q1007 YKRY 152018Z AUTO 07001KT 9999 // SCT015 SCT019 21/19 Q1010 YLEC 152000Z AUTO 13013KT 9999 // NCD 15/03 Q1016 YLHI 152031Z AUTO 35007KT 9999 // SCT021 BKN120 25/21 Q1005 YLIS 152000Z AUTO 00000KT 9999 // NCD 22/21 Q1005 YLRE 152000Z AUTO 01004KT 9999 // NCD 24/17 Q1007 YMAV 152030Z AUTO 27009KT 9999 // BKN068 13/13 Q1013 RF00.0/002.2 YMAY 152000Z AUTO 25008KT 9999 // NCD 11/07 Q1013 YMDG 152000Z AUTO 21003KT 9999 // NCD 13/02 Q1012 YMEK 152000Z AUTO 10008KT 9999 // SCT115 21/15 Q1013 YMEN 152000Z AUTO 25011KT 9999 // SCT025 SCT032 OVC046 12/10 Q1012 YMER 152000Z AUTO 28009KT 9999 // NCD 14/06 Q1007 YMHB 152030Z 25011KT 9999 FEW025 BKN061 14/06 Q1003 RF00.0/027.8 YMIA 152000Z AUTO 28005KT 9999 // NCD 09/05 Q1018 YMLT 152030Z AUTO 01004KT 330V030 0150 FG SCT001 SCT061 08/08 Q1004 YMML 152030Z 26013KT 9999 FEW027 BKN060 12/09 Q1013 YMOR 152000Z AUTO 18015KT 9999 // NCD 19/04 Q1010 YMTG 152000Z AUTO 23007KT 9999 // OVC040 12/06 Q1017 YNAR 152000Z AUTO 23008KT 9999 // NCD 12/05 Q1014 YNBR 152000Z AUTO 17006KT 9999 // NCD 15/06 Q1011 YNTN 152000Z AUTO 12003KT 9999 // NCD 27/24 Q1003 YNWN 152000Z AUTO 10012KT 9999 // SCT061 OVC115 26/13 Q1012 YOLD 152000Z AUTO 16013KT 9999 // NCD 15/05 Q1017 YPAD 152030Z 20009KT 9999 OVC045 15/03 Q1020 YPBO 152000Z AUTO 06008KT 9999 // BKN115 29/16 Q1009 YPCC 152030Z AUTO 35006KT 9999 // SCT069 27/26 Q1005 RF00.0/000.0 YPDN 152030Z 00000KT CAVOK 25/24 Q1004 YPEA 152030Z AUTO 09009KT 080V140 9999 // NCD 19/08 Q1016 YPGV 152037Z AUTO 01005KT 5000 // SCT010 BKN021 BKN026 25/24 Q1003 YPJT 152030Z AUTO 10025KT 9999 // NCD 18/10 Q1016 RF00.0/000.0 YPKG 152030Z AUTO 11018KT 9999 // SCT025 OVC069 15/10 Q1021 YPKU 152030Z AUTO 01004KT 9999 // NCD 26/25 Q1004 RF00.0/000.0 YPLM 152030Z AUTO 19013KT 9999 // NCD 31/14 Q1003 RF00.0/000.0 YPMQ 151500Z AUTO 00000KT 9999 // SCT015 22/21 Q1003 YPPD 152030Z AUTO 07003KT 9999 // NCD 31/27 Q1006 RF00.0/000.0 YPPH 152030Z 10017KT CAVOK 18/09 Q1016 YPTN 152030Z AUTO 22003KT //// // ////// 25/24 Q1004 RF00.0/000.0 YPWR 152030Z AUTO 16015KT 9999 // NCD 14/06 Q1018 RF00.0/000.0 YPXM 152030Z AUTO 28005KT 9999 // NCD 24/23 Q1009 RF00.0/000.0 YRMD 152000Z AUTO 32005KT 210V330 9999 // NCD 20/13 Q1006 YSCB 152030Z AUTO 31008KT 9999 // NCD 12/02 Q1011 YSDU 152030Z AUTO 19011KT 9999 // NCD 15/03 Q1013 RF00.0/000.0 YSNF 152030Z AUTO 08015KT 9999 // BKN014 25/21 Q1009 RF00.0/000.2 YSNW 152000Z AUTO 27014KT 9999 // NCD 16/02 Q1007 YSRI 152030Z AUTO 31007KT 9999 // NCD 18/05 Q1009 RF00.0/000.0 YSSY 152030Z 26017KT CAVOK 19/01 Q1008 YSTW 152030Z AUTO 17004KT 130V220 9999 // NCD 17/06 Q1011 RF00.0/000.0 YSWG 152000Z AUTO 22016KT 9999 // NCD 11/06 Q1012 YTEF 152000Z AUTO 09004KT 9999 // NCD 27/// Q1008 YTNK 152000Z AUTO 11014KT 9999 // NCD 29/06 Q1008 YTRE 152000Z AUTO 21004KT 9999 // NCD 19/17 Q1008 YWGT 152000Z AUTO 25005KT 9999 // NCD 10/07 Q1013 YWHA 152000Z AUTO 16011KT 9999 // OVC040 16/07 Q1019 YWLM 152030Z AUTO 28010KT 9999 // NCD 19/03 Q1009 ZBAA 152030Z 36003MPS CAVOK M12/M21 Q1034 NOSIG ZBAD 152030Z 32003MPS CAVOK M12/M21 Q1033 NOSIG ZBHH 152000Z VRB02MPS CAVOK M14/M21 Q1027 NOSIG ZBSJ 152000Z 02002MPS 6000 NSC M07/M11 Q1033 NOSIG ZBTJ 152030Z 31001MPS 6000 NSC M08/M10 Q1033 NOSIG ZBYN 152030Z 28002MPS 230V020 CAVOK M04/M18 Q1027 NOSIG ZGGG 152030Z 08001MPS 6000 FEW033 11/07 Q1016 NOSIG ZGHA 152000Z 34003MPS 320V030 6000 NSC 07/02 Q1021 NOSIG ZGKL 152000Z 03001MPS 6000 SCT050 09/07 Q1017 NOSIG ZGNN 152000Z VRB01MPS 5000 BR NSC 09/08 Q1015 NOSIG ZGOW 152000Z 00000MPS 5000 BR NSC 10/09 Q1016 NOSIG ZGSZ 152000Z 36002MPS 250V030 5000 BR NSC 13/11 Q1015 NOSIG ZHCC 152000Z 04003MPS 6000 NSC 01/M08 Q1031 NOSIG ZHHH 152000Z 02003MPS 8000 NSC 06/M08 Q1025 NOSIG ZJHK 152000Z 01002MPS 340V040 0300 R09/0375V0550N FG VV001 17/17 Q1014 NOSIG ZJSY 152000Z 33002MPS 9999 FEW050 16/14 Q1013 NOSIG ZLLL 152000Z 33002MPS CAVOK M17/M20 Q1025 NOSIG ZLTG 140055Z 15002KT 9999 FEW080 02/M05 A2898 RMK SDG/HDG ZLXY 152000Z 01004MPS CAVOK M00/M09 Q1029 NOSIG ZMUB 152000Z VRB01MPS 8000NW NSC M34/M38 Q1026 NOSIG RMK QFE661.1 61 NT ZPPP 152000Z 22003MPS CAVOK 02/00 Q1017 NOSIG ZSAM 152000Z 18001MPS 6000 NSC 11/10 Q1017 NOSIG ZSFZ 152000Z 35003MPS 320V040 CAVOK 14/10 Q1018 NOSIG ZSHC 152030Z 01006MPS 6000 BKN026 06/02 Q1026 NOSIG ZSJN 150336Z 01006MPS 4000 HZ NSC 04/M05 Q1024 NOSIG ZSNB 152000Z 35005MPS 4500 BR BKN020 08/04 Q1025 NOSIG ZSNJ 152000Z 06005MPS 5000 BR NSC 02/M01 Q1029 NOSIG ZSOF 152000Z 09002MPS 6000 NSC 00/M07 Q1029 NOSIG ZSPD 152030Z 35009MPS 9999 BKN023 05/00 Q1027 NOSIG ZSQD 152000Z 36004MPS CAVOK M07/M11 Q1032 NOSIG ZSSS 152030Z 02010MPS 9999 BKN023 05/M01 Q1027 NOSIG ZSTX 180300Z VRB01MPS 9999 SCT026 24/18 Q1012 NOSIG ZSWX 180300Z 18007MPS 150V210 CAVOK 27/17 Q1010 NOSIG ZSWZ 150900Z 17002MPS CAVOK 16/09 Q1015 NOSIG ZSXZ 150900Z 08004MPS 8000 NSC 08/M07 Q1022 NOSIG ZSYT 150900Z 01008G13MPS 4000 BR BKN016 M04/M08 Q1026 NOSIG ZUCK 152000Z 16001MPS 5000 BR NSC 07/03 Q1019 NOSIG ZUGY 152000Z 31002MPS 9999 BKN046 08/04 Q1017 NOSIG ZUTF 230700Z 05002MPS 8000 NSC 11/03 Q1021 NOSIG ZUUU 152000Z 00000MPS 3500 BR NSC 04/02 Q1020 NOSIG ZWSD 111755Z COR 01028G33KT 0200 SN BLSN VV003 M18/M21 A2883 RMK SLPNO GRID26028G33KT SDF/HDN ZWSH 152000Z AUTO 35003MPS 270V360 8000 // ////// M05/M11 Q1034 ZWWW 152030Z 00000MPS 0100 R25/0225N -SG FZFG VV001 M20/M22 Q1044 NOSIG ZYCC 152000Z 22002MPS 6000 NSC M28/M32 Q1026 NOSIG ZYHB 152000Z 16002MPS 7000 NSC M26/M28 Q1026 NOSIG ZYTL 152030Z 36003MPS 310V060 CAVOK M10/M18 Q1031 NOSIG ZYTX 152030Z VRB01MPS CAVOK M27/M31 Q1031 NOSIG
More info

Charts for


NOTAM


Warning: file_get_contents(http://api.vateud.net/notams/.json): failed to open stream: HTTP request failed! HTTP/1.1 404 Not Found in /var/www/customers/vh-7192/web/home/phpvms/core/common/NOTAMSData.class.php on line 18

Warning: Invalid argument supplied for foreach() in /var/www/customers/vh-7192/web/home/phpvms/core/common/NOTAMSData.class.php on line 22